ENHM 251650Z 34013KT 9999 FEW015 SCT040 08/06 Q1012 W09/S4 UUOK 251700Z 12004MPS CAVOK 23/10 Q1013 R12/CLRD70 NOSIG RMK QFE742/0989 KIWI 251653Z AUTO 22005KT 10SM BKN110 26/11 A3017 RMK AO2 SLP215 T02560106 KJMR 251659Z AUTO 00000KT 2 1/2SM BR OVC006 13/12 A2968 RMK AO2 PPIT 251656Z AUTO 13006KT 10SM OVC045 08/06 A3002 RMK AO2 SLP165 T00780056 KJMS 251656Z AUTO 31005KT 10SM CLR 18/14 A2980 RMK AO2 SLP092 T01830139 KIXA 251655Z AUTO 19010G14KT 10SM CLR 26/14 A3032 RMK AO2 UUOO 251700Z 12002MPS 9999 BKN050CB 21/09 Q1014 R12/090070 NOSIG RMK QFE747 KIXD 251653Z 17015G22KT 10SM FEW023 23/18 A2989 RMK AO2 SLP114 T02330183 ENHV 251650Z 30017KT 9999 BKN023 04/M00 Q1011 KM63 251656Z AUTO 18013G19KT 10SM CLR 21/M01 A2996 RMK AO2 SLP083 T02121012 PPIZ 251656Z AUTO 10008KT 10SM FEW110 04/03 A3007 RMK AO2 TSNO T00440033 SLP185 $ KIYA 251655Z AUTO 16008G14KT BKN025 29/24 A3004 RMK AO2 LTG DSNT E T02930240 PWINO ENKB 251650Z 29006KT 9999 FEW018 SCT024 09/06 Q1010 FDSK 251650Z 36004KT 9999 22/10 Q1015 KJNX 251655Z AUTO 17006KT 10SM CLR 27/13 A3032 RMK AO2 KIZA 251655Z AUTO 00000KT 10SM BKN016 15/09 A3000 RMK AO2 ENLA 251650Z AUTO 31020KT 9999NDV -SHRA FEW009/// BKN031/// 08/07 Q1013 W///S4 KJOT 251655Z AUTO 23013G17KT 10SM SCT007 BKN032 OVC041 22/20 A2991 RMK AO2 P0009 T02180198 FDST 251500Z AUTO 04005KT //// // ////// 24/08 Q1015 KJQF 251115Z AUTO 00000KT 10SM CLR 14/12 A3038 RMK AO2 LBGO 251700Z AUTO 27006KT 9999 FEW052/// SCT100/// 17/13 Q1009 KIZG 251654Z AUTO VRB06KT 10SM FEW100 27/09 A3016 RMK AO2 SLP213 T02670094 ENKR 251650Z 30014KT 9999 VCSH FEW021 SCT028 BKN049 04/00 Q1009 RMK WIND 731FT 30022KT ENLK 251120Z 02011KT 9999 SCT045 09/01 Q1009 KM91 251655Z AUTO 20006KT 2 1/2SM FEW013 BKN023 OVC065 20/20 A3018 RMK KN03 251655Z AUTO 22012G15KT 10SM CLR 26/13 A3014 RMK AO2 ENMH 251650Z 30008KT 9999 FEW015 SCT020 BKN032 04/01 Q1010 KLAA 251653Z AUTO 11003KT 10SM FEW036 19/10 A2987 RMK AO2 SLP086 T01890100 TSNO ENNA 251650Z 33011KT 9999 BKN040 05/M02 Q1012 RMK WIND 1800FT 32015KT ENML 251650Z VRB02KT 9999 -RA FEW009 SCT015 BKN030 09/06 Q1010 ENNE 251650Z 05014KT 9999 FEW030 SCT045 07/04 Q1010 W///S4 KLAF 251654Z 21016G25KT 10SM SCT033 OVC046 24/17 A2999 RMK AO2 PK WND 20029/1635 SLP149 T02440167 ENMS 251650Z 09001KT 9999 -RA SCT022 BKN035 09/06 Q1009 RMK WIND 412FT 00000KT ENOA 251650Z 35012KT 9999 FEW040 09/06 Q1011 W///S4 KLBB 251653Z 08016G27KT 10SM SCT070 BKN130 14/09 A2988 RMK AO2 PK WND 08040/1614 RAE30 PRESRR SLP084 CB DSNT NE-E MOV NE P0001 T01440094 ENNK 251650Z 35010KT CAVOK 13/M01 Q1010 KJTC 251655Z AUTO 32012G17KT 10SM SCT065 BKN095 14/04 A3014 RMK AO2 KLAL 251657Z 09010KT 12SM SCT047 32/21 A3018 KLAM 251655Z AUTO 07006KT 10SM BKN032 BKN040 13/05 A3005 RMK AO2 T01250048 ENNM 251650Z 30005KT 220V350 9999 FEW026 BKN040 09/03 Q1009 KLAN 251653Z 20020G30KT 10SM SCT039 BKN075 OVC090 26/17 A2992 RMK AO2 PK WND 21032/1629 SLP126 T02560167 $ KLBE 251653Z 223012KT 10SM SCT250 27/14 A3021 KLBF 251653Z AUTO 28010KT 10SM SCT030 OVC050 16/11 A2980 RMK AO2 SLP082 T01610111 KJSO 251655Z AUTO 17011G15KT 10SM SCT020 BKN030 BKN039 26/21 A3000 RMK AO2 T02650211 ENNO 251550Z 28009KT 240V330 CAVOK 17/00 Q1005 LATI 251650Z 25003KT 9999 FEW030TCU 21/10 Q1012 NOSIG KLAR 251653Z AUTO 29006KT 10SM BKN040 OVC055 08/02 A2996 RMK AO2 SLP101 T00830017 VMMC 251700Z 20005KT 9000 FEW005 SCT025 28/27 Q1007 NOSIG KLAS 251656Z 00000KT 10SM FEW100 22/11 A2992 RMK AO2 SLP111 T02220106 $ KJST 251654Z AUTO 21008KT 10SM CLR 25/12 A3023 RMK AO2 SLP225 T02500117 KLBL 251655Z AUTO 34005KT 10SM CLR 20/14 A2987 RMK AO1 ENOL 251650Z 34007KT 9999 SCT020 BKN090 09/06 Q1010 NOSIG KJSV 251655Z AUTO 13005KT 10SM SCT020 SCT028 BKN041 26/20 A2995 RMK AO2 KLAW 251653Z 14009KT 10SM SCT019 BKN026 BKN035 23/20 A2987 RMK AO2 SLP105 T02330200 KLAX 251653Z 00000KT 10SM OVC021 16/12 A3000 RMK AO2 SLP158 T01610122 KLCG 251655Z AUTO 19006KT 10SM SCT020 SCT027 SCT034 20/15 A2977 RMK AO2 T01980154 KLCH 251700Z 17012G17KT 10SM SCT031 BKN110 31/23 A3002 RMK AO2 T03060228 KLCI 251655Z AUTO 22009KT 10SM CLR 24/09 A3017 RMK AO1 KN38 251655Z AUTO 21014G21KT 10SM SCT060 26/12 A3020 RMK AO2 ENQA 251650Z AUTO 34012KT 9999NDV FEW013/// 09/06 Q1011 W07/S4 KLBT 251654Z AUTO 17005KT 10SM CLR 28/13 A3031 RMK AO2 SLP264 T02830128 KLCK 251655Z AUTO 21016G27KT 10SM SCT049 27/16 A3012 RMK AO2 T02700160 ENQC 251650Z AUTO 34009KT 9999NDV FEW140/// 12/06 Q1011 W///S4 ENOV 251650Z 21007KT 9999 VCSH FEW017 SCT026 BKN040 09/04 Q1010 RMK WIND 2175FT 29011KT KLBX 251653Z AUTO 16016G21KT 10SM SCT020 BKN027 OVC034 27/24 A2997 RMK AO2 SLP147 T02720239 KLCQ 251655Z AUTO 16010G15KT 10SM SCT044 BKN055 BKN065 31/20 A3021 RMK AO2 VLVT 251600Z 34004KT 3000 BR BKN040 27/25 Q1006 NOSIG KLDJ 251655Z AUTO 19010KT 10SM CLR 32/14 A3023 RMK AO2 T03170137 KKLS 251655Z 00000KT 10SM BKN017 OVC024 13/08 A3008 RMK AO1 ENRA 251650Z 16006KT 9999 SCT040 BKN065 11/02 Q1009 KLEB 251653Z 25003KT 10SM OVC090 20/12 A3019 RMK AO2 SLP219 T02000122 KJVL 251645Z 23012G17KT 7SM -SHRA SCT016 BKN026 OVC060 21/19 A2984 KLDM 251655Z AUTO 20021G27KT 7SM -RA SCT019 BKN028 OVC038 22/19 A2981 RMK AO2 T02160188 KLEE 251653Z 14006KT 10SM CLR 32/21 A3020 RMK AO2 SLP225 T03170206 KJWG 251655Z AUTO 18014G17KT 10SM BKN018 23/22 A2988 RMK AO2 T02300216 ENQR 251650Z AUTO 33015KT 9999NDV FEW018/// SCT073/// BKN084/// 08/04 Q1012 W///S4 KN60 251652Z AUTO 07003KT 20/10 A2985 RMK AO1 SLP105 T02000100 UUWW 251700Z 11002MPS CAVOK 18/06 Q1017 R06/000070 NOSIG ENSB 251650Z 32004KT 9999 FEW020 BKN025 M00/M05 Q1014 RMK WIND 1400FT 33003KT ENSD 251650Z 30011KT 9999 FEW030 BKN040 10/04 Q1010 RMK WIND 1138FT 31008KT ENRM 251650Z 28006KT 9999 SCT024 BKN100 10/04 Q1009 UWGG 251700Z VRB01MPS CAVOK 13/08 Q1019 R36L/090070 NOSIG RMK QFE757 KJVW 251655Z AUTO 19007KT 10SM FEW024 FEW029 FEW034 28/25 A3008 RMK AO2 LCEN 251650Z 28012KT CAVOK 23/12 Q1010 NOSIG ENSE 251650Z AUTO 35015KT 9999NDV FEW017/// SCT081/// BKN120/// 09/05 Q1012 W///S4 ENRO 251650Z 34011KT 330V030 9999 SCT015 BKN019 05/02 Q1006 ENSG 251650Z 08004KT 9999 VCSH FEW025 BKN040 07/03 Q1008 RMK WIND 3901FT 27012KT ENSH 251650Z 11010KT CAVOK 09/01 Q1010 KLFI 251658Z AUTO 21011G17KT 180V240 9SM FEW047 SCT110 SCT170 SCT200 27/17 A3031 RMK AO2 SLP271 T02670169 $ KJXI 251655Z AUTO 14007KT 10SM BKN026 OVC032 27/22 A2998 RMK AO2 T02670215 KLGA 251651Z 18011KT 10SM FEW060 SCT180 SCT250 27/14 A3022 RMK AO2 SLP233 T02720139 KLGB 251653Z 00000KT 10SM OVC022 18/12 A3000 RMK AO2 SLP158 T01780122 $ KLFK 251653Z AUTO 16012G18KT 10SM FEW028 FEW040 SCT049 30/22 A2997 RMK AO2 SLP143 T03000217 $ ENRS 251650Z 03009KT CAVOK 07/03 Q1010 ENSK 251650Z 06008KT CAVOK 09/M00 Q1010 KLGC 251655Z AUTO 13005KT 10SM BKN028 OVC036 29/24 A3023 RMK AO2 T02860236 ENSL 251650Z 32020KT 9999 SCT010 10/06 Q1013 W08/S4 ENTC 251650Z 02010KT 9999 FEW035 SCT042 05/M00 Q1012 NOSIG RMK WIND 2600FT 03005KT KLGD 251655Z AUTO 32013KT 10SM CLR 16/04 A2992 RMK AO1 LBPD 251700Z AUTO 16003KT 120V200 9999 FEW085/// BKN096/// OVC110/// 19/16 Q1007 KLEW 251655Z 25008KT 10SM BKN100 24/09 A3017 RMK AO1 KJXN 251656Z 24018G28KT 4SM RA SCT028 BKN036 OVC055 21/18 A2997 RMK AO2 PK WND 21028/1648 RAB50 SLP145 P0001 T02110183 ENSN 251650Z 17007KT CAVOK 13/05 Q1006 KLEX 251654Z 23017G26KT 10SM SCT085 26/16 A3019 RMK AO2 PK WND 23026/1654 SLP213 T02560156 ENSO 251650Z 31009KT 280V350 9999 SCT025TCU SCT100 11/05 Q1010 KJYG 251655Z AUTO 22012G17KT 10SM SCT021 OVC028 19/16 A2975 RMK AO2 KJWY 251655Z AUTO 11009KT 7SM SCT012 BKN021 OVC028 24/23 A2991 RMK AO2 T02400230 ENRY 251650Z 16007KT 080V190 9999 FEW030 11/06 Q1006 ENSR 251650Z 01005KT 9999 SCT020 BKN033 05/01 Q1013 WIND 1119FT 04005KT ENSS 251650Z 31017KT 9999 FEW010 SCT015 05/02 Q1008 RMK WIND 500FT 31014KT KLFT 251653Z 17009G18KT 10SM FEW028 30/23 A3004 RMK AO2 SLP171 T03000233 KLHB 251655Z AUTO 15011G14KT 10SM BKN021 BKN027 OVC090 27/23 A2994 RMK AO2 LTG DSNT W T02650226 ENST 251650Z 33003KT 9999 -RA FEW012 SCT050 BKN100 08/06 Q1009 RMK WIND 300FT 30004KT KJYL 251655Z AUTO 14007KT 110V180 10SM SCT030 SCT037 BKN055 29/22 A3029 RMK AO2 T02900218 KJYM 251655Z AUTO 22014G20KT 2SM RA SCT011 BKN019 OVC032 21/20 A3001 RMK AO2 VIS 1 1/2V4 T02060199 UUYY 251700Z 25002MPS 210V280 9999 FEW033 12/01 Q1015 R19/CLRD61 NOSIG RMK QFE753/1004 EPCE 251630Z 32003KT 270V360 9999 BKN100 17/07 Q1010 RMK 166 053 6/6 = KJYO 251655Z AUTO 20011G21KT 180V240 10SM CLR 29/17 A3024 RMK AO2 ENTO 251650Z 14005KT 110V180 9999 FEW040CB BKN110 12/05 Q1006 KJZI 251655Z AUTO 09010G14KT 10SM BKN028 BKN040 27/20 A3031 RMK A02 P000 KJYR 251655Z AUTO 21012KT 10SM BKN050 21/13 A2980 RMK AO2 EPDA 251630Z 02005KT 340V060 CAVOK 17/06 Q1010 RMK 169 047 3/3 = ENVA 251650Z 27008KT 9999 -RA FEW012 SCT024 BKN030 09/07 Q1009 TEMPO SHRA RMK WIND 670FT 28010KT FGBT 251500Z 28006KT 9999 FEW010 31/26 Q1010 NOSIG KLGU 251651Z AUTO VRB04KT 10SM CLR 16/09 A2996 RMK AO2 SLP116 T01610089 TSNO $ KLIC 251655Z AUTO 35011KT 10SM FEW039 15/07 A2992 RMK AO2 SLP093 T01500067 KLHM 251655Z AUTO 21007KT 160V240 10SM CLR 18/09 A2992 RMK AO1 ENVD 251650Z 29016KT 9999 SCT022 BKN059 05/01 Q1009 KJZP 251655Z AUTO 14011G14KT 10SM BKN026 OVC033 25/06 A3032 RMK AO2 T02450063 EPBY 251700Z 16005KT 130V190 CAVOK 21/08 Q1009 KLHQ 251653Z AUTO 20013G21KT 10SM FEW050 28/15 A3014 RMK AO2 PK WND 23027/1558 SLP198 T02830150 $ ENVH 251650Z AUTO 29022KT 9999NDV FEW013/// BKN032/// BKN074/// 09/06 Q1014 W///S4 UWKD 251700Z 34002MPS CAVOK 18/07 Q1019 R29/CLRD70 NOSIG RMK QFE753/1004 UWKE 251700Z 31004MPS CAVOK 16/07 Q1018 R21/090070 NOSIG RMK QFE746/0995 KLHW 251658Z AUTO 11011KT 10SM OVC025 28/21 A3025 RMK AO2 SLP246 T02790207 KMAE 251653Z AUTO 30006KT 10SM CLR 21/11 A2992 RMK AO2 SLP130 T02110106 KLJF 251641Z AUTO 24004KT 10SM BKN015 OVC022 17/16 A2970 RMK AO2 KMAF 251653Z 06004KT 10SM CLR 21/11 A2993 RMK AO2 SLP100 T02110111 KLHX 251653Z AUTO VRB04KT 10SM CLR 17/09 A2989 RMK AO2 SLP085 T01720089 LBSF 251700Z 28006KT 9999 TS FEW030CB SCT051 BKN060 15/10 Q1009 TEMPO TSRA SCT030CB DXNG 251700Z 03005KT360V060 9999 FEW010 FEW020CB 35/16 Q1012 NOSIG KLHZ 251655Z AUTO 17011G15KT 10SM CLR 25/14 A3033 RMK AO2 VOCB 251700Z 20012KT 4000 HZ FEW015 27/24 Q1012 NOSIG KMAI 251653Z AUTO 14007KT 100V170 10SM BKN030 BKN042 30/22 A3017 RMK AO2 LTG DSNT SE SLP213 T03000222 $ ENVR 251350Z 02009KT CAVOK 08/02 Q1010 VOBL 251700Z 29005KT 6000 NSC 30/21 Q1014 NOSIG KLIT 251653Z 16009KT 10SM BKN022 OVC028 25/19 A3003 RMK AO2 SLP169 T02500189 KO22 251635Z AUTO 19003KT 10SM CLR 23/12 A2993 RMK AO1 KMAN 251655Z AUTO 24003KT 10SM CLR 20/08 A2989 RMK AO1 KMAO 251655Z AUTO 14007KT 10SM CLR A3032 RMK AO2 KMBG 251652Z AUTO 07010KT 10SM -RA FEW014 BKN060 OVC075 16/14 A2981 RMK AO2 SLP092 P0004 T01560144 $ VOCI 251700Z 29004KT 5000 HZ SCT015 28/24 Q1011 NOSIG UWKS 251700Z 26002MPS CAVOK 14/07 Q1019 R24/000060 NOSIG RMK QFE750 VNKT 251650Z 23011G20KT 4000 TSRA FEW020 FEW025CB SCT030 OVC090 19/14 Q1016 NOSIG CB TO S SE N AND NW VOCL 251630Z 30004KT 6000 FEW015 29/25 Q1010 NOSIG KMCB 251653Z AUTO 17009KT 10SM SCT020 29/24 A3009 RMK AO2 SLP182 T02890239 KMBL 251655Z AUTO 21015G24KT 5SM FEW017 BKN026 OVC037 21/17 A2981 RMK AO1 KMCC 251650Z AUTO 17007KT 9SM CLR 17/10 A2995 RMK AO2 KMCD 251655Z AUTO 10008KT 1SM BR OVC001 08/08 A2982 RMK AO2 P0001 T00800080 KMCE 251653Z AUTO 33007KT 10SM CLR 19/11 A2992 RMK AO2 SLP130 T01890106 EPGD 251700Z 14004KT 110V190 9999 -RA NSC 19/09 Q1010 KMCF 251658Z AUTO 18007KT 10SM FEW160 SCT200 32/22 A3017 RMK AO2 SLP219 T03160223 KMBO 251655Z AUTO 16003KT 10SM SCT020 BKN027 BKN031 25/21 A3009 RMK AO2 LTG DSNT SE KLKR 251655Z AUTO 24004KT 10SM CLR 27/14 A3032 RMK AO2 KMCI 251653Z 17011KT 10SM SCT032 23/18 A2988 RMK AO2 SLP109 T02330178 KMBS 251653Z 19012G19KT 10SM FEW036 BKN055 BKN110 26/17 A2989 RMK AO2 PK WND 20027/1628 SLP118 T02560172 KLLJ 251655Z AUTO VRB03KT 10SM FEW100 14/04 A2995 RMK AO2 SLP103 T01440044 KMCK 251653Z AUTO 30010KT 10SM CLR 19/12 A2978 RMK AO2 SLP073 T01890117 LCLK 251700Z 23011KT CAVOK 23/15 Q1010 NOSIG UWLW 251700Z 35003MPS 8000 NSC 19/16 Q1018 R02/CLRD60 NOSIG RMK QFE757 KLKU 251655Z AUTO 18008KT 10SM SCT046 27/15 A3028 RMK AO2 KLKV 251655Z 17007KT 10SM FEW027 SCT060 16/08 A3001 RMK AO1 KMDD 251655Z AUTO 10005KT 7SM CLR 22/12 A2994 RMK AO2 T02150115 KMCN 251653Z 16006KT 10SM FEW028 BKN035 OVC070 28/19 A3025 RMK AO2 SLP239 T02780194 KMCO 251653Z 11010KT 10SM SCT035CB SCT090 BKN250 29/23 A3020 RMK AO2 RAE14 SLP225 CB SW AND DSNT W MOV NW P0000 T02940228 KMDH 251652Z AUTO 20010KT 10SM FEW019 OVC033 23/19 A3007 RMK AO2 SLP179 T02330194 $ KLLQ 251653Z AUTO 17005KT 10SM BKN022 OVC028 27/21 A3004 RMK AO2 SLP170 T02670211 KMDJ 251655Z AUTO 16017KT CLR 29/23 A3011 RMK A01 KMEB 251652Z AUTO VRB05KT 10SM CLR 27/12 A3032 RMK AO2 SLP266 T02720122 KLNC 251655Z AUTO 14012KT 7SM -RA BKN017 BKN025 OVC050 25/21 A2991 RMK AO2 LTG DSNT SW T02500208 KLND 251653Z AUTO 13004KT 10SM BKN060 11/07 A2997 RMK AO2 SLP122 T01110067 KMCW 251653Z AUTO 25013KT 10SM FEW017 BKN032 OVC040 21/17 A2979 RMK AO2 SLP078 T02110167 KLMO 251655Z AUTO 00000KT 10SM CLR 17/07 A2993 RMK AO2 T01660073 KMCX 251655Z AUTO 21022G30KT 10SM SCT032 BKN038 BKN046 25/18 A2997 RMK AO2 T02450179 KO54 251655Z AUTO 23003KT 10SM CLR 20/10 A2993 RMK AO1 KMEH 251656Z AUTO VRB03KT 10SM BKN110 11/05 A2996 RMK AO2 SLP140 T01110050 KMDQ 251655Z AUTO 16008KT 10SM -DZ BKN023 OVC028 22/17 A3020 RMK AO2 KMEI 251658Z 17004KT 10SM -RA FEW070 SCT100 OVC110 23/20 A3014 RMK AO2 SLP203 P0000 T02330200 $ KMDS 251650Z AUTO 27006KT 10SM FEW018 BKN025 OVC031 17/17 A2976 RMK AO2 KLMT 251653Z 00000KT 10SM FEW060 SCT200 16/06 A2999 RMK AO2 SLP128 T01560056 $ KLNK 251654Z 22006KT 10SM CLR 23/14 A2980 RMK AO2 SLP083 T02280144 KMDT 251656Z 24008KT 10SM BKN250 28/14 A3019 RMK AO2 SLP222 T02780144 LDDU 251700Z 17004KT 140V200 9999 FEW015 17/14 Q1012 NOSIG KLNL 251655Z AUTO 15004KT 7SM OVC004 15/15 A2971 RMK AO2 T01510146 UWOO 251700Z 29003MPS P5000 SCT040 20/10 Q1017 R26/CLRD65 NOSIG RMK QFE752/1003 KMEM 251654Z 18008KT 10SM BKN016 OVC023 25/20 A3009 RMK AO2 SLP184 T02500200 KMFD 251652Z 20022G29KT 10SM FEW110 24/16 A3010 RMK AO2 PK WND 22031/1612 SLP185 T02440161 $ ENZV 251650Z 30013KT 9999 FEW018TCU SCT048 10/06 Q1010 NOSIG KMDW 251653Z 22018G26KT 10SM -RA SCT018 BKN023 OVC032 22/18 A2989 RMK AO2 PK WND 23026/1647 RAE03B51 SLP112 P0000 T02220183 $ KMFE 251705Z 14015G24KT 10SM SCT027 SCT036 32/25 A2985 RMK AO2 T03220250 KLNN 251655Z AUTO 24012G23KT 10SM SCT120 A3005 RMK AO1 LBWN 251700Z 12009KT 9999 FEW030 17/15 Q1007 NOSIG UWOR 251700Z 16002MPS 9999 SCT050CB BKN100 19/13 Q1018 R25/CLRD65 NOSIG RMK QFE740/0986 KLNP 251655Z AUTO 18006G14KT 10SM CLR 25/10 A3032 RMK AO2 KMDZ 251655Z AUTO 23010KT 7SM -RA OVC008 17/16 A2972 RMK AO2 P0001 T01700158 KMFI 251707Z AUTO 23012G22KT 10SM -RA BKN014 BKN021 OVC042 19/16 A2972 RMK AO2 RAB00 P0000 T01940161 KLNR 251656Z AUTO 26011G21KT 10SM SCT016 BKN024 BKN028 21/17 A2980 RMK AO2 RAE08 SLP083 P0000 T02110172 $ KMER 251645Z 33008KT 7SM SKC 21/11 A2993 EPIR 251630Z 12010KT CAVOK 21/08 Q1010 RMK 212 043 5/3 = KLNS 251653Z 21011G18KT 10SM CLR 28/14 A3021 RMK AO2 SLP226 T02780144 KO69 251655Z AUTO 00000KT 10SM OVC008 12/10 A2999 RMK AO1 DXSK 251500Z 00000KT 9999 SCT020 BKN260 36/22 Q//// KLOL 251653Z AUTO 00000KT 10SM CLR 19/10 A2996 RMK AO2 SLP122 T01890100 KMGC 251655Z AUTO 23010G16KT 10SM BKN041 BKN048 BKN080 24/16 A2991 RMK AO2 KLOM 251655Z AUTO 18011G14KT 10SM CLR 29/16 A3023 RMK AO1 KMEV 251655Z AUTO 00000KT 10SM SCT100 17/08 A3002 RMK AO2 KMGE 251658Z 14008KT 10SM FEW029 BKN035 26/19 A3026 RMK AO2A SLP241 T02500191 $ KMGG 251657Z AUTO 20005KT 10SM SCT012 OVC021 18/15 A2970 RMK AO2 T01760153 KMEZ 251655Z AUTO 00000KT 10SM BKN015 OVC020 25/21 A3000 RMK AO2 LCPH 251700Z 29011KT 9999 FEW020 22/18 Q1010 KLOR 251700Z AUTO 17008KT 10SM SCT028 BKN040 29/22 A3017 RMK AO2 T02890217 KMFR 251653Z VRB03KT 10SM CLR 18/09 A2998 RMK AO2 SLP145 T01830094 KMGJ 251654Z AUTO 20011KT 10SM CLR 29/14 A3017 RMK AO2 SLP215 T02890144 TSNO KLOT 251655Z AUTO 23013KT 10SM SCT009 BKN039 OVC055 21/19 A2990 RMK AO2 P0003 T02050187 EPLB 251700Z 31003KT 270V360 9999 -SHRA SCT034CB 17/15 Q1010 KLOU 251653Z 19008KT 7SM -RA BKN016 BKN050 OVC070 21/18 A3017 RMK AO2 SLP212 P0001 T02060183 EPKK 251700Z 00000KT 9999 BKN020 15/13 Q1010 KMGM 251653Z 15008KT 10SM SCT026 SCT034 BKN041 28/21 A3018 RMK AO2 LTG DSNT W SLP216 T02830211 KMFV 251655Z AUTO 23007KT 10SM SCT040 26/17 A3033 RMK AO2 KMHE 251703Z AUTO 00000KT 10SM SCT013 OVC022 17/14 A2976 RMK AO2 T01720139 KMGN 251654Z AUTO 07005KT 10SM SCT020 SCT044 OVC049 19/17 A2981 RMK AO2 T01930177 FHAW 251650Z 13017KT 9999 FEW018 BKN034 26/20 Q1013 BLU TEMPO 6000 -SHRA SCT016 WHT= VOHS 251640Z 24005KT 6000 SCT020 32/18 Q1009 NOSIG KLOZ 251653Z AUTO 20009KT 10SM BKN055 OVC070 26/13 A3023 RMK AO2 SLP225 T02610133 KO86 251655Z AUTO 14003KT 10SM CLR 20/10 A2995 RMK AO1 KLPR 251653Z AUTO 22026G34KT 10SM -RA FEW110 28/16 A3006 RMK AO2 PK WND 22034/1652 RAB08 SLP174 P0000 T02780156 TSNO KMGR 251655Z AUTO 13006KT 10SM SCT038 30/19 A3022 RMK AO2 LCRA 251650Z 24013KT CAVOK 21/18 Q1010 NOSIG KMIA 251653Z 11014KT 10SM BKN026 BKN250 30/23 A3016 RMK AO2 SLP214 T03000228 EPKS 251630Z 23008KT 9999 SHRA SCT030CB BKN060 21/08 Q1010 RMK 207 043 7/3= KMHK 251652Z 18015G25KT 10SM FEW028 SCT046 BKN060 23/17 A2985 RMK AO2 SLP100 T02280172 KLQK 251655Z AUTO 00000KT 10SM SCT029 SCT034 BKN048 26/17 A3031 RMK AO2 T02560167 KMIB 251658Z AUTO 08004KT 10SM CLR 25/08 A2983 RMK AO2 SLP102 T02540081 CHINO RWY11 $ EPMB 251630Z 15004KT CAVOK 20/09 Q1010 RMK 202 049 3/3= EPLK 251630Z 10007KT 9999 FEW050 BKN070 17/11 Q1011 RMK 169 067 7/1= KMHL 251715Z AUTO 15013KT 10SM SCT019 23/20 A2993 RMK AO2 KMIC 251653Z 22009KT 10SM BKN018 OVC023 17/14 A2969 RMK AO2 SLP052 T01670139 EPKT 251700Z 03003KT 350V080 9999 BKN045 15/12 Q1010 EPLL 251700Z 10006KT 070V140 CAVOK 17/10 Q1011 KLRD 251656Z 15015KT 10SM BKN025 BKN043 29/23 A2986 RMK AO2 T02940233 BKN V SCT SLP099 VOHY 251540Z VRB02KT 6000 FEW020 34/11 Q1008 NOSIG KMGW 251653Z VRB05KT 10SM CLR 28/12 A3022 RMK AO2 SLP224 T02780122 KMIE 251653Z 22010G24KT 10SM BKN022 BKN029 OVC035 22/18 A3007 RMK AO2 PK WND 24028/1610 SLP172 T02220178 KLRF 251658Z AUTO 17007KT 10SM SCT024 OVC031 25/20 A3002 RMK AO2 SLP166 T02510198 KMGY 251704Z AUTO 22015G22KT 10SM BKN025 22/17 A3014 RMK AO2 T02170172 KMHR 251647Z 24008KT 10SM SKC 17/10 A2994 EPMI 251630Z 29004KT 9999 FEW050 BKN058 18/06 Q1010 RMK 183 044 7/2 = KP08 251655Z AUTO 22008KT 10SM CLR 26/07 A2995 RMK AO2 KMHS 251656Z AUTO VRB04KT 10SM CLR 19/10 A2997 RMK AO2 SLP141 T01940100 KLRJ 251655Z AUTO 22009KT 9SM BKN015 BKN090 20/17 A2977 RMK AO2 LEAB 251700Z 07008KT 050V120 9999 SCT048 22/05 Q1017 NOSIG KMHT 251653Z 24003KT 10SM SCT060 OVC100 25/11 A3018 RMK AO2 SLP232 T02500106 $ KLSB 251655Z AUTO 31008G16KT 10SM CLR 21/00 A3003 RMK AO2 KMHV 251655Z AUTO 00000KT 10SM CLR 23/06 A2995 RMK AO1 EPMM 251630Z 07008KT 9999 SCT033 BKN070 14/13 Q1012 RMK 141 092 7/4 = KLSE 251653Z 24012KT 10SM BKN024 OVC034 23/16 A2973 RMK AO2 SLP062 T02280161 KLSF 251703Z AUTO 07006KT 10SM BKN031 BKN200 27/20 A3020 RMK AO2 KLRO 251655Z AUTO 12008KT 10SM CLR 27/19 A3032 RMK AO2 EPMO 251700Z 10007KT 9999 FEW018 BKN027 16/12 Q1011 LEAG 251700Z AUTO 15010KT 120V200 CAVOK 18/14 Q1018 EPLY 251630Z VRB02KT 9999 SCT040 BKN090 18/12 Q1011 RMK 181 066 6/3= UWSS 251700Z VRB01MPS CAVOK 27/08 Q1016 R12/010095 NOSIG RMK QFE750 LEBA 251700Z 05003KT CAVOK 28/06 Q1014 KNAK 251654Z AUTO 18009G17KT 10SM CLR 27/15 A3025 RMK AO2 SLP245 T02720150 LEBB 251700Z 33009KT 290V360 9999 FEW015 SCT020 BKN030 16/14 Q1023 NOSIG KMKC 251654Z 18015G21KT 10SM FEW029 24/17 A2988 RMK AO2 SLP112 T02440172 KNBC 251656Z AUTO 10009KT 10SM BKN036 OVC046 26/19 A3030 RMK AO2 SLP259 T02610194 KLRU 251655Z AUTO 26007G14KT 10SM CLR 22/M01 A3002 RMK AO2 T02161008 LEAL 251700Z 09007KT 060V120 CAVOK 23/06 Q1016 NOSIG KMIV 251654Z AUTO 24007KT 10SM CLR 28/16 A3027 RMK AO2 SLP248 T02780156 LEAM 251700Z 15008KT 9999 FEW090 23/11 Q1016 KMKE 251652Z 23020G28KT 10SM FEW024 BKN042 BKN050 23/16 A2982 RMK AO2 PK WND 22028/1649 SLP096 T02280156 KMIW 251653Z AUTO 21015G20KT 10SM SCT026 23/17 A2981 RMK AO2 SLP089 T02280172 LEAO 251700Z 06006KT 340V100 CAVOK 24/03 Q1017 LEBG 251700Z 05013KT 9999 FEW040 16/08 Q1021 KNBG 251655Z AUTO 17013KT 10SM FEW023 28/23 A3007 RMK AO2 SLP180 T02830233 $ KMKG 251655Z 20019G32KT 10SM -RA SCT026 BKN033 OVC055 22/17 A2987 RMK AO2 PK WND 18033/1601 RAB42 SLP111 P0000 T02170167 KMJQ 251653Z AUTO 24014G17KT 10SM SCT016 BKN022 OVC030 18/15 A2978 RMK AO2 KNCA 251656Z AUTO 16010KT 10SM CLR 26/14 A3034 RMK AO2 SLP277 T02610139 KLUA 251655Z AUTO 21012G15KT 170V230 10SM CLR 28/16 A3024 RMK AO2 KMKJ 251655Z AUTO 00000KT 10SM CLR 26/13 A3033 RMK AO2 T02570128 KP28 251656Z AUTO 19014G18KT 25/19 A2980 RMK AO1 SLP080 T02500189 LEAS 251700Z VRB03KT 9999 FEW006 SCT010 15/13 Q1024 NOSIG KMLB 251700Z 10014KT 10SM FEW019 SCT026 31/23 A3020 RMK AO2 T03060228 EPOK 251630Z 27004KT 9999 BKN072 15/11 Q1010 RMK 153 073 7/7 = KMKL 251653Z 15005KT 10SM BKN011 23/20 A3011 RMK AO2 SLP192 T02280200 KMLC 251653Z AUTO 20007G19KT 10SM BKN016 BKN025 BKN037 24/21 A2996 RMK AO2 RAE07 SLP137 P0000 T02440206 LEBL 251700Z 17008KT 140V200 9999 FEW050 21/16 Q1014 NOSIG KLSV 251558Z AUTO 07007KT 10SM CLR 20/13 A2995 RMK AO2 SLP126 T01990127 $ KLUD 251655Z AUTO 16015G20KT 10SM SCT021 BKN030 BKN037 24/19 A2988 RMK AO2 T02440188 KMKN 251655Z AUTO 17013G18KT 10SM SCT022 BKN045 BKN070 23/22 A2985 RMK AO2 LTG DSNT ALQS T02330218 KMLE 251655Z AUTO 23003KT 10SM SCT036 23/14 A2979 RMK AO2 T02280139 KMKO 251653Z AUTO 18011KT 10SM FEW020 SCT031 BKN043 26/21 A2994 RMK AO2 SLP131 T02610206 KMLF 251652Z AUTO 21011KT 10SM CLR 16/08 A3001 RMK AO2 SLP123 T01610078 KMJX 251655Z AUTO 23012G16KT 10SM CLR A3024 RMK AO1 KLUF 251658Z AUTO 24005KT 10SM CLR 27/08 A2991 RMK AO2 SLP118 T02670079 $ KMLI 251652Z 21014G21KT 10SM SCT028 23/17 A2988 RMK AO2 SLP114 T02330167 $ UWUU 251700Z 29002MPS 260V330 9999 BKN040 21/15 Q1016 R32R/0///60 NOSIG RMK QFE751/1001 KLTS 251658Z AUTO 25017G24KT 8SM -TSRA FEW010 21/20 A2985 RMK AO2 PK WND 25027/56 LTG DSNT NE-S AND NW DZB01E10RAB10 TSB54 SLP098 P0001 T02070204 $ KMKS 251655Z AUTO 16007KT 7SM SCT033 BKN046 OVC070 28/18 A3031 RMK AO2 VOML 251700Z 32004KT 6000 SCT015 29/25 Q1011 NOSIG KMLJ 251655Z AUTO 08003KT 10SM SCT037 SCT047 SCT060 28/20 A3026 RMK AO2 VOMM 251640Z 18012KT 6000 FEW020 32/27 Q1005 NOSIG LEBT 251700Z AUTO 12007KT 080V160 CAVOK 24/06 Q1015 KLUK 251653Z 20014G19KT 10SM -RA FEW033 SCT041 BKN110 23/18 A3015 RMK AO2 RAB45 SLP206 P0000 T02280178 KMKT 251655Z AUTO 25012KT 10SM FEW021 OVC029 18/14 A2973 RMK AO1 KNBT 251656Z AUTO 13007KT 10SM CLR A3036 RMK AO2 SLP287 PNO $ KLUL 251655Z AUTO 17007KT 10SM SCT018 SCT036 BKN100 24/22 A3013 RMK AO2 T02420219 KLUM 251655Z AUTO 20009KT 10SM SCT014 BKN029 OVC035 19/17 A2970 RMK AO2 T01870166 LECO 251700Z 36011KT 320V020 9999 SCT023 17/13 Q1023 NOSIG DXXX 251700Z 20010KT 9999 FEW014 30/25 Q1010 NOSIG KMLP 251656Z AUTO 00000KT 1 1/2SM -RA BR BKN002 OVC011 07/07 A2996 RMK AO2 VIS 1/2V5 P0000 T00720067 KMKY 251655Z AUTO 13009G16KT 33/21 A3013 RMK AO1 EPPO 251700Z 28012KT 9999 FEW056TCU 18/09 Q1010 LEBZ 251700Z 10007KT 060V150 9999 FEW048 29/04 Q1015 KMMH 251655Z AUTO 13005KT 10SM BKN070 15/04 A3010 RMK AO1 KLVJ 251653Z AUTO 16012KT 10SM SCT021 SCT030 BKN039 30/23 A2999 RMK AO2 SLP154 T03000233 KMLS 251653Z AUTO 09003KT 10SM CLR 17/10 A2989 RMK AO2 SLP116 T01720100 KLWA 251655Z AUTO 24012G20KT 10SM SCT029 BKN035 OVC042 21/17 A2990 RMK AO2 T02110171 EPRA 251630Z 09004KT 6000 SHRA BKN006 BKN010TCU OVC013 14/13 Q1011 RMK 143 09 KMMK 251653Z AUTO 16008KT 10SM CLR 27/14 A3023 RMK AO2 SLP234 T02670139 TSNO $ KMLT 251653Z AUTO 26009KT 10SM CLR 26/07 A3009 RMK AO2 SLP193 T02610072 KLVK 251653Z 23005KT 10SM OVC013 15/09 A2997 RMK AO2 SLP146 T01500094 KLWB 251655Z AUTO 18004KT 10SM CLR 25/12 A3031 RMK AO2 T02510120 LEEC 251300Z 04006KT 320V090 CAVOK 27/06 Q1015 KLWC 251652Z AUTO 18014G21KT 10SM SCT030 24/17 A2987 RMK AO2 SLP107 T02390172 KMLU 251653Z 21008KT 10SM BKN023 BKN031 27/22 A3005 RMK AO2 SLP174 T02720217 KMML 251655Z AUTO 26014KT 10SM FEW021 OVC037 18/12 A2972 RMK AO1 KLVL 251657Z AUTO 19008KT 10SM CLR 26/16 A3031 RMK AO2 LECV 251700Z 36007KT 9999 SCT065 23/03 Q1018 KLVM 251653Z AUTO 00000KT 10SM CLR 15/06 A2994 RMK AO2 SLP117 T01500061 KLWD 251653Z AUTO 19015G21KT 10SM SCT090 24/17 A2986 RMK AO2 SLP103 T02440167 KLVN 251650Z AUTO 25009G14KT 10SM BKN021 OVC028 18/14 A2971 RMK AO2 KMNE 251655Z AUTO 14007KT 10SM CLR 27/21 A3001 RMK AO2 T02730211 KP53 251656Z AUTO VRB05G15KT 16/14 A2972 RMK AO1 SLP066 P0013 T01560139 EPPW 251630Z 15006KT 9999 SCT120 BKN200 21/06 Q1010 RMK 210 037 6/3= KLUX 251655Z AUTO 00000KT 10SM BKN041 OVC048 25/19 A3031 RMK AO2 KMNI 251655Z AUTO 19005KT 10SM BKN034 BKN055 OVC070 26/15 A3031 RMK AO2 KP58 251651Z AUTO 20008G16KT 160V240 26/17 A2989 RMK AO1 SLP116 T02610167 KLVS 251653Z AUTO 10008G14KT 10SM CLR 16/01 A2996 RMK AO2 SLP066 T01560006 KMMT 251658Z AUTO VRB06KT 10SM FEW160 28/16 A3030 RMK AO2 SLP261 T02770159 KP60 251656Z AUTO VRB03KT 06/01 A3005 RMK AO1 SLP145 T00610011 KMOB 251656Z 20007KT 3SM VCTS -RA BR BKN013 BKN050 OVC095 24/23 A3014 RMK AO2 LTG DSNT NW-E RAB1559E21B28 TSE20B25E55 SLP204 P0007 T02440233 $ KP59 251651Z AUTO 14008KT 12/11 A2974 RMK AO1 SLP069 P0008 T01220111 UWWW 251700Z 04005MPS CAVOK 22/11 Q1018 R05/CLRD60 NOSIG RMK QFE750/1000 KNEL 251700Z AUTO 10SM CLR 29/12 A3023 RMK AO2 SLP236 T02940117 PWINO $ KMMU 251645Z 25009G14KT 15SM FEW100 28/14 A3021 EPSC 251700Z 35007KT 310V050 9999 -SHRA SCT043CB 15/09 Q1010 KLWM 251654Z 25007KT 10SM OVC095 25/11 A3022 RMK AO2 SLP232 T02500106 KMNM 251655Z AUTO 17008KT 5SM OVC013 16/14 A2969 RMK AO1 KMMV 251653Z AUTO 00000KT 10SM OVC018 13/09 A3005 RMK AO2 SLP177 T01330089 KMOD 251653Z 32007KT 10SM CLR 19/10 A2992 RMK AO2 SLP134 T01940100 KMNN 251653Z AUTO 23015G23KT 10SM FEW033 BKN120 24/17 A3010 RMK AO2 PK WND 23031/1639 RAB07E34 SLP187 P0000 T02440167 TSNO KNFE 251656Z AUTO 18012KT 10SM CLR 29/14 A3033 RMK AO2 SLP273 T02940144 KNFG 251654Z AUTO 00000KT 6SM HZ OVC023 17/12 A3000 RMK AO2 SLP159 T01720117 KNDZ 251656Z AUTO A3014 RMK AO2 SLPNO PWINO $ LEGA 251700Z 18011KT 140V220 9999 BKN070 OVC150 20/08 Q1017 KP68 251653Z AUTO 24006KT 16/03 A3004 RMK AO1 SLP122 T01610033 KLWS 251656Z 09004KT 10SM FEW040 SCT050 OVC100 17/09 A2990 RMK AO2 SLP118 T01720094 $ KP69 251652Z AUTO 00000KT 17/08 A2988 RMK AO1 SLP108 T01670078 $ KLWT 251654Z AUTO VRB03KT 10SM CLR 17/07 A2993 RMK AO2 SLP116 T01720072 KLXL 251656Z AUTO 16003KT 2SM -DZ OVC006 14/13 A2966 RMK AO2 P0001 KNFL 251656Z AUTO 23005KT 10SM BKN110 20/09 A2997 RMK AO2 SLP120 T02000089 FGSL 251500Z 24010KT 210V270 9999 FEW012 FEW020TCU 32/25 Q1011 NOSIG KLWV 251653Z AUTO 22014KT 10SM BKN025 BKN030 OVC050 24/19 A3009 RMK AO2 RAB24E33 SLP185 P0000 T02390189 $ KNEW 251653Z 17012KT 10SM SCT021 BKN026 BKN034 31/23 A3007 RMK AO2 SLP177 T03110228 KLXN 251655Z AUTO 23007KT 10SM SCT031 BKN039 20/13 A2978 RMK AO2 T01950129 LEGE 251700Z 20009KT 170V240 9999 FEW050 SCT075 23/09 Q1014 EPSN 251630Z 29006KT 9999 SCT050 BKN100 19/09 Q1010 RMK 185 053 6/3 = KMOP 251658Z AUTO 18015G21KT 10SM SCT028 SCT039 BKN100 23/19 A2988 RMK AO2 T02250186 KLYH 251654Z 19011KT 160V220 10SM CLR 26/13 A3031 RMK AO2 SLP257 T02560128 KMNZ 251658Z AUTO 17019G29KT 10SM VCTS OVC015 23/22 A2988 RMK AO2 LTG DSNT SE S AND NW KMOR 251655Z AUTO 15005KT 10SM CLR 27/14 A3026 RMK EPRZ 251700Z 33005KT 9999 SCT040 16/15 Q1009 LDOS 251700Z 26008KT 3000 -DZ BR BKN005 OVC015 14/13 Q1008 KLXT 251708Z AUTO 17013G20KT 10SM BKN023 23/17 A2991 RMK AO2 T02280172 KMOT 251654Z VRB04KT 10SM CLR 23/08 A2984 RMK AO2 SLP102 T02280078 KMQB 251655Z AUTO 23017G21KT 10SM BKN025 23/18 A2997 RMK AO2 T02280175 LEHC 251600Z 26015G25KT 200V290 9999 FEW070 25/05 Q1015 LDPL 251700Z 09006KT 060V120 CAVOK 17/13 Q1011 NOSIG KLXV 251653Z AUTO 29010KT 10SM FEW025 SCT047 OVC065 05/M01 A3007 RMK AO2 SLP088 T00501011 $ EPTM 251630Z 06010KT 9999 SCT020 OVC040 15/11 Q1011 RMK 147 079 8/4= KMQE 251654Z AUTO 21012KT 25/11 A3023 RMK AO1 SLP245 T02500106 $ KNFW 251652Z AUTO 16014KT 10SM BKN022 BKN029 OVC049 26/22 A2987 RMK AO2 SLP100 T02610217 $ KMOX 251654Z AUTO 36008KT 4SM BR BKN007 BKN013 OVC035 16/15 A2968 RMK AO2 KMPO 251653Z AUTO 22011G17KT 10SM SCT100 26/12 A3025 RMK AO2 SLP233 T02610117 $ KNGP 251656Z AUTO 15019G26KT 10SM BKN017 BKN034 OVC060 28/25 A2989 RMK AO2 PK WND 16029/1631 SLP121 T02830250 $ KLXY 251655Z AUTO 15011G16KT 10SM BKN020 OVC029 25/22 A2993 RMK AO2 LTG DSNT W P0001 T02460217 LEGR 251700Z VRB01KT 9999 FEW040 BKN090 24/06 Q1016 KMQI 251655Z AUTO 18010KT 10SM CLR 24/15 A3036 RMK AO2 T02400153 KMQJ 251657Z AUTO 21012G16KT 7SM SCT004 BKN021 OVC028 21/17 A3009 RMK AO1 LEGT 251700Z VRB03KT 9999 SCT050 27/03 Q1016 KNHK 251652Z AUTO 21008KT 10SM CLR 28/14 A3029 RMK AO2 SLP256 T02780139 KMRB 251653Z 20008KT 10SM CLR 27/14 A3022 RMK AO2 SLP228 T02720144 LEIB 251700Z 21008KT CAVOK 23/13 Q1015 NOSIG KMRC 251655Z AUTO 13006KT 9SM SCT020 OVC027 21/20 A3013 RMK KNGU 251659Z 17008G19KT 150V210 10SM FEW046 SCT280 29/14 A3034 RMK AO2 SLP272 T02940139 KP92 251653Z AUTO VRB06G15KT 29/25 A3004 RMK AO1 SLP171 T02940250 KMPV 251651Z AUTO VRB04KT 10SM -RA BKN065 OVC085 20/11 A3023 RMK AO2 RAB36 SLP235 P0000 T02000106 KLYV 251654Z AUTO 22010KT 10SM SCT017 BKN025 OVC030 18/15 A2977 RMK AO2 KNID 251656Z AUTO 15005KT 10SM CLR 24/05 A2992 RMK AO2 SLP115 T02390050 $ KMRF 251655Z AUTO 25016G21KT 10SM CLR 22/M02 A3006 RMK AO1 KMRH 251658Z AUTO 16006KT 10SM FEW036 25/17 A3036 RMK AO2 SLP280 T02500167 TSNO KMPZ 251655Z AUTO 19015G22KT 10SM BKN023 BKN028 22/17 A2990 RMK AO2 T02190171 LDRI 251700Z VRB02KT 9999 FEW040 SCT050 20/14 Q1011 KMQS 251655Z AUTO 17009G15KT 130V240 10SM CLR 27/15 A3025 RMK AO2 KMRJ 251655Z AUTO 24014G20KT 10SM BKN012 OVC021 21/17 A2983 RMK AO2 EPWA 251700Z 04005KT 9999 FEW007 BKN028 15/13 Q1011 NOSIG KLZU 251645Z 12006KT 10SM BKN024 BKN041 26/17 A3028 RMK ATIS B RWY 7 JW KMRN 251655Z AUTO 23006KT 10SM BKN041 25/13 A3037 RMK AO2 T02530130 KNIP 251653Z AUTO 10011KT 10SM SCT034 BKN042 BKN050 31/21 A3023 RMK AO2 SLP231 T03110211 KMQY 251656Z 14004KT 10SM BKN029 21/19 A3019 RMK AO2 T02110194 RAE56 P0001 SLP228 KLZZ 251655Z AUTO 12008KT 7SM -TSRA SCT021 SCT036 BKN050 22/21 A2986 RMK AO2 LTG DSNT ALQS P0010 T02150206 KOAJ 251655Z AUTO 16007KT 10SM CLR 28/13 A3034 RMK AO1 LFBA 251700Z AUTO 26012KT 9999 OVC023 18/13 Q1019 KMRT 251654Z AUTO 24019G27KT 10SM SCT033 SCT100 SCT120 24/16 A3013 RMK AO2 T02350158 KOAK 251653Z 25007KT 10SM OVC010 12/09 A3000 RMK AO2 CIG 009V014 SLP157 T01220094 KNJK 251656Z AUTO VRB03KT 10SM CLR 26/10 A2989 RMK AO2 SLP136 T02610100 $ KMSL 251653Z AUTO 17003KT 9SM -RA FEW042 BKN050 OVC070 20/18 A3019 RMK AO2 SLP219 P0010 T02000183 $ KMTC 251658Z AUTO 23017G25KT 10SM BKN041 BKN170 25/18 A2997 RMK AO2 PK WND 23029/56 SLP150 T02520175 $ LFBC 251700Z AUTO 29007KT 240V320 9999 BKN012 OVC019 17/14 Q1021 LFBD 251700Z AUTO 29012KT 9999 SCT022 BKN028 OVC035 18/13 Q1020 KMSN 251653Z 25007KT 10SM SCT018 BKN090 21/17 A2980 RMK AO2 RAB14E26 SLP089 P0002 T02110167 KOBE 251655Z AUTO 10007KT 10SM SCT041 BKN050 BKN060 30/21 A3017 RMK AO2 LTG DSNT SE LFBE 251700Z AUTO 25012KT 9999 BKN036 BKN050 OVC062 20/14 Q1018 KMSO 251653Z 00000KT 10SM CLR 17/05 A2990 RMK AO2 SLP115 T01670050 VOTR 251640Z 20005KT 6000 FEW016 32/24 Q1008 NOSIG KMSP 251653Z 23015G22KT 10SM BKN017 OVC025 17/14 A2970 RMK AO2 SLP057 T01720139 KMRY 251654Z 32005KT 10SM OVC013 13/09 A3001 RMK AO2 SLP175 T01280094 LDSP 251700Z VRB02KT 9999 FEW055 17/12 Q1012 NOSIG LFBG 251700Z AUTO 29014KT 9999 FEW029 SCT054 21/13 Q1018 KMTH 251653Z AUTO 11011G17KT 10SM CLR 29/24 A3013 RMK AO2 SLP203 T02940239 LFBH 251700Z AUTO 29017KT 9999 NSC 16/12 Q1019 LFAQ 251700Z AUTO 35013KT CAVOK 14/06 Q1018 LEJR 251700Z 22009KT 160V250 9999 FEW045 25/14 Q1016 LFBI 251700Z AUTO 30011KT 9999 NSC 20/08 Q1018 KMSS 251653Z AUTO 00000KT 8SM -RA SCT047 OVC060 18/15 A3013 RMK AO2 SLP202 P0003 T01780150 KMTJ 251653Z AUTO 00000KT 10SM SCT027 13/06 A3003 RMK AO2 SLP126 T01280061 EPWR 251700Z 32011KT CAVOK 20/13 Q1011 VOTV 251640Z 30004KT 4000 HZ SCT015 27/24 Q1011 NOSIG LFAT 251700Z AUTO 31007KT 270V340 CAVOK 14/08 Q1019 LELC 251700Z 10005KT 060V150 CAVOK 22/11 Q1016 NOSIG KNLC 251656Z AUTO 30007KT 10SM CLR 22/10 A2992 RMK AO2 SLP132 T02170100 $ LFBL 251700Z AUTO 33010KT 290V010 9999 FEW044 20/10 Q1017 LFBM 251700Z AUTO 30009KT 9999 OVC027 17/12 Q1021 KMSV 251655Z AUTO 22010G20KT 10SM CLR 27/14 A3022 RMK AO1 KMTN 251645Z 14011KT 10SM FEW150 27/19 A3025 KMTO 251701Z AUTO 24009G16KT 10SM SCT024 BKN031 24/20 A3003 RMK AO2 T02390200 KOCF 251650Z 12006KT 10SM SCT060 32//18 A3020 LFBO 251700Z AUTO 29012KT 9999 SCT031 BKN041 BKN058 19/13 Q1019 KMTP 251654Z AUTO 19008KT 19/13 A3029 RMK AO1 SLP255 T01890133 KMSY 251653Z 16011KT 10SM SCT023 SCT130 BKN200 31/23 A3006 RMK AO2 TSB12E34 SLP183 CB DSNT N AND E AND SW-NW T03060233 LFBP 251700Z AUTO 29012KT 250V320 9999 BKN026 17/11 Q1021 KOCH 251655Z AUTO 18010G15KT FEW021 SCT027 BKN035 27/22 A2998 RMK AO1 KMUI 251658Z AUTO 23011G16KT 10SM FEW170 28/15 A3020 RMK AO2 SLP227 T02750148 $ KNKT 251654Z 15007G15KT 10SM CLR 27/12 A3036 RMK AO2 SLP278 T02670122 $ LFBT 251700Z AUTO 29010KT 9999 SCT029 OVC039 17/11 Q1020 LFCK 251700Z AUTO 29010KT 9999 SCT027/// BKN041/// OVC060/// ///CB 17/12 Q1019 LELL 251700Z 10009KT 060V140 CAVOK 21/14 Q1014 LFBU 251700Z AUTO 29015KT 9999 FEW041 20/07 Q1018 KMTV 251655Z AUTO 20005KT 10SM BKN043 26/13 A3034 RMK AO2 T02580132 LEMD 251700Z 02004KT 330V070 9999 FEW080 26/04 Q1016 NOSIG LELN 251700Z 36013KT 300V050 CAVOK 20/08 Q1020 KMVE 251654Z AUTO 30008KT 10SM SCT017 OVC024 17/17 A2971 RMK AO2 KMTW 251656Z AUTO 24018G23KT 10SM FEW025 BKN035 OVC042 22/17 A2974 RMK AO2 SLP838 T02220172 LELO 251700Z VRB10G26KT 9999 FEW030 18/08 Q1021 KMUO 251558Z AUTO 10008KT 10SM FEW120 18/09 A2991 RMK AO2 SLP114 T01790086 $ KNKX 251655Z 27006KT 6SM HZ OVC018 17/13 A3001 RMK AO2 SLP158 T01670133 LFBY 251700Z AUTO 28005KT 240V320 9999 // SCT022/// SCT027/// OVC036/// 17/12 Q1021 LEMG 251700Z 16006KT 110V220 9999 FEW030 SCT080 22/09 Q1017 NOSIG EPZG 251700Z VRB01KT CAVOK 16/14 Q1010 KMVH 251655Z AUTO 11005KT 10SM FEW060 BKN085 16/06 A2995 RMK AO2 KOCQ 251655Z AUTO 17004KT 3SM BKN006 OVC012 18/18 A2968 RMK AO1 T01820182 LFBZ 251700Z AUTO 29010KT 230V330 9999 BKN014 BKN021 OVC036 15/12 Q1022 LEMH 251700Z 01012KT 9999 FEW020 20/12 Q1014 LFCR 251700Z AUTO 03003KT 320V070 9999 FEW034 SCT044 BKN072 16/12 Q1018 KMWA 251653Z 22010KT 20SM OVC018 23/20 A3008 KOEB 251654Z AUTO 21013G25KT 10SM SCT023 OVC029 23/18 A2997 RMK AO2 T02290183 KMUT 251655Z AUTO 21015G20KT 10SM SCT024 SCT029 24/17 A2989 RMK AO2 KMVL 251654Z AUTO VRB05KT 10SM OVC065 22/11 A3018 RMK AO2 SLP219 T02220106 TSNO KMWC 251645Z AUTO 23015G21KT 10SM BKN033 22/15 A2982 KNMM 251656Z AUTO 20004KT 10SM -RA FEW085 OVC120 23/19 A3015 RMK AO2 RAB38 SLP218 P0000 T02330194 $ KMVN 251655Z AUTO 19011KT 10SM BKN018 BKN027 OVC033 24/18 A3008 RMK AO1 KOCW 251655Z AUTO 15008G14KT 10SM CLR 26/14 A3035 RMK AO2 T02600141 KODO 251653Z AUTO 07008KT 10SM CLR 22/11 A2995 RMK AO2 SLPNO T02170106 LEMO 251700Z 21010KT 180V270 9999 FEW045 26/10 Q1015 NOSIG KMWH 251652Z VRB04KT 10SM CLR 21/09 A2988 RMK AO2 SLP112 T02060089 KMWK 251655Z AUTO 23005KT BKN043 24/15 A3034 RMK AO2 T02380147 PWINO KMWL 251653Z AUTO 15014G19KT 10SM SCT028 OVC038 26/21 A2984 RMK AO2 SLP093 T02560206 KMWM 251654Z AUTO 21011G18KT 10SM OVC029 18/14 A2976 RMK AO2 KMWN 251649Z 27025G31KT 30SM SCT015 BKN030 BKN050 BKN070 BKN150 OVC180 10/05 RMK RAE10 ACSL NE-SW HZ DSNT ALQDS KMXF 251658Z AUTO 13005KT 10SM BKN025 BKN036 28/22 A3017 RMK AO2 CIG 024V037 SLP218 T02780219 KODX 251653Z AUTO 25008KT 210V280 10SM FEW034 19/13 A2976 RMK AO2 SLP072 T01940128 KOFF 251658Z AUTO 19010KT 10SM CLR 23/15 A2979 RMK AO2 SLP086 T02300152 $ KMWO 251655Z AUTO 23015G24KT 10SM BKN024 24/18 A3015 RMK AO2 T02360181 KOEO 251655Z AUTO 22011KT 10SM SCT013 BKN020 OVC027 19/17 A2971 RMK AO2 T01870173 KMVY 251653Z 21011KT 10SM BKN120 19/13 A3029 RMK AO2 SLP257 T01940128 PTKK 251652Z VRB03KT 15SM FEW014 SCT120 OVC280 28/26 A2986 RMK SLP115 T02780256 KNPA 251656Z AUTO 17011KT 7SM -RA FEW014 SCT044 BKN060 27/24 A3013 RMK AO2 RAB34 SLP205 P0000 T02670244 $ KOGA 251655Z AUTO 27008KT 10SM SCT022 BKN037 OVC060 16/11 A2981 RMK AO2 T01560114 LFGA 251700Z AUTO 27010KT 9999 ///TCU 16/10 Q1014 LEPA 251700Z 07016KT 9999 FEW025 24/10 Q1014 NOSIG KMWT 251653Z AUTO VRB04KT 10SM OVC013 22/19 A3000 RMK AO2 SLP149 T02220189 $ KOGB 251653Z AUTO 13008KT 10SM SCT037 OVC050 27/16 A3030 RMK AO2 SLP260 T02670161 KOFK 251656Z AUTO 20008KT 10SM CLR 21/14 A2977 RMK AO2 SLP073 T02110144 KOGD 251653Z AUTO 00000KT 10SM FEW033 OVC065 16/08 A2998 RMK AO2 SLP119 T01560078 TSNO KMYF 251653Z 26004KT 4SM -RA BR BKN007 OVC012 15/14 A3002 RMK AO2 SLP162 P0001 T01500139 KMXO 251655Z AUTO 22013G19KT 10SM BKN017 BKN025 22/19 A2984 RMK AO2 KOFP 251654Z AUTO 20011G18KT 10SM CLR 27/14 A3031 RMK AO2 SLP261 T02720144 PTKR 251650Z 00000KT 15SM FEW017 SCT300 27/23 A2987 RMK SLP114 T02720233 KNQA 251650Z 14005KT 10SM SCT015 BKN023 OVC029 24/21 A3008 LDZA 251700Z 23007KT 9999 -RA FEW015 15/13 Q1010 NOSIG LFGJ 251700Z AUTO 27005KT 9999 FEW024 BKN046 BKN056 18/12 Q1015 KMYL 251651Z AUTO 18005KT 10SM FEW055 14/06 A2994 RMK AO2 SLP109 T01390061 LDZD 251700Z VRB01KT 9999 FEW033 15/13 Q1012 NOSIG KNOW 251655Z AUTO 00000KT 10SM OVC009 11/09 A3000 RMK AO2 T01110086 LEPP 251700Z 35018KT 9999 FEW022 BKN032 14/08 Q1021 ESCF 251650Z AUTO 18007KT 9999 FEW040/// OVC056/// 13/08 Q1008 KMYP 251652Z AUTO 25013G17KT OVC001 M01/M02 A3026 RMK AO2 PWINO KMZG 251655Z AUTO 14015G24KT 10SM SCT017 SCT029 28/25 A2992 RMK A01 KMZH 251656Z AUTO 05005KT 10SM OVC004 13/12 A2967 RMK AO2 KMYR 251645Z 15011KT 10SM SCT030 26/16 A3035 KNQI 251656Z AUTO 14019G25KT 10SM BKN023 BKN030 OVC060 29/27 A2986 RMK AO2 PK WND 15028/1620 RAE18 SLP109 P0000 T02940267 TSNO $ GABS 251700Z 04008KT 340V080 9999 SCT026 FEW033CB BKN230 40/12 Q1010 TEMPO TS KNRB 251652Z AUTO 12012KT 10SM CLR 29/23 A3024 RMK AO2 SLP239 T02890228 PWINO $ KMYV 251653Z AUTO 17006KT 10SM CLR 18/10 A2993 RMK AO2 SLP137 T01830100 ESDF 251650Z 19003KT 150V210 9999 -SHRA FEW025 BKN063 12/10 Q1010 FJDG 251655Z 15005KT 9999 FEW020 SCT050 BKN080 27/23 A2991 RMK SLP125 T2 SET T02710231 KMYZ 250753Z AUTO 00000KT 3SM +TSRA SCT011 SCT036 BKN080 15/15 A2980 RMK AO2 P0008 LTG DSNT SW AND NW WIBB 251630Z 00000KT 6000 SCT017 25/23 Q1011 NOSIG LERI 251700Z 11008KT 090V180 CAVOK 25/06 Q1015 NOSIG LESA 251700Z 07008KT 030V110 9999 FEW045 23/03 Q1018 KOJA 251655Z AUTO 19008KT 10SM OVC018 21/19 A2989 RMK AO2 LTG DSNT SW KOJC 251700Z 18016G20KT 10SM BKN023 23/18 A2989 RMK AO2 T02330183 LGAD 251650Z 27007KT 9999 FEW020 21/12 Q1012 KNSE 251656Z AUTO 18018G21KT 10SM FEW022 SCT029 BKN050 29/23 A3014 RMK AO2 TSE05B17E32 SLP190 T02940228 $ KPAE 251653Z 18006KT 10SM OVC013 12/09 A3002 RMK AO2 SLP164 T01220089 KNQX 251653Z AUTO 10015KT 10SM FEW022 FEW037 29/25 A3013 RMK AO2 RAB21E33 SLP200 P0008 T02940250 TSNO $ KPAH 251653Z 17010KT 10SM BKN019 OVC027 23/19 A3009 RMK AO2 SLP186 T02280194 KMZZ 251655Z AUTO 21023G30KT 7SM OVC026 23/16 A3006 RMK AO2 T02270163 FIMP 251700Z 33004KT 9999 FEW020 FEW050 20/18 Q1019 KNSI 251657Z AUTO 28014KT 10SM OVC012 A3001 RMK AO2 SLPNO $ FIMR 251500Z 12007KT 9999 FEW030 21/17 Q1018 KNRS 251656Z AUTO 27006KT 10SM BKN017 OVC026 17/13 A3002 RMK AO2 SLP166 T01720128 PNO $ LERS 251700Z 21015KT 160V250 CAVOK 23/12 Q1013 LERT 251700Z 20011KT 160V230 9999 FEW049 21/15 Q1016 NOSIG KOKB 251652Z AUTO 21006KT 8SM OVC021 18/13 A3000 RMK AO2 SLP157 T01780128 $ LFKB 251700Z 16006KT 9999 FEW026 22/10 Q1011 NOSIG LGAL 251650Z 26007KT 9999 FEW020 23/14 Q1007 KOKC 251652Z 18017KT 10SM FEW022 BKN200 25/19 A2989 RMK AO2 SLP110 T02500189 LFKC 251700Z 04007KT 010V070 9999 FEW046 21/11 Q1011 NOSIG LFJL 251700Z AUTO 32006KT 9999 -RADZ FEW028/// BKN035/// BKN042/// ///CB 13/10 Q1015 KPAM 251658Z AUTO 16014G20KT 10SM FEW170 30/24 A3016 RMK AO2 SLP216 T03020237 $ KNTD 251656Z AUTO 19010KT 10SM OVC022 19/12 A3000 RMK AO2 SLP160 T01890122 $ KPAN 251655Z AUTO VRB04G12KT 10SM FEW070 BKN090 17/03 A3009 RMK AO2 KPAO 251647Z VRB06KT 10SM OVC020 15/11 A2998 KPBF 251653Z AUTO 18009KT 10SM OVC024 24/20 A3004 RMK AO2 SLP171 T02440200 LFKF 251700Z AUTO 21009KT 170V250 9999 NCD 22/11 Q1011 LESO 251700Z 26005KT 210V020 9999 FEW014 OVC034 16/13 Q1022 KPBG 251653Z AUTO 13006KT 10SM -RA OVC090 16/12 A3014 RMK AO2 RAE30B51 SLP207 P0001 T01610117 KPBH 251655Z AUTO 23008KT 2SM RA OVC005 16/16 A2968 RMK AO2 P0001 T01630161 KPBI 251653Z 13017G22KT 10SM BKN025 BKN250 31/23 A3019 RMK AO2 SLP222 T03060228 LFJR 251700Z AUTO 33007KT 280V010 9999 BKN044 19/10 Q1018 LFKJ 251700Z AUTO 22005KT CAVOK 20/13 Q1012 WIDD 251630Z AUTO 00000KT 9999NDV FEW050 25/25 Q1012 METAR WAAA 251630Z 18005KT 140V200 8000 FEW020 25/25 Q1012 NOSIG KOKK 251655Z AUTO 22019G33KT 10SM SCT027 SCT034 BKN060 25/18 A3003 RMK AO1 LFLB 251700Z AUTO 35009KT 9999 BKN060 BKN072 BKN092 19/10 Q1014 LEST 251700Z 02016G26KT 340V050 9999 FEW028 19/12 Q1022 NOSIG LESU 251600Z 32014KT 290V350 9999 SCT075 20/05 Q1017 LETL 251700Z AUTO 05005KT 020V110 CAVOK 20/04 Q1018 LGBL 251650Z 31005KT 9999 FEW030 26/06 Q1007 LFLC 251700Z 01005KT 340V040 9999 SCT033 SCT056 18/12 Q1016 NOSIG PTPN 250255Z 30005KT 10SM -SHRA BKN017CB BKN120 OVC280 28/25 A2984 RMK CB SE-SW MOV E LAST LGAV 251650Z 21012KT 9999 FEW025 21/11 Q1010 NOSIG KOKM 251655Z AUTO 21014G25KT 10SM SCT024 BKN030 BKN035 25/20 A2992 RMK AO2 P0001 T02530203 KOLE 251655Z AUTO 23009G16KT 10SM SCT048 SCT050 BKN110 25/13 A3016 RMK AO2 LETO 251700Z 03005KT 350V080 9999 FEW065 26/04 Q1016 NOSIG KOLF 251653Z AUTO 10SM CLR 23/07 A2987 RMK AO2 SLP113 T02280072 KOLG 251655Z AUTO 03003KT 10SM OVC005 15/13 A2967 RMK AO1 ESGG 251650Z 24010KT 9999 FEW031 SCT045 11/05 Q1009 KNUI 251653Z AUTO 19010KT 10SM CLR 27/15 A3029 RMK AO2 SLP256 T02720150 $ KOMA 251652Z 21010KT 10SM SCT036 SCT100 SCT200 23/14 A2979 RMK AO2 SLP080 T02280144 LFKS 251700Z AUTO 18010KT 9999 NSC 20/13 Q1011 ESGJ 251650Z 25008KT 9999 FEW048 SCT062 12/02 Q1008 WIEE 251600Z 35006KT 6000 R33/M0050N SCT020 24/22 Q1012 KNTU 251656Z 21010G19KT 10SM FEW047 BKN280 28/16 A3032 RMK AO2 SLP271 T02830156 KPDC 251655Z AUTO 22010G14KT 10SM BKN020 OVC026 21/17 A2980 RMK AO2 T02130169 LFMC 251700Z AUTO 08009KT 9999 ////// 23/11 Q1010 LFLL 251700Z 35010KT 9999 FEW026 BKN080 19/10 Q1015 NOSIG LEVC 251700Z 13007KT 9999 FEW030 24/07 Q1015 NOSIG LEVD 251700Z 06011KT 020V090 CAVOK 22/04 Q1019 KOLM 251654Z 20006KT 10SM OVC019 13/08 A3003 RMK AO2 SLP167 T01280083 KPCM 251655Z AUTO 13007KT 095V165 10SM BKN042 BKN049 32/22 A3020 RMK AO2 KOKV 251655Z AUTO 16009G17KT 10SM CLR 28/10 A3022 RMK AO2 LFMD 251700Z AUTO VRB05KT CAVOK 19/15 Q1011 LFLN 251700Z AUTO 01003KT 350V050 9999 ///CB 17/14 Q1016 KPBX 251655Z AUTO 19005KT 10SM CLR 27/15 A3023 RMK AO2 T02720149 LFLP 251700Z AUTO 14005KT 070V210 9999 FEW060 SCT120 BKN170 16/10 Q1015 ESGP 251650Z 27010KT CAVOK 11/05 Q1010 KNUQ 251656Z 00000KT 10SM OVC020 16/10 A2999 RMK AO2 SLP156 T01560100 KOKZ 251655Z AUTO 00000KT 10SM SCT043 BKN065 BKN075 28/19 A3027 RMK AO2 T02750185 KOMH 251655Z AUTO 18011G19KT 10SM CLR 27/15 A3028 RMK AO2 LFMH 251700Z AUTO 02006KT 350V050 9999 BKN042/// BKN056/// BKN072/// ///TCU 17/11 Q1016 PTSA 250350Z 05008KT 10SM BKN021 BKN130 BKN300 31/24 A2983 LAST LFMI 251700Z AUTO 35019KT CAVOK 26/06 Q1010 ESGR 251650Z AUTO 24007KT 200V280 9999 SCT053/// OVC072/// 14/02 Q1008 KONA 251653Z AUTO 27006KT 10SM SCT021 BKN030 OVC035 21/16 A2974 RMK AO2 KOLS 251654Z AUTO 17007KT 10SM CLR 23/02 A3003 RMK AO2 SLP118 T02280017 KPEA 251655Z AUTO 22010G14KT 10SM CLR 24/19 A2985 RMK AO2 T02350187 LFLS 251700Z AUTO 35011KT 310V010 9999 FEW049 OVC092 17/09 Q1015 KPDK 251653Z 14007KT 8SM BKN029 OVC035 25/18 A3027 RMK AO2 SLP237 T02500183 KOMK 251653Z AUTO 35011KT 10SM CLR 18/08 A2989 RMK AO2 SLP118 T01780078 KNY0 251700Z AUTO 11005KT 10SM BKN110 22/12 A3017 RMK AO2 T02230115 LFMK 251700Z AUTO 30012KT 9999 OVC074 19/12 Q1017 LFLU 251700Z AUTO 36019KT CAVOK 21/08 Q1013 ESIB 251650Z AUTO 25014KT 9999 BKN041/// OVC056/// 12/06 Q1008 ESGT 251650Z 25013KT 9999 SCT035 12/04 Q1009 KOLU 251655Z AUTO 23012G15KT 10SM CLR 22/12 A2981 RMK AO1 LFML 251700Z 32020KT CAVOK 26/07 Q1010 NOSIG KOLV 251650Z 16007KT 10SM SCT013 OVC021 23/23 A3010 KOMN 251650Z 12010G15KT 10SM SCT025 28/22 A3022 LFLW 251700Z AUTO VRB03KT 9999 FEW032/// SCT040/// BKN049/// ///TCU 14/11 Q1017 PTRO 251653Z 00000KT 14SM SCT016 BKN300 24/23 A2988 KPCW 251652Z AUTO 22015G26KT 10SM CLR 27/18 A3003 RMK AO2 T02660177 PK KNUW 251656Z AUTO 31003KT 9SM OVC006 12/11 A3005 RMK AO2 CIG 001 SLP174 T01220106 $ LFMN 251630Z 16005KT 9999 FEW040 BKN100 18/14 Q1011 NOSIG LFMO 251700Z AUTO 35022KT CAVOK 25/07 Q1011 LFLX 251700Z AUTO 32007KT CAVOK 19/12 Q1017 KOLY 251655Z AUTO 18008G15KT 10SM BKN019 BKN024 OVC031 23/19 A3008 RMK AO2 LFMP 251700Z AUTO 31021KT CAVOK 22/10 Q1015 LFLY 251700Z AUTO 36007KT CAVOK 19/10 Q1015 KPCZ 251655Z AUTO 21010G14KT 10SM SCT015 BKN023 OVC046 21/19 A2974 RMK AO2 T02090194 KOLZ 251655Z AUTO 23015G24KT 10SM SCT018 BKN024 OVC035 21/18 A2982 RMK AO2 LEVS 251700Z VRB02KT 9999 SCT050 28/03 Q1016 KOOA 251655Z AUTO 18013KT 10SM CLR 22/17 A2986 RMK AO2 T02200173 LFOA 251700Z AUTO 34006KT 9999 FEW040/// BKN090/// ///CB 19/12 Q1016 KPDT 251653Z 28008KT 10SM CLR 16/07 A2993 RMK AO2 SLP125 T01560072 LFMT 251700Z 32018KT CAVOK 25/10 Q1011 NOSIG LFOB 251700Z AUTO 33013KT 9999 SCT039 OVC096 16/07 Q1018 LEVT 251700Z 01011KT 9999 SCT024 BKN032 14/10 Q1022 LGEL 251650Z 21008KT 9999 FEW025 24/09 Q1009 KONL 251655Z AUTO 13008KT 10SM SCT010 BKN018 BKN023 19/17 A2976 RMK AO2 P0001 T01850169 LFOC 251700Z AUTO 35013KT 330V030 9999 FEW035 OVC066 17/10 Q1017 LFMU 251700Z AUTO 30019KT CAVOK 23/10 Q1014 KONM 251655Z AUTO CLR 19/03 A2998 RMK AO2 T01920025 LFMV 251700Z AUTO 35018KT CAVOK 25/07 Q1010 ETAD 251706Z AUTO 34004KT 9999 SCT036 SCT045 14/10 A2995 RMK AO2 LFOE 251700Z AUTO 34008KT 310V050 CAVOK 15/06 Q1018 KONO 251653Z AUTO 00000KT 10SM FEW100 20/10 A2989 RMK AO2 SLP111 T02000100 KPDX 251653Z 00000KT 10SM FEW015 OVC030 14/09 A3005 RMK AO2 SLP175 T01390089 KPEO 251653Z AUTO 21011KT 10SM CLR 29/13 A3010 RMK AO2 SLP184 T02890133 KNXF 251656Z AUTO 17008KT 6SM HZ OVC020 17/13 A3001 RMK AO2 SLP247 T01670133 $ LEVX 251700Z 36017KT 330V030 CAVOK 24/13 Q1019 NOSIG RCKH 251700Z VRB02KT 2200 -SHRA FEW010 SCT020 BKN045 25/25 Q1010 NOSIG RMK A2984 KONP 251655Z AUTO 33005KT 10SM BKN018 11/10 A3009 RMK AO2 LFMY 251700Z AUTO 33019KT CAVOK 25/07 Q1010 KPEQ 251655Z AUTO 00000KT 10SM CLR 27/02 A2991 RMK AO2 T02680022 LFOH 251700Z AUTO 30008KT 270V330 CAVOK 13/08 Q1020 LEXJ 251700Z 29006KT 260V330 9000 4000NE FEW011 SCT018 BKN026 15/13 Q1023 KPGA 251653Z AUTO 02006KT 10SM CLR 18/08 A2999 RMK AO2 SLP110 T01780083 TSNO LFOJ 251700Z AUTO 34017KT 9999 NSC 18/10 Q1017 KONT 251653Z 4SM HZ OVC017 16/11 A3000 RMK AO2 SLP153 T01610111 $ LFOK 251700Z AUTO 34011KT 9999 SCT036 BKN054 BKN068 17/11 Q1015 LFPB 251700Z AUTO 34011KT 270V040 9999 FEW045 OVC100 18/07 Q1017 KNYC 251651Z AUTO 10SM CLR 29/14 A3024 RMK AO2 SLP231 T02890139 LFPC 251700Z AUTO 33013KT 9999 FEW044 OVC096 16/06 Q1017 KPGD 251653Z 11011KT 10SM SCT041 32/21 A3016 RMK AO2 SLP215 T03170211 WIHH 251000Z 03006KT 5000 HZ FEW018 31/24 Q1011 NOSIG PTTP 251650Z 14002KT 15SM FEW018 FEW300 24/24 A2989 RMK SLP122 T02420237 KOPF 251653Z 13014KT 10SM SCT031 31/23 A3017 RMK AO2 LTG DSNT N SLP216 T03110228 KPEX 251654Z AUTO 18011KT 10SM SCT013 BKN019 OVC030 16/14 A2969 RMK AO2 T01570139 KONX 251655Z AUTO 21006KT 10SM CLR 26/13 A3036 RMK AO2 T02630127 VQPR 250950Z 14018KT 9999 SCT040 25/07 Q1012 NOSIG KNXP 251656Z 00000KT 10SM CLR 24/05 A2998 RMK AO2 SLP119 T02440050 KNYG 251656Z AUTO 20014KT 10SM CLR 27/14 A3027 RMK AO2 SLP249 T02720144 LFPG 251700Z 34014KT 320V020 CAVOK 16/06 Q1017 NOSIG LFOP 251700Z AUTO 36009KT 340V040 9999 SCT038 BKN070 OVC080 14/05 Q1019 KONZ 251654Z AUTO 19013G16KT 10SM BKN047 BKN050 24/18 A2998 RMK AO2 KPEZ 251655Z AUTO 15009G16KT 10SM SCT021 BKN027 OVC060 27/23 A2988 RMK AO2 T02660227 ETAR 251658Z AUTO 09002KT 9999 SCT060 BKN080 14/11 A2993 RMK AO2 RAE19 SLP139 P0001 T01360114 $ LFQA 251700Z AUTO 34014KT 9999 FEW037 SCT044 OVC120 16/09 Q1016 LFQB 251700Z AUTO 33007KT 9999 VCTS ///CB 17/13 Q1015 LFOT 251700Z AUTO 31010KT 260V340 CAVOK 19/09 Q1017 KOPL 251655Z AUTO 16006KT 10SM SCT029 BKN037 BKN048 A3004 RMK AO2 KNYL 251657Z AUTO 18008KT 10SM CLR 28/08 A2989 RMK AO2 SLP117 T02830078 $ KPHD 251653Z AUTO 20009KT 160V230 10SM FEW060 SCT100 27/15 A3016 RMK AO2 SLP207 T02720150 LFPM 251700Z AUTO 33015KT 9999 FEW040 18/09 Q1016 LFOV 251700Z AUTO 33010KT 290V360 9999 BKN033 BKN044 BKN050 17/10 Q1019 KOPN 251655Z AUTO 14006KT 7SM RA BKN024 OVC055 25/22 A3028 RMK AO2 LFPN 251700Z AUTO 34014KT 9999 FEW040 BKN094 17/08 Q1017 LFPO 251700Z 35014KT 320V020 9999 FEW043 BKN096 18/08 Q1017 NOSIG ESKN 251650Z 22011KT 200V260 9999 VCSH SCT030CB BKN070 14/07 Q1008 KPHF 251654Z 18013KT 10SM FEW044 29/16 A3032 RMK AO2 SLP267 T02940161 LFQG 251700Z AUTO 36004KT 320V040 9999 FEW046/// BKN092/// BKN120/// ///CB 19/12 Q1015 WIII 251630Z 20005KT 2900 BR FEW020 27/22 Q1013 NOSIG LEZG 251700Z 31023G33KT 280V340 9999 FEW050 21/07 Q1016 LGHI 251650Z 20008KT 160V240 CAVOK 22/15 Q1009 KPIA 251654Z 26013KT 10SM SCT028 BKN035 BKN043 24/17 A2996 RMK AO2 SLP141 T02440167 $ KORB 251641Z AUTO 11000KT 10SM CLR 16/12 A2974 RMK AO2 KPIB 251655Z AUTO 16010KT 10SM CLR 24/19 A3013 RMK AO1 LFRB 251700Z 33010KT 300V360 9999 SCT017 OVC023 13/09 Q1022 NOSIG LFPT 251700Z AUTO 34012KT 9999 NSC 15/06 Q1018 GAMB 251500Z 36006KT 9999 FEW030 BKN250 42/13 Q1009 KPHL 251654Z 20016KT 10SM FEW060 SCT250 29/13 A3024 RMK AO2 SLP240 T02940133 $ KORC 251655Z AUTO 25008KT 10SM BKN021 18/15 A2977 RMK AO2 LFRC 251700Z AUTO 28009KT 260V320 CAVOK 13/09 Q1020 LEZL 251700Z 16003KT 110V220 CAVOK 28/04 Q1014 NOSIG KORD 251700Z 21010KT 6SM -RA BR SCT012 BKN018 OVC100 21/19 A2987 RMK AO2 P0001 T02060189 KPGV 251655Z AUTO 16006G14KT 10SM CLR 27/13 A3034 RMK AO2 LFPV 251700Z AUTO 33009KT 280V020 9999 FEW040 BKN092 16/07 Q1017 LFRD 251700Z AUTO 33013KT 9999 BKN012 OVC038 14/10 Q1021 KORE 251652Z AUTO 18008KT 10SM BKN100 OVC120 20/12 A3023 RMK AO2 SLP236 T02000122 KPIE 251653Z 10009KT 10SM FEW040 31/21 A3017 RMK AO2 SLP214 T03060211 $ KPHN 251656Z AUTO 21013G23KT 10SM SCT035 BKN100 25/17 A2998 RMK AO2 KORF 251651Z AUTO 20009G17KT 10SM CLR 28/13 A3032 RMK AO2 SLP268 T02780133 TSNO RCMQ 251700Z 16002KT 3200 BR FEW010 BKN040 23/22 Q1010 RMK A2983 KPHP 251655Z AUTO 06006KT 10SM FEW018 OVC025 16/11 A2980 RMK AO2 SLP081 T01610111 KORG 251655Z AUTO 14011G17KT 10SM SCT025 SCT032 29/22 A3002 RMK AO2 T02930218 LFRG 251700Z AUTO 36006KT 260V030 9999 FEW048 SCT060 13/07 Q1020 GAKY 251500Z 06006KT CAVOK 42/09 Q1009 KPIH 251653Z 26010KT 10SM FEW060 SCT080 16/09 A2997 RMK AO2 SLP122 T01560089 $ KORH 251654Z 21008KT 10SM BKN100 OVC120 22/11 A3025 RMK AO2 SLP241 T02170111 LFQQ 251700Z 34011KT 300V010 9999 SCT036 SCT049 13/04 Q1018 NOSIG LFRH 251700Z AUTO 32013KT 9999 OVC036 18/09 Q1021 LFRI 251700Z AUTO 31010KT 280V340 9999 FEW024 BKN042 20/11 Q1019 KOSA 251655Z AUTO 17007KT 10SM SCT024 SCT034 BKN075 27/21 A2999 RMK AO1 T02730211 LFRJ 251700Z AUTO 33010KT 9999 BKN014 BKN019 OVC025 13/10 Q1022 KOQT 251653Z AUTO 22007KT 180V260 10SM SCT050 28/14 A3024 RMK AO2 SLP227 T02780144 KPHT 251655Z AUTO 15009KT 10SM BKN012 OVC044 19/19 A3013 RMK LFSB 251700Z 28010KT 9999 -SHRA FEW028 FEW033TCU SCT060 BKN080 16/11 Q1014 TEMPO 29015G25KT LFRK 251700Z AUTO 35008KT 330V040 9999 SCT048 BKN054 OVC064 15/06 Q1020 KOQU 242150Z 24017KT 15SM BKN250 22/09 A3022 RMK LAST ESMK 251650Z 32006KT 9999 BKN018 11/08 Q1010 KORL 251653Z 29003KT 10SM FEW031 SCT043 BKN055 26/23 A3021 RMK AO2 LTG DSNT S RAB04E43 SLP233 P0024 T02610233 KOSC 251653Z AUTO 19007KT 10SM -RA OVC100 22/17 A2987 RMK AO2 T02240170 KPIL 251706Z AUTO 15021G27KT 7SM SCT020 SCT024 29/24 A2986 RMK AO2 PK WND 16027/1706 T02890244 ETEB 251658Z AUTO 17001KT 9999 -RA FEW060 13/13 A2991 RMK AO2 RAE47DZB47E50RAB50 SLP140 T01250125 LFRL 251700Z AUTO 32010KT 9999 OVC023 14/10 Q1022 RCNN 251700Z 00000KT 3200 BR SCT008 BKN021 BKN040 25/23 Q1009 RMK A2982 LFSD 251700Z AUTO VRB01KT 9999 FEW043 BKN130 19/11 Q1015 LFRM 251700Z AUTO 34009KT 280V030 9999 FEW041 OVC056 19/09 Q1018 LFRN 251700Z AUTO 34012KT 9999 FEW035 OVC042 17/10 Q1020 LGIO 251650Z 29008KT 9999 SCT035 18/10 Q1012 KPHX 251651Z 32004KT 10SM FEW100 FEW200 26/06 A2992 RMK AO2 SLP115 T02610061 LFRO 251700Z AUTO 30011KT 9999 BKN013 OVC024 13/10 Q1022 KNZY 251652Z 27006KT 6SM -DZ BR BKN015 OVC026 17/13 A3000 RMK AO2 SLP160 P0000 T01670128 $ LFSG 251700Z AUTO VRB04KT 9999 SCT018/// SCT023/// BKN130/// ///CB 15/11 Q1015 ESNG 251650Z 12004KT CAVOK 12/M04 Q1008 KOSH 251653Z 23010G17KT 10SM BKN044 22/17 A2975 RMK AO2 SLP065 T02170167 LFRQ 251700Z AUTO 33012KT 9999 OVC032 15/11 Q1022 LGIR 251650Z 03002KT 9999 FEW020 21/15 Q1012 NOSIG ESMQ 251650Z 18005KT 9000 BR NSC 13/11 Q1009 KPIR 251653Z AUTO 03006KT 10SM BKN017 BKN021 OVC026 16/13 A2977 RMK AO2 SLP079 T01560128 PTYA 251652Z 00000KT 12SM SCT016 SCT130 BKN300 26/25 A2986 RMK SLP113 T02610247 LFSI 251700Z AUTO 00000KT 9999 FEW046/// BKN066/// OVC086/// ///CB 14/12 Q1015 KORS 251655Z AUTO 19006G14KT 10SM SCT020 BKN030 OVC036 12/09 A2998 RMK AO2 KQAJ 251655Z AUTO 17014KT 9999 FEW140 36/02 A2981 RMK AO2 SLP083 T03600020 $ LFRS 251700Z 33008KT 280V030 CAVOK 21/10 Q1019 NOSIG LFRT 251700Z AUTO 32010KT 290V360 9999 BKN032 BKN045 15/09 Q1021 KPIT 251651Z 24012G18KT 10SM FEW065 BKN120 BKN250 27/13 A3018 RMK AO2 SLP218 T02720133 ESMS 251650Z 36005KT 9999 BKN030 BKN042 OVC059 10/08 Q1011 KPKB 251653Z 23008KT 10SM BKN065 BKN100 27/14 A3021 RMK AO2 RAB31E41 SLP224 P0000 T02670144 LFRU 251700Z AUTO 33008KT 9999 BKN013 OVC021 13/10 Q1022 LGKC 250950Z /////KT CAVOK 20/14 Q1013 ESNK 251650Z AUTO 13008KT 9999 OVC014/// 10/07 Q1007 ESMT 251650Z 27007KT 9999 FEW049 BKN091 11/06 Q1010 LHBC 251445Z 18004KT 9999 SCT020TCU BKN083 18/14 Q1008 LFSL 251700Z AUTO 29008KT 240V330 9999 FEW037 SCT086 BKN100 20/11 Q1017 ESNL 251650Z AUTO VRB02KT 9999 OVC018/// 08/05 Q1008 KPKD 251702Z AUTO 02012G21KT 2 1/2SM RA BR FEW013 BKN048 OVC070 14/12 A2972 RMK AO2 P0002 T01440122 LFRV 251700Z AUTO 35009KT 9999 OVC040 18/10 Q1020 LFSN 251700Z AUTO 31009G19KT 260V350 9999 SCT027/// BKN036/// BKN043/// ///CB 15/09 Q1015 LFSO 251700Z AUTO 34012KT 9999 -RA FEW020/// SCT034/// BKN047/// ///CB 12/09 Q1015 KQBF 251655Z AUTO 11008KT 10SM CLR 40/10 A2996 RMK AO2 SLP120 T03960097 $ LGKF 251650Z 32008KT 9999 FEW020 22/14 Q1012 ESNN 251650Z 09005KT 9999 FEW012 OVC066 09/07 Q1007 ESOE 251650Z 22011KT CAVOK 15/04 Q1007 ESMX 251650Z 20003KT 170V240 9999 BKN035 11/08 Q1010 ESNO 251650Z 11005KT 8000 -DZ OVC005 07/06 Q1008 KOTG 251655Z AUTO 23011KT 10SM SCT017 BKN025 OVC030 17/13 A2977 RMK AO1 KS25 251655Z AUTO 10003KT 10SM CLR 19/09 A2987 RMK AO2 KOTH 251655Z 01004KT 10SM OVC013 12/09 A3006 RMK AO1 LFRZ 251700Z AUTO 29010KT 260V320 9999 FEW038 SCT044 OVC050 19/11 Q1019 LFTH 251700Z AUTO 12005KT 080V170 CAVOK 20/14 Q1010 ESNQ 251650Z 28002KT CAVOK 09/M04 Q1008 GANR 251500Z 36008KT CAVOK 41/01 Q//// ESPA 251650Z 19006KT 160V220 CAVOK 09/02 Q1010 ESNS 251650Z 12005KT 9999 SCT038 BKN060 09/05 Q1009 LFST 251700Z AUTO 30007KT 270V330 9999 BKN039/// BKN047/// BKN058/// ///TCU 15/11 Q1014 LGKL 251650Z 01004KT 9999 FEW030 22/11 Q1012 ESOK 251650Z 18012KT 9999 FEW030 SCT060 BKN090 13/05 Q1006 KQBL 251656Z AUTO 14003KT 10SM FEW010 BKN013 29/25 A3016 RMK AO2 LTG DSNT N-NE SLP218 T02870250 KOSU 251653Z 24023G28KT 10SM -RA FEW041 SCT095 BKN110 27/16 A3011 RMK AO2 PK WND 23034/1604 RAB18E27B53 SLP189 P0000 T02670156 ESNU 251650Z 14005KT 9999 SCT005 BKN007 OVC011 07/06 Q1009 RERA KOTM 251653Z AUTO 17013KT 10SM CLR 23/18 A2986 RMK AO2 PK WND 21026/1554 SLP106 T02280183 LGKO 251650Z 20006KT 9999 SCT018 19/15 Q1011 ESPE 251650Z AUTO 16005KT 120V180 9999 FEW096/// SCT120/// 13/M00 Q1008 LFSX 251700Z AUTO 34003KT 270V020 9999 BKN014 BKN019 BKN034 15/12 Q1015 LGKP 251650Z 22007KT CAVOK 21/15 Q1012 ESNX 251650Z AUTO 17004KT 9999NDV SCT048/// OVC074/// 09/03 Q1008 KQAY 251655Z AUTO 13001KT 9999 CLR 35/03 A2979 RMK AO2 SLP084 T03460028 $ LHBP 251700Z 31009KT 9999 VCSH FEW029TCU SCT042 BKN200 18/15 Q1007 NOSIG ETGG 251620Z 28019KT 9999 SCT025 SCT060 14/07 Q1012 BLU+ LGKR 251650Z 27008KT 9999 FEW025 22/14 Q1011 NOSIG ESNZ 251650Z 36006KT 9999 SCT020 BKN025 OVC051 10/04 Q1005 ETHA 251620Z AUTO 26011KT //// // ////// 14/07 Q1013 /// VRMM 251600Z 24008KT 9999 FEW018TCU BKN270 30/25 Q1012 NOSIG WIMM 251630Z 22003KT 6000 -RA FEW017CB BKN018 24/25 Q1011 KS39 251655Z AUTO 00000KT 10SM CLR 14/03 A2998 RMK AO2 ETHB 251620Z AUTO 02007KT //// // ////// 15/05 Q1014 /// KQCL 251655Z AUTO 31008G17KT 9999 CLR 26/M15 A2983 RMK AO2 SLP025 T02561147 $ LHDC 251645Z 16005KT 9999 SCT040 BKN083 17/16 Q1008 RESHRA ETHC 251620Z 28010KT 9999 BKN060 SCT300 15/05 Q1013 BLU LGKV 251650Z 24006KT 9999 FEW025 23/17 Q1007 LGLM 251650Z 19009KT 9999 FEW018 21/16 Q1008 KPMD 251653Z AUTO 27006KT 10SM CLR 22/07 A2995 RMK AO2 SLP122 T02170072 KPKV 251650Z AUTO 15017G23KT 10SM SCT023 BKN036 OVC050 28/24 A2992 RMK AO2 T02830240 KOVE 251653Z AUTO 15008KT 10SM CLR 19/11 A2994 RMK AO2 SLP138 T01890106 KPLN 251654Z AUTO 12006KT 8SM OVC005 18/17 A2981 RMK AO2 RAE12 SLP093 P0000 T01830167 KOUN 251655Z AUTO 17013G16KT 10SM SCT020 SCT028 BKN034 24/20 A2992 RMK AO2 LFTW 251700Z AUTO 34013KT 310V010 CAVOK 25/09 Q1011 ETHE 251620Z AUTO 31007KT //// // ////// 14/04 Q1015 /// ESOW 251650Z 21008KT 9999 FEW046 14/05 Q1008 ETHF 251620Z 34006KT 9999 FEW018 BKN035 BKN110 14/08 Q1013 BLU KQDG 251656Z AUTO 35002KT 0800 FG VV002 11/11 A2981 RMK AO2 VIS 0800V8000 SLP097 T01050107 $ LGKZ 251650Z 27010KT 9999 FEW070 20/05 Q1010 ETGQ 250420Z AUTO 20003KT //// // ////// 12/10 Q1016 /// LGLR 251650Z 25010KT 9999 SCT035 27/03 Q1007 BLU KOWA 251655Z AUTO 22015G18KT 10SM SCT018 BKN031 20/16 A2974 RMK AO2 KPNA 251655Z AUTO 00000KT 10SM SCT021 SCT028 SCT043 10/03 A3002 RMK AO2 KQEB 251655Z AUTO 09007KT 10SM FEW035 SCT044 BKN090 20/14 A3020 RMK AO2 SLP178 T02030138 LGMK 251650Z 20002KT CAVOK 21/14 Q1010 KOWB 251656Z 19015KT 10SM BKN015 OVC027 23/21 A3014 RMK AO2 T02270205 SLP201 KPNC 251706Z AUTO 18009G16KT 10SM BKN028 BKN034 25/20 A2987 RMK AO2 T02500200 KOVL 251653Z AUTO 25010KT 10SM SCT013 OVC023 15/12 A2970 RMK AO2 KPLU 251655Z AUTO 00000KT 10SM OVC017 13/10 A3003 RMK AO2 ETHL 251620Z AUTO 31005KT 7000 // ////// 13/10 Q1013 /// KOWD 251653Z 22009KT 10SM OVC110 26/12 A3022 RMK AO2 SLP233 T02610122 $ ETIC 251658Z AUTO 18002KT 9999 -RA BKN065 11/10 A2990 RMK AO2 RAE22RAB26E37DZB37E39RAB39 SLP129 P0001 KPNE 251654Z AUTO 21014G19KT 10SM CLR 29/12 A3024 RMK AO2 SLP240 T02940117 TSNO ETHN 251620Z 09002KT 9999 FEW008 SCT045 BKN110 14/10 Q1013 BLU LFVP 251700Z 21013KT 9999 FEW010 09/06 Q1021 NOSIG KPMP 251653Z 09015KT 10SM FEW018 31/23 A3017 RMK AO2 LTG DSNT W SLP217 T03060233 KQEI 251700Z AUTO 09001KT 9999 CLR 16/10 A2988 RMK A02 TSNO ETIH 251658Z AUTO 32003KT 9999 -RA OVC055 13/10 A2993 RMK AO2 RAB32 SLP137 KQEJ 251700Z AUTO 18001KT 9999 CLR 14/10 A2983 RMK A02 TSNO KQFA 251655Z AUTO VRB03KT 9999 CLR 13/11 A2984 RMK AO2 SLP103 T01290110 $ KOVS 251653Z AUTO 22009KT 10SM FEW015 BKN026 OVC036 22/18 A2979 RMK AO2 RAB1557E16 SLP088 P0001 T02170183 PWAK 251703Z AUTO 06011KT 9999 BKN019 BKN024 26/23 A2998 RMK AO2 $ ETHS 251620Z 33011KT 9999 FEW038 BKN055 14/05 Q1013 BLU KPOB 251658Z AUTO 23006KT 10SM CLR 27/11 A3032 RMK AO2 SLP269 T02740108 LGMT 251650Z 23006KT 210V310 CAVOK 24/15 Q1010 ESSA 251650Z 18009KT 9999 -DZ BKN049 13/10 Q1008 NOSIG KQFB 251700Z AUTO 29001KT 9999 CLR 17/12 A2988 RMK A02 TSNO KOXB 251653Z AUTO 19009G16KT 170V230 10SM CLR 22/17 A3032 RMK AO2 SLP266 T02170167 TSNO KPOC 251647Z 00000KT 5SM BR OVC015 15/11 A3003 ESSB 251650Z 16008KT 140V200 9999 FEW040 BKN053 13/08 Q1008 KQEL 251700Z AUTO 11002KT 9999 CLR 14/10 A2990 RMK A02 TSNO KOXC 251555Z 22006KT 190V250 10SM FEW030 SCT120 25/16 A3027 ETIK 251658Z AUTO 23001KT 9999 FEW110 14/14 A2991 RMK AO2 RAE02DZB02E04 SLP127 P0000 T01400140 WIOO 251500Z 00000KT 6000 SCT012 26/25 Q1012 NOSIG KPNM 251654Z AUTO 20005KT 10SM SCT008 OVC016 17/16 A2967 RMK AO2 KPMV 251655Z AUTO 19011G18KT 10SM SCT090 22/14 A2981 RMK AO2 T02200137 KPOE 251658Z AUTO 17014KT 10SM SCT027 BKN035 29/23 A3002 RMK AO2 SLP165 T02920229 ESSD 251650Z 22009KT CAVOK 12/05 Q1006 KQEN 251700Z AUTO 9999 CLR M03/M05 / RMK A02 TSNO KPOF 251653Z AUTO 21007KT 10SM FEW016 OVC029 24/20 A3004 RMK AO2 SLP170 T02390200 KQEP 251700Z AUTO 15001KT 9999 CLR 14/08 A2982 RMK A02 TSNO KQFG 251655Z AUTO 28017G27KT 9999 CLR 25/M13 A2978 RMK AO2 SLP044 T02521127 KOWP 251655Z AUTO 19009G16KT 10SM SCT022 OVC034 26/20 A2991 RMK AO2 T02560200 KQEQ 251700Z AUTO 15002KT 2000 BR CLR 13/11 A2973 RMK A02 TSNO RCSS 251700Z 10005KT 9999 FEW020 BKN050 23/19 Q1010 NOSIG RMK A2984 KQER 251700Z AUTO 07001KT 8000 /CLR 14/10 A2984 RMK A02 TSNO KOXI 251655Z AUTO 22016G26KT 5SM BKN039 BKN047 OVC075 23/16 A2993 RMK AO1 LGPA 251650Z AUTO 15004KT 120V220 //// // ////// 21/16 Q1010 RE// KPNS 251653Z 17013G19KT 10SM BKN014 BKN018 BKN024 26/24 A3014 RMK AO2 RAB34E45 SLP206 P0000 T02610244 KPPA 251655Z AUTO 19019G24KT 10SM CLR 18/10 A2991 RMK AO2 LTG DSNT SE AND S T01770099 ESTA 251650Z 26005KT CAVOK 11/07 Q1011 KPNT 251655Z AUTO 22017G25KT 10SM BKN023 OVC032 24/19 A2995 RMK AO2 T02360189 ESSL 251650Z 19006KT 160V230 CAVOK 13/06 Q1008 KQEV 251700Z AUTO 31003KT 4000 HZ CLR 15/12 A2989 RMK A02 TSNO WIPP 251600Z 00000KT 9999 SCT013 27/25 Q1012 NOSIG FKKD 251700Z 22008KT 9999 FEW016 FEW020CB 30/24 Q1009 NOSIG KQEW 251700Z AUTO 16004KT 9999 CLR 20/08 A2984 RMK A02 TSNO RCTP 251700Z 10002KT 9000 FEW020 BKN035 23/21 Q1010 NOSIG RMK A2985 LGNX 251550Z 20010KT 9999 FEW025 22/14 Q1010 KPPF 251701Z AUTO 19013G20KT 10SM SCT021 OVC046 24/20 A2993 RMK AO2 T02440200 KQEX 251700Z AUTO 05003KT 9999 CLR 22/09 A2986 RMK A02 TSNO KQEY 251700Z AUTO 22001KT 9999 CLR 14/09 A2990 RMK A02 TSNO ESSP 251650Z VRB03KT 9999 BKN035 13/08 Q1008 KQFQ 251655Z AUTO VRB03KT 7SM CLR 13/11 A2984 RMK AO2 SLP103 T01300111 $ KOXR 251651Z 18005KT 10SM OVC021 17/11 A2999 RMK AO2 SLP155 T01720111 KOZA 251655Z AUTO 02018G24KT 10SM SCT034 BKN044 21/13 A2994 RMK AO2 LTG DSNT NE AND E KQFT 251700Z AUTO 17003KT 9999 CLR 13/08 A2985 RMK A02 TSNO KQFU 251700Z AUTO 11002KT 9999 CLR 15/10 A2988 RMK A02 TSNO KPOU 251653Z 19006KT 10SM CLR 27/15 A3017 RMK AO2 SLP214 T02720150 FKKL 251600Z 21015KT 9999 TS FEW040 SCT050CB BKN210 25/20 Q1008 RERA KQFV 251700Z AUTO 14001KT 9999 CLR 12/08 A2986 RMK A02 TSNO ESTL 251650Z AUTO 29005KT 9999NDV FEW014/// OVC049/// 11/07 Q1011 KPOV 251657Z AUTO 21010G14KT 130V230 10SM CLR 25/13 A3012 RMK AO2 T02520130 KOXV 251655Z AUTO 20012KT 10SM CLR 24/16 A2983 RMK AO2 ESUD 251650Z AUTO 13003KT 050V150 9999 ////// 08/05 Q1008 ESSV 251650Z 17010KT CAVOK 14/06 Q1010 FKKN 251700Z 00000KT CAVOK 23/19 Q1016 KQFX 251700Z AUTO 13001KT 9999 CLR 13/09 A2988 RMK A02 TSNO KPPO 251655Z AUTO 22019G31KT 7SM -RA SCT039 BKN048 OVC060 25/18 A2993 RMK AO2 T02460176 KPOY 251655Z AUTO 34012G15KT 10SM SCT021 SCT026 BKN070 13/06 A2994 RMK AO2 KPPQ 251655Z AUTO 21008KT 10SM SCT028 24/18 A3000 RMK AO2 T02400176 KPQI 251655Z AUTO 25012G19KT 10SM FEW120 24/07 A3002 RMK AO1 LFYR 251700Z AUTO 30011KT 260V340 9999 FEW039 SCT078 OVC088 20/10 Q1016 FKKR 251700Z 03026KT 2000 -TSRA BKN020 SCT023CB 28/18 Q1010 BECMG 4000 KPRB 251700Z AUTO 10SM OVC011 14/10 A2999 RMK AO2 T01390100 TSNO $ KPRC 251653Z 26013G17KT 10SM BKN065 BKN085 OVC110 18/02 A3007 RMK AO2 SLP121 T01780022 KPQL 251653Z AUTO 19006KT 10SM FEW019 SCT037 SCT060 27/23 A3012 RMK AO2 RAE06 SLP200 P0000 T02670228 TSNO KQGV 251655Z 35009KT 9999 FEW200 37/02 A2981 RMK SLPNO QNH1009 PA +575 KQHN 251655Z 27003KT 9999 FEW250 27/M12 A2985 RMK SLP021 Q1011 DA5542 KPQN 251701Z AUTO 24009KT 10SM SCT016 BKN029 OVC034 18/14 A2976 RMK AO2 KQGX 251658Z AUTO 22008KT 9999 CLR 32/23 A2972 RMK AO2 SLP065 T03190227 $ KPRG 251655Z AUTO 21022G30KT 10SM SCT031 SCT039 SCT050 27/18 A3003 RMK AO2 T02700179 LGPZ 251650Z 27010KT 9999 FEW020 20/13 Q1013 NOSIG KOZR 251658Z AUTO 14007KT 10SM FEW023 SCT031 SCT160 SCT180 29/22 A3017 RMK AO2 SLP216 T02930222 LGSA 251650Z 31014KT 9999 FEW025 21/11 Q1011 KOZS 251655Z AUTO 18007KT 10SM BKN021 BKN032 BKN040 25/19 A2999 RMK AO2 VTBD 251700Z 20005KT 9999 FEW020 BKN300 29/23 Q1008 NOSIG ESUT 251650Z AUTO 28004KT 270V360 9999 SCT025/// OVC031/// 06/02 Q1008 KPSC 251653Z 21007KT 10SM CLR 19/08 A2990 RMK AO2 SLP123 T01940083 KRAC 251653Z AUTO 24016G24KT 10SM -RA FEW022 BKN039 OVC046 22/17 A2985 RMK AO2 RAB53 SLP104 P0000 T02170167 ETML 251620Z AUTO 27006KT //// // ////// 12/07 Q1012 /// KOZW 251655Z AUTO 20010G20KT 10SM SCT038 SCT048 BKN055 26/17 A2995 RMK AO2 T02590167 KPRN 251656Z AUTO 16004KT 10SM SCT023 BKN031 27/21 A3016 RMK AO2 SLP209 T02720211 ETMN 251620Z 31012KT 9999 FEW025 12/06 Q1014 BLU+ KPSF 251654Z AUTO VRB03KT 10SM CLR 22/12 A3021 RMK AO2 SLP211 T02220117 KPRO 251655Z AUTO 24013KT 10SM CLR 23/16 A2981 RMK AO2 T02270163 LGRP 251650Z 26008KT 9999 FEW018 21/15 Q1011 NOSIG KQL5 251655Z 28015G29KT 8000 DU HZ CLR 27/M11 A2972 RMK SLP027 T02671109 ETNH 251620Z AUTO 30014KT 5000 // ////// 14/05 Q1013 /// KQIR 251658Z 35012KT 9999 CLR 35/12 A2975 RMK AO2A SLP075 T03470118 LIBA 251655Z 11004KT 9999 FEW030 SCT060 20/15 Q1011 RMK SCT VIS MIN 9999 WIND THR29 09008KT BLU VTCC 251700Z 22006KT 9999 BKN035 29/21 Q1009 A2981 NOSIG KPRS 251655Z AUTO 10SM CLR 28/M02 A2996 RMK AO2 T02791025 LGSK 251650Z 20004KT 9999 FEW025 22/15 Q1008 KPTB 251655Z AUTO 22009KT 10SM SCT046 27/13 A3031 RMK AO2 T02740133 KT20 251655Z AUTO 16010G16KT 1 3/4SM RA BKN029 BKN040 OVC060 27/24 A2989 RMK AO2 VIS 1V5 LTG DSNT N AND SE T02680238 KPSK 251655Z AUTO 22009G15KT 10SM CLR 25/14 A3033 RMK AO2 T02500140 LIBC 251650Z 19012KT CAVOK 20/14 Q1012 KRAL 251653Z 00000KT 7SM OVC019 16/12 A3000 RMK AO2 SLP148 T01610117 ETNL 251620Z 31010KT 9999 FEW018 BKN045 12/08 Q1012 BLU VTBO 251100Z 18010KT 7000 FEW018CB SCT021 SCT150 30/25 Q1008 CB NW LGSM 251550Z 22008KT 9999 SCT020 22/15 Q1011 LIBD 251650Z 07008KT 9999 SCT030 20/11 Q1012 KRBD 251653Z 15014G20KT 10SM BKN015 BKN020 OVC025 25/22 A2989 RMK AO2 SLP114 T02500217 KPSM 251658Z 27006KT 10SM BKN120 OVC200 27/10 A3017 RMK AO2A SLP218 T02710101 LHKE 251645Z 14008KT 110V180 9999 FEW030CB SCT030TCU 19/15 Q1007 TEMPO SHRA TSRA RMK BLU KPSN 251655Z AUTO 12008KT 10SM SCT020 SCT025 BKN033 26/22 A2997 RMK AO2 T02670225 LIBF 251550Z 34006KT 310V020 9999 SCT030 SCT035 22/10 Q1011 VTCH 251200Z VRB03KT 9999 FEW025 33/19 Q1004 A2965 ETNN 251620Z AUTO 28006KT 9999 // ////// 15/08 Q1014 /// LGRX 251650Z 26004KT 9999 FEW020 21/15 Q1012 LGSO 251620Z AUTO 21008KT 150V220 //// // ////// 22/14 Q1010 RE// KPRX 251655Z 16011G14KT 5SM OVC009 22/19 A2997 RMK AO1 KPSO 251655Z AUTO 00000KT 10SM -RA BKN036 BKN043 OVC048 09/03 A3008 RMK AO2 LTG DSNT NW T00910030 LIBG 251650Z 15003KT 090V210 9999 FEW040 20/11 Q1011 KPSP 251653Z 36005KT 10SM CLR 27/09 A2990 RMK AO2 SLP122 T02670094 KRAP 251652Z 35012KT 10SM FEW016 BKN023 OVC030 15/11 A2982 RMK AO2 SLP091 T01500111 KRBG 251653Z AUTO 36005KT 10SM OVC013 14/10 A3003 RMK AO2 SLP169 T01390100 LGTG 251650Z 22011KT 9999 FEW025 25/06 Q1008 BLU LIBH 251555Z 16007KT 9999 SCT025 20/17 Q1012 RMK BKN SCT070 QUK / QUL / VIS MAR 20 KM VIS MIN 9999 VTBS 251700Z 23006KT 9999 FEW020 BKN300 30/21 Q1009 NOSIG LGSR 251650Z 25012KT 9999 FEW018 20/16 Q1011 VTCL 251100Z 22007KT 9999 SCT025 BKN050 OVC150 31/24 Q1005 A2967 INFO LICA 251650Z 27010KT CAVOK 19/13 Q1013 VTBU 251700Z 23006KT 8000 FEW020 BKN300 30/21 Q1009 A2981 KRCA 251658Z AUTO 36014KT 10SM BKN014 OVC020 15/11 A2982 RMK AO2 SLP093 T01520113 $ KRAS 251655Z AUTO 15013G21KT 7SM BKN017 BKN026 OVC050 27/26 A2989 RMK AO2 T02740255 ETNS 251620Z AUTO 30014KT 6000 // ////// 14/06 Q1013 /// LICB 251650Z 26004KT 9999 SCT040 20/12 Q1012 KPTK 251653Z 20013G20KT 10SM BKN029 BKN045 OVC130 24/17 A2997 RMK AO2 SLP142 T02440172 KPUB 251653Z 20004KT 10SM CLR 16/07 A2990 RMK AO2 SLP089 T01610072 ETNT 251620Z 34007KT 9999 FEW040 BKN070 13/04 Q1014 BLU VTCN 251100Z 21007KT 9999 SCT025 BKN100 34/// Q1003 A2964 RWY/02 INFO/J LICC 251650Z 09010KT CAVOK 19/13 Q1012 KPUC 251653Z AUTO 22004KT 10SM OVC095 12/06 A3000 RMK AO2 RAB1559E09 SLP128 P0000 T01170056 TSNO KRBL 251654Z AUTO 13004KT 10SM CLR 21/11 A2992 RMK AO2 SLP129 T02060106 LICD 251650Z 06010KT CAVOK 19/16 Q1011 VTCP 250800Z 13008KT 8000 VCSH SCT025CB BKN100 OVC300 31/22 Q1004 A2967 CB DIST RASH TO SE RWY19 INFO H LIBN 251655Z 10004KT 9999 FEW030 21/13 Q1012 RMK BKN SCT070 VIS MIN 9999 WIND THR14 08003KT BLU KPTN 251655Z AUTO 16012G18KT 10SM FEW031 SCT038 BKN090 30/23 A3006 RMK AO1 LTG DSNT N KRCE 251655Z AUTO 20016G24KT 10SM SCT021 24/24 A2990 RMK AO2 ETNW 251620Z AUTO 26002KT 9999 // ////// 13/09 Q1014 /// LICF 251555Z 05006KT 9999 FEW025 22/15 Q1013 RMK FEW QUK 2 QUL 1 NE VIS MAR 16 KM MON CLD SCT NC VIS MIN 9999 KPSX 251653Z AUTO 14021G27KT 10SM SCT017 BKN024 29/24 A2994 RMK AO2 PK WND 15027/1644 SLP137 T02890244 KRBO 251655Z AUTO 15017G23KT 10SM BKN021 BKN028 OVC060 30/25 A2988 RMK AO2 T02950251 LICG 251655Z /////KT 9999 BKN015 18/14 Q1012 LIBP 251650Z VRB02KT 9999 FEW040 SCT080 20/12 Q1012 LGSY 251650Z 17011KT CAVOK 23/10 Q1007 BLU KT35 251655Z AUTO 17007KT 10SM BKN021 BKN028 OVC039 26/23 A2993 RMK AO2 LTG DSNT W AND NW T02560229 LIBQ 251055Z 27008KT 0000 FG VV/// 09/08 Q1013 RMK MON INVIS VAL INVIS VIS MIN 0000 VTCT 251600Z 18003KT CAVOK 26/24 Q1008 A2978 LIBR 251645Z 10007KT 9999 SCT020 20/14 Q1013 NOSIG LGTS 251650Z 20011KT 9999 FEW035 25/11 Q1007 NOSIG LICJ 251650Z 05017KT 9999 FEW022 20/15 Q1012 KPUJ 251655Z AUTO 15004KT 10SM OVC021 26/22 A3026 RMK AO2 KPTS 251655Z AUTO 19012G17KT 10SM SCT020 BKN026 25/21 A2993 RMK AO2 T02450211 KPTT 251655Z AUTO 20014KT 10SM SCT027 BKN034 BKN040 23/16 A2982 RMK AO2 KPVB 251655Z AUTO 22017G22KT 10SM BKN015 BKN025 OVC040 21/18 A2984 RMK AO1 T02080184 LICL 251655Z 00000KT 9999 SCT023 19/15 Q1011 RMK BKN SCT070 BKN190 QUK 0 QUL 0 VIS MAR 16 KM VIS MIN 9999 KPVC 251655Z 20013G19KT 10SM CLR 22/13 A3025 RMK AO1 LIBV 251655Z 17008KT 9999 FEW030TCU 17/14 Q1012 RMK BKN BKN070 VIS MIN 9999 WIND THR32 18008KT WIND THR14 18007KT BLU KPVD 251651Z 14009KT 10SM FEW030 FEW120 BKN140 BKN250 21/14 A3026 RMK AO2 SLP246 T02110139 KRDD 251653Z 18004KT 10SM CLR 22/11 A2990 RMK AO2 SLP120 T02170111 KPTV 251655Z AUTO 26006KT 10SM CLR 22/12 A2992 RMK AO1 ETOU 251658Z AUTO 33003KT 9999 FEW050 OVC070 16/12 A2993 RMK AO2 SLP136 T01580115 $ KRCM 251655Z AUTO 14012G17KT 10SM BKN016 BKN022 22/17 A2992 RMK AO2 GCGM 251700Z 23007KT 200V270 9999 SCT024 BKN039 20/14 Q1019 RMK R09/24006KT 190V290 ARP/22005KT 170V280 GCFV 251700Z 34014KT 9999 FEW038 SCT048 23/10 Q1017 KPTW 251654Z AUTO 20011G20KT 10SM CLR 28/13 A3024 RMK AO2 SLP236 T02830133 KPVE 251655Z AUTO 00000KT 3SM FEW008 OVC024 19/19 A3013 RMK KRBW 251655Z AUTO 13008KT 10SM SCT029 BKN040 OVC050 27/18 A3031 RMK AO2 KPVF 251655Z AUTO 20004KT 10SM FEW100 21/07 A2997 RMK AO1 LIBY 251655Z 26008KT CAVOK 18/11 Q1012 RMK SKC QUK 1 QUL 0 VIS MAR 20 KM VIS MAX 20 KM VIS MIN 9999 KPVG 251655Z AUTO 19010G16KT 10SM CLR 28/16 A3034 RMK AO1 KRDG 251654Z 20014G19KT 10SM CLR 30/13 A3020 RMK AO2 SLP227 T03000133 KQMH 251655Z AUTO 00000KT 9999 CLR 12/M07 A3012 RMK AO2 SLP148 T01191074 LICR 251650Z 35010KT 9999 FEW040 21/10 Q1011 KRCR 251655Z AUTO 20019G28KT 10SM SCT030 SCT037 25/18 A2998 RMK AO2 GCHI 251700Z 36010KT 320V030 9999 SCT035 21/15 Q1019 LIEA 251650Z VRB03KT 9999 FEW030 22/12 Q1012 KPWA 251653Z 17014G19KT 10SM SCT024 25/19 A2988 RMK AO2 SLP107 T02500194 KPVJ 251655Z AUTO 17008G14KT 10SM SCT023 SCT028 BKN038 25/20 A2991 RMK AO2 T02470201 LIEB 251555Z 18003KT 9999 FEW030 20/15 Q1012 RMK SCT SCT080 QUK 1 QUL 0 VIS MAR 25 KM MON W CLD CIME NC VIS MIN 9999 LICT 251655Z 36011KT 9999 FEW020 21/16 Q1011 KRDK 251655Z AUTO 21011G16KT 10SM FEW031 BKN085 23/17 A2982 RMK AO2 LIEC 251655Z 08006KT 9999 FEW020 21/18 Q1012 RMK SCT QUK 2 QUL 0 VIS MAR 18 KM VIS MIN 9999 KPWC 251653Z AUTO 02007KT 3SM RA SCT007 BKN013 OVC019 14/14 A2973 RMK AO2 P0004 LIED 251655Z 15013KT 9999 FEW018 23/19 Q1011 RMK SCT VIS MIN 9999 WIND THR35 14012KT WIND THR17 15012KT BLU KRCV 251650Z AUTO 04005KT 10SM BKN060 BKN070 OVC090 10/02 A3005 RMK AO2 T00980020 KRDM 251656Z 30003KT 10SM CLR 13/06 A2998 RMK AO2 SLP141 T01280056 KQND 251655Z AUTO VRB01KT CLR 40/05 A2968 RMK AO2 SLP025 T04040048 PWINO TSNO $ LIEE 251650Z 15011KT CAVOK 19/15 Q1012 KPUW 251653Z AUTO 27007KT 10SM SCT080 14/09 A2993 RMK AO2 SLP131 T01390089 FLHN 251500Z 13008KT CAVOK 26/07 Q1020 KRCX 251655Z AUTO 23008KT 7SM OVC004 17/16 A2971 RMK AO2 P0001 T01650160 KPWG 251655Z AUTO 17011G17KT 10SM VCTS SCT022 BKN026 OVC030 24/20 A2993 RMK AO1 LTG DSNT NE TSB28E43B54 LICZ 251655Z 11002KT CAVOK 22/14 Q1012 RMK SKC VIS MIN 9999 WIND THR28 09012KT A2990 BLU KRCZ 251655Z AUTO 00000KT 10SM CLR 26/14 A3031 RMK AO2 T02590139 KRDR 251658Z AUTO 36007KT 10SM CLR 19/09 A2977 RMK AO2 SLP086 T01900093 ETSA 251620Z 27006KT 9999 -RA FEW040 BKN090 16/08 Q1013 BLU KPWK 251702Z 20010KT 10SM -RA SCT017 BKN026 OVC055 22/18 A2988 RMK AO2 RAB1659 P0000 T02170178 ETSB 251620Z AUTO 32006KT 9000 // ////// 12/09 Q1014 /// KRDU 251651Z 19008G15KT 10SM FEW055 SCT250 27/13 A3032 RMK AO2 SLP264 T02670128 $ KPVU 251658Z 18004KT 15SM FEW020 SCT055 BKN120 15/07 A3000 KPWM 251651Z 28008KT 230V300 10SM BKN110 28/12 A3017 RMK AO2 SLP215 T02780117 KRFD 251654Z 23015G21KT 10SM FEW023 SCT047 OVC070 22/17 A2988 RMK AO2 RAB20E36 SLP115 T02170172 PNO $ KPVW 251655Z AUTO 13035G43KT 10SM SCT080 OVC100 14/09 A2986 RMK AO2 LTG DSNT E AND SE T01410088 KPXE 251655Z AUTO 12006KT 10SM SCT031 SCT037 SCT045 30/19 A3026 RMK AO2 T03030186 LIEO 251650Z 06007KT 9999 FEW035 22/13 Q1012 KREO 251652Z AUTO VRB05KT 19/07 A2993 RMK AO1 SLP110 T01940072 KT65 251655Z AUTO 16017G26KT 10SM BKN025 BKN032 BKN042 31/23 A2985 RMK AO2 T03050234 ETSH 251620Z 30008KT 9999 FEW050 SCT090 BKN110 20/07 Q1010 BLU KRFI 251655Z AUTO 17007KT 10SM BKN024 BKN033 OVC041 26/21 A2999 RMK AO2 T02630208 ETSI 251620Z AUTO 34013G23KT 3000 // ////// 14/10 Q1013 /// LHPA 251645Z 01002MPS 9999 FEW040 OVC083 16/13 Q1009 NOSIG RMK BLU KPWT 251655Z AUTO 16005KT 10SM OVC013 12/09 A3004 RMK AO1 ETSL 251620Z 27005KT 9999 VCSH FEW040 BKN090 16/10 Q1012 BLU ETSN 251620Z AUTO 28009KT //// // ////// 13/10 Q1012 /// LGZA 251650Z 29006KT 9999 FEW030 22/10 Q1012 GCLA 251700Z 02005KT 330V060 9999 FEW018 SCT035 20/14 Q1020 KRGK 251651Z AUTO 24012KT 10SM SCT022 OVC029 21/15 A2970 RMK AO2 FLKK 251700Z 13005KT CAVOK 16/09 Q1022 KPYM 251652Z AUTO 22015G21KT 10SM BKN110 27/12 A3025 RMK AO2 SLP242 T02670122 KT82 251655Z AUTO 15008KT 7SM -TSRA OVC011 22/20 A2988 RMK AO2 LTG DSNT ALQS P0001 T02170203 LHPP 251645Z 29007KT 6000 -RA BKN008 OVC083 13/12 Q1008 FMCH 251500Z 20005KT 140V240 9999 FEW020TCU 28/22 Q1015 NOSIG KRHI 251653Z AUTO 17007KT 10SM -RA OVC005 17/16 A2971 RMK AO2 RAB01 CIG 004V008 SLP059 P0004 T01670156 LHPR 251645Z 35004KT 9999 BKN030 OVC083 15/12 Q1009 AGGH 251700Z 18003KT 9999 HZ FEW015 SCT300 24/23 Q1011 KRIC 251654Z 19015KT 10SM SCT049 SCT250 27/14 A3030 RMK AO2 SLP264 T02720144 KPYX 251655Z AUTO 30005KT 10SM CLR 21/13 A2985 RMK AO2 T02080126 KRHP 251655Z AUTO 17003KT 10SM OVC045 25/15 A3030 RMK AO2 T02500149 GCLP 251700Z 03025KT 9999 FEW035 22/12 Q1017 WS ALL RWY NOSIG KPZQ 251655Z AUTO 10004KT 7SM BKN002 BKN014 OVC100 12/12 A2986 RMK AO2 T01210119 KQRH 251656Z AUTO 13005KT 9999 CLR 32/26 A2975 RMK AO2 SLP067 T03160260 KQSA 251658Z 01015G23KT 9999 CLR 16/M08 A3001 RMK AO2A PK WND 02026/37 SLP078 T01611081 VISNO RWY21 CHINO RWY21 $ KSAA 251655Z AUTO 27013G18KT 10SM SCT026 BKN036 OVC075 09/04 A3001 RMK AO2 KRIL 251653Z AUTO 08003KT 10SM SCT018 OVC085 11/06 A3003 RMK AO2 SLP139 T01060056 $ KSAC 251653Z 22009KT 10SM CLR 17/11 A2994 RMK AO2 SLP136 T01670106 KRHV 251651Z VRB05KT 10SM OVC018 16/11 A2998 KSAD 251651Z AUTO VRB05KT 10SM CLR 24/01 A2997 RMK AO2 SLP107 T02390011 FMEE 251700Z AUTO 17006KT 9999 NSC 22/17 Q1018 KQSF 251655Z AUTO 19004KT 9999 CLR 15/M09 A3014 RMK AO2 SLP147 T01451091 KSAF 251653Z 26009G14KT 10SM FEW045 16/03 A2999 RMK AO2 SLP085 T01610028 KQQY 251655Z AUTO VRB01KT 9999 CLR 27/23 A3002 RMK AO2 SHRAB1550E1612 SLP143 T02690233 $ FMCZ 251700Z AUTO 16007KT 9999 NCD 27/20 Q1016 KSBA 251653Z 15011KT 10SM SCT025 17/12 A2999 RMK AO2 SLP156 T01720122 $ KSBD 251647Z 00000KT 4SM HZ OVC019 15/10 A3000 KRKD 251655Z AUTO 20005KT 10SM CLR 25/10 A3013 RMK AO1 LHSM 251545Z 28003KT CAVOK 16/14 Q1009 NOSIG KRIV 251658Z AUTO 13005KT 10SM OVC015 15/11 A3000 RMK AO2 SLP154 T01520114 KQSN 251655Z AUTO 01007G15KT 320V020 9999 CLR 13/M10 A3005 RMK AO2 SLP119 T01251097 ETWM 251620Z AUTO 31005KT 9999 // ////// 14/04 Q1014 /// KSAN 251651Z 28005KT 7SM -DZ OVC015 17/13 A3003 RMK AO2 DZE01B48 SLP168 P0000 T01670128 LHSN 251645Z 15010KT 020V190 9999 FEW033TCU SCT083 BKN200 19/13 Q1007 NOSIG RMK BLU KRIW 251653Z AUTO 36004KT 10SM BKN021 BKN029 OVC047 13/06 A2998 RMK AO2 SLP121 T01280061 FMEP 251700Z AUTO 02006KT 9999 SCT048/// SCT068/// 21/16 Q1019 KQTI 251655Z AUTO VRB01KT 9999 CLR 34/03 A2980 RMK AO2 SLP088 T03430029 KSAR 251655Z AUTO 19008G14KT 10SM BKN019 BKN029 BKN034 24/20 A3005 RMK AO2 T02430202 KSAT 251651Z 15014KT 10SM -RA BKN021 BKN036 BKN060 27/22 A2988 RMK AO2 RAE1556B34 SLP101 BKN021 V SCT P0000 T02670222 KSAV 251653Z 12009KT 10SM BKN028 BKN039 BKN065 BKN210 27/19 A3028 RMK AO2 SLP252 T02720194 $ KSBM 251653Z AUTO 23019G25KT 10SM FEW027 SCT033 OVC042 23/17 A2977 RMK AO2 PK WND 22030/1624 SLP078 T02280167 KSCD 251655Z AUTO 15006KT 10SM BKN021 OVC027 27/22 A3020 RMK AO2 T02700216 LHUD 251645Z 17010KT 9999 FEW026TCU SCT083 17/14 Q1008 GBYD 251700Z 36010KT CAVOK 31/21 Q1010 KSBN 251654Z 21022G33KT 10SM SCT036 BKN043 26/17 A2992 RMK AO2 PK WND 22035/1559 SLP127 T02610172 KSAW 251647Z 16005KT 2SM RA OVC007 14/13 A2973 LJCE 251700Z AUTO 26004KT 9999 -SHRA NSC 16/14 Q1010 KSCF 251655Z AUTO 14018KT 8SM CLR 29/25 A3004 RMK A01 KSBO 251655Z AUTO 13006KT 10SM SCT030 BKN050 OVC080 28/22 A3027 RMK AO2 KRKP 251653Z AUTO 15020G28KT 9SM SCT015 BKN021 BKN060 28/24 A2988 RMK AO2 PK WND 15030/1643 SLP120 T02830239 $ KSBP 251656Z 00000KT 10SM OVC014 13/10 A3001 RMK AO2 SLP160 T01330100 KSCH 251650Z 00000KT 10SM SCT080 SCT120 24/10 A3017 KSAZ 251653Z AUTO 03005KT 5SM RA BKN007 OVC010 14/13 A2967 RMK AO2 P0016 KRKR 251655Z AUTO 19009KT 10SM BKN041 26/19 A2995 RMK AO2 T02630189 LIMA 251650Z 07003KT 030V120 9999 FEW045 23/08 Q1009 KRKS 251654Z AUTO 26005KT 10SM BKN020 BKN032 OVC041 09/04 A3002 RMK AO2 SLP131 T00890044 KSBS 251655Z AUTO 12004KT 10SM BKN036 OVC075 08/04 A3002 RMK AO1 T00770041 KSDA 251655Z AUTO 21012G18KT 10SM SCT070 BKN080 23/16 A2982 RMK AO2 KSDB 251648Z AUTO 20005KT 10SM CLR 18/08 A3003 RMK AO2 SLP127 T01780083 $ KSCK 251655Z 26007KT 230V300 10SM CLR 18/11 A2993 RMK AO2 SLP134 T01830111 $ LIMC 251650Z 24005KT 9999 FEW060 SCT080 22/13 Q1009 NOSIG KRME 251653Z 11008KT 10SM SCT110 23/13 A3013 RMK AO2 SLP201 T02330133 LIME 251650Z 03004KT 9999 SCT040TCU BKN100 21/12 Q1009 LIMF 251650Z 08003KT 050V110 9999 BKN120 22/13 Q1009 KSDF 251656Z 20013G20KT 10SM -RA FEW016 SCT040 OVC080 21/18 A3016 RMK AO2 SLP210 P0000 T02110183 LIMG 251550Z 22005KT 9999 BKN050 21/12 Q1011 KRMG 251653Z AUTO 13010KT 110V170 10SM BKN030 OVC036 26/19 A3023 RMK AO2 SLP227 T02560189 KSBY 251654Z 21018G22KT 10SM CLR 27/14 A3031 RMK AO2 SLP264 T02670144 LIMH 251655Z /////KT 0800 FZFG VV/// M04/M06 Q1018 RMK MON INVIS VAL INVIS VIS MIN 0800 KQTZ 251655Z 01006KT 9000 HZ CLR 35/02 A2980 RMK SLP089 WND/ALSTG/SLP ESTMD KSCR 251655Z AUTO 22006G09KT 10SM SCT043 25/14 A3033 RMK AO2 T02490138 LIMJ 251650Z 16004KT 130V190 9999 FEW020 19/14 Q1011 KSEA 251653Z 22006KT 10SM OVC015 12/08 A3003 RMK AO2 SLP174 T01220083 FKYS 251700Z 13007KT 080V180 8000 TS BKN013 FEW020CB 23/20 Q1015 TEMPO 4000 TSRA LIML 251650Z 25007KT 200V280 9999 VCTS FEW020CB SCT040 26/09 Q1008 NOSIG KSDL 251653Z 29003KT 10SM CLR 26/07 A2995 RMK AO2 SLP120 T02560067 KRNC 251655Z AUTO VRB04KT 10SM FEW100 24/18 A3021 RMK KRND 251658Z AUTO 15015G22KT 6SM HZ SCT021 SCT027 27/23 A2988 RMK AO2 SLP111 T02680225 KSDM 251653Z 28004KT 3SM BR BKN007 OVC011 15/14 A3002 RMK AO2 RAB12E34 SLP162 VIS SW-NW 1 1/2SM P0000 T01500139 LIMN 251655Z /////KT CAVOK 22/15 Q1009 RMK BKN BKN100 VIS MIN 9999 BLK BLU KRMN 251655Z AUTO 21007G19KT 10SM CLR 27/13 A3030 RMK AO2 T02730133 KSEE 251655Z AUTO 00000KT 9SM OVC019 17/12 A3003 RMK AO2 LIMP 251650Z 22014KT 9999 FEW025 BKN040 21/12 Q1009 KSEG 251653Z AUTO 24006KT 10SM CLR 28/16 A3019 RMK AO2 SLP219 T02830156 KRNH 251655Z AUTO 23014KT 10SM BKN014 BKN018 OVC025 18/16 A2968 RMK AO2 T01810159 LIMS 251655Z 25008KT 200V280 9999 TS VCSH FEW040CB SCT080 20/18 Q1008 RMK BKN VIS MIN 9999 WIND THR30 22007KT BLU KROA 251654Z 21008KT 10SM BKN046 26/13 A3030 RMK AO2 SLP252 T02610133 KSFB 251653Z 11012KT 10SM SCT039 32/21 A3020 RMK AO2 SLP224 T03220211 LIMU 251655Z 23016KT 9999 FEW025 16/14 Q1011 RMK BKN SCT060 QUK 3 QUL 1 S VIS MAR 15 KM VIS MIN 9999 KROC 251654Z 23017G23KT 10SM FEW070 BKN110 31/12 A3005 RMK AO2 SLP171 T03060117 KRNM 251653Z 00000KT 10SM OVC014 14/11 A3002 RMK AO2 SLP157 T01390106 $ KSEM 251655Z AUTO 14010KT 9SM VCTS BKN025 BKN031 OVC045 27/22 A3016 RMK AO2 LTG DSNT S-W KQWM 251657Z 02006KT 9999 FEW200 35/00 A2982 RMK SLP086 QNH1009 LIMW 251650Z AUTO 30008KT 260V340 9999 BKN096 23/04 Q1010 VTPH 250900Z VRB06KT 9999 FEW030 33/23 Q1005 NOSIG KSFF 251653Z 19010KT 10SM OVC026 16/09 A2990 RMK AO2 SLP116 T01560094 KRNO 251655Z 00000KT 10SM FEW060 BKN100 BKN180 18/09 A2999 RMK AO2 SLP115 TCU DSNT SW MTN TOPS OBSCD DSNT SW T01830089 KRMY 251645Z AUTO 20013G19KT 10SM SCT034 BKN045 OVC095 22/18 A2995 RMK AO2 KRNP 251655Z AUTO 20014G19KT 10SM SCT039 BKN050 OVC070 26/16 A2991 RMK AO2 T02610157 KSDY 251655Z AUTO 12005KT 10SM FEW070 SCT090 19/11 A2989 RMK AO1 KSEP 251655Z AUTO 16012G19KT 7SM SCT016 OVC022 24/20 A2990 RMK AO2 T02350198 KROG 251657Z 17009G17KT 10SM BKN024 BKN031 25/19 A2998 RMK AO2 SLP139 T02500189 LIMZ 251650Z 12005KT 9999 SCT070 22/12 Q1009 LIPA 251655Z 15011KT 9999 SCT040 FEW045CB BKN070 21/13 Q1009 RMK OVC VIS MIN 9999 WIND THR05 10010KT WIND THR23 11010KT A2982 BLU GCRR 251700Z 34015KT 290V020 9999 FEW030 23/13 Q1017 KU68 251655Z AUTO 17003KT 10SM CLR 16/08 A2993 RMK AO2 LIPB 251650Z 14004KT 080V200 9999 SCT080 BKN130 24/08 Q1008 KRNT 251653Z 14006KT 10SM OVC021 13/08 A3002 RMK AO2 SLP169 T01330083 $ KSET 251654Z AUTO VRB06KT 10SM CLR 25/17 A3000 RMK AO2 SLP153 T02500172 TSNO FLSK 251400Z 00000KT CAVOK 27/09 Q1019 LIPC 251655Z 13009KT 9999 FEW030 22/16 Q1010 KSFM 251235Z AUTO 25005KT 10SM CLR 20/09 A3021 RMK AO1 VTPO 251000Z 00000KT 9999 FEW022 SCT300 34/22 Q1002 FNBC 251600Z 30004KT 9999 FEW018 29/27 Q1012 KRNV 251655Z AUTO 17009KT 10SM BKN018 OVC025 26/24 A3006 RMK AO2 T02610235 KRPD 251655Z AUTO 20005KT 10SM OVC009 17/16 A2970 RMK AO2 T01740155 VTPP 251400Z 25010KT RA 5000 BKN022 OVC100 29/22 Q1006 LIPE 251650Z 17006KT 140V200 9999 SCT060 21/11 Q1010 LIPF 251655Z 08003KT 9999 FEW030 23/15 Q1009 KSGF 251701Z 19009KT 10SM FEW019 SCT025 OVC037 23/18 A2998 RMK AO2 T02330183 KSFO 251656Z 26009KT 10SM FEW008 OVC013 13/09 A2999 RMK AO2 SLP155 T01330094 LIPH 251645Z /////KT 9999 FEW025TCU SCT070 25/10 Q1009 FNBG 251700Z 27011KT CAVOK 25/20 Q1014 KSGH 251656Z AUTO 21021G28KT 5SM HZ CLR 22/17 A3015 RMK AO2 T02220172 PK WND 20028/1656 SLP202 KSEZ 251655Z AUTO 03003KT 10SM OVC060 15/06 A3007 RMK AO2 KRPH 251655Z AUTO 14003KT 10SM SCT033 SCT038 SCT120 24/21 A2982 RMK AO2 T02400205 KSFQ 251655Z AUTO 20010G17KT 10SM SCT047 27/14 A3034 RMK AO2 T02660137 LIPI 251655Z 22003KT 7000 -TSRA FEW015 FEW020CB SCT040 16/15 Q1010 RMK OVC VIS MIN 7000 WIND THR06 18003KT WHT KSGJ 251658Z 11012KT 10SM CLR 29/24 A3024 RMK AO2 SLP240 T02890239 KROS 251656Z AUTO 00000KT 10SM OVC003 16/15 A2967 RMK AO2 T01550148 KRPJ 251655Z AUTO 25018G23KT 10SM SCT020 BKN034 OVC048 21/18 A2990 RMK AO2 T02060175 LIPK 251550Z 17004KT 9999 FEW030 SCT050 23/13 Q1010 KQXT 251655Z 27008KT 9999 BKN220 31/M10 A2981 RMK SLP041 WND DATA ESTMD ALSTG/SLP ESTMD Q1009 KRQB 251654Z AUTO 22011G26KT 10SM BKN022 BKN028 OVC032 23/17 A2985 RMK AO2 T02320174 FNCA 251700Z 20006KT 9999 FEW025 26/24 Q1011 LIQC 251655Z ///05KT CAVOK 24/14 Q1014 RMK SKC QUK 2 QUL 1 W VIS MAR 20 KM VIS MIN 9999 LIPL 251555Z /////KT 9999 SCT032 BKN050 22/11 Q1010 RMK OVC VIS MIN 9999 WIND THR31 01001KT BLU KSHD 251655Z AUTO 22011KT 10SM CLR 28/14 A3028 RMK AO2 T02780142 KROW 251651Z VRB05KT 10SM CLR 24/05 A2992 RMK AO2 SLP071 T02390050 KRQE 251653Z AUTO 26008KT 10SM OVC060 13/04 A3007 RMK AO2 SLP106 T01330044 TSNO LIPO 251650Z 07003KT 9999 SCT040 BKN060 21/12 Q1009 KROX 251654Z AUTO 05007KT 10SM CLR 22/09 A2976 RMK AO2 KSFY 251655Z AUTO 24010G17KT 10SM SCT019 OVC028 22/17 A2987 RMK AO2 T02220170 LIPQ 251650Z VRB03KT 9999 SCT040 BKN060 19/12 Q1010 KSFZ 251655Z 22005KT 10SM CLR 23/13 A3025 RMK AO1 VTSB 251500Z 19004KT 8000 FEW020 SCT120 BKN300 25/24 Q1011 A2987 LIPR 251645Z 09009KT 9999 BKN040 21/18 Q1010 KSGR 251653Z 16014G22KT 10SM FEW027 SCT039 BKN060 29/23 A2995 RMK AO2 SLP143 T02940233 VTSC 250900Z 04005KT 010V090 9999 SCT022 BKN200 32/26 Q1007 A2975 RWY20 INFO J LIPS 251655Z 24004KT 9999 FEW015 FEW025TCU SCT060 25/10 Q1009 RMK BKN VIS MIN 9999 WIND THR26 00000KT WIND THR08 22002KT BLU LIRA 251645Z 26006KT 210V360 9999 FEW015 FEW018CB 21/10 Q1011 KSGS 251654Z AUTO 24012G18KT 10SM BKN020 OVC027 19/15 A2970 RMK AO2 T01880148 GCTS 251700Z 12006KT 070V160 9999 SCT040 BKN050 21/14 Q1018 NOSIG KSGT 251655Z AUTO 10SM OVC025 26/19 A3005 RMK AO1 KSGU 251655Z AUTO 00000KT 10SM CLR 19/08 A2999 RMK AO1 KSHL 251655Z AUTO 23011KT 10SM OVC022 18/ A2977 RMK AO2 VTSF 251400Z VRB02KT 9999 FEW018 BKN300 27/24 Q1010 A2984 INFO O / RWY 19 KQYV 251656Z AUTO 00000KT 9000 M CLR 19/15 A2965 RMK AO2 LTG DSNT E AND S SLPNO T01890152 $ LIQN 251650Z 24005KT 9999 SCT048 19/11 Q1011 LIRE 251655Z 26008KT 9999 FEW020 20/15 Q1012 RMK FEW VIS MIN 9999 WIND THR31 /////KT BLU VTSG 251700Z 33003KT 290V360 9999 FEW020 SCT120 26/23 Q1012 A2990 KSHN 251653Z AUTO 23006KT 10SM OVC016 12/08 A3000 RMK AO2 SLP160 T01220083 LIQO 250955Z 24004KT 9999 SCT004 17/13 Q1014 RMK SCT VAL CLD SCT DIM VIS MIN 9999 VTSH 250900Z 24002KT 6000 -RA FEW018 SCT120 BKN300 30/24 Q1007 A2975 KRPX 251655Z AUTO 18000KT 40SM 17/08 A2985 RMK A01 T01720077 LIPX 251645Z 35002KT 9999 SCT050 BKN090 23/11 Q1009 LIRF 251650Z 27011KT 240V300 9999 FEW030 20/13 Q1012 NOSIG KRQO 251655Z AUTO 18014G18KT SCT020 23/18 A2989 RMK AO2 PWINO KSIF 251655Z AUTO 19008KT 150V210 10SM SCT046 26/14 A3032 RMK AO2 T02590138 LIRG 251655Z 23010KT 9999 SCT033TCU 22/10 Q1011 LIPY 251650Z 14006KT 090V170 9999 VCTS FEW015CB SCT025 20/13 Q1011 WMBA 251700Z 07001KT 9999 FEW017CB SCT150 BKN260 27/26 Q1011 LIRH 251655Z 18010KT 9999 SCT040TCU 20/11 Q1011 LIPZ 251650Z 14010KT 110V170 CAVOK 21/16 Q1009 LIRI 251450Z 25007KT 9999 FEW020 20/14 Q1013 KSHR 251653Z AUTO 01005KT 10SM FEW015 BKN030 OVC048 13/09 A2994 RMK AO2 SLP129 T01280094 FMMI 251700Z 10006KT 9999 FEW017 16/16 Q1023 NOSIG VTSM 251400Z 00000KT 8000 -RA FEW020 SCT120 BKN300 29/25 Q1011 A2986 LIRK 251655Z AUTO 28008KT 210V320 //// 07/06 Q1016 LIRL 251655Z 24006KT 9999 FEW020 SCT060 21/14 Q1011 KSJC 251653Z 00000KT 10SM FEW009 BKN016 OVC019 16/10 A2998 RMK AO2 SLP150 T01560100 KRRL 251655Z AUTO 24008G14KT 10SM SCT006 BKN012 OVC021 18/18 A2971 RMK AO2 T01830177 LIRM 251655Z 24008KT 9999 BKN030 18/18 Q1012 KTAD 251654Z AUTO VRB03KT 10SM CLR 17/04 A2991 RMK AO2 SLP077 T01720039 KSHV 251656Z 18010KT 10SM SCT025 SCT280 28/21 A2999 RMK AO2 SLP152 T02830211 LIQW 251655Z 17003KT CAVOK 20/13 Q1013 VTSP 251700Z 22006KT 8000 FEW018 SCT120 BKN300 27/23 Q1012 A2990 NOSIG LIRN 251650Z 25007KT 9999 SCT035 20/13 Q1012 VTSR 251100Z 19004KT 130V230 8000SW R02/P2000N BKN023 BKN150 28/25 Q1008 A2978 VOR/DME RWY02 INFO W LIRP 251645Z 29009KT 9999 SCT080 19/13 Q1011 NOSIG VTSS 251700Z 32006KT 9999 FEW020 BKN120 BKN300 27/25 Q1012 A2988 NOSIG LIRQ 251650Z 24007KT 210V280 9999 FEW080 21/08 Q1011 VTST 251000Z 17007KT 9999 FEW020 BKN300 30/25 Q1007 RWY08 INFO K WMAU 251700Z 24002KT 8000 FEW000 SCT140 BKN270 25/24 Q//// QFF1011 LIRS 251655Z 24011KT 9999 FEW020CB 23/14 Q1011 KSKA 251618Z AUTO 14009KT 10SM OVC015 12/09 A2990 RMK AO2 LIRT 250455Z 28012KT 0000 FG VV/// 08/06 Q1014 RMK MON INVIS VAL INVIS VIS MIN 0000 VTUD 251500Z 04003KT 320V080 9999 FEW045 BKN080 31/24 Q1007 A2974 INFO Q RWY30 KRRT 251654Z AUTO 06004KT 10SM CLR 19/11 A2977 RMK AO2 LIRU 251650Z 23006KT 9999 FEW030 21/10 Q1011 FMMT 251700Z 14002KT 9999 VCSH SCT017 BKN033 24/22 Q1018 TEMPO 3500 RA KRSL 251653Z AUTO 18012KT 10SM OVC011 19/17 A2982 RMK AO2 SLP088 T01890167 LIRV 251655Z 24011KT 9999 FEW025 19/13 Q1012 FMNM 251700Z 30006KT 9999 FEW017 25/22 Q1015 NOSIG KTAN 251652Z AUTO 22007KT 180V250 10SM BKN110 24/13 A3024 RMK AO2 SLP240 T02440133 KSJN 251654Z AUTO 26014KT 10SM FEW055 SCT070 BKN085 17/03 A3006 RMK AO2 SLP119 T01670033 KRSN 251655Z AUTO 15004KT 10SM SCT024 SCT080 28/17 A3006 RMK AO2 T02750172 FMNN 251400Z 24004KT 9999 FEW020 30/22 Q1013 KSKF 251652Z AUTO 15014G18KT 9SM FEW018 SCT024 BKN031 BKN041 25/23 A2987 RMK AO2 RAB17E27DZB36E40DZB41E44RAB44E52 $ LIRX 251655Z 34005KT CAVOK 20/13 Q1012 RMK FEW FEW100 VIS MIN 9999 VIS MAR 30 KM KRSP 251554Z AUTO 10SM CLR 23/14 A3027 RMK AO2 SLP246 T02280139 $ VTUI 251300Z 00000KT 9999 FEW020CB SCT100 30/26 Q1006 A2971 CB SE NW INFO N RWY23 KSIY 251653Z AUTO VRB05KT 10SM CLR 19/09 A2998 RMK AO2 SLP146 T01890094 LIRZ 251650Z VRB02KT 9999 BKN060 19/12 Q1011 VTUK 251600Z 20005KT 160V260 9999 FEW025 31/20 Q1007 A2976 NOSIG VTUL 251000Z 21006KT 9999 FEW022 SCT025 35/23 Q1003 A2964 KSJS 251655Z AUTO 22007KT 10SM SCT075 28/15 A3023 RMK AO2 T02800150 KSJT 251701Z VRB03KT 10SM VCTS -RA FEW042 SCT070 BKN080 16/14 A2989 RMK AO2 LTG DSNT E-S P0000 T01610144 KRST 251654Z 23017KT 10SM BKN018 BKN025 OVC031 19/16 A2976 RMK AO2 SLP075 T01890156 KSLB 251655Z AUTO 22013G19KT 9SM BKN012 BKN017 BKN025 20/19 A2979 RMK AO2 P0002 KSLC 251653Z 18006KT 10SM FEW040TCU FEW060 SCT100 SCT200 16/09 A2997 RMK AO2 SLP119 CB DSNT NE AND SW TCU NW AND DSNT SE AND NW T01610089 $ KTCC 251653Z AUTO 23009KT 10SM CLR 22/07 A2987 RMK AO2 SLP068 T02170072 VTUO 250900Z 23009KT 9999 FEW022 37/22 Q1003 A2963 INFO J RWY 22 KRSV 251655Z AUTO 20016G24KT 10SM SCT015 BKN021 BKN027 24/19 A3008 RMK AO2 T02380194 KTBN 251658Z AUTO 18007G16KT 150V300 10SM BKN028 BKN036 BKN046 25/20 A2998 RMK AO2 CIG 028V036 BKN028 V SCT SLP146 T02540196 KRSW 251653Z 14012KT 10SM SCT042 SCT080 32/21 A3014 RMK AO2 SLP203 T03220211 KRTN 251653Z AUTO VRB04KT 10SM CLR 19/M01 A2991 RMK AO2 SLP062 T01891011 KRUE 251653Z AUTO 16004KT 10SM BKN022 BKN028 OVC036 24/19 A3000 RMK AO2 SLP153 T02390194 $ KSLE 251656Z 32004KT 10SM OVC018 14/09 A3004 RMK AO2 SLP171 T01440089 KSJX 251656Z AUTO 13005KT 7SM SCT003 BKN018 OVC025 17/17 A2978 RMK AO2 T01730168 VVCR 251700Z 22007KT 9999 FEW015 SCT300 30/25 Q1009 NOSIG GCXO 251700Z 32019KT 290V350 9999 FEW010 SCT014 17/11 Q1019 NOSIG KSLG 251655Z AUTO 18012G20KT 10SM BKN024 25/18 A2997 RMK AO1 KSLH 251659Z AUTO 05003KT 7SM OVC005 12/12 A2982 RMK AO2 T01260126 KTAZ 251655Z AUTO 22013KT 10SM BKN028 BKN033 23/17 A3002 RMK AO2 VVCT 251100Z 19007KT 9999 FEW015 BKN040 27/25 Q1008 NOSIG KTBR 251655Z AUTO 12006KT 10SM SCT031 SCT042 BKN055 29/22 A3027 RMK AO2 T02870222 KSLI 251658Z AUTO 17004KT 10SM OVC021 17/13 A3000 RMK AO2 SLP162 T01730129 FNGI 251600Z VRB02KT CAVOK 29/06 Q1018 VTUU 251700Z 00000KT 9999 FEW025 SCT100 26/25 Q1008 A2978 KRTS 251655Z AUTO 33004KT 10SM CLR 17/08 A3001 RMK AO2 LJLJ 251700Z 11005KT 080V140 9999 SCT045 BKN140 17/12 Q1010 NOSIG VTUV 251400Z 17006KT 9999 SCT022 BKN300 30/22 Q1007 A2975 INFO O RWY 18 KSLK 251651Z AUTO 22007KT 10SM OVC090 19/11 A3015 RMK AO2 SLP208 T01890111 LJMB 251700Z 20003KT 170V230 9999 SCT040 OVC100 17/12 Q1009 LIVC 251155Z 00000KT 0000 -RA FG VV000 05/03 Q1018 RMK MON INVIS VAL INVIS VIS MIN 0000 VTUW 250900Z 05005KT 010V070 8000 FEW018TCU SCT022 BKN300 31/24 Q1003 A2962 RWY15 INFO I VVDN 251700Z 22002KT 9999 FEW017 SCT300 29/24 Q1008 NOSIG KTCL 251653Z 16006KT 7SM -RA SCT024 SCT090 BKN110 24/22 A3016 RMK AO2 RAE04B21 SLP209 P0000 T02440217 LIVD 251655Z VRB01KT 9999 BKN030 16/02 Q1012 RMK BKN VIS MIN 9999 KTCM 251623Z AUTO 24007KT 10SM OVC014 12/09 A3002 RMK AO2 $ LIVE 251655Z /////KT 9999 SCT030 13/03 Q1013 RMK SCT VIS MIN 9999 KSLN 251653Z 18010G20KT 10SM OVC021 22/17 A2983 RMK AO2 SLP092 T02220172 KSME 251655Z AUTO 19007KT 150V210 10SM SCT040 OVC048 23/15 A3023 RMK AO2 LIVF 250555Z 22003KT CAVOK 12/07 Q1014 RMK SCT SCT200 MON LIB VAL N NW MAR CLD DIM VIS MIN 9999 KSMF 251653Z 17009KT 10SM CLR 18/11 A2992 RMK AO2 SLP131 T01780111 KSKX 251655Z AUTO 35003KT 10SM SCT045 BKN050 OVC090 13/01 A3004 RMK AO1 KSLO 251655Z AUTO 21012G16KT 10SM SCT020 SCT025 BKN042 26/20 A3005 RMK AO2 T02550200 KTBX 251655Z AUTO 31019KT 1/2SM -RA OVC001 06/05 A3007 RMK AO2 VIS 1/4V5 KTDF 251655Z AUTO 18012G17KT 10SM CLR 25/11 A3034 RMK AO2 KRUQ 251655Z AUTO 17006KT 10SM SCT049 26/13 A3033 RMK AO2 T02560133 KSLR 251655Z AUTO 18010KT 10SM BKN020 OVC026 26/21 A2997 RMK AO2 T02620211 KSNA 251653Z 16003KT 10SM OVC018 17/12 A3000 RMK AO2 SLP159 T01670122 KTCS 251653Z AUTO 28007KT 240V310 10SM CLR 21/02 A2998 RMK AO2 SLP084 T02060017 TSNO EVRA 251650Z 16009KT CAVOK 19/06 Q1012 NOSIG KTEB 251651Z 21009KT 10SM CLR 29/13 A3020 RMK AO2 SLP225 T02890128 KRUT 251655Z AUTO 00000KT 10SM FEW090 SCT120 21/11 A3019 RMK AO1 KSNC 251655Z AUTO 17005KT 10SM CLR 25/14 A3026 RMK AO2 LIVM 251655Z 18007KT CAVOK 22/19 Q1010 RMK SCT SCT200 QUK 2 QUL 1 SE VIS MAR 25 KM VIS MIN 9999 LKCV 251700Z VRB02KT 9999 FEW043 BKN080 OVC220 18/12 Q1010 NOSIG KSMN 251655Z AUTO 34004KT 10SM FEW060 BKN110 14/06 A2993 RMK AO1 LIVO 251655Z 00000KT 9999 FEW036 16/12 Q1010 RMK OVC BKN095 VIS MIN 9999 KSMO 251651Z VRB03KT 8SM OVC017 17/12 A3000 RMK AO2 SLP158 T01670122 $ KRWF 251653Z AUTO 25013KT 10SM FEW017 BKN034 OVC043 18/14 A2971 RMK AO2 SLP059 T01830139 LIVP 250155Z 01007KT 0000 FG VV/// 02/02 Q1017 RMK MON INVIS VAL INVIS VIS MIN 0000 KSMQ 251653Z AUTO 19005KT 10SM CLR 29/14 A3019 RMK AO2 SLP223 T02890144 TSNO $ KSNH 251655Z AUTO 00000KT 3SM FEW006 SCT014 BKN023 20/00 A3014 RMK KTDR 251656Z AUTO 17016G21KT 10SM FEW024 31/24 A3016 RMK AO2 SLP217 T03050242 TSNO $ LIVR 251655Z 15002KT 9999 -RA BKN030 06/02 Q1014 RMK BKN MON CLD CIME VIS MIN 9999 KRWI 251653Z AUTO 15008KT 100V200 10SM CLR 27/14 A3033 RMK AO2 SLP268 T02720139 KRVS 251653Z AUTO 20010KT 10SM SCT023 SCT029 OVC036 26/20 A2991 RMK AO2 SLP132 T02560200 KSMS 251655Z AUTO 14008KT 10SM FEW041 FEW060 SCT095 32/21 A3031 RMK AO2 KSOA 251655Z AUTO 18015KT 10SM FEW024 SCT040 SCT050 27/20 A2993 RMK AO2 LTG DSNT NE LIVT 251655Z 13004KT 9999 SCT025 19/13 Q1010 RMK BKN SCT070 QUK 2 QUL 1 SE VIS MAR 20 KM VIS MIN 9999 KSNK 251655Z AUTO 35018G21KT 10SM CLR 16/11 A2991 RMK AO2 T01620110 TSNO KRWL 251700Z AUTO 25010KT 10SM SCT020 BKN025 OVC041 09/04 A3000 RMK AO2 T00890044 KSNL 251655Z AUTO 19011G15KT SCT024 SCT030 OVC040 24/21 A2993 RMK AO2 PWINO FNHU 251600Z 00000KT CAVOK 25/07 Q1023 FMSD 251700Z 06006KT 9999 FEW016 21/18 Q1017 KRXE 251653Z AUTO 23007KT 180V280 10SM SCT022 14/08 A2996 RMK AO2 SLP119 T01440078 KSMX 251651Z 00000KT 10SM OVC013 14/11 A3002 RMK AO2 SLP167 T01390106 KTDZ 251653Z AUTO 22022G32KT 10SM FEW043 BKN120 27/15 A3002 RMK AO2 PK WND 22036/1617 SLP161 T02670150 TSNO KSPA 251655Z AUTO 22003KT 10SM SCT037 BKN048 BKN060 26/15 A3032 RMK AO2 KSNS 251702Z 25007KT 10SM OVC016 14/09 A3000 RMK AO2 KSNT 251651Z AUTO 34004KT 12/04 A3000 RMK AO1 SLP096 T01170044 KSPB 251653Z AUTO VRB03KT 10SM OVC026 14/08 A3004 RMK AO2 SLP172 T01440083 FNM0 250700Z 00000KT 9999 OVC016 17/15 Q1015 KSPD 251656Z AUTO 00000KT 18/07 A2989 RMK AO1 SLP085 T01830067 KRWV 251650Z AUTO 00000KT 10SM BKN023 BKN031 BKN044 27/24 A2995 RMK AO2 LTG DSNT W KTEW 251653Z AUTO 20007G20KT 170V230 10SM BKN038 OVC045 24/16 A2994 RMK AO2 T02350162 KTEX 251655Z AUTO 00000KT 5SM -RA BKN013 BKN019 OVC039 04/03 A3013 RMK AO2 P0002 T00410030 KSPF 251655Z AUTO 01004KT 1SM -RA BKN003 10/10 A2988 RMK AO2 P0007 KSNY 251705Z AUTO 31012KT 10SM -RA SCT013 OVC043 11/09 A2987 RMK AO2 P0000 T01110089 $ KSPG 251653Z 13006KT 10SM CLR 31/21 A3015 RMK AO2 SLP209 T03110206 $ KSOP 251655Z AUTO 18010G20KT 170V290 10SM FEW042 BKN060 28/12 A3032 RMK AO1 KTFP 251655Z AUTO 15017G26KT 7SM -RA SCT016 SCT033 BKN060 28/25 A2989 RMK AO2 T02830245 KSPI 251652Z 21010G18KT 10SM SCT033 24/17 A3000 RMK AO2 SLP153 T02390167 KTGI 251655Z AUTO 18010KT 10SM CLR 24/19 A3032 RMK AO1 KTHA 251655Z AUTO 16006KT 10SM OVC024 22/17 A3022 RMK KSPL 251655Z AUTO 21015G19KT 37/37 A2988 RMK AO1 KRYN 251646Z 32003KT 10SM 24/05 A2999 KSOW 251655Z AUTO 22005KT 10SM -RA OVC050 11/01 A3013 RMK AO2 KSQE 251655Z AUTO VRB06G13KT 7SM FEW017 29/25 A3007 RMK A01 KSQI 251655Z AUTO 25014G20KT 10SM SCT024 BKN034 OVC048 23/18 A2990 RMK AO1 KSPR 251655Z AUTO 15015KT 9SM CLR 28/25 A3005 RMK A01 KSPS 251652Z AUTO 15007KT 10SM FEW022 23/19 A2986 RMK AO2 SLP100 T02330194 MBGT 251700Z 08016KT 9999 SCT015 32/22 Q1020 FNMA 251400Z 18005KT 9999 SCT007 26/24 Q1016 EVVA 251650Z AUTO 27004KT CAVOK 16/01 Q1012 KSRB 251655Z AUTO 19007KT 150V220 10SM FEW065 24/17 A3021 RMK KRYT 251653Z AUTO 23006KT 10SM CLR 26/14 A3022 RMK AO2 SLP225 T02560139 $ KSQL 251647Z 28009KT 10SM BKN020 14/09 A2999 KRZL 251655Z AUTO 21017G20KT 10SM SCT060 SCT070 SCT085 23/20 A2996 RMK AO2 KSRC 251656Z AUTO 18006KT 10SM FEW014 SCT022 OVC028 25/21 A3005 RMK AO2 SLP178 T02500206 TSNO FNKU 251500Z 15008KT 9999 FEW013 24/06 Q1021 KRYV 251655Z AUTO 22016G20KT 10SM BKN024 OVC035 21/18 A2980 RMK AO2 T02080183 KSPW 251653Z AUTO 24016KT 10SM SCT016 BKN022 BKN031 21/17 A2977 RMK AO2 SLP077 T02060167 TSNO $ KRYW 251655Z AUTO 13004KT 10SM -VCTSRA BKN012 OVC019 24/22 A2993 RMK AO2 LTG DSNT SW THRU N T02370218 LIYW 251658Z AUTO 11011KT 9999 BKN070 OVC085 21/13 A2982 RMK AO2 SLP098 T02110133 KRZN 251650Z AUTO 20003KT 2 1/2SM BR OVC004 16/15 A2968 RMK AO2 VIS 2V4 T01550148 KTIF 251655Z AUTO 25006KT 10SM -RA SCT046 BKN065 OVC080 16/13 A2979 RMK AO2 T01570128 KRYY 251648Z 13010KT 10SM BKN028 26/18 A3027 WMKA 251700Z 06002KT 9999 FEW030 BKN260 27/25 Q1011 LJPZ 251700Z 11007KT 9999 FEW040 BKN100 18/13 Q1010 WMKB 251700Z 03001KT 8000 FEW025 BKN270 28/27 Q1010 NOSIG KRZR 251655Z AUTO 20011KT 10SM FEW070 26/15 A3024 RMK MASA 250600Z 36004KT 9999 OVC015 118 WMKC 251700Z 30001KT 8000 -RA FEW017CB SCT020 BKN220 24/23 Q1011 WMKD 251700Z 00000KT 8000 FEW008 SCT160 BKN280 24/24 Q1011 NOSIG KTIK 251658Z AUTO 17017KT 10SM FEW023 24/19 A2990 RMK AO2 SLP122 T02400189 KRZT 251655Z AUTO 22018G23KT 10SM CLR 28/12 A3014 RMK AO2 WMKE 251100Z 19003KT 9999 FEW018 BKN250 28/26 Q1008 KSSC 251658Z AUTO 20006KT 10SM FEW044 28/15 A3029 RMK AO2 SLP257 T02840154 $ GEML 251700Z VRB01KT 9999 SCT015 SCT030 17/15 Q1017 FNLU 251700Z 20010KT 9999 FEW020 BKN230 27/21 Q1011 NOSIG KTHV 251653Z AUTO VRB05G14KT 10SM CLR 27/16 A3021 RMK AO2 SLP229 T02720156 KW13 251655Z AUTO 16012G17KT 10SM SCT047 25/14 A3028 RMK AO1 T02500143 KSSF 251653Z 16010KT 10SM BKN021 BKN030 OVC040 27/22 A2986 RMK AO2 SLP102 T02670222 FNMO 251600Z 24010KT 9999 OVC013 20/17 Q1013 WMKI 251700Z 02004KT 8000 FEW030 SCT140 BKN260 27/25 Q1011 KTIP 251655Z AUTO 24019G27KT 10SM SCT034 BKN045 27/17 A2999 RMK AO2 T02680169 WMKJ 251700Z 01001KT 4000 BR FEW008 BKN300 24/24 Q1012 KSRQ 251653Z 11010KT 10SM SCT045 BKN055 31/21 A3014 RMK AO2 SLP206 T03110206 WMKK 251700Z 15008KT 120V200 8000 -RA FEW010 FEW017CB SCT140 BKN270 27/22 Q1012 TEMPO 7000 -TSRA KSRR 251655Z AUTO 32012G20KT 10SM CLR 16/00 A3007 RMK AO2 WMKL 251700Z 03002KT 9999 FEW025 SCT140 BKN270 27/25 Q1011 WMKM 251700Z 01001KT 9999 FEW017CB SCT028 BKN280 28/26 Q1012 LKKB 251700Z 29005KT CAVOK 18/10 Q1011 NOSIG WMKN 251700Z 32005KT 9999 FEW024 BKN300 26/24 Q1011 KSTC 251653Z 23008KT 10SM SCT014 OVC021 16/14 A2966 RMK AO2 SLP053 T01610144 KTKC 251653Z AUTO 25009G15KT 10SM SCT022 BKN033 OVC039 20/15 A2974 RMK AO2 T01990152 KW22 251655Z AUTO 00000G11KT 10SM CLR 26/13 A3024 RMK AO2 WMKP 251700Z 36001KT 8000 FEW025 SCT140 BKN270 28/26 Q1011 NOSIG KTIW 251653Z VRB03KT 10SM OVC016 12/08 A3003 RMK AO2 SLP169 T01170083 KSTE 251655Z AUTO 22014G19KT 10SM SCT010 OVC015 19/17 A2973 RMK AO2 T01880168 KUBE 251655Z AUTO 23007KT 7SM OVC005 16/15 A2969 RMK AO2 KTIX 251650Z 11017KT 7SM BKN030 BKN100 30/22 A3022 KUAO 251653Z AUTO 00000KT 10SM FEW026 OVC035 14/09 A3005 RMK AO2 SLP176 T01390089 KSTF 251655Z AUTO 15011G18KT 1SM +TSRA BKN003 BKN009 OVC024 21/20 A3014 RMK AO2 P0041 LTG DSNT ALQS LLBG 251650Z 30004KT CAVOK 31/09 Q1010 NOSIG KTKI 251653Z 14010KT 10SM BKN014 OVC021 23/22 A2991 RMK AO2 SLP128 T02330217 KSTJ 251653Z 18014KT 10SM BKN065 24/17 A2985 RMK AO2 SLP102 T02390172 KSUA 251650Z 09014G20KT 7SM BKN023 29/22 A3020 KW29 251650Z AUTO 17008G14KT 10SM A3026 RMK AO1 KSTK 251650Z AUTO 34014KT 10SM BKN048 OVC060 13/07 A2988 RMK AO2 KSTL 251651Z 21009KT 10SM FEW035 BKN200 26/16 A3001 RMK AO2 SLP152 T02610161 KW31 251655Z AUTO 18009G16KT 10SM SCT043 25/15 A3032 RMK AO1 T02510145 KSUE 251655Z AUTO 18014G21KT 7SM BKN005 OVC018 15/13 A2973 RMK AO1 KSTP 251653Z 25008G17KT 10SM BKN019 OVC024 18/15 A2971 RMK AO2 SLP057 T01780150 KTLH 251653Z 15007KT 10SM BKN050 BKN250 32/21 A3018 RMK AO2 SLP220 OCNL LTG DSNT W CB DSNT W T03170211 VVNB 251700Z 08006KT CAVOK 29/27 Q1004 NOSIG KSTS 251653Z 19004KT 10SM OVC008 12/09 A2995 RMK AO2 SLP137 T01220094 KTMA 251650Z AUTO 15009KT 10SM SCT037 SCT045 SCT055 30/18 A3023 RMK AO2 T02960178 KTMB 251653Z 10014G23KT 10SM FEW025 32/22 A3016 RMK AO2 SLP211 T03220217 LKKU 251402Z 01009KT 9999 -RA FEW033 19/11 Q1010 KSVC 251655Z AUTO 30010G17KT 10SM 19/M04 A3007 RMK AO2 KTKV 251655Z AUTO 00000KT 7SM BKN005 OVC012 17/16 A2970 RMK AO2 T01700163 LKKV 251700Z 25003KT CAVOK 14/08 Q1012 LKLN 251700Z AUTO 08001KT 9999 -RA FEW015 SCT060 13/12 Q1012 RERA KSUN 251647Z 15007KT 10SM SCT080 14/08 A2998 KTME 251655Z AUTO 16016G23KT 10SM BKN032 BKN037 BKN065 29/23 A2995 RMK AO2 KW43 251655Z AUTO 01005KT 10SM -RA BKN006 OVC011 11/10 A2990 RMK AO2 P0001 KUDG 251655Z AUTO 14007KT 10SM FEW049 27/14 A3032 RMK AO1 KUCP 251656Z AUTO 21011G15KT BKN050 28/16 A3016 RMK AO2 T02770161 SLP221 $ KSVH 251655Z AUTO 00000KT 10SM BKN040 OVC046 24/14 A3032 RMK AO2 T02380143 KSUS 251654Z VRB04KT 10SM SCT037 BKN200 26/18 A2999 RMK AO2 SLP150 T02560178 LKNA 251700Z 01003KT CAVOK 17/08 Q1010 NOSIG RMK BLU BLU KTMK 251655Z AUTO 00000KT 10SM SCT025 BKN030 13/10 A3007 RMK AO2 KSUT 251655Z AUTO 16007KT 10SM CLR 26/17 A3035 RMK AO2 T02570166 KTNB 251655Z AUTO 28003KT 10SM CLR 22/12 A3038 RMK AO2 T02160117 KSUU 251628Z AUTO 24018G24KT 10SM SCT011 15/10 A2992 RMK AO2 $ KSVN 251658Z AUTO 11011KT 10SM FEW023 SCT210 27/21 A3025 RMK AO2 RAE00 SLP246 P0000 T02660206 $ KSUW 251655Z AUTO 08014KT 10SM -DZ OVC004 10/10 A2970 RMK AO2 P0002 T00970095 KSUX 251652Z 21006KT 10SM FEW014 BKN110 21/16 A2976 RMK AO2 SLP073 T02060161 KSWF 251645Z VRB05KT 15SM FEW060 SCT100 27/18 A3020 KUCY 251655Z AUTO 16006KT 10SM FEW012 OVC020 22/00 A3009 RMK VVPB 251700Z 20003KT CAVOK 27/24 Q1007 NOSIG KTOA 251648Z 00000KT 10SM OVC017 19/12 A3000 FNSA 251400Z VRB03KT CAVOK 30/10 Q1016 LKMT 251700Z 05004KT 9999 -RA BKN026 15/12 Q1010 NOSIG KTOB 251654Z AUTO 24017KT 10SM SCT019 SCT026 BKN031 20/16 A2974 RMK AO2 P0001 KTOC 251655Z AUTO 16003KT 10SM BKN027 BKN036 OVC050 24/17 A3031 RMK AO2 T02380171 KW63 251655Z AUTO 17010KT 140V210 10SM CLR 26/14 A3031 RMK AO1 KSWO 251653Z AUTO 19016G24KT 10SM FEW027 BKN035 26/19 A2988 RMK AO2 SLP110 T02560189 TSNO KTOI 251653Z AUTO 13009G17KT 10SM FEW024 SCT037 29/22 A3019 RMK AO2 SLP218 T02890217 KTPA 251653Z VRB05KT 10SM SCT045 BKN230 31/19 A3017 RMK AO2 SLP216 T03110194 KUES 251645Z 23014G20KT 7SM BKN025 BKN032 BKN049 21/17 A2983 LLET 251650Z 36006KT CAVOK 41/04 Q1009 KTOL 251652Z 23017G25KT 10SM SCT043 BKN050 26/16 A3001 RMK AO2 SLP157 T02560161 KTNU 251655Z AUTO 21009G17KT 10SM SCT022 SCT027 22/18 A2983 RMK AO2 PWINO LKPD 251700Z 30003KT 230V350 CAVOK 18/10 Q1010 NOSIG RMK BLU BLU KSWW 251655Z AUTO 34011G16KT 10SM SCT120 15/13 A2994 RMK AO2 LTG DSNT ALQS P0001 T01480129 VVPQ 251700Z 24009KT 9999 FEW017 SCT040 30/24 Q1011 NOSIG KTPF 251655Z AUTO 15009G14KT 10SM SCT048 33/20 A3017 RMK AO2 KSYF 251655Z AUTO 29011G16KT 10SM SCT035 18/08 A2982 RMK AO2 T01760080 FNSO 251600Z 18011KT CAVOK 28/22 Q1011 KTOP 251653Z 18016G21KT 10SM SCT029 SCT034 BKN043 23/17 A2987 RMK AO2 SLP109 T02330172 KW75 251655Z AUTO 20013G19KT 10SM CLR 26/15 A3031 RMK AO1 T02630149 KTPH 251656Z AUTO 32003KT 10SM FEW100 17/02 A3004 RMK AO2 SLP123 T01720022 KTOR 251653Z AUTO 27008KT 4SM -RA BR BKN007 BKN016 OVC031 11/10 A2987 RMK AO2 SLP096 P0006 T01110100 KSYI 251655Z AUTO 15006KT 10SM OVC025 23/20 A3019 RMK LLHA 251650Z VRB02KT CAVOK 27/11 Q1010 KSXS 251656Z AUTO 14009KT 10SM FEW021 SCT031 29/22 A3019 RMK AO2 LTG DSNT S AND W SLP222 T02860217 KW78 251655Z AUTO 18009KT 10SM CLR 26/12 A3031 RMK AO1 T02640120 KSXT 251656Z AUTO 00000KT 10SM CLR 13/08 A3002 RMK AO2 SLP143 T01330083 FNUB 251700Z 28010KT 9999 FEW035 24/08 Q1024 KTPL 251655Z AUTO 15009KT 10SM FEW002 SCT016 SCT036 23/20 A2993 RMK AO1 LTG DSNT SW KW81 251655Z AUTO 20006G14KT 10SM SCT046 26/13 A3030 RMK AO1 T02600133 FNSU 251500Z 20016KT CAVOK 26/20 Q1014 KSYM 251650Z AUTO 23014G23KT 10SM OVC046 26/15 A3022 RMK AO2 KSYN 251654Z AUTO 24014G21KT 10SM SCT020 SCT025 OVC030 20/15 A2971 RMK AO2 T01990148 KTQE 251654Z AUTO 18014KT 10SM CLR 24/15 A2977 RMK AO2 SLP070 T02440150 KUGN 251655Z 22017G26KT 10SM FEW021 FEW029 SCT034 23/17 A2985 RMK AO2 PK WND 22026/1655 RAE14 SLP100 P0001 T02280172 FNUE 251500Z 12007KT 9999 SCT040 26/08 Q1019 FNUG 251600Z 24010KT 9999 FEW020 28/19 Q1014 WMSA 251600Z 33001KT 5000 HZ FEW017CB SCT026 BKN140 27/25 Q1012 KTQH 251655Z AUTO 17009G14KT 10SM SCT023 BKN032 BKN038 23/20 A2996 RMK AO2 KSYR 251654Z 00000KT 10SM SCT120 SCT200 BKN250 28/13 A3008 RMK AO2 SLP182 T02780133 $ LKPR 251700Z 26007KT 9999 FEW030 15/10 Q1011 NOSIG LLIB 251450Z 23008KT CAVOK 33/04 Q1012 KSZL 251658Z AUTO 16010G17KT 10SM FEW012 22/19 A2992 RMK AO2 SLP130 T02180186 $ MBPV 251700Z 04016KT 9999 SCT015 30/21 Q1019 GFLL 251700Z 30009KT 9999 NSW SCT015 FEW027CB 30/25 Q1010 RMK CB-NE KW96 251655Z AUTO 18007KT 130V240 10SM SCT049 26/15 A3030 RMK AO1 T02630150 KTRI 251653Z VRB06G15KT 10SM FEW250 27/12 A3027 RMK AO2 SLP225 T02720122 MDAB 251700Z 09005KT 9999 SCT022 30/26 Q1018 KSZT 251655Z AUTO 02005KT 10SM SCT045 SCT065 SCT120 12/11 A2992 RMK AO2 KTRK 251650Z 03003KT 10SM FEW004 FEW010 SCT045 11/09 A3007 RMK NOSPECI KW99 251655Z AUTO 15003KT 10SM CLR 28/11 A3021 RMK AO2 T02770114 KTRL 251653Z AUTO 17015KT 10SM FEW023 SCT029 BKN049 27/21 A2993 RMK AO2 RAB1557E09 SLP128 P0000 T02670211 KUIL 251653Z AUTO 20005KT 3SM BR SCT006 BKN010 OVC016 12/12 A3001 RMK AO2 CIG 009V012 SLP161 T01170117 KTRM 251652Z AUTO 25003KT 10SM CLR 26/11 A2986 RMK AO2 SLP113 T02610111 TSNO KVAD 251658Z AUTO 19008KT 10SM FEW040 SCT048 SCT170 30/19 A3021 RMK AO2 SLP230 T02970194 $ KUIN 251654Z AUTO 21013KT 10SM SCT024 23/17 A2996 RMK AO2 SLP138 T02330172 KVAF 251655Z AUTO 15019KT 4SM HZ SCT018 28/25 A2996 RMK A01 KTTA 251655Z AUTO 22006KT 10SM CLR 27/12 A3032 RMK AO2 T02660122 LKTB 251700Z 08005KT 9999 FEW047 18/12 Q1010 TEMPO SHRA KTTD 251653Z AUTO 00000KT 10SM OVC035 14/08 A3004 RMK AO2 SLP172 T01440083 KTTF 251654Z AUTO 23012G22KT 10SM BKN043 BKN050 27/17 A2998 RMK AO2 KUKF 251655Z AUTO 16006KT 10SM SCT041 23/13 A3038 RMK AO2 KTSP 251655Z AUTO 29010KT 10SM CLR 18/08 A3002 RMK AO2 KVBG 251648Z AUTO 33006KT 6SM BR OVC007 12/11 A3003 RMK AO2 OVC V BKN MDBH 251700Z 13016KT 9999 FEW026 31/21 Q1019 FOOG 251500Z /////KT 9999 FEW011 SCT040 29/24 Q1011 VVTS 251700Z 21007KT 9999 FEW017 SCT050 28/24 Q1010 NOSIG KUKI 251656Z AUTO 00000KT 10SM CLR 16/11 A2992 RMK AO2 SLP126 T01560106 KVCB 251653Z AUTO 21008KT 10SM CLR 17/11 A2994 RMK AO2 SLP137 T01720106 FOOL 250656Z VRB02KT 6000 SCT009 FEW018CB BKN040 25/25 Q1014 NOSIG KTTN 251653Z 20015G20KT 10SM CLR 29/14 A3023 RMK AO2 SLP228 T02890139 FOON 251500Z /////KT 9999 BKN016 30/22 Q1010 KVAY 251654Z AUTO 23008G20KT 10SM CLR 29/14 A3024 RMK AO2 SLP239 T02890139 KVBS 251655Z AUTO 19012G19KT 170V270 10SM CLR 27/25 A3000 RMK A01 KTTS 251658Z AUTO 11009G14KT 080V150 10SM FEW027 SCT180 30/22 A3021 RMK AO2 SLP234 T02950223 KVBT 251655Z AUTO 19008G17KT 170V230 10SM BKN026 BKN035 24/18 A2997 RMK AO1 KUKT 251650Z AUTO 23008G16KT 10SM CLR 28/14 A3023 RMK AO1 KTUL 251653Z 18015KT 10SM SCT023 OVC036 24/21 A2990 RMK AO2 SLP120 T02440206 KTVC 251653Z 20010G22KT 160V230 10SM BKN027 BKN036 OVC055 24/18 A2978 RMK AO2 SLP083 T02390178 KULM 251654Z AUTO 24011KT 10SM SCT021 BKN025 OVC030 18/15 A2972 RMK AO2 KVBW 251655Z AUTO 20009KT 10SM CLR 25/14 A3026 RMK AO2 T02530144 KVDF 251655Z AUTO 10006G14KT 10SM SCT041 32/21 A3018 RMK AO2 KTVF 251655Z AUTO 00000KT 10SM CLR 18/11 A2978 RMK AO1 KTUP 251653Z 15008KT 10SM OVC005 21/19 A3014 RMK AO2 LTG DSNT E AND SE RAE1555 CIG 004V008 SLP202 P0000 T02060189 RJAA 251700Z 36010KT 9999 FEW015 BKN050 17/14 Q1008 NOSIG KTVI 251655Z AUTO 14007KT 10SM BKN034 30/21 A3022 RMK AO2 KVDI 251655Z AUTO 18003KT 10SM SCT033 30/20 A3025 RMK AO2 KTUS 251653Z 03004KT 10SM CLR 24/04 A3000 RMK AO2 SLP120 T02440044 KVCT 251651Z 15018G29KT 10SM BKN024 BKN034 29/24 A2992 RMK AO2 PK WND 14029/1645 SLP130 T02890239 KTVK 251655Z AUTO 17014KT 10SM CLR 23/23 A2988 RMK AO2 KTVL 251653Z AUTO 12003KT 10SM OVC007 09/07 A3009 RMK AO2 SLP153 T00940067 KVCV 251655Z AUTO 26004KT 10SM CLR 22/06 A2996 RMK AO2 RJAF 250700Z 34004KT 290V030 9999 SCT060 BKN120 24/08 Q1008 LKVO 251100Z 30007KT 250V340 9999 FEW036 18/11 Q1013 KTWF 251653Z 30007KT 10SM CLR 19/09 A2992 RMK AO2 SLP092 T01940094 MDCY 251700Z 00000KT 8000 RA BKN016 24/23 Q1017 RJAH 251700Z 05004KT 9999 FEW030 SCT090 15/12 Q1008 KTVR 251653Z AUTO 18009G15KT 10SM FEW022 28/21 A3007 RMK AO2 SLP187 T02780211 KUNI 251655Z AUTO 21006KT 10SM SCT070 SCT090 BKN110 26/14 A3017 RMK AO2 T02570138 RJBB 251700Z 16005KT CAVOK 20/17 Q1009 NOSIG RJBD 251000Z VRB02KT 9999 FEW025 SCT150 BKN/// 21/15 Q1008 KVEL 251653Z AUTO 00000KT 10SM FEW016 BKN036 OVC110 11/07 A3002 RMK AO2 RAE46 SLP137 P0000 T01110067 RJBE 251200Z 22012KT CAVOK 20/18 Q1008 KTWM 251653Z AUTO 07016G25KT 7SM -RA BKN008 OVC011 16/13 A2968 RMK AO2 P0021 SABE 251700Z 36005KT CAVOK 18/04 Q1020 KUNO 251653Z AUTO 16010KT 10SM SCT022 BKN027 BKN039 24/19 A3003 RMK AO2 SLP156 T02440189 $ KTVY 251655Z AUTO 01007KT 10SM CLR 17/08 A2997 RMK AO2 SAAR 251700Z 09005KT CAVOK 18/10 Q1020 KVER 251655Z AUTO 16013G17KT 10SM SCT021 23/17 A2994 RMK AO2 T02290171 RJAT 242232Z 05005KT 9999 FEW015 SCT100 19/11 Q1013 RMK 1CU015 3AC100 A2992 RJCB 251100Z VRB02KT CAVOK 09/04 Q1012 KVES 251655Z AUTO 21016G21KT 10SM BKN020 OVC027 21/17 A3010 RMK AO2 RJCC 251700Z 18007KT 9999 FEW015 BKN025 10/05 Q1010 EYKA 251650Z 00000KT CAVOK 20/01 Q1012 KTXK 251701Z 19010G16KT 10SM FEW021 SCT026 SCT080 27/21 A3000 RMK AO2 T02670211 KUNU 251655Z AUTO 22020G25KT 10SM SCT021 BKN031 OVC050 22/17 A2980 RMK AO2 T02190171 RJAW 251500Z 20009KT 9999 FEW012 BKN230 25/23 Q1014 RMK 1CU012 A2995 KUNV 251653Z 22007KT 10SM SKC 27/13 A3019 RJCH 251100Z 06005KT CAVOK 11/08 Q1011 RJCK 251100Z 16005KT 9999 FEW012 SCT160 08/05 Q1014 RJBT 250900Z 36006KT 9999 FEW035 SCT/// 21/06 Q1008 RJDC 251200Z 01004KT 9999 FEW030 21/16 Q1008 RJCM 251100Z 18015KT CAVOK 12/03 Q1010 RJCN 250900Z 06004KT CAVOK 09/04 Q1012 RJCO 242201Z 15019G29KT 9999 NSC 14/03 Q1011 RMK A2988 SADF 251700Z 25004KT CAVOK 18/06 Q1020 SACO 251700Z 00000KT 6000 -DZ SCT015 OVC020 12/10 Q1021 KUOX 251655Z AUTO 15007KT 10SM BKN016 OVC021 23/20 A3013 RMK AO2 LTG DSNT E PWINO PNO KTYQ 251655Z AUTO 21016G21KT 10SM BKN015 OVC024 23/18 A3007 RMK AO2 T02310176 FQCH 250900Z /////KT 9999 BKN015 24/16 Q1022 KTYR 251653Z 16011KT 10SM BKN022 BKN030 OVC080 27/21 A2997 RMK AO2 SLP142 T02720206 FQBR 251600Z 05006KT 9999 FEW020 25/21 Q1015 RJEB 250700Z 09009KT CAVOK 09/01 Q1011 KTYS 251653Z 18013KT 10SM FEW042 SCT180 SCT250 28/13 A3023 RMK AO2 SLP225 T02830128 RJEC 251100Z 20009KT 170V240 CAVOK 15/03 Q1009 KVGT 251653Z VRB05KT 10SM CLR 22/09 A2995 RMK AO2 SLP141 T02170094 RJCW 250900Z 11014KT 9999 FEW050 BKN100 BKN/// 08/03 Q1009 KVIH 251653Z AUTO 25006KT 10SM SCT028 OVC034 24/19 A2999 RMK AO2 SLP147 T02390189 KTZR 251647Z 21022G31KT 10SM BKN046 BKN095 27/17 A3013 RJDT 251100Z 28005KT CAVOK 21/01 Q1008 MDJB 251700Z 09010KT 9999 SCT025 32/23 Q1017 LLSD 251650Z 35005KT CAVOK 26/21 Q1009 RJFF 251700Z 10002KT CAVOK 18/14 Q1009 KUSE 251655Z AUTO 22020KT 10SM SCT036 BKN042 BKN047 26/18 A3000 RMK AO2 RJFG 250900Z 07003KT 010V120 9999 FEW010 21/19 Q1008 KVJI 251655Z AUTO 27003KT 10SM CLR 26/11 A3030 RMK AO2 T02630109 RJFK 251200Z VRB01KT 9999 FEW045 19/13 Q1010 KUTA 251655Z AUTO 16008KT 10SM SCT013 BKN022 OVC029 23/21 A3008 RMK AO2 KVIS 251655Z AUTO 23003KT 7SM CLR 22/12 A2991 RMK AO1 KY19 251655Z AUTO 07006KT 10SM SCT016 16/13 A2987 RMK AO2 RJFM 251200Z 25003KT 220V300 9999 FEW030 20/16 Q1009 KWAL 251654Z AUTO 19016KT 10SM CLR 24/18 A3034 RMK AO2 SLP270 T02390183 RJFO 251300Z 25004KT 9999 FEW025 SCT100 BKN120 19/14 Q1009 KY23 251655Z AUTO 17005KT 10SM OVC005 17/16 A2969 RMK AO2 T01700162 RJGG 251700Z 08002KT 9999 FEW030 SCT/// 20/16 Q1008 BECMG 06005KT SAEZ 251700Z 31006KT 210V340 CAVOK 18/06 Q1020 RJFR 251700Z VRB01KT 9999 FEW040 20/16 Q1009 RJFS 251700Z 34004KT CAVOK 17/13 Q1009 RJFT 251200Z 13003KT 100V170 9999 FEW040 BKN080 22/11 Q1009 RJFU 251200Z 33009KT CAVOK 21/16 Q1009 EYPA 251650Z VRB01KT CAVOK 18/07 Q1012 KVLD 251653Z 14009G16KT 10SM FEW037 31/19 A3022 RMK AO2 SLP238 T03110194 KUTS 251653Z AUTO 17009G18KT 10SM FEW024 SCT032 SCT049 29/21 A2995 RMK AO2 SLP138 T02890211 KVKS 251655Z AUTO 18010KT 10SM SCT027 28/22 A3008 RMK A01 KUVA 251655Z AUTO 15009KT 10SM BKN009 BKN014 OVC032 25/23 A2988 RMK AO2 LTG DSNT NE T02510231 KVLL 251654Z AUTO 21010G23KT 10SM SCT033 BKN039 OVC047 25/17 A3000 RMK AO2 T02500165 GGOV 251700Z 22012KT 190V250 CAVOK 34/19 Q1010 NOSIG KVKY 251655Z AUTO 00000KT 10SM FEW035 FEW044 SCT055 26/23 A3012 RMK A01 KWDG 251650Z 17020G25KT 7SM SCT021 BKN130 26/21 A2984 SBAA 251600Z 18006KT 9999 FEW020 BKN100 37/20 Q1013 MDLR 251700Z 08012KT 9999 BKN024 32/21 Q1017 KY50 251703Z AUTO 24012G23KT 10SM SCT019 BKN029 BKN100 22/19 A2975 RMK AO2 TSNO KY49 251655Z AUTO 05006KT 4SM RA SCT012 BKN042 OVC050 14/13 A2973 RMK AO2 P0016 T01360128 KVNC 251655Z AUTO 13006G15KT 10SM CLR 32/20 A3015 RMK AO2 KUUU 251653Z AUTO 17006KT 10SM FEW120 18/13 A3027 RMK AO2 SLP249 T01780128 LMML 251645Z 14006KT 9999 FEW025 21/15 Q1011 NOSIG KY51 251655Z AUTO 24015G19KT 10SM BKN014 OVC020 20/19 A2978 RMK AO1 T01950186 SBAF 251600Z 07003KT CAVOK 33/17 Q1015 RJKA 251000Z 01006KT 9999 FEW012 SCT040 BKN170 24/20 Q1007 KWDR 251655Z AUTO 13004KT 10SM SCT026 BKN043 OVC050 26/20 A3032 RMK AO1 KVOA 251655Z AUTO 14012KT 10SM CLR 28/24 A3012 RMK A01 EYSA 251650Z 15008KT CAVOK 18/06 Q1013 SBAN 251600Z 16006KT 9999 FEW020 26/13 Q1021 SBBE 251700Z 26004KT 9999 TS BKN020 FEW025CB BKN100 31/24 Q1009 KY63 251655Z AUTO 01015G20KT 10SM -RA OVC009 14/13 A2969 RMK AO2 P0006 T01360130 SBBG 251700Z 13008KT 9999 FEW023 20/13 Q1018 FQIN 250800Z 00000KT 9999 FEW020 26/18 Q1020 SBBH 251600Z 26002KT CAVOK 28/12 Q1019 SBBI 251600Z 31003KT 9999 BKN011 BKN020 22/19 Q1020 SBAR 251700Z 17007KT 9999 SCT015 FEW017TCU 28/24 Q1013 SBCA 251641Z 03012KT 4000 -RA BR SCT002 SCT040 OVC070 19/19 Q1017 SBAT 251600Z 09009KT 9999 SCT030 34/22 Q1014 SBCB 251700Z 15005KT CAVOK 32/23 Q1014 SBCC 251600Z 09009KT 9999 BKN035 FEW040TCU 30/20 Q1016 SBAU 251300Z 06008KT CAVOK 25/18 Q1018 KY70 251654Z AUTO 22016G25KT 10SM SCT024 BKN110 24/20 A2989 RMK AO2 P0008 T02370199 KVOK 251658Z AUTO 22011KT 10SM FEW023 SCT050 SCT150 BKN210 21/21 A2973 RMK AO2 SLP068 T02130213 KVPC 251653Z AUTO 15006KT 10SM BKN033 OVC060 26/18 A3025 RMK AO2 SLP232 T02560178 MDPC 251700Z 09010KT 9999 SCT025 30/23 Q1018 NOSIG KUXL 251655Z AUTO 16014G19KT 10SM BKN090 30/23 A3003 RMK AO2 T02970233 SBAX 251600Z 33003KT CAVOK 27/17 Q1022 SBCF 251700Z 08004KT 9999 FEW030 27/11 Q1019 SBCG 251700Z 30008KT 9999 SCT030 FEW035TCU 29/21 Q1016 KUYF 251655Z AUTO 22021G36KT 10SM BKN100 22/15 A3014 RMK AO2 SBBQ 251600Z 08003KT CAVOK 27/10 Q1023 SBCH 251600Z 16005KT 9999 SCT012 SCT020 BKN080 23/19 Q1017 KVNY 251651Z 12005KT 10SM OVC014 16/11 A2999 RMK AO2 SLP152 T01560111 SBCI 251600Z 01002KT 9999 SCT020 37/23 Q1012 SBBR 251700Z 15004KT CAVOK 26/10 Q1020 SBCJ 251700Z 17006KT 9999 SCT021 29/21 Q1015 KUZA 251654Z AUTO 20005KT 10SM BKN046 27/14 A3032 RMK AO2 SLP257 T02670139 SBBU 251600Z 35002KT CAVOK 29/19 Q1018 SBCM 251600Z 24005KT 2000 -DZ BR SCT002 BKN005 BKN012 19/18 Q1018 FPST 251500Z 13010KT 9999 FEW020CB SCT040 30/25 Q1011 NOSIG SBBV 251700Z 06011KT 9999 BKN040 BKN100 29/19 Q1013 SBBW 251600Z 18004KT 9999 SCT020 31/20 Q1017 FQLC 251700Z 07006KT 9999 FEW016 17/14 Q1023 SAME 251700Z 36006KT CAVOK 15/01 Q1017 SBCO 251600Z 15009KT 9999 BKN030 22/16 Q1018 SBCP 251700Z 00000KT CAVOK 31/19 Q1014 MDPP 251700Z 06016KT 9999 SCT020 30/24 Q1018 SBCR 251700Z 00000KT 9999 FEW020 32/24 Q1013 KVPS 251658Z 14015G21KT 10SM BKN016 BKN055 OVC180 29/24 A3015 RMK AO2A CIG 012V019 SLP215 T02860238 $ SBCT 251700Z 17003KT 3000 -RA BKN008 BKN013 21/19 Q1019 RERA FQMA 251700Z 03008KT CAVOK 25/13 Q1014 NOSIG KVRB 251653Z 10013KT 10SM FEW021 31/23 A3020 RMK AO2 SLP226 T03110228 SBDN 251600Z 36006KT 9999 FEW020 30/18 Q1016 SBCX 251600Z 18006KT 4000 VCFG BR SCT003 BKN006 16/16 Q1020 RJNG 251443Z 15002KT 9999 FEW030 BKN100 19/16 Q1009 RMK 1CU030 5AC100 A2982 SBCY 251700Z 02007KT 9999 SCT020 SCT100 33/21 Q1014 SBEG 251700Z 10006KT 9999 SCT020 FEW025TCU 31/23 Q1011 SBCZ 251700Z 00000KT 9999 SCT015 BKN100 30/26 Q1014 KWHP 251447Z 09004 9SM OVC020 13/10 A3002 KVQQ 251650Z 13012G18KT 10SM BKN033 28/22 A3023 KVPZ 251656Z AUTO 22024G37KT 10SM FEW041 SCT049 BKN095 24/15 A2994 RMK AO2 PK WND 22038/1639 RAB1558E08B41E51 SLP132 P0001 T02440150 TSNO $ RJOA 251200Z 31003KT 9999 FEW020 19/11 Q1010 SBEK 251600Z 05002KT 9999 FEW018 32/25 Q1012 RJNK 251700Z 13003KT 8000 FEW100 17/15 Q1009 RJOB 251200Z 36005KT 320V050 9999 FEW025 SCT080 BKN100 21/14 Q1009 EYVI 251650Z 13004KT CAVOK 19/10 Q1013 NOSIG RJOC 251100Z 25004KT CAVOK 21/16 Q1008 KVQT 251655Z AUTO 16018KT 9SM FEW120 30/25 A3003 RMK A01 SAOC 251700Z 36013KT 9999 OVC060 15/06 Q1018 MDSD 251700Z 16010KT 9999 SCT020 31/23 Q1016 NOSIG KVSF 251654Z AUTO 00000KT 10SM BKN085 OVC110 19/11 A3021 RMK AO2 SLP231 T01890111 TSNO KWJF 251656Z AUTO VRB04KT 10SM CLR 23/07 A2994 RMK AO2 SLP126 T02280072 TSNO RJOH 251700Z 19004KT 9999 NSC 15/13 Q1009 SBFI 251700Z 05002KT 9999 -RA BKN013 24/22 Q1014 RJOI 251655Z 00000KT 9999 FEW030 19/15 A2981 RMK SLP095 T01940150 SBES 251600Z 17006KT CAVOK 30/19 Q1015 RJNS 251100Z 27003KT 9999 FEW025 BKN110 BKN/// 20/15 Q1009 RJOK 251100Z VRB01KT 9999 FEW060 20/16 Q1009 RJNT 251200Z 36005KT 9999 FEW030 SCT100 BKN120 20/13 Q1009 KVTA 251654Z AUTO 22012G20KT 10SM CLR 27/16 A3012 RMK AO2 PK WND 23032/1617 SLP194 T02720161 $ SANT 251700Z 00000KT 8000 SCT006 BKN009 OVC030 15/12 Q1019 SBFL 251700Z 19005KT 6000 BKN012 BKN020 21/19 Q1017 RJOM 251200Z 22004KT 9999 FEW030 SCT070 21/14 Q1009 SBFN 251700Z 12013KT 9999 SCT015 BKN019 28/// Q1011 RJNW 251000Z 23002KT CAVOK 18/13 Q1009 LOAN 251700Z 32004KT 18KM SCT030SC BKN040SC RMK OVC RJOO 251100Z 22004KT 170V260 9999 FEW035 BKN/// 23/14 Q1008 RJOP 250655Z 17011KT 9999 FEW030 SCT180 BKN250 27/14 Q1007 RMK 1CU030 3AC180 A2974 RJNY 251351Z 00000KT 9999 FEW025 SCT100 20/15 Q1009 RMK 1CU025 3AC100 A2980 FQNP 251700Z 16010KT 9999 FEW020 24/15 Q1017 RJOR 251200Z 19005KT CAVOK 19/13 Q1009 KVTI 251655Z AUTO 23010G19KT 10SM SCT016 SCT022 24/19 A2982 RMK AO2 T02390188 RJOT 251200Z 15006KT 9999 FEW035 20/12 Q1009 VYMD 251230Z 18007KT 6000 SCT025 32/24 Q1002 MDST 251700Z 10010KT 9999 SCT026 31/21 Q1017 SBGL 251700Z 13002KT CAVOK 32/17 Q1014 SBGM 251600Z /////KT 9999 FEW020 29/24 Q1014 FQPB 251700Z /////KT 9999 FEW020 SCT100 26/23 Q1017 LOAV 251700Z 30007KT 15KM BKN050SC 18/10 Q1010 RMK OVC RJOW 251000Z 34002KT 9999 FEW030 19/16 Q1008 KWLD 251654Z AUTO 18018G25KT 10SM SCT022 24/20 A2987 RMK AO2 SLP106 T02440200 KVTN 251706Z AUTO 07007KT 7SM VCTS -RA SCT006 BKN013 OVC050 14/13 A2977 RMK AO2 CIG 008V019 P0002 T01440133 SBGO 251700Z 14005KT 9999 FEW025 29/14 Q1018 RJOY 251000Z 28005KT 9999 FEW030 SCT120 BKN/// 24/12 Q1007 KVTP 251654Z AUTO 10SM CLR A3009 RMK AO2 P0002 SBFZ 251700Z 12016KT 9999 FEW025 31/22 Q1010 KXBP 251655Z AUTO 15009G18KT 10SM BKN028 BKN033 26/21 A2987 RMK AO2 LTG DSNT S AND SW T02620211 SBGR 251700Z 29007KT CAVOK 27/17 Q1018 KVUJ 251655Z AUTO 00000KT 10SM SCT045 26/14 A3036 RMK AO2 T02630136 SBGU 251400Z 28006KT 9999 BKN015 20/19 Q1020 SBIC 251600Z 10006KT 9999 FEW018 32/25 Q1012 SARC 251700Z 11007KT 9999 OVC018 22/18 Q1015 KWMC 251656Z AUTO 18006KT 10SM BKN120 18/08 RMK AO2 SLPNO T01780083 TSNO $ SBGW 251600Z VRB02KT CAVOK 28/16 Q1018 SARE 251700Z 14002KT 9999 OVC018 22/18 Q1015 SARF 251700Z 18006KT 9999 OVC015 22/20 Q1015 KVUO 251653Z AUTO 24003KT 10SM FEW021 OVC029 13/08 A3005 RMK AO2 SLP174 T01330083 SBIH 251600Z 15003KT 9999 SCT022 33/24 Q1011 KVVG 251655Z AUTO 04006G11KT 7SM 30/23 A3010 RMK A01 SARI 251700Z 05002KT 6000 BKN010 BKN100 24/23 Q1016 SASA 251700Z 05005KT 9999 FEW007 SCT020 OVC100 15/12 Q1019 RJSA 251200Z 05003KT CAVOK 10/10 Q1010 SBHT 251600Z 08005KT 9999 BKN023 32/26 Q1012 RKJB 251700Z 32002KT 4000 BR NSC 15/15 Q1012 NOSIG SBIL 251600Z 14013KT 9999 SCT025 29/22 Q1016 RJSC 251000Z 08009KT CAVOK 22/08 Q1009 SARL 251700Z 09012KT CAVOK 22/16 Q1016 FQQL 251700Z 12004KT CAVOK 23/20 Q1016 SBJF 251600Z 21004KT CAVOK 25/18 Q1020 RJSF 251000Z 13003KT 100V160 9999 FEW050 BKN080 19/09 Q1011 SBIP 251600Z 00000KT 9999 FEW020 25/16 Q1017 SARP 251700Z 14006KT 9999 FEW020 SCT100 BKN200 24/20 Q1016 RJSH 242344Z 09010KT 9999 FEW030 16/10 Q1012 RMK 1CU030 A2990 RJSI 251000Z 19008KT 9999 FEW050 SCT080 21/10 Q1010 SASJ 251700Z 18003KT 5000 -DZ BR BKN004 OVC012 14/14 Q1019 SCBA 251700Z 30021G32KT 260V330 9999 SCT030 BKN200 11/04 Q1011 RJSK 251200Z VRB02KT CAVOK 20/12 Q1009 RKJK 251658Z AUTO 03002KT M1/4SM R36/0600FT FG VV001 13/13 A2988 RMK AO2 SLP123 RJTC 250840Z 06007KT 9999 FEW030 SCT230 23/13 Q1009 RMK 1CU030 3CI230 A2981 RJSN 251200Z 25007KT 9999 FEW035 SCT110 18/14 Q1008 KVVV 251653Z AUTO 34011KT 10SM BKN007 OVC012 16/13 A2971 RMK AO2 RJTF 250800Z 07006KT 040V110 9999 FEW040 SCT080 BKN/// 23/13 Q1009 SBKG 251600Z 10011KT 9999 BKN046 30/18 Q1014 SCAP 251700Z 23012KT 200V290 9999 SCT030 12/04 Q1023 SBJP 251700Z 12011KT 9999 BKN030 31/22 Q1012 SBIZ 251600Z 13006KT 9999 BKN020 34/23 Q1011 SBJR 251600Z 16004KT CAVOK 32/18 Q1014 RJTI 250700Z 08011KT 050V120 9999 FEW030 BKN080 BKN100 23/// Q1009 RJSR 251000Z VRB01KT 9999 FEW030 20/05 Q1008 SCAR 251700Z 23002KT 9999 OVC030 21/13 Q1016 SCAS 251700Z 24005KT 9999 -SHRA SCT020 BKN036 11/09 Q1016 RJSS 251200Z 06004KT 020V080 9999 FEW010 BKN130 16/14 Q1011 SBLB 251600Z /////KT 9999 FEW012 ///// Q//// W///S4 SCAT 251700Z 25007KT 220V280 9999 SCT021 OVC180 15/10 Q1016 SBJU 251600Z 14008KT 9999 FEW022 34/21 Q1016 SBJV 251600Z 16004KT 4000 -RA BR BKN005 BKN018 21/21 Q1017 KVWU 251654Z AUTO 00000KT 10SM -DZ CLR 17/12 A2978 RMK AO2 SBLE 251600Z 17004KT 9999 BKN040 28/20 Q1018 RJTO 250800Z 07014KT 9999 FEW020 SCT050 BKN080 21/15 Q1008 SCCF 251700Z 26013KT CAVOK 20/M12 Q1026 RJSY 251200Z 09008KT CAVOK 20/10 Q1008 SBKP 251700Z 29006KT CAVOK 28/14 Q1018 SCCH 251700Z 20003KT CAVOK 09/06 Q1017 SCCI 251700Z 22015KT 9999 SCT040 04/M05 Q1005 NOSIG SBMA 251700Z 12003KT 9999 SCT030 33/23 Q1010 SCDA 2517000Z 24010KT CAVOK 21/14 Q1015 RJTT 251700Z 02009KT 9999 FEW015 19/14 Q1008 NOSIG SAVC 251700Z 29027G36KT CAVOK 16/03 Q1008 SBMD 251610Z 14004KT 9999 TS BKN017 FEW024CB ///// Q1013 SBME 251600Z 14006KT CAVOK 30/20 Q1014 SBLO 251700Z 34007KT 9999 SCT035TCU 29/22 Q1016 SBLP 251600Z 06003KT 9999 FEW020 30/16 Q1016 SBMG 251600Z 29008KT 9999 SCT025 28/22 Q1016 RJTY 251658Z AUTO 00000KT 10SM CLR 17/15 A2984 RMK AO2 SLP104 T01670148 SBLS 251600Z 00000KT 9999 FEW025 28/13 Q1020 SBMK 251600Z 12006KT 070V170 CAVOK 29/11 Q1018 KVYS 251655Z AUTO 25013G20KT 10SM SCT019 BKN030 OVC046 23/18 A2992 RMK AO2 P0001 T02260178 SBML 251300Z 06010KT CAVOK 24/19 Q1020 KWRB 251658Z AUTO 13007KT 10SM FEW034 SCT043 SCT210 27/20 A3024 RMK AO2 SLP240 T02740204 SAWE 251700Z 25008KT 9999 FEW012 03/01 Q1003 SBMN 251700Z 14004KT 9999 SCT020 FEW025TCU 31/24 Q1011 SBNF 251700Z 18007KT 9000 -RA FEW005 BKN009 OVC014 22/21 Q1016 SBMO 251700Z 11014KT 9999 SCT020 SCT080 27/20 Q1013 SCCY 251700Z 26005KT 9999 FEW020 SCT030 12/05 Q1014 SAWG 251700Z 20013KT 9999 FEW030 SCT100 05/M04 Q1004 SBMQ 251700Z 06012KT 9999 BKN017 FEW023TCU BKN100 28/25 Q1011 SAWH 251700Z 23012KT 9999 VCSH BKN027 M00/M02 Q1002 LOIH 251600Z VRB02KT 25KM SHRA FEW020CU BKN040CU OVC070SC 16/13 Q1013 RMK OVC SBMS 251600Z 09009KT 9999 BKN025 38/21 Q1010 KWRI 251658Z AUTO 26014G19KT 10SM CLR 29/13 A3021 RMK AO2 SLP229 T02940132 SCFA 251700Z 20009KT 9999 FEW023 BKN250 19/11 Q1014 NOSIG SBMT 251600Z 31005KT 250V330 CAVOK 27/15 Q1019 SCEL 251700Z VRB01KT 6000 NSC 12/01 Q1016 NOSIG KWRL 251653Z AUTO 04004KT 10SM SCT017 BKN026 OVC035 13/09 A2993 RMK AO2 SLP121 T01280094 FQVL 251500Z 07006KT 020V100 9999 FEW020 22/15 Q1016 SBMY 251600Z 18003KT 9999 SCT018 30/25 Q1014 SBOI 251700Z 03005KT 9999 SCT020 29/26 Q1011 SBPA 251700Z 11008KT 9999 BKN030 23/15 Q1018 SBPB 251700Z 06012KT 9999 FEW020 34/25 Q1009 SBNT 251700Z /////KT 9999 SCT025 31/24 Q1011 SBPC 251600Z 03005KT 9999 FEW020 27/15 Q1023 RKPC 251700Z 23005KT CAVOK 15/08 Q1012 NOSIG SCGE 251700Z 18009KT CAVOK 11/05 Q1018 SBPF 251600Z 12010KT 9999 SCT008 OVC030 20/17 Q1018 RKNY 251700Z AUTO 03002KT 3000 NCD 19/08 Q1007 SBPJ 251600Z 08008KT 9999 FEW045 33/18 Q1014 SBPK 251700Z 15004KT 9999 BKN040 19/15 Q1019 LPBJ 251700Z 26003KT 9999 FEW035 SCT045 27/08 Q1016 RKPK 251700Z 35001KT 6000 NSC 17/14 Q1010 SCFT 251700Z VRB04KT 9999 SCT043 12/02 Q1019 MGCB 251700Z 05008KT 9999 SCT018 26/19 QFE871.5 KWST 251653Z AUTO 18007KT 10SM CLR 20/13 A3028 RMK AO2 SLP254 T02000128 SBPL 251700Z 16007KT 9999 BKN040 30/20 Q1014 SBPN 251600Z 18006KT CAVOK 32/18 Q1013 SBPP 251700Z 27005KT 9999 TS SCT015 FEW025CB BKN070 25/23 Q1016 SBPR 251600Z 00000KT 9000 NSC 28/15 Q1020 LPAZ 251700Z 04019KT 9999 FEW016 19/13 Q1028 SBPS 251700Z 15005KT 9999 FEW020 27/21 Q1015 SBRB 251700Z 34004KT 9999 BKN018 BKN100 27/23 Q1014 SCIC 251700Z 23004KT 190V270 2000 HZ OVC004 05/03 Q1017 SAZM 251700Z 29015KT CAVOK 16/M04 Q1016 KXLL 251655Z AUTO 21012KT 10SM CLR 29/13 A3022 RMK AO2 SBPV 251700Z 02007KT 9999 VCSH SCT023 FEW025TCU SCT100 31/21 Q1 013 SAZN 251700Z 23005KT CAVOK 14/01 Q1017 SCIE 251700Z 21006KT 170V240 CAVOK 12/04 Q1017 SBRF 251700Z 12010KT 9999 SCT020 30/24 Q1012 SBRJ 251700Z 16005KT CAVOK 27/20 Q1014 KWVI 251653Z AUTO VRB03KT 10SM OVC012 13/11 A3000 RMK AO2 SLP159 T01330106 SAZS 251700Z 32007KT CAVOK 08/00 Q1019 KXNA 251653Z 19013KT 10SM BKN027 24/19 A2996 RMK AO2 SLP134 T02390189 $ SBSC 251600Z 22005KT CAVOK 32/14 Q1014 FSIA 251700Z 11008KT 9999 SCT017 29/25 Q1012 NOSIG SBQV 251600Z 15009KT 9999 SCT025 24/17 Q1020 KWWD 251655Z AUTO 17011G15KT 10SM CLR 27/16 A3030 RMK AO1 RKSG 251658Z AUTO 28002KT 9SM R32/5500FT CLR 15/13 A2987 RMK AO2 SLP118 T01500127 $ SBRP 251700Z 04003KT CAVOK 31/15 Q1016 SCIP 251700Z 25006KT 210V300 9999 SCT020 SCT040 21/16 Q1016 NOSIG SCIR 251700Z 10009KT 9999 SCT040 14/06 Q1021 RKSI 251700Z 20003KT 8000 NSC 14/11 Q1011 NOSIG SBTA 251600Z 17003KT CAVOK 27/19 Q1017 KXMR 251658Z AUTO 11011G15KT 10SM FEW110 30/23 A3021 RMK AO2 SLP233 T02960228 SBSJ 251700Z 06003KT CAVOK 31/13 Q1018 SBTC 251600Z 12003KT 9999 FEW020 SCT060 29/24 Q1015 SBSL 251700Z 31005KT 9999 BKN017 29/25 Q1010 RKSM 242100Z 16003KT 9999 SKC 14/09 A2981 RMK SLP095 SBSM 251600Z 11009KT 9999 BKN020 22/17 Q1018 SBSN 251700Z 06004KT 9999 FEW020 29/24 Q1011 SBTE 251700Z 13007KT 9999 SCT030 24/24 Q1010 SCJO 251700Z VRB02KT 9999 BKN004 08/08 Q1021 SBTF 251700Z 09004KT 9999 FEW010 SCT018 BKN100 29/25 Q1012 RKSO 251658Z 09003KT 5SM BR CLR 13/13 A2987 RMK AO2A SLP118 T01290129 $ SBSP 251700Z 32008KT 270V010 CAVOK 27/15 Q1019 SBSR 251600Z 33003KT CAVOK 30/15 Q1020 SBUA 251600Z 20006KT 2000 +TSRA BKN012 FEW023CB BKN100 26/25 Q1013 RKSS 251700Z 15005KT 2500 BR NSC 12/09 Q1011 NOSIG KWWR 251655Z AUTO 20017G21KT 10SM CLR 23/15 A2988 RMK AO2 LTG DSNT S SBTK 251600Z 09002KT 9999 BKN020 BKN100 29/25 Q1015 MGES 251700Z 03004KT 9999 SCT020 26/20 QFE911.6 FEW200 SBST 251600Z 21007KT CAVOK ///// Q1015 LPFL 251700Z 02008KT 350V050 9999 FEW009 BKN012 19/16 Q1034 SBSV 251700Z 20008KT 9999 SCT017 FEW020TCU SCT070 27/22 Q1014 RKTN 251700Z 30003KT CAVOK 18/10 Q1009 SBUF 251600Z 15006KT 9999 SCT021 32/// Q1014 SBUG 251700Z 09009KT CAVOK 22/15 Q1016 LPFR 251700Z 25009KT 9999 FEW025 22/15 Q1016 SBTT 251700Z 15003KT 9999 SCT015 BKN100 ///// Q1013 SBTU 251600Z /////KT 9999 BKN020 ///// Q1014 SBUL 251600Z 14002KT CAVOK 26/13 Q1021 RKTU 251700Z 24007KT 8000 NSC 14/10 Q1011 NOSIG VYYY 251700Z 08002KT 6000 SCT018 SCT100 26/25 Q1008 NOSIG SBVH 251600Z 10007KT 9999 BKN020 FEW022TCU SCT080 29/24 Q1017 SBUR 251600Z 14002KT CAVOK 28/15 Q1020 SCMK 251700Z 25008KT 8000 -SHRA BKN013 10/08 Q1019 KWYS 251650Z AUTO 00000KT 10SM SCT060 10/03 A2999 RMK AO2 MGGT 251700Z 03012KT 9999 FEW018 SCT020 23/15 Q1026 A3030 KXPY 251655Z AUTO 16013KT 10SM FEW015 29/22 A3008 RMK A01 YABA 251700Z AUTO 30009KT 9999 // NCD 13/11 Q1019 LPHR 251700Z 07016KT 9999 SCT014 BKN030 21/16 Q1031 KXSA 251655Z AUTO 19007KT 160V220 10SM CLR 28/10 A3031 RMK AO2 T02810103 SBVT 251700Z 07010KT CAVOK 28/19 Q1015 MGHT 251700Z 18006KT 9999 SCT025 23/14 QFE818.8 WSAP 251500Z 20003KT 9999 FEW018 BKN300 29/26 Q1012 KYIP 251653Z AUTO 22014G24KT 10SM SCT041 BKN050 OVC060 27/17 A2999 RMK AO2 PK WND 21026/1620 SLP148 T02720172 TSNO SBYA 251600Z 12005KT 9999 BKN020 30/24 Q1013 SCNT 251700Z 18011KT 150V210 9999 -RA SCT023 SCT040 BKN100 05/ 00 Q1006 MHAM 251700Z 09005KT CAVOK 35/19 SCON 251700Z 00000KT 9999 BKN010 12/09 Q1021 MHCA 251700Z 10005KT 9999 BKN028 29/19 Q1017 HZ LPLA 251700Z /////KT 9999 SCT007 BKN012 BKN030 19/17 Q1032 LQBK 251700Z 25007KT 9999 RA SCT013 BKN033 13/12 Q1010 NOSIG KYKM 251653Z 06006KT 10SM CLR 22/05 A2990 RMK AO2 SLP119 T02170050 KYKN 251655Z AUTO 16003KT 10SM OVC010 17/14 A2976 RMK AO1 P0001 SCPQ 251700Z 35005KT 310V010 9999 FEW026 SCT040 10/07 Q1020 MHCH 251700Z 03012KT 9999 FEW034 BKN250 35/21 HZ SBYS 251600Z 33005KT CAVOK 30/18 Q1018 LPMA 251700Z 03013KT 9999 SCT016 20/13 Q1020 SCRD 251700Z 33004KT 9999 BKN070 BKN200 12/04 Q1017 SCRG 251600Z VRB02KT 6000 NSC 11/01 Q1015 SCQP 251700Z VRB04KT 9999 FEW016 10/06 Q1019 KXVG 251656Z AUTO 03007KT 014V074 5SM RA BKN006 OVC011 14/13 A2969 RMK AO2 SCRM 251600Z 20009KT 9999 SCT006 BKN070 M03/M08 Q0986 MGMM 250000Z 09010KT CAVOK 32/19 Q1012 A2988 SCT090 SCSE 251700Z 31004KT CAVOK 14/09 Q1016 LOWG 251650Z 16004KT 9999 FEW050 BKN140 17/13 Q1009 NOSIG KYNG 251651Z 19011G17KT 10SM FEW110 BKN140 OVC250 24/14 A3014 RMK AO2 SLP198 T02440144 LOWI 251650Z 06006KT 9999 FEW045 SCT070 BKN110 15/10 Q1012 NOSIG SCTB 251700Z 22002KT 6000 BKN140 BKN210 14/02 Q1016 MGMT 251700Z 18006KT CAVOK 34/24 QFE1007.0 LOWK 251650Z VRB03KT 9999 FEW060 SCT100 BKN270 19/09 Q1009 NOSIG SEAM 251700Z 04003KT 9999 BKN023 SCT100 18/14 Q1029 LOWL 251650Z 32006KT 9999 FEW035 FEW050CB BKN090 14/10 Q1011 NOSIG SCTE 251700Z VRB02KT 9999 BKN025 10/08 Q1021 NOSIG SCSN 251700Z 29006KT 8000 FEW011 BKN250 11/07 Q1017 SECA 251700Z 34004KT SCT040 30/16 Q1017 LOWS 251650Z 17008KT 9999 FEW050 SCT080 BKN120 15/09 Q1012 NOSIG MGPB 251700Z 36008KT 7000 SCT018 31/26 Q1014 A2994 HZ LPPD 251700Z 06017G29KT 020V080 9999 VCSH FEW012 BKN018 18/15 Q1029 SCTN 251700Z 34008KT 9999 FEW014 11/08 Q1021 LOWW 251650Z 31009KT CAVOK 18/11 Q1009 NOSIG LOWZ 251700Z 24003KT 30KM -RA BKN050CU OVC070SC 12/09 Q1013 RERA RMK OVC LOXT 251550Z 25006KT 15KM FEW150AC BKN300CI 18/14 Q1010 RMK BKN SCVD 251700Z 00000KT 9000 FEW002 BKN006 07/07 Q1020 SECO 251700Z 04005KT 5000 -RA SCT006 BKN013 OVC080 22/22 Q1016 LOXZ 251650Z 08005KT 30KM FEW060SC SCT150AC BKN300CI 17/05 Q1010 RMK BKN LPPR 251700Z 34008KT CAVOK 24/12 Q1017 LPPS 251700Z 02013KT 340V050 9999 FEW015 19/13 Q1020 SECU 251700Z 03008KT 9999 FEW040 BKN100 20/11 Q1026 LPPT 251700Z 29009KT 260V320 CAVOK 25/08 Q1016 SCVM 251700Z 34007KT CAVOK 14/05 Q1017 YBAF 251600Z AUTO 00000KT 9999 // NCD 12/11 Q1028 MGQZ 251700Z 00000KT 9999 SCT018 21/13 QFE772.0 YBAS 251700Z AUTO 03003KT 9999 // NCD 13/04 Q1024 MGSJ 251700Z 14008KT 9999 FEW016 SCT200 34/21 Q1012 A2988 MGRT 251700Z 24004KT 9999 FEW018 32/21 Q1015 A2997 VOL. STA. MARIA Y SANTIAGUITO EN ACTIVIDAD YBBN 251700Z 20008KT CAVOK 14/12 Q1027 NOSIG LRBC 251700Z 15013KT 9999 SCT050 BKN065 25/16 Q1007 YBCG 251700Z AUTO 17003KT 9999 // NCD 15/12 Q1027 YBCK 251600Z AUTO 07007KT //// // ////// 17/12 Q1025 YAMB 251700Z AUTO 00000KT 0500 // ////// 09/09 Q1028 LRAR 251700Z 20007KT 9999 SCT025 17/14 Q1008 MHLC 251700Z 06008KT 9999 SCT026 32/25 Q1013 A2992 NOSIG LRBM 251700Z 32004KT 260V030 9999 SCT013 SCT030CB BKN035 17/15 Q1009 RETS R10/29//95 YBDG 251600Z AUTO 00000KT 9999 // NCD 04/04 Q1029 MHLE 251600Z 04004KT 9999 FEW022 SCT200 25/09 YBCS 251700Z 15009KT 9999 FEW023 SCT050 21/20 Q1020 SEGS 251700Z 15015KT 9999 SCT026 FEW070VA 30/23 Q1014 A2996 CLD VA AT NW MOV SW LRBS 251700Z 25015KT 210V270 9999 FEW035 SCT050CB 21/15 Q1008 R07/19//95 TEMPO 5000 TSRA YBCV 251700Z AUTO 07004KT 9999 // NCD 13/11 Q1025 SEGU 251700Z 06005KT 9999 SCT020 31/22 Q1011 NOSIG RMK A2986 LRCK 251700Z 10005KT 9999 FEW013 17/16 Q1008 NOSIG MGTU 251700Z 23004KT 9999 FEW020 SCT070 32/24 LRCL 251700Z 27006KT 230V320 9999 FEW018 SCT051CB 18/15 Q1008 R07/19//95 MHLM 251700Z 00000KT 9999 FEW028 34/21 Q1013 A2992 NOSIG YBDV 251700Z AUTO 15006KT //// // ////// 19/10 Q1022 LRCT 251600Z 33012KT 9999 VCTS SCT040CB BKN120 22/13 Q1007 BLU BLU SEJD 251708Z 06006KT 3000 +RA FEW020CB SCT040 OVC100 22/22 Q1017 A3003 CB OVER STN LRCV 251700Z 21004KT 170V240 CAVOK 16/13 Q1009 R27/29//95 LQMO 251700Z 15003KT 9999 -RA SCT030 OVC060 15/11 Q1010 ROAH 251700Z 02010KT 9999 -RA FEW007 SCT009 BKN011 24/22 Q1008 BGBW 251650Z 23011KT 9999 FEW010 SCT018 BKN030 04/M02 Q1012 SFAL 251650Z 25015KT 9999 VCSH FEW010CB BKN020 02/M00 Q0990 GMAD 251700Z 22016KT 180V250 9999 SCT016 21/15 Q1012 NOSIG MHNO 251700Z 02005KT 9999 FEW040 30/19 Q1017 FU GMAG 251700Z 36012KT 9999 BKN016 18/12 Q1014 NOSIG FTTA 251600Z 25006KT CAVOK 34/17 Q1010 FTTC 251500Z 10006KT CAVOK 41/M07 Q1008 FTTD 251500Z 22010KT 9999 FEW040 31/22 Q1010 YBHI 251600Z AUTO 00000KT 9999 // NCD 11/07 Q1026 MGZA 251700Z 28004KT 9999 FEW016 31/25 QFE988.0 SEMC 251700Z 09005KT 020V180 9999 VCSH SCT023 SCT100 25/20 Q1018 FTTJ 251700Z 04006G17KT 020V080 CAVOK 41/15 Q1005 NOSIG YBHM 251700Z AUTO 14018KT 9999 // SCT022 BKN040 OVC073 21/18 Q1022 MHPL 251700Z 08012KT 9999 BKN026TCU 31/24 Q1014 TCU ALL HZ GMAT 251700Z 34017KT 8000 SCT013 SCT016 20/11 Q1015 NOSIG YARG 251700Z AUTO 25004KT 9999 // NCD 20/02 Q1018 BGGH 251650Z 18010KT 9999 BKN019 BKN027 01/M04 Q1011 SELT 251700Z 21006KT 9999 VCSH BKN023 16/10 Q1031 LRIA 251700Z 15008KT CAVOK 25/13 Q1007 YARM 251600Z AUTO 05003KT 9999 // NCD 03/03 Q1030 FVBU 251700Z 12007KT 090V150 CAVOK 17/05 Q1023 NOSIG RODN 251705Z AUTO 01004KT 10SM BKN016 OVC030 23/22 A2978 RMK AO2 CIG 016V030 BKN V FEW FTTY 251500Z 06008KT CAVOK 44/M02 Q1009 YCBA 251700Z AUTO 06005KT //// // ////// 13/08 Q1027 YCBB 251700Z AUTO 05005KT //// // ////// 10/09 Q1029 SEMT 251700Z 29008KT 9999 FEW026 SCT100 29/24 Q1012 RMK A2989 WSSL 251500Z 00000KT 9999 FEW020 BKN300 27/25 Q1012 RMK 1430Z Q1012 LQSA 251700Z VRB01KT 9999 FEW025 BKN040 12/12 Q1011 NOSIG SENL 251700Z 30002KT 6000 -RA FEW006 SCT016 OVC100 23/22 Q1016 YBKE 251600Z AUTO 11006KT //// // ////// 14/08 Q1027 MHSC 251405Z 34008KT 9999 CLR 26/16 A3004 RMK AO2A SLP128 LAST MHRO 251700Z 09014KT 9999 FEW025 31/23 Q1015 A2997 NOSIG YCAR 251700Z AUTO 16013KT 9999 // NCD 19/12 Q1018 YCAS 251700Z AUTO 24003KT //// // ////// 10/09 Q1028 WSSS 251700Z VRB02KT 9999 FEW018 BKN300 28/25 Q1012 NOSIG FVCZ 251500Z 00000KT CAVOK 27/11 Q1020 NOSIG FVFA 251500Z 11004KT 030V160 CAVOK 26/09 Q1020 NOSIG MHTE 251700Z 36006KT 9999 FEW026TCU 30/26 Q1012 TCU SW FU YCBP 251700Z AUTO 05002KT //// // BKN073 OVC099 15/10 Q1024 MHTG 251700Z 09006KT 9999 FEW028 28/15 Q1020 A3012 NOSIG GMFF 251700Z 03005KT 360V070 9999 SCT033 SCT040CB 20/11 Q1016 NOSIG YBMA 251700Z AUTO 31004KT 9999 // NCD 16/10 Q1021 YBKT 251600Z AUTO 20008KT //// // ////// 22/14 Q1018 MHSR 251700Z 06004KT 9999 SCT025 26/16 HZ YBLN 251600Z AUTO 12003KT //// // ////// 08/08 Q1021 GMFK 251700Z 01017KT 9999 BKN026 25/03 Q1013 NOSIG GMFM 251700Z 00000KT 8000 SCT016TCU FEW023CB 17/13 Q1016 NOSIG BGJN 251650Z 19007KT 9999 BKN013 M02/M05 Q1010 GMFO 251700Z 35007KT 7000 -RA SCT006 BKN026 BKN033 15/14 Q1016 NOSIG YBNA 251600Z AUTO 30004KT 9999 // BKN035 OVC062 14/13 Q1028 YBLT 251600Z AUTO 04005KT 5000 // NCD 00/00 Q//// MHTR 251700Z 09011KT 9999 SCT026TCU 31/23 TCU SE S SW HZ YBMK 251600Z AUTO 19005KT 9999 // BKN013 BKN022 OVC052 19/18 Q1023 SERB 251700Z 06008KT 9999 SCT040 19/10 Q1029 FVHA 251700Z 00000KT CAVOK 13/08 Q1024 NOSIG YCEE 251600Z AUTO 36007KT //// // ////// 14/08 Q1025 SEQM 251705Z 35006KT 9999 SCT030 BKN100 17/11 Q1027 NOSIG RMK A3035 YCDO 251600Z AUTO 00000KT //// // ////// 07/06 Q1029 BGKK 251650Z AUTO 07018KT 9999NDV -RA NCD 02/M02 Q1008 YCCY 251700Z AUTO 13010KT //// // ////// 22/11 Q1020 ROIG 251100Z 36006KT 9999 FEW015 SCT032 BKN120 25/24 Q1008 LQTZ 251700Z 28009KT 9999 FEW030 BKN040 14/14 Q1010 SESA 251700Z 24010KT 9999 FEW015 28/23 Q1012 YCDU 251600Z AUTO 03005KT 9999 // SCT077 10/09 Q1024 YCEM 251600Z AUTO 00000KT //// // ////// 01/01 Q1030 SESD 251700Z 00000KT 9999 FEW020 BKN300 27/21 Q1012 GLRB 251700Z 20008KT 9999 SCT022 FEW028 CB 30/25 Q1011 RMK CB-NE/SE SERO 251700Z 30003KT 230V010 9999 FEW016 SCT050 28/27 Q1012 YBNS 251600Z AUTO 32005KT 9999 // NCD 03/02 Q1029 YBOK 251600Z AUTO 00000KT 9999 // NCD 10/09 Q1028 YCFL 251600Z AUTO 14020KT //// // ////// 25/20 Q1018 SESM 251700Z 13001KT 9999 4000SE DZ SCT023 OVC100 23/21 Q1018 A 3008 YAYE 251700Z AUTO 17003KT 9999 // SCT115 13/11 Q1024 LROD 251700Z 17006KT 9999 FEW009 16/14 Q1009 R01/CLRD// YCFS 251700Z AUTO 29002KT 9999 // NCD 11/11 Q1028 SGAS 251600Z 17005KT 140V200 9999 OVC008 23/21 Q1015 SEST 251700Z 18010KT 9999 SCT023 SCT100 28/23 Q1011 A2985 HEBA 251600Z 35010KT CAVOK 25/18 Q1012 NOSIG FVKB 251500Z 25001KT CAVOK 25/16 Q1016 NOSIG YBPN 251600Z AUTO 17009KT 9999 // NCD 19/17 Q1023 LSGC 251650Z 27005KT 230V360 9999 SCT009 BKN013 BKN042 10/09 Q1016 SETN 251700Z 02004KT 9999 FEW023 SCT100 28/25 Q1012 A2988 LSGG 251650Z VRB05KT 9999 FEW040 BKN090 18/08 Q1014 NOSIG LROP 251700Z 23010G20KT 210V270 9999 FEW030 BKN042CB 21/16 Q1007 R88/19//95 TEMPO 5000 TSRA YCHK 251600Z AUTO 12006KT 9999 // OVC065 OVC080 15/13 Q1020 HEAR 250900Z 16003KT CAVOK 36/06 Q1013 NOSIG SETU 251700Z 00000KT 3000 -RA BCFG SCT006 OVC090 10/09 Q1035 HECA 251700Z 02009KT CAVOK 34/17 Q1010 NOSIG HEAT 251600Z 34002KT CAVOK 42/12 Q1011 NOSIG HEBL 251600Z 03005KT CAVOK 37/11 Q1008 NOSIG HEAX 251600Z 35006KT CAVOK 25/16 Q1011 NOSIG MHYR 251700Z 03006KT 9999 SCT025TCU 30/18 TCU ALL HZ YBRK 251700Z AUTO 13005KT 9999 // SCT041 BKN057 OVC075 19/13 Q1025 YBRL 251600Z AUTO 00000KT //// // ////// 19/15 Q1018 LSGS 251650Z 29007KT 9999 SCT070 OVC100 19/07 Q1012 YBRM 251700Z AUTO 06006KT 9999 // BKN110 21/13 Q1016 YCIN 251700Z AUTO 21002KT //// // NCD 16/07 Q1015 GMMB 251700Z 33009KT 270V030 8000 FEW016TCU 25/12 Q1016 NOSIG GMMC 251700Z 02012KT 9999 FEW016 22/16 Q1013 FWCL 251700Z 17004KT 9999 FEW040 BKN040 23/11 Q1020 NOSIG YBSG 251600Z AUTO 14007KT //// // BKN028 24/21 Q1015 GMME 251700Z 34008KT 310V020 8000 SCT015 SCT100 21/12 Q1014 NOSIG GMMH 251700Z 33016KT CAVOK 21/15 Q1017 NOSIG GMMI 251400Z 36016KT 340V040 6000 BKN013 24/15 Q1014 NOSIG LRSB 251700Z 18005KT 140V210 9999 SCT033CB BKN087 17/13 Q1008 LTAC 251650Z 32006KT 280V040 9999 TS FEW030CB BKN035 18/09 Q1011 TEMPO -TSRA LTAD 251415Z 08008KT 9999 FEW030CB BKN035 18/14 Q1010 RETSRA TEMPO 34015G25KT -TSRA RMK RWY29 08004KT SGEN 251600Z 12010KT 9999 OVC020 22/18 Q1016 KZZV 251653Z AUTO 21011KT 10SM OVC100 24/14 A3016 RMK AO2 SLP207 T02440139 GMML 251700Z 35013KT 9999 FEW026 22/11 Q1017 NOSIG YBRY 251600Z AUTO 14007KT 9999 // SCT039 OVC050 OVC062 13/12 Q1021 LTAE 251406Z 10011KT 9999 -TSRA SCT030CB SCT035 22/07 Q1010 RETSGRRA BECMG TL1420 NSW RMK RWY21 10007KT 040V130 ROMY 251100Z 01005KT 9999 FEW010 SCT130 25/24 Q1007 LTAF 251650Z 18006KT CAVOK 24/18 Q1009 NOSIG GMMN 251700Z 36012KT 9999 SCT016 SCT100 23/13 Q1015 NOSIG LTAG 251650Z 21007KT 9999 FEW035 24/18 Q1009 NOSIG LTAI 251650Z 14003KT 9999 FEW030 22/17 Q1010 NOSIG SGES 251600Z VRB02KT 7000 -RA BKN007 OVC015 24/23 Q1015 YBSU 251600Z AUTO 20008KT 9999 // NCD 16/12 Q1027 YBTL 251700Z AUTO 26006KT 9999 // NCD 18/15 Q1021 LTAJ 251650Z 23006KT CAVOK 22/05 Q1011 NOSIG LTBA 251650Z 24007KT 210V270 CAVOK 23/13 Q1008 NOSIG YBUD 251700Z AUTO 17005KT 9999 // BKN062 15/12 Q1026 YCKN 251600Z AUTO 14009KT 9999 // SCT023 OVC067 24/20 Q1018 LTAL 251206Z 12004KT 9999 TS FEW018CB SCT023 BKN090 24/07 Q1011 LRTC 251700Z AUTO 17005KT 9999 BKN150/// 20/17 Q1008 LRSM 251700Z AUTO /////KT 9000 -SHRA SCT010/// BKN013/// 17/16 Q1008 FVMV 250600Z 00000KT CAVOK 14/10 Q1024 LTAN 251650Z 26012KT CAVOK 23/04 Q1010 NOSIG LTBF 251650Z 26006KT 220V290 CAVOK 23/11 Q1009 NOSIG GMMW 251700Z 02005KT 340V060 2000 -RA BR FEW010 BKN036 15/14 Q1017 BECMG 3500 BR LTAP 251650Z 01001KT 9999 TS SCT033CB BKN180 22/12 Q1007 BECMG TL1750 NSW TEMPO FM1800 30015G25KT -TSRA GMMX 251700Z 06008KT 040V100 9999 BKN023 FEW033CB 25/09 Q1013 NOSIG BGSF 251650Z AUTO 23008KT 180V260 9999NDV BKN046/// 06/M06 Q1008 LTAR 251650Z 11012KT 090V150 9999 FEW030CB BKN035 13/05 Q1014 GMMZ 251700Z 28005KT 230V330 9999 FEW040 26/M04 Q1010 NOSIG LTAS 250613Z 02004KT 330V080 6000 FEW007 SCT028 BKN090 19/17 Q1010 RMK RWY18 35009KT LTCA 251650Z 30004KT 9999 SCT035 20/08 Q1011 NOSIG LTBJ 251650Z 25010KT CAVOK 22/14 Q1010 NOSIG LTAT 251650Z 24008KT 9999 FEW040 20/06 Q1010 NOSIG LTAU 251650Z 27015KT 9999 FEW030CB SCT035 25/M00 Q1010 BECMG VRB02KT LTCC 251650Z 23006KT 9999 FEW040 22/08 Q1010 NOSIG LTCD 251650Z 00000KT 9999 SCT040 BKN100 18/05 Q1015 NOSIG LRTM 251700Z 31002KT 9999 FEW037 FEW041CB 17/14 Q1007 R07/29//95 LRSV 251700Z AUTO 16012KT 090V170 9999 NCD 24/14 Q1008 LTAW 250722Z 25004KT 230V290 9999 -SHRA SCT040 BKN100 21/13 Q1012 RMK RWY22 31004KT 200V340 YDBY 251600Z AUTO 16005KT //// // ////// 22/10 Q1016 LTCE 251650Z 02010KT 9999 BKN025 BKN070 09/07 Q1020 RESHRA NOSIG BIBD 251500Z 21007KT 9999 -SHRA OVC025 06/// Q1005 LTCF 251650Z 33004KT 9999 BKN035 13/06 Q1019 LTCG 251650Z VRB04KT 9000 -SHRA SCT035 BKN100 21/18 Q1008 TEMPO FM1800 2500 BCFG LTAZ 251650Z 27005KT 9999 SCT040 23/06 Q1009 LTBQ 251650Z 03004KT 9999 FEW036 SCT090 22/16 Q1009 NOSIG LTBR 251650Z VRB02KT 9999 FEW035 SCT200 23/13 Q1008 NOSIG LTCI 251650Z 14006KT 9999 FEW030TCU SCT035 BKN080 15/04 Q1018 NOSIG LRTR 251700Z 15004KT 9999 FEW021 SCT033 18/13 Q1008 R11/190095 LSMA 251650Z AUTO 18005KT 150V220 2700NDV RA FEW027 BKN044 OVC052 13/12 Q1015 RMK YLO LTCJ 251650Z 12007KT 9999 FEW030TCU 25/12 Q1010 LTBS 251650Z 23006KT 9999 FEW030 21/15 Q1011 NOSIG YCMM 251600Z AUTO 07005KT //// // ////// 14/09 Q1025 LTCK 251450Z 14005KT 9999 FEW025CB SCT035 BKN090 22/12 Q1015 BIAR 251700Z 35010KT 9999 BKN050 07/02 Q1005 LTCL 251221Z 21005KT 9999 TS FEW025CB BKN040 BKN100 26/15 Q1012 RERA LTBU 251650Z 19007KT 9999 FEW035 22/15 Q1008 LTCM 250722Z 14006KT 060V200 8000 SCT008 BKN100 19/15 Q1009 RMK RWY05 12008KT 080V150 LSMD 251650Z AUTO 14004KT 9999NDV -SHRA BKN048 BKN061 14/12 Q1014 RMK WHT LSME 251650Z AUTO VRB02KT 9999NDV -RA FEW019 BKN048 15/12 Q1014 RERA RMK WHT BGTL 251658Z AUTO 17020KT 9999 CLR 04/M09 A2959 RMK AO2 SLP005 T00381092 $ HEGN 251600Z 11004KT CAVOK 42/06 Q1009 NOSIG LTBY 251635Z 31010KT 9999 TS FEW027CB BKN035 21/13 Q1010 RETSRA RMK RWY27 31013KT YCMT 251600Z AUTO 22002KT //// // ////// 11/10 Q1026 YCNK 251600Z AUTO 23003KT //// // ////// 06/06 Q1028 LTCT 251335Z 21007KT 9999 FEW030CB SCT036 BKN100 19/14 Q1014 RETSRA RMK RWY30 22008KT YCNM 251600Z AUTO 12005KT //// // ////// 09/09 Q1028 YCOE 251600Z AUTO 15011KT //// // ////// 23/19 Q1017 LSMM 251650Z AUTO VRB02KT 3300NDV +SHRA FEW032 BKN037 OVC049 12/11 Q1015 RMK GRN YBWP 251700Z AUTO 13011KT 9999 // SCT032 25/20 Q1015 LSMP 251650Z AUTO 28008KT 240V310 9999NDV -RA FEW031 SCT042 BKN052 17/09 Q1014 RMK WHT RORS 251000Z 01013KT 9999 SCT010 BKN025 BKN120 26/23 Q1006 LSMS 251650Z 29007KT 9999 SCT070 OVC100 19/07 Q1012 YCOM 251600Z AUTO 00000KT 9999 // NCD M05/M07 Q1029 YBWW 251600Z AUTO 17005KT 9999 // NCD 09/08 Q1028 LTFC 251650Z 19007KT 9999 FEW035 21/09 Q1011 YBWX 251700Z AUTO 11015KT //// // ////// 21/18 Q1016 YCNY 251600Z AUTO 19002KT //// // ////// 21/10 Q1019 LTFE 251650Z 21009KT 9999 FEW035 22/14 Q1010 NOSIG LTFH 251650Z 33007KT 300V360 8000 FEW008 SCT030 BKN100 18/17 Q1008 NOSIG BIEG 251700Z 17016KT 9999 SCT050 10/02 Q1005 LTFJ 251650Z 03008KT CAVOK 23/17 Q1008 NOSIG RPLB 251500Z VRB01KT 9999 FEW020 BKN300 28/23 Q1012 NOSIG RMK A2988 LTFK 250517Z 17009KT 9999 FEW028 20/18 Q1009 RPLC 251700Z 24004KT 9999 FEW020 BKN090 26/25 Q1013 RMK NOSIG A2989 GMTA 251700Z 36006KT 8000 FEW020 SCT026 BKN080 19/16 Q1017 RERA NOSIG ROTM 251658Z VRB03KT 8000 BKN007 BKN010 OVC025 23/23 A2979 RMK SLP073 T02280228 RPLI 251500Z 14002KT 9999 FEW018CB SCT100 28/25 Q1011 NOSIG RMK A2986 CB SW TO NW FWKI 251600Z 07005KT CAVOK 19/12 Q1021 NOSIG RPLL 251700Z 10004KT 040V160 9999 FEW025 SCT100 29/24 Q1011 NOSIG RMK A2985 RPMD 251500Z 17007KT 9999 FEW016 BKN290 28/25 Q1013 RMK A2991 FVTL 251200Z 19004KT CAVOK 24/06 Q1022 NOSIG GMTN 251700Z 11012KT 7000 SCT016 BKN086 21/14 Q1017 NOSIG HEMA 251600Z 30006KT CAVOK 37/01 Q1009 NOSIG GMTT 251700Z 09014KT 9999 SCT016 BKN090 21/12 Q1016 NOSIG HEMM 251600Z 02010KT CAVOK 22/18 Q1014 NOSIG BIHN 251700Z 22017KT 9999 FEW015 FEW050 10/// Q1007 HELX 251600Z 02003KT CAVOK 40/11 Q1008 NOSIG RPMZ 251500Z 04004KT 9999 FEW017 27/25 Q1015 RMK A2997 NCAI 251700Z AUTO 27002KT //// ///// 23/23 Q1016 FVWN 251500Z 25002KT CAVOK 26/09 Q1020 NOSIG MKJP 251700Z 14022KT 9999 FEW020CB 31/24 Q1015 MKJS 251700Z 06013KT 9999 FEW022CB 30/25 Q1016 YCUN 251600Z AUTO 28005KT //// // ////// 10/07 Q1022 BIIS 251700Z 02006KT 9999 FEW018 OVC025 06/02 Q1004 LUBL 251700Z AUTO 22002KT 9999 NCD 25/15 Q1008 LUBM 250330Z VRB02KT CAVOK 17/12 Q1011 R25/CLRD65 YDLQ 251600Z AUTO 09004KT //// // ////// 05/04 Q1029 GOGG 251700Z 27004KT CAVOK 36/22 Q1010 BIKF 251700Z 23021KT 9999 FEW017 BKN024 07/04 Q1005 GOGK 251600Z 0604/KT CAVOK 42/17 Q1009 HEPS 251600Z 03012KT CAVOK 25/18 Q1011 NOSIG GOGS 251700Z 32010KT CAVOK 29/23 Q1010 YCWR 251600Z AUTO 13005KT //// // ////// 05/05 Q1029 HESC 251600Z 02015KT 9999 SCT025 30/M01 Q1023 NOSIG HESH 251600Z 36008KT CAVOK 40/01 Q1008 NOSIG YDPO 251600Z AUTO 18003KT 9999 // NCD 05/05 Q1028 HESN 251600Z 02009KT CAVOK 41/M02 Q1008 NOSIG LSZA 251650Z 18005KT 150V210 9999 FEW060 SCT120 23/12 Q1009 NOSIG LSZB 251650Z 14009KT 110V170 9999 -SHRA SCT040 BKN060 12/11 Q1014 NOSIG LSZC 251650Z AUTO 26006KT 230V310 8000 RA FEW044 OVC050 14/12 Q1015 LSZG 251650Z 27010KT 240V320 9999 FEW041 SCT050 OVC100 17/09 Q1014 NOSIG LSZH 251650Z 14005KT 110V200 9999 FEW040 FEW050TCU BKN090 15/12 Q1014 NOSIG LSZL 251650Z AUTO 27003KT 240V300 9999NDV BKN110 21/13 Q1009 RMK WHT RPVM 251700Z 00000KT 9999 FEW020 BKN300 28/25 Q1012 RMK A2988 RPVP 242100Z 27004KT 9999 FEW020 SCT250 26/23 Q1010 A2983 LSZR 251650Z AUTO 26005KT 200V290 9999 -SHRA OVC070 14/10 Q1014 LSZS 251650Z VRB04KT 9999 FEW055 SCT075 11/M01 Q1014 MMAA 251645Z 23006KT 5SM SKC 32/25 A2987 RMK HZY CU N FXMM 251200Z 33006KT 9999 FEW035 BKN/// 21/05 Q1023 NOSIG YELD 251600Z AUTO 15011KT //// // ////// 25/22 Q1015 CAHR 251700Z AUTO 20014G21KT 24/08 RMK AO1 PK WND 18021/1653 SLP166 T02410076 58023 BIRK 251700Z 24017KT 9999 -SHRA SCT025 BKN045 07/03 Q1006 MMAN 251640Z 11005KT 7SM SKC 27/21 A2989 RMK HZY GOOD 251600Z 04004KT CAVOK 40/13 Q1010 YFBS 251600Z AUTO 00000KT //// // ////// 05/04 Q1029 GOOG 251600Z 36002KT CAVOK 41/10 Q//// MMAS 251644Z 21005KT 12SM FEW210 22/05 A3027 RMK 8/002 ISOL CU MMCB 251649Z 20005KT 7SM SKC 26/13 A3013 RMK CU N FULYR E HZY LUKK 251700Z 15003KT CAVOK 27/10 Q1007 R08/CLRD65 NOSIG GOOK 251600Z 00000KT CAVOK 41/11 Q1011 FYGB 251700Z AUTO 16001KT //// // ////// 19/05 Q1023 YFDF 251600Z AUTO 15006KT 9999 // BKN034 BKN057 OVC064 14/13 Q1020 MMCE 251644Z 13014KT 5SM SCT100 32/22 A2990 RMK 8/030 HZY SC CBBC 251700Z AUTO 17003KT 070V220 9SM OVC004 11/10 A3003 RMK SLP169 YEML 251600Z AUTO 13006KT 9999 // BKN067 16/13 Q1026 MMBT 251645Z 23010KT 7SM FEW040 33/27 A2990 RMK 8/100 HZY MMCL 251641Z 00000KT 10SM SKC 31/14 A2996 RMK HZY MMCM 251641Z 13010KT 7SM SCT020 SCT100 30/24 A2999 RMK 8/530 MMCN 251643Z 29003KT 10SM SKC 28/03 A2992 RMK FU NW MMCP 251704Z RTD 10010G20KT 5SM SCT030 33/21 A2990 RMK 8/100 HZY GOOY 251700Z 35013KT 320V020 9999 FEW008 26/21 Q1011 NOSIG MMCS 251640Z 26012KT 10SM SKC 22/07 A2996 RMK MMCT 251648Z 12012KT 8SM SCT020 SCT200 34/20 A2999 RMK 8/407 MSGTX MMMD MMCU 251640Z 17008KT 10SM SKC 23/M07 A3007 MMCV 251642Z 16004G14KT 7SM SKC 30/21 A2985 RMK HZY ISOL CU-AC MMDO 251640Z 19015KT 14SM SKC 23/00 A3022 RMK HZY ISOL CI MMCZ 251646Z 12013KT 8SM BKN015TCU BKN250 29/23 A3003 RMK 8/208 SC FZAA 250638Z 27006KT 4000 BR BKN016 24/23 Q1016 BECMG 6000 BIVM 251700Z 25018KT 9999 FEW015 BKN025 07/05 Q1008 MMEP 251640Z 00000KT 12SM SKC 29/14 A3006 RMK CI S GOSM 251600Z 36006KT CAVOK 43/08 Q1010 GOSP 251600Z 36004KT CAVOK 40/06 Q1010 GOSS 251700Z 34010KT 310V360 CAVOK 29/19 Q1010 MMGL 251647Z 00000KT 6SM BKN025 25/12 A3020 RMK 8/100 HZY GOTK 251600Z 32006KT CAVOK 39/15 Q1009 MMGM 251641Z 00000KT 10SM SKC 28/12 A2989 RMK HZY FYKM 251700Z 00000KT CAVOK 19/14 Q1020 MMIA 251652Z 24006KT 8SM FEW020 30/18 A3000 RMK 8/100 HZY YERN 251600Z AUTO 10002KT //// // ////// 14/05 Q1025 FYKT 251700Z AUTO 21009KT //// // ////// 22/01 Q1019 GOTT 251600Z 30006KT 330V140 CAVOK 42/11 Q1008 MMHO 251643Z 10004KT 10SM SKC 28/06 A2997 RMK HZY NCRG 251700Z 24008KT 9999 -SHRA SCT014 OVC090 24/23 Q1016 NCPY 251700Z AUTO 12009KT //// ///// 28/25 Q1011 FYML 251700Z AUTO 12002KT //// // ////// 24/00 Q1021 YESP 251700Z AUTO 35005KT 6000 // SCT066 11/11 Q1020 MMIO 251640Z 20012KT 10SM SCT040 30/14 A3012 RMK 8/100 YGBI 251600Z AUTO 12009KT //// // ////// 27/22 Q1015 FYLZ 251700Z AUTO 20012KT //// // ////// 14/10 Q1017 FYOA 251000Z 03006KT CAVOK 28/05 Q1020 MMIT 251700Z VRB02KT 6SM SCT030 32/23 A2986 RMK 8/100 HZ MNBL 251700Z 07004KT 999 SCT018 BKN070 29/25 Q1013 YGDH 251600Z AUTO 18005KT //// // ////// 06/05 Q1029 FYOO 251700Z AUTO 09003KT //// // ////// 23/00 Q1018 MNCH 251700Z 13010KT 9999 FEW025 BKN300 36/19 Q1011 MMMA 251641Z 12020KT 6SM BKN015TCU 30/26 A2988 RMK 8/200 HZ ISOL AC MMLM 251645Z 07004KT 10SM SKC 29/06 A2994 MMMD 251645Z 14012G24KT 7SM SCT025 SCT300 35/19 A2996 RMK 8/101 MMLO 251648Z 31006KT 9SM FEW030 BKN220 24/13 A3030 RMK 8/308 HZY FYOW 251700Z AUTO 00000KT //// // ////// 21/02 Q1020 MMLP 251643Z 21008KT 10SM SKC 24/05 A2996 RMK ISOL CI YGEL 251700Z AUTO 15008KT 9999 // NCD 11/09 Q1021 MMLT 251445Z 34005KT 8SM SKC 24/17 A2990 RMK SLP125 MMML 251644Z 15007KT 10SM SKC 25/15 A2988 MMMM 251642Z 00000KT 6SM SCT030 22/15 A3026 RMK 8/100 HZY MMMT 251642Z 00000KT 8SM SCT030 SCT040 BKN100 31/20 A2984 RMK 8/150 MMNL 251640Z 17010KT 10SM BKN030 30/23 A2984 RMK 8/500 YGFN 251707Z AUTO 00000KT 5000 // SCT001 10/09 Q1028 MMMV 251640Z 24018KT 6SM HZ SKC 28/12 A2986 SKBG 251700Z 34005KT 8000 -DZ VCFG SCT010 BKN070 23/20 A3003 MMMX 251643Z 14002KT 7SM SCT020 21/10 A3034 NOSIG RMK 8/200 HZY FYRN 251700Z 00000KT CAVOK 23/10 Q1019 MMMY 251649Z 05005KT 5SM SKC 28/21 A2985 SKAR 251600Z 00000KT 9999 -DZ SCT015 BKN080 23/20 A3014 MMMZ 251643Z 17008KT 15SM SKC 29/16 A2990 RMK FULYR 3QUAD ISOL CI SKAS 251600Z 00000KT 4000 RA BKN006 23/23 A2999 MMPA 251640Z 00000KT 5SM FEW020 32/24 A2990 RMK 8/100 HZY MMPB 251643Z 10002KT 7SM SKC 22/11 A3032 RMK HZY CU/AC SKCC 251700Z 28006KT 8000 VCFG SCT012 BKN090 25/24 A3000 SKBO 251700Z 20006KT 9999 SCT020 BKN080 16/08 A3038 REDZ SKCG 251700Z 35008KT 9000 FEW015 SCT200 30/24 A2986 RMK HZ MMPG 251640Z 12008KT 8SM BKN025 28/22 A2985 RMK 8/500 HZY SKBQ 251700Z 02005KT 9999 SCT015 BKN200 31/23 A2989 SKCL 251700Z 27003KT 9999 SCT020 BKN090 26/19 A3003 MMPN 251643Z 09006KT 6SM FEW035TCU SCT090 24/18 A3019 RMK 8/260 HZ FU MMOX 251650Z 35003KT 8SM FEW030 25/12 A3019 RMK 8/100 CI/HZY MMPQ 251645Z 09012KT 6SM SCT030 SCT200 32/23 A2986 RMK 8/104 HZY MSGTX MMMD MMPR 251652Z 23007KT 15SM BKN300 29/23 A2990 RMK 8/008 MMPS 251642Z 25008KT 8SM SCT100 31/23 A2997 RMK 8/030 CU N HZY YHBA 251600Z AUTO 20006KT 9999 // OVC067 15/13 Q1026 SKEJ 251600Z 00000KT 9999 FEW010 BKN100 29/24 A2988 YFRT 251700Z AUTO 36006KT //// // ////// 14/14 Q1022 BKPR 251700Z 22012KT 9999 FEW030TCU SCT040 17/05 Q1010 NOSIG MMQT 251640Z 30008KT 6SM SCT020 22/13 A3031 RMK 8/100 HZY FYWB 251700Z AUTO 27008KT //// // ////// 15/11 Q1018 MMSD 251645Z 00000KT 15SM SKC 30/13 A2992 RMK CI FYWE 251700Z 00000KT 9999 FEW050 SCT100 17/03 Q1024 MNJG 251700Z 00000KT 5000 HZ BKN018 24/18 Q1014 YGLA 251600Z AUTO 16006KT 9999 // BKN049 19/12 Q1025 FYWH 251700Z 03002KT CAVOK 16/M01 Q1024 NOSIG TAPA 251700Z 09011KT 9999 FEW022 29/20 Q1017 NOSIG GQNI 251500Z 04008KT 8000 NSC 41/04 Q1010 MMTB 251700Z VRB02KT 7SM FEW020 SCT070 27/20 A3002 RMK 8/130 TZ CI MMSL 251642Z 20008KT 10SM FEW250 27/12 A2997 RMK 8/008 HZY MSGTX MMSD MMTC 251645Z 14004KT 15SM SKC 28/05 A3005 YHAY 251600Z AUTO 05007KT //// // ////// 11/05 Q1028 MMRX 251642Z 13015G25KT 8SM BKN015 29/23 A2984 RMK 8/500 HZY GQNN 251700Z 34015KT 300V010 CAVOK 30/13 Q1011 NOSIG MMTG 251651Z 11004KT 10SM SCT020TCU 28/21 A2997 RMK 8/200 MMSP 251643Z 29005KT 15SM FEW025 FEW210 24/09 A3024 RMK 8/101 MMTJ 251647Z 31006KT 4SM -DZ OVC012 15/12 A3004 RMK 60005 8/7// GQPA 251500Z 36010KT CAVOK 33/07 Q1016 MNJU 251700Z 09012KT 9999 FEW020 30/22 Q1013 MMTM 251641Z 14009KT 5SM SCT010 SCT070 30/24 A2988 RMK 8/170 HZY YFTZ 251600Z AUTO 17003KT //// // ////// 20/M01 Q1017 MMTO 251641Z 00000KT 3SM HZ SCT015TCU 18/08 A3044 RMK 8/200 HZY FYWW 251700Z 01003KT 9999 FEW050CB 19/01 Q1024 MMTP 251641Z 00000KT 10SM SCT100 31/26 A2990 RMK 8/030 YGLS 251600Z AUTO 09004KT //// // ////// 14/10 Q1024 SKIB 251600Z VRB02KT 4000 DZ BKN004 OVC070 21/21 A3018 MMVA 251640Z 09004KT 7SM FEW020 SCT120 32/22 A2990 RMK 8/130 HZY MMUN 251644Z 13015KT 7SM SCT015TCU 31/24 A3003 RMK 8/200 K04V 251655Z AUTO 35010KT 10SM SCT029 SCT035 SCT085 11/03 A3005 RMK AO2 K06D 251655Z AUTO 05009KT 10SM 23/04 A2984 RMK AO2 K04W 251653Z AUTO 12004KT 2 1/2SM -RA BKN003 OVC010 15/15 A2967 RMK AO2 MNMG 251700Z 08014KT 9999 SCT023 SCT300 32/221 Q1011 A2987 NOSIG GQPP 251700Z 33019KT 8000 NSC 22/15 Q1015 NOSIG K05U 251705Z AUTO 25006KT 8SM CLR 17/04 A3007 RMK AO1 SKIP 251500Z 00000KT 7000 DZ SCT018 OVC080 09/08 A3055 GQPZ 251500Z 02006KT 320V070 CAVOK 29/03 Q1016 MMVR 251642Z 12005KT 6SM SCT080 29/21 A2988 RMK 8/030 HZY K08D 251655Z AUTO 00000KT 10SM CLR 21/08 A2988 RMK AO2 LWOH 251630Z 19007KT 160V220 9999 SCT040 16/07 Q1012 SLCA 251700Z 00000KT 5000 VCSH OVC010 20/19 Q1019 SLCB 251700Z 35005KT 9999 FEW030 SCT070 BKN200 21/05 Q1026 SKLC 251600Z 00000KT 4000 VCSH BKN004 OVC070 25/25 A298 LXGB 251650Z 12008KT 9999 FEW030 SCT120 BKN200 19/13 Q1018 NOSIG MNPC 251700Z 08010KT 7000 BKN016 SCT300 30/25 Q1013 HZ NFFN 251700Z 14005KT 9999 FEW030 20/19 Q1016 NOSIG YHID 251700Z AUTO 13014KT 9000 // SCT014 BKN042 OVC054 25/24 Q1013 RESHRA SKMD 251600Z 00000KT 8000 SCT030 BKN100 24/16 A3020 RMK HZ MMZC 251651Z 24020KT 10SM SKC 23/04 A3028 SLCO 251700Z 02006KT 9999 SCT023 BKN200 31/26 Q1013 SLCP 251700Z 30004KT 9999 BKN017 BKN200 28/24 Q1017 MMZH 251645Z 21010KT 6SM SKC 32/22 A2988 RMK HZY SKLT 251700Z 00000KT 9999 SCT013 BKN080 29/26 A2991 MMZO 251645Z 22010KT 12SM SKC A2989 RMK HZY SKMR 251600Z 00000KT 9999 FEW008 BKN120 28/25 A2985 K11R 251655Z AUTO 15008G21KT 10SM -RA SCT004 SCT026 29/24 A2993 RMK AO2 LTG DSNT NW T02890235 YGTE 251600Z AUTO 00000KT 9999 // NCD 23/22 Q1016 YGTH 251600Z AUTO 10006KT 9999 // NCD 07/05 Q1028 K12N 251654Z AUTO 23009G16KT 28/14 A3021 RMK AO1 SLP223 T02780139 YHLC 251600Z AUTO 13001KT //// // ////// 17/04 Q1019 MNRS 251700Z 02010KT 9999 FEW018CB BKN018 30/24 Q1011 CB N/NE/SE/S SLET 251700Z 00000KT 9999 SCT007 BKN012 OVC070 22/22 Q1015 TBPB 251700Z 04012KT 9999 -SHRA BKN016 BKN036 27/23 Q1015 NOSIG SKPC 251600Z 06012KT 9999 SCT090 31/22 A2984 LWSK 251700Z 04013KT 9999 FEW050 17/11 Q1009 NOSIG YGTN 251600Z AUTO 10007KT //// // ////// 20/14 Q1021 SKNV 251600Z 00000KT 9000 VCSH FEW030 BKN110 28/22 A2996 SKPE 251600Z 33004KT 8000 SCT012 SCT015 BKN200 30/25 A2990 RMK/HZ LYBE 251700Z 26009KT 9999 BKN033 17/12 Q1009 NOSIG MPBO 251700Z 27008KT 200V330 9999 SCT015 BKN080 Q1015 SKPS 251600Z 00000KT 9999 FEW022 BKN080 20/15 A3023 YHML 251600Z AUTO 36004KT 9999 // NCD 06/05 Q1028 MPDA 251700Z 00000KT 9999 SCT017 SCT120 30/24 Q1011 LYBT 251700Z 25008KT 220V280 9999 FEW023 17/12 Q1009 NOSIG SKPV 251600Z 08012KT 9999 FEW018 BKN200 29/24 A//// SKRG 251700Z 14008KT 9999 SCT020 BKN080 19/13 A3033 SKRH 251700Z 11018G28KT 9999 BKN020 32/21 A2990 K14Y 251655Z AUTO 01004KT 4SM DZ SCT004 OVC011 13/13 A2967 RMK AO2 P0002 SKSA 251700Z 29003KT 4000 DZ OVC015 24/24 A3002 RMK AD OPER IMC NFNA 251700Z 00000KT 9999 -SHRA BKN020 BKN045 23/20 Q1017 K0A9 251655Z AUTO 22008KT 10SM CLR 26/13 A3028 RMK SLJE 251700Z 36006KT 9999 BKN017 31/23 Q1016 SKSJ 251300Z 00000KT 9999 FEW005 BKN060 XX/XX A2990 K18A 251655Z AUTO 18004KT 10SM 25/17 A3031 RMK AO2 T02510174 SKSM 251555Z 25004KT 9999 FEW020 BKN200 30/25 A2991 YHOO 251600Z AUTO 17002KT //// // ////// 12/02 Q1019 SLJO 251700Z 00000KT 9999 FEW017 BKN080 30/25 Q1014 SKSP 251700Z 08015KT 9999 FEW018 SCT090 BKN200 29/25 A2993 YHOT 251600Z AUTO 30002KT 9999 // ////// 01/M15 Q1029 SKUC 251600Z 09004KT 9999 SCT010 SCT100 28/24 A2996 K19A 251655Z AUTO 14004KT 10SM SCT024 SCT029 OVC050 25/19 A3030 RMK AO2 SKTM 251200Z 02008KT 3000 RA BKN010 23/21 A2993 TDCF 251700Z 06007G17KT 9999 SCT023 32/18 Q1015 SKUI 251600Z 00000KT 9999 BKN018 SCT080 28/24 A2991 NGFU 251400Z VRB02KT 9999 FEW020 28/25 Q1012 K0E0 251655Z AUTO 30012G20KT 10SM CLR 17/03 A2999 RMK AO2 T01680029 K21D 251655Z AUTO 23013KT 10SM SCT015 OVC023 18/15 A2971 RMK AO2 SLMG 251700Z 32006KT 9999 FEW020 BKN080 31/24 Q1014 SLLP 251700Z 23006KT 200V340 9999 SCT017 BKN200 12/M01 Q1038 YJAB 251600Z AUTO 00000KT //// // ////// 27/19 Q1015 K20U 251655Z AUTO 08004KT 10SM OVC065 14/14 A2992 RMK AO2 K20V 251655Z AUTO 00000KT 10SM SCT017 SCT025 BKN060 10/02 A3004 RMK AO2 K0F2 251655Z AUTO 14009G18KT 10SM SCT024 SCT030 25/20 A2985 RMK AO2 T02470203 SKVP 251600Z 03008KT 9999 FEW020 BKN200 32/22 A2993 K0CO 251655Z AUTO 34010G18KT OVC002 M05/M09 A3015 RMK AO2 LTG DSNT SW PWINO YHSM 251600Z AUTO 11008KT 9999 // NCD 02/01 Q1028 SKVV 251600Z 00000KT 6000 DZ SCT015 BKN080 23/22 A3004 RERA HKEL 251700Z 18004KT 9999 FEW020CB BKN090 17/15 Q1024 HKEM 251600Z 27003KT 9999 OVC018 20/17 YHUG 251600Z AUTO 11006KT //// // ////// 17/09 Q1022 NFTF 251700Z 17009KT 9999 FEW007 SCT016 22/18 Q1017 SLOR 251700Z 18007KT 9999 FEW017 BKN200 14/02 Q1036 HKGA 251400Z 16012KT 9999 FEW032CB SCT033 33/20 Q1011 K24J 251715Z AUTO 15004KT 10SM FEW039 SCT070 SCT110 31/21 A3022 RMK AO1 NFTL 251700Z 00000KT 9999 -SHRA FEW010 SCT018 23/21 Q1016 SLPO 251500Z 05005KT 9999 SCT070 10/M03 Q1040 SLPS 251700Z 00000KT 9999 FEW020 FEW027CB 32/25 Q1011 SLRB 251700Z 35015KT 9999 SCT020 31/23 Q1016 NFTV 251700Z 00000KT 9999 FEW017 BKN110 23/22 Q1016 LYKV 251700Z 29003KT 9999 SCT035 17/14 Q1009 NOSIG MPMG 251700Z 32004KT 290V350 9000 DZ FEW010 FEW016CB BKN080 27/25 Q1012 RWY DAMP NOSIG K0J4 251707Z AUTO 00000KT 3SM -TSRA BR FEW023 BKN050 OVC070 24/23 A3017 RMK AO2 P0002 SLRI 251700Z 36008KT 9999 SCT017 FEW020CB BKN080 30/24 Q1014 K1A5 251655Z AUTO 14005KT 10SM 23/13 A3035 RMK AO2 T02270127 SLSA 251700Z 34012KT 9999 SCT017 BKN200 32/24 Q1013 K1A6 251655Z AUTO 17004KT 10SM SCT110 26/15 A3025 RMK AO2 T02550152 K1A9 251655Z AUTO 14006KT 10SM BKN023 OVC027 27/22 A3016 RMK AO2 T02700220 SLRQ 251700Z 00000KT 9999 SCT016 BKN070 29/26 Q1013 SLSI 251700Z 33008KT 9999 SCT017 30/23 Q1015 LYNI 251700Z VRB02KT 9999 FEW030TCU SCT033 17/12 Q1009 NOSIG SLRY 251700Z 34004KT 9999 SCT015 BKN080 29/24 Q1014 SMJP 251700Z 06011KT 7000 -TSRA SCT008 FEW015CB SCT020 26/25 Q1012 NOSIG SLTJ 251700Z 00000KT 9999 FEW030 BKN100 BKN200 25/14 Q1018 MPPA 251700Z 32006KT 9000 VCSH SCT020 BKN080 25/21 Q1013 SLSU 251700Z 04012KT 9999 BKN020 SCT070 15/09 Q1030 K28J 251635Z AUTO 13011KT 10SM FEW040 FEW050 SCT060 32/22 A3021 RMK AO2 TSNO HKJK 251700Z 11010KT 9999 BKN022 BKN090 21/15 Q1021 NOSIG LYPG 251700Z 22006KT 9999 FEW026 SCT040 19/11 Q1011 NOSIG HKKG 251300Z 20011KT 9999 TSRA FEW018CB SCT019 BKN080 19/18 SLTR 251700Z 29005KT 9999 FEW017 BKN200 31/24 Q1014 HKKI 251700Z 36005KT 9999 FEW023CB SCT090 22/19 Q1017 ZBAA 251700Z 15002MPS CAVOK 24/14 Q1006 NOSIG HKKR 251300Z 00000KT 9999 -TS FEW020CB BKN021 BKN090 22/15 HKMA 251000Z 20006KT 9999 SCT029 SCT100 33/19 HKKS 251600Z 00000KT 9999 FEW020CB SCT021 BKN090 19/19 LZIB 251700Z 36004KT 9999 FEW040 OVC072 16/13 Q1009 NOSIG SLVM 251700Z 17004KT 1000 -DZ OVC005 17/17 Q1017 HKKT 251700Z 18004KT 9999 FEW017CB BKN080 17/16 RETS K1F0 251650Z AUTO 16010KT 10SM SCT025 BKN036 25/18 A2990 RMK AO2 HKME 251300Z 14005KT 9999 SCT024 23/17 HKLO 251300Z 09016KT 9/9 SCT030 34/17 SLVR 251700Z 27004KT 9999 SCT020 FEW030CB BKN070 25/22 Q1016 HKLU 251400Z 18007KT 9999 FEW026 30/24 HKNC 251700Z 00000KT 9999 -RA SCT018 BKN080 18/15 Q1023 HKML 251700Z 20010KT 9999 FEW023 27/22 Q1013 HKMO 251700Z 20006KT 9999 FEW024 26/23 Q1014 NOSIG GUCY 251700Z 25012KT 9999 TS FEW015 FEW023CB SCT110 31/24 Q1010 CB-E NOSIG SLYA 251700Z 18004KT 1800 -DZ BKN003 OVC070 16/16 Q1019 YJLC 251600Z AUTO 11008KT //// // ////// 21/10 Q1020 HKNI 251100Z 12003KT 9999 SCT023TCU BKN080 21/15 NGTA 250600Z 10009KT 9999 BKN020TCU 30/23 Q1010 TDPD 251700Z 10009KT 9999 SCT020 30/21 Q1017 HKNK 251700Z 00000KT 99999 -RA SCT020 BKN090 17/16 HKMU 251600Z 13006KT 9999 FEW024 24/17 K1H2 251655Z AUTO 19010G18KT 10SM SCT024 BKN029 BKN037 25/17 A3005 RMK AO2 T02500166 CERM 251700Z AUTO 23007KT 25/08 RMK AO1 PK WND 22018/1631 SLP151 T02490079 58014 HKNO 251300Z 11007KT 9999 FEW020CB BKN021 22/14 HKMY 251700Z 00000KT CAVOK 24/19 K33V 251655Z AUTO 23007KT 10SM SCT032 BKN042 OVC050 06/M01 A3002 RMK AO2 HKNW 251700Z 00000KT 9999 FEW020CB BKN021 19/17 Q1019 MPTO 251700Z 00000KT 9000 -RA FEW008 SCT016CB BKN080 26/25 Q1012 RETS RWY WET NOSIG HKNY 251400Z 18008KT 9999 FEW022CB SCT024 BKN080 20/16 Q1024 NGTT 251600Z 10005KT 9999 FEW020 28/24 Q1010 K1J0 251658Z AUTO 09008KT 10SM FEW046 FEW070 31/22 A3016 RMK AO2 SLP170 T03110222 YIVO 251600Z AUTO 08006KT //// // ////// 13/07 Q1027 LYTV 251700Z 21003KT 160V250 9999 FEW026 SCT036 18/13 Q1011 NOSIG LZKZ 251700Z 02012KT 9999 -TSRA FEW040CB SCT050 BKN070 16/14 Q1008 K0S9 251655Z AUTO 00000KT 10SM OVC006 11/11 A3000 RMK AO2 K1K1 251655Z AUTO 18015G27KT 10SM OVC017 23/19 A2984 RMK AO2 T02300191 HKRE 250400Z 00000KT 9999 BKN018 BKN070 17/16 Q1023 LYUZ 251700Z 26005KT 230V290 9999 SCT015 BKN020 11/06 Q1010 LYVR 251700Z 18005KT 150V220 9999 SCT026 17/15 Q1009 NOSIG K1II 251655Z AUTO 20009G16KT 7SM BKN020 BKN024 OVC032 21/17 A3011 RMK AO2 K1L0 251655Z AUTO 13029G35KT 7SM TS SCT025 SCT034 SCT040 30/23 A3006 RMK AO2 LTG DSNT ALQS T02950226 GVAC 251700Z 06016KT 9999 BKN015 24/17 Q1016 NOSIG K36U 251655Z AUTO 00000KT 5SM -RA SCT017 BKN033 OVC055 11/07 A3001 RMK AO2 SOCA 251700Z AUTO 07010KT 9999 FEW024/// SCT200/// 29/24 Q1011 GVBA 251700Z 05016KT 9999 FEW015 24/17 Q1015 NOSIG K2C8 251655Z AUTO 35006KT 10SM FEW035 22/07 A2979 RMK AO2 K40B 251616Z AUTO VRB04G18KT 22/08 A3005 RMK AO1 SLP175 T02230078 57002 ZBHH 251700Z 05003MPS CAVOK 17/02 Q1010 NOSIG K1M4 251705Z AUTO 00000KT 10SM BKN010 OVC016 22/22 A3021 RMK AO2 CIG 007V012 LTG DSNT W K0V4 251655Z AUTO 22008G16KT 10SM CLR 27/15 A3030 RMK AO1 T02730151 K2D5 251655Z AUTO 04014G22KT 10SM 16/15 A2978 RMK AO2 K40J 251655Z AUTO 14004KT 10SM SCT044 31/19 A3021 RMK AO2 T03120190 YKII 251600Z AUTO 00000KT 9999 // SCT023 09/09 Q1028 LZPP 251700Z 34009KT 9999 BKN048 15/13 Q1009 HLLM 251650Z 10015KT 6000 NSC 22/15 Q1007 K0VG 251655Z AUTO 23006KT 10SM CLR 26/13 A3028 RMK AO2 YLBD 251600Z AUTO 00000KT //// // NCD 19/17 Q1016 K42J 251655Z AUTO 13006KT 10SM FEW033 SCT043 31/19 A3021 RMK AO1 TSNO K1P1 251655Z AUTO 00000KT 10SM BKN110 24/13 A3018 RMK AO2 T02430127 TFFF 251700Z AUTO 08015KT 050V110 9999 FEW037 30/20 Q1015 HKVO 251500Z 18010KT 9999 FEW022 SCT100 27/19 K2G4 251650Z AUTO 20003KT 10SM CLR 23/12 A3029 RMK AO1 K2DP 251656Z AUTO 18008G14KT 10SM CLR 25/15 A3036 RMK AO2 SLPNO T02480146 $ HKWJ 251000Z 13003KT 9999 BKN029 33/20 Q1011 K2G9 251655Z AUTO 23008G14KT 10SM CLR 24/12 A3025 RMK AO2 LZSL 251700Z 01005KT 9999 -SHRA SCT043TCU BKN050 19/14 Q1007 TFFR 251700Z AUTO 10011KT 070V150 9999 FEW039 BKN066 30/19 Q1016 MRLB 251700Z 10011KT 9999 FEW035 BKN200 35/18 A2982 K2I0 251655Z AUTO 19010G16KT 10SM BKN013 OVC019 23/20 A3015 RMK AO2 T02250196 YLEC 251600Z AUTO 05004KT //// // ////// 16/05 Q1025 K1R7 251655Z AUTO 17008KT FEW019 28/25 A3010 RMK AO2 LZTT 251700Z 05009KT 9999 FEW015 SCT020 14/12 Q1010 MRLM 250000Z 34007KT 3000 TSRA SCT006CB OVC007 24/23 A2987 YKMP 251600Z AUTO 29005KT //// // ////// 11/10 Q1029 SMZO 251700Z 00000KT 7000 SHRA SCT012 SCT018CB BKN035 27/24 Q1011 NOSIG K46D 251655Z AUTO 30007G16KT 10SM CLR 20/12 A2982 RMK AO2 K1S5 251715Z AUTO 00000KT 10SM CLR 19/07 A2989 RMK AO2 T01900073 K2J9 251655Z AUTO 16006KT 10SM BKN031 BKN037 31/22 A3021 RMK AO1 YLEO 251600Z AUTO 36004KT 9999 // NCD 12/11 Q1022 YKNT 251600Z AUTO 11011KT //// // ////// 20/03 Q1022 MROC 251700Z 12006KT 9999 FEW035 BKN140 29/18 A3002 TEMPO 24006KT K1QW 251656Z AUTO 21003G16KT M /// /// M 15/03 A2991 RMK AO2 SLP124 T01540028 $ AYMO 250300Z 16005KT 9999 SCT018 SCT300 31/24 Q1011 K49A 251655Z AUTO 16007KT 10SM OVC034 A3032 RMK AO2 YKOW 251600Z AUTO 09005KT //// // BKN068 25/18 Q1018 K3D2 251655Z AUTO 17011G15KT 2 1/2SM BR OVC003 13/13 A2971 RMK AO2 T01310128 YLHI 251700Z AUTO 14005KT 9999 // SCT058 17/10 Q1028 K1V4 251654Z AUTO 23/11 A3015 RMK AO1 SLP203 T02330106 K1V6 251650Z AUTO 31004KT 10SM CLR 16/05 A2991 RMK AO2 SPCL 251700Z 02007KT 9999 BKN015 SCT080 30/25 Q1014 RMK BIRD HAZARD RWY O2/20 PP000 K3AU 251655Z AUTO 17018KT 10SM BKN015 BKN022 23/20 A2984 RMK AO2 LZZI 251700Z 05004KT 9999 BKN021 OVC034 14/12 Q1010 YKSC 251600Z AUTO 00000KT 9999 // BKN086 10/09 Q1025 AYNZ 250500Z 09038KT 9999 -DZ BKN016 FEW035CB OVC140 26/23 Q1012 RMKS MRPV 251700Z 06009KT 9999 FEW040 SCT120 27/17 A3003 NOSIG YMBA 251600Z AUTO 13008KT //// // ////// 20/15 Q1022 YLIS 251700Z AUTO 00000KT 5000 // BKN057 11/11 Q1028 ZBSJ 251700Z 17001MPS 6000 NSC 19/16 Q1007 NOSIG OAHR 251655Z 10005KT CAVOK 24/M10 Q1015 RMK BKN BKN200 VIS MIN 9999 BLU YMBD 251600Z AUTO 35004KT //// // BKN100 OVC125 11/08 Q1026 YKRY 251600Z AUTO 29001KT //// // ////// 09/08 Q1028 ZBTJ 251700Z 23002MPS CAVOK 25/11 Q1007 NOSIG AYPY 251500Z 16002KT 9999 SCT030 SCT300 26/23 Q1011 RMKS YMAV 251700Z AUTO 35004KT 9999 // NCD 03/02 Q1029 OAKB 251650Z 33011KT CAVOK 15/M11 Q1019 NOSIG RMK BLU BLU YLLE 251600Z AUTO 07006KT //// // ////// 18/09 Q1024 YMAY 251700Z AUTO 00000KT 9999 // NCD 04/03 Q1030 GVNP 251700Z 03019KT 9999 FEW020 26/18 Q1015 NOSIG OBBI 251700Z 31017KT CAVOK 32/21 Q1007 NOSIG K54J 251655Z AUTO 10SM SCT027 SCT033 BKN047 29/22 A3016 RMK AO2 T02880218 SPGM 251700Z /////KT 9999 FEW030 30/21 Q1016 RMK PP000 YMCO 251600Z AUTO 31006KT //// // ////// 05/04 Q1029 NIUE 242000Z 00000KT 9999 FEW018 SCT030 24/23 Q1018.4 YMDG 251700Z AUTO 00000KT //// // NCD 03/03 Q1029 K3I2 251655Z AUTO 21005KT 10SM CLR 28/16 A3019 RMK AO2 MTBO 251600Z AUTO 00000KT 9999 // NCD 06/M03 Q//// SPHI 251700Z 17010KT 9999 OVC020 26/20 Q1013 RMK PP000 SPHO 251700Z 12005KT 070V180 9999 VCSH SCT046 OVC090 18/08 Q1030 RMK PP000 MSLP 251650Z VRB03KT 9999 FEW037 33/22 Q1011 A2986 NOSIG YMEK 251700Z AUTO 04005KT 9999 // NCD 14/12 Q1021 K4A6 251655Z AUTO 00000KT 9SM OVC026 25/19 A3021 RMK AO2 K3J7 251655Z AUTO 00000KT 10SM SCT026 SCT060 27/20 A3026 RMK AO2 K4A7 251655Z AUTO 15007KT 10SM SCT024 BKN031 BKN060 27/20 A3027 RMK AO2 T02710197 YMEN 251700Z AUTO 03003KT 9999 // NCD 06/04 Q1029 SPIM 251700Z 19004KT 130V220 9999 OVC030 22/16 Q1016 NOSIG RMK BIRD HAZARD RWY 15 PP000 K1YT 251656Z AUTO 32005KT 10SM CLR 19/05 A2990 RMK AO2 SLPNO T01930046 $ K4A9 251655Z AUTO 12007KT 10SM SCT023 SCT028 SCT050 24/17 A3022 RMK AO2 SPHY 251700Z 32012KT 9000 VCSH SCT015TCU BKN060 12/08 Q1036 RMK PP000 K3K3 251655Z AUTO 10004KT 10SM CLR 20/11 A2988 RMK AO2 YMER 251700Z AUTO 00000KT 9999 // NCD 03/02 Q1029 YMES 251600Z AUTO 31006KT 9999 // NCD 02/02 Q1030 SPJI 251700Z 00000KT 9999 SCT030 30/25 Q1022 RMK PP000 YMGB 251600Z AUTO 13008KT //// // ////// 26/21 Q1015 OAMS 251650Z 08016KT 9999 SKC 21/M04 Q1017 BLU+ BLU+ YMGD 251600Z AUTO 14006KT 9999 // BKN089 26/20 Q1015 SPJL 251700Z VRB04KT 9999 SCT015 SCT100 14/04 Q1039 RMK PP000 AYVN 250600Z 30006KT 9999 FEW018CB FEW020 BKN300 30/24 Q1010 RMKS SPJR 251700Z 18005KT 9999 SCT033 21/11 Q1029 RMK PP000 YMHB 251700Z 33007KT 9999 FEW040 SCT058 11/06 Q1025 ZBYN 251700Z 20002MPS CAVOK 24/05 Q1011 NOSIG AYWK 250600Z 09005KT 9999 FEW020CB FEW020 SCT040 OVC300 29/25 Q1009 RETS RMKS YMIA 251700Z AUTO 00000KT 9999 // NCD 10/08 Q1027 K2V5 251715Z AUTO 30012G19KT 10SM SCT036 BKN041 BKN050 18/09 A2985 RMK AO2 T01820089 YLRE 251700Z AUTO 08011KT 9999 // NCD 18/11 Q1023 SPME 251700Z 33006KT 9999 SCT010 29/25 Q1012 RMK BIRD HAZARD RWY 32/14 PP000 SPLO 251700Z 19005KT 9999 BKN070 22/15 Q1013 RMK PP000 K4BM 251654Z AUTO 27004KT 10SM SCT027 SCT033 02/M03 A3014 RMK AO2 GVSV 251700Z 06024KT 9999 FEW022 26/16 Q1016 NOSIG K3LF 251655Z AUTO 20012KT 10SM CLR 24/17 A3002 RMK AO2 T02350170 K2W6 251650Z AUTO 20008KT 10SM CLR 26/13 A3030 RMK AO1 YMHU 251600Z AUTO 00000KT 9999 // NCD 20/20 Q1018 K3N8 251655Z AUTO 04011KT 10SM -RA SCT060 OVC070 15/12 A2978 RMK AO2 P0003 T01450121 YMIN 251600Z AUTO 06009KT //// // ////// 13/10 Q1025 SPMS 251700Z 35003KT 9999 SCT015 SCT090 31/24 Q1016 RMK BIRD HAZARD RWY 09/27 PP000 YNAR 251600Z AUTO 12004KT //// // ////// 05/04 Q1029 YLTN 251600Z AUTO 07004KT //// // ////// 12/12 Q1023 DAAD 251700Z 36018KT 8000 BKN033 27/08 Q1007 YNBR 251600Z AUTO 15002KT 9999 // NCD 10/09 Q1028 DAAE 251700Z 06006KT 9999 SCT020TCU SCT090 19/15 Q1013 YMMB 251600Z AUTO 36004KT 9999 // NCD 08/04 Q1029 DAAG 251700Z 01010KT 9999 SCT020 FEW023TCU SCT083 20/15 Q1015 MSSS 251650Z 04004KT 9999 FEW033 30/23 Q1015 A2999 DAAJ 251700Z 21020KT 3000 DRSA SCT046 39/// Q1012 DABB 251700Z 01008KT 9999 FEW026 SCT100 19/15 Q1011 DABC 251700Z 05010KT 9999 SCT030 SCT100 19/10 Q1012 K4I3 251656Z AUTO 22012G19KT 190V250 10SM CLR 26/17 A3013 RMK AO2 MUCF 251658Z AUTO 10014G27KT 050V180 32/23 Q1019 K2WX 251656Z AUTO 04011KT 13/12 A2981 RMK AO1 SLP094 P0006 T01280117 DAAP 251700Z /////KT 2500 HZ FEW040CB SCT046 43/// Q1006 YMLT 251700Z AUTO 32004KT 0250 // ////// 05/04 Q1027 K4I7 251655Z AUTO 19008G15KT 151V231 7SM SCT012 BKN018 OVC030 22/17 A3007 RMK AO2 K3R7 251655Z AUTO 15006KT 10SM BKN030 BKN035 BKN046 30/23 A3003 RMK AO2 T02950233 YMML 251700Z 36013KT CAVOK 06/04 Q1029 NOSIG MUCL 251653Z 10018KT 9000 BKN018TCU 31/23 Q1018 DAAS 251700Z 36010KT 9999 SCT026 17/09 Q1013 DAAT 251700Z 27016KT 9000 FEW053 33/M01 Q1019 MUCM 251650Z 07016KT 9000 SCT016CB 31/20 Q1019 TGPY 251700Z 10008KT 9999 BKN017 SCT035 26/25 Q1015 NOSIG ADJ SHRA-NE N W DAAV 251700Z 32006KT 9999 FEW016 FEW023TCU SCT100 20/16 Q1013 DABP 251300Z 33008KT 9999 FEW030 BKN100 20/15 Q1012 DAAY 251700Z 36020KT 6000 -TS FEW026CB BKN030 15/13 Q1015 K5A6 251655Z AUTO 20005KT 10SM BKN011 BKN016 BKN021 24/22 A3011 RMK AO2 LTG DSNT E T02410219 SPQT 251700Z VRB02KT 9999 BKN015 BKN100 31/24 Q1013 NOSIG RMK BIRD HAZARD RWY 06/24 PP000 K65S 251655Z AUTO 12003KT 10SM CLR 13/10 A2992 RMK AO2 SPQU 251700Z 25008KT 210V300 CAVOK 22/M10 Q1027 NOSIG RMK PP000 YNEN 251600Z AUTO 11012KT 9999 // NCD 28/21 Q1015 DABS 251700Z 34021KT 9999 FEW040 24/03 Q1012 MUCU 251651Z 13015KT 9000 SCT020 31/20 Q1017 DABT 251700Z 03019KT 9999 SCT026 24/06 Q1011 YMOG 251600Z AUTO 02006KT //// // ////// 14/07 Q1021 K3T5 251655Z AUTO 16011G20KT 10SM BKN028 BKN035 BKN041 29/24 A2989 RMK AO2 LTG DSNT S AND NW T02940240 K66R 251655Z AUTO 15010G19KT 7SM -RA SCT025 BKN033 BKN040 27/24 A2992 RMK AO2 LTG DSNT SW P0001 T02710236 SPRU 251700Z 14009KT 7000 OVC030 23/19 Q1014 RMK PP000 K5C1 251655Z AUTO 16012G19KT 10SM 23/21 A2990 RMK AO1 SPSO 251700Z 35006KT 9999 BKN030 22/17 Q1015 RMK BIRD HAZARD RWY 22/04 PP000 YMOR 251700Z AUTO 06007KT 9999 // NCD 10/07 Q1028 DAEF 251700Z 26022KT 3000 DRSA NSC 37/// Q1006 SPST 251700Z 12004KT 9999 SCT020 30/20 Q1013 RMK BIRD HAZARD RWY 17/35 PP000 SPTN 251700Z 21003KT 9999 SCT025 SCT150 19/13 Q1017 RMK PP000 DAEN 251700Z /////KT 1500 BLSA NSC 37/// Q1004 YMRB 251600Z AUTO 14007KT 9999 // SCT018 OVC060 16/13 Q1025 YNGU 251600Z AUTO 14001KT //// // ////// 20/18 Q1017 YNHL 251600Z AUTO 07009KT //// // ////// 07/06 Q1027 DAFH 251700Z 03008KT 1800 HZ NSC 26/11 Q1007 MUHA 251655Z 14008KT 080V180 9000 BKN040 31/19 Q1019 SPTU 251700Z 24003KT 9999 SCT030 29/24 Q1014 RMK BIRD HAZARD RWY 01/19 PP000 DAER 251700Z 23022KT 2000 BLSA NSC 37/// Q1005 K4M9 251655Z AUTO 19009KT 10SM 25/21 A3006 RMK AO2 MUGM 251656Z 12022KT 9999 FEW030 SCT280 33/22 A3005 RMK PK WND 12027/1615 SLP173 T03330222 MTPP 251300Z 09012KT 8000 FEW020 29/// Q1017 A3005 MUHG 251650Z 07014KT 030V130 9999 SCT025 32/19 Q1018 K4O4 251655Z AUTO 18006KT 10SM SCT020 BKN029 OVC035 24/18 A2999 RMK AO2 YMRY 251600Z AUTO 25003KT 9999 // NCD 07/07 Q1029 YMTG 251600Z AUTO 03006KT 9999 // NCD 06/05 Q1027 YMTI 251600Z AUTO 21004KT //// // ////// 21/17 Q1017 K4MR 251656Z AUTO 27009G13KT 10SM CLR 21/04 A2993 RMK AO2 SLP088 T02050042 $ K5H4 251655Z AUTO 03008G18KT 10SM CLR 23/06 A2982 RMK AO2 SPZA 251630Z VRB03KT CAVOK 25/14 Q1017 SPYL 251700Z 19015KT CAVOK 29/20 Q1012 RMK BIRD HAZARD RWY 17/35 PP000 DBBB 251700Z 18009KT 9999 SCT012 30/24 Q1009 NOSIG K6A1 251655Z AUTO 14007KT 10SM RA 28/22 A3025 RMK AO2 T02820223 K6A2 251655Z AUTO 14005KT 10SM BKN025 OVC031 25/20 A3027 RMK AO2 SPZO 251700Z 17004KT 9999 FEW040TCU SCT040 BKN100 17/03 Q1033 TEMPO VCSH RMK PP000 UAAA 251700Z 20003MPS 9999 FEW050CB BKN100 16/02 Q1019 R88/CLRD65 NOSIG K6B0 251655Z AUTO 00000KT 10SM -RA SCT034 SCT044 OVC110 20/14 A3017 RMK AO2 T01990141 UAAH 251300Z 33005MPS 9999 BKN033CB BKN100 20/11 Q1012 R05/0///60 NOSIG RMK QFE722/0963 YMYB 251600Z AUTO 19006KT 9999 // NCD 13/11 Q1026 UACC 251700Z 25002MPS CAVOK 12/08 Q1017 R04/0/0070 NOSIG RMK QFE731/0975 DAOB 251700Z 31008KT 9999 SCT026 SCT093 16/13 Q1013 TJBQ 251650Z 06017G23KT 10SM SCT020 30/22 A3007 RMK RWY 8 ATIS D DAOF 251700Z 28016KT CAVOK 28/04 Q1010 YNRC 251600Z AUTO 03007KT //// // ////// 09/05 Q1027 UACK 251300Z 01005MPS CAVOK 16/02 Q1015 R02/010070 NOSIG RMK QFE737/0983 DAOI 251700Z 06007KT 9999 SCT030 SCT100 18/14 Q1013 RERA K79J 251656Z AUTO 14003KT 10SM TS SCT027 BKN034 29/22 A3016 RMK AO2 TSB49 SLP207 T02940217 $ UADD 251700Z VRB01MPS 9999 NSC 15/07 Q1020 NOSIG RMK QFE708/0944 K5M9 251655Z AUTO 18008G14KT 10SM OVC014 22/19 A3012 RMK AO2 T02170190 DAOL 251700Z 35004KT 7000 -RA FEW020 SCT026 BKN080 17/17 Q1016 UACP 251130Z 02004MPS CAVOK 18/02 Q1015 R05/0/0060 NOSIG RMK QFE749/0999 DAON 251700Z 32002KT 6000 SCT010 BKN026 15/14 Q1017 DAOO 251700Z 36007KT 8000 SCT033 BKN100 17/16 Q1015 YPAD 251700Z 04006KT CAVOK 14/09 Q1025 DAOR 251700Z 36026KT 9999 FEW033 SCT040 23/10 Q1012 K82C 251655Z AUTO 23010KT 7SM BKN020 BKN043 OVC120 21/17 A2975 RMK AO2 T02080174 YPAG 251600Z AUTO 14007KT 9999 // SCT069 OVC110 16/09 Q1025 DAOV 251700Z 30011KT 8000 SCT020 BKN033 15/13 Q1015 DAOY 251700Z /////KT 9999 -TS VCBLDU SCT026CB BKN030TCU 15/11 Q1013 YNSM 251600Z AUTO 00000KT //// // ////// 08/05 Q1021 OEAB 251700Z 00000KT CAVOK 21/12 Q1024 NOSIG OEAH 251700Z 36012KT CAVOK 35/03 Q1009 NOSIG YPCC 251700Z AUTO 10011KT 9999 // SCT025 SCT042 BKN056 27/22 Q1014 OEBA 251700Z 28012KT 9999 FEW025CB SCT030 22/16 Q1022 NOSIG YOLD 251600Z AUTO 02004KT 9999 // BKN115 15/06 Q1025 YNTN 251600Z AUTO 07007KT //// // ////// 26/16 Q1018 YPBO 251600Z AUTO 07007KT 9999 // OVC033 17/16 Q1020 K82V 251655Z AUTO 32012G19KT 10SM DZ OVC036 08/07 A2992 RMK AO2 OEAO 251700Z 36012KT CAVOK 36/M06 Q1012 OEBH 252000Z 09008KT 9000 SCT030 29/10 Q1015 NOSIG OEAR 251700Z 05002KT CAVOK 34/14 Q1009 MWCB 251700Z 11010KT 9999 SCT016 31/26 Q1017 K6I2 251650Z AUTO 18013G19KT 10SM SCT036 BKN085 24/16 A3020 RMK AO2 YPEA 251700Z AUTO 18001KT 9999 // NCD 08/06 Q1022 YPED 251600Z AUTO 04002KT 9999 // OVC110 14/09 Q1026 K5R8 251655Z AUTO 17012G17KT 10SM BKN031 BKN043 30/23 A3002 RMK AO2 T02950229 YOLW 251600Z AUTO 12008KT //// // ////// 19/16 Q1018 YPDN 251700Z 19008KT CAVOK 24/22 Q1015 DAUA 251700Z 28007KT 7000 NSC 33/01 Q1006 DAUB 251700Z 12020KT 1000 BLSA NSC 31/09 Q1003 TJIG 251646Z 08018KT 10SM SCT030 29/22 A3007 RMK RWY09 IN USE ATIS G DATM 251200Z 29010KT CAVOK 36/10 Q1013 OEDF 251700Z 32010KT CAVOK 35/06 Q1008 NOSIG DAUE 251700Z 27014KT 4000 HZ NSC 34/07 Q1004 UAII 251700Z 15002MPS 120V180 CAVOK 18/09 Q1020 R28/0///70 NOSIG RMK QFE727/0970 MWCR 251700Z 12012KT 090V150 9999 FEW018 31/24 Q1017 NOSIG DAUG 251700Z 00000KT 2500 HZ NSC 29/07 Q1005 DAUH 251700Z 26014KT 3000 DRSA NSC 36/13 Q1002 YOOD 251600Z AUTO 18006KT //// // ////// 17/06 Q1024 DAUI 251700Z 26018KT 5000 DRSA NSC 35/// Q1007 YNWN 251625Z AUTO 12005KT 9999 // SCT043 BKN054 OVC074 14/10 Q1021 OEDM 251600Z 03005KT 9999 FEW040 FEW100 27/13 Q1015 DAUK 251700Z 06018KT 1500 BLSA NSC 33/15 Q1002 DAUL 251700Z 06014KT 1500 BLSA FEW033 SCT080 24/07 Q1008 DAUO 251700Z 100//KT 0700 DRSA NSC 28/10 Q1003 OEDR 251700Z 33010KT CAVOK 34/05 Q1007 NOSIG MUVR 251650Z 10008KT 070V130 9000 SCT020 BKN080 30/20 Q1019 UBBB 251700Z 16007KT CAVOK 19/13 Q1011 88CLRD70 NOSIG YOOM 251600Z AUTO 08005KT //// // ////// 18/07 Q1024 UAKD 251400Z 33007MPS 7000 SCT050CB BKN100 22/11 Q1015 R22/0///65 NOSIG RMK QFE728/0971 DAUT 251700Z 35008KT 4000 HZ NSC 33/16 Q1006 DAUU 251700Z 27010KT 4500 HZ NSC 36/M01 Q1002 ZGGG 251700Z 08002MPS 050V110 4500 BR SCT010 OVC026 25/25 Q1007 NOSIG UBBG 251700Z 00000KT 9999 FEW040CB BKN083 23/14 Q1011 R30/CLRD70 NOSIG K6L4 251655Z AUTO VRB04G10KT 10SM CLR 26/14 A3021 RMK AO2 ZGHA 251700Z 04002MPS 2800 BR NSC 24/21 Q1007 NOSIG DAUZ 251700Z 27019KT 6000 DRSA NSC 39/M03 Q1006 UAKK 251700Z 07002MPS CAVOK 07/07 Q1016 R05/0///70 NOSIG RMK QFE715/0953 TIST 251703Z 13011KT 10SM BKN012 BKN040 OVC060 29/23 A3005 RMK AO2 T02890233 UBBL 251700Z 15006KT 9999 SCT200 19/17 Q1011 R33/CLRD70 RMK MT OP UBBN 251700Z 07005KT 9999 -SHRA BKN050CB OVC083 20/11 Q1015 R14R/CLRD60 NOSIG RMK MT OP QFE686 K5SM 251654Z AUTO 00000KT 1 3/4SM BR OVC003 01/01 RMK AO2 VIS 1/2V5 TISX 251653Z 11014KT 10SM FEW026 32/19 A3005 RMK AO2 SLP174 T03170194 UBBQ 251700Z 04004KT 9999 BKN100 2O/16 Q1011 R16/CLRD70 NOSIG RMK MT OP YPGV 251700Z AUTO 14010KT 9999 // SCT019 BKN024 OVC095 26/23 Q1015 YORG 251600Z AUTO 00000KT 9999 // NCD 00/M01 Q1029 OEGN 251700Z 00000KT CAVOK 33/24 Q1007 NOSIG K7BM 251654Z AUTO 00000KT 10SM SCT030 BKN038 OVC047 08/M01 A3008 RMK AO2 UBBY 251500Z 16003KT 9999 BKN100 25/15 Q1013 R33/////// NOSIG RMK MT OP OEGS 251700Z 04008KT 2000 DU BKN040 32/16 Q1013 OEGT 251700Z 28008KT CAVOK 31/03 Q1011 NOSIG OEHL 251700Z 04008KT 9999 FEW040 32/03 Q1015 NOSIG UBEE 251400Z 27007KT 9999 SCT033 BKN100 29/12 Q1009 R30/CLRD70 NOSIG YPKA 251600Z AUTO 12008KT 9999 // OVC030 19/18 Q1016 YPKG 251700Z AUTO 35006KT 9999 // NCD 13/09 Q1021 TJNR 251653Z AUTO 05011KT 10SM SCT030 31/23 A3008 RMK AO2 SLP185 T03060228 $ YPJT 251700Z AUTO 28001KT 9999 -DZ SCT034 BKN041 BKN050 11/10 Q1022 YPLC 251600Z AUTO 33003KT 9999 // OVC082 OVC105 12/10 Q1025 ZHCC 251700Z VRB01MPS 7000 NSC 23/14 Q1009 NOSIG ZGKL 251700Z VRB01MPS 9999 FEW033 BKN053 25/23 Q1007 NOSIG UAOO 251700Z 27003MPS CAVOK 21/10 Q1018 R24/CLRD70 NOSIG RMK QFE751/1002 OEJN 251700Z 30006KT CAVOK 32/19 Q1007 NOSIG YPKS 251600Z AUTO 03004KT //// // ////// 05/04 Q1029 YPKT 251600Z AUTO 16005KT //// // ////// 20/11 Q1015 YPKU 251700Z AUTO 20003KT //// // NCD 17/14 Q1016 OEKJ 251700Z 02009KT CAVOK 33/06 Q1015 OEKK 251700Z 17008KT 9999 SCT040 33/15 Q1011 NOSIG YPLM 251700Z AUTO 07009KT 9999 // NCD 21/17 Q1017 K6R3 251655Z AUTO 17010G22KT 7SM SCT025 BKN030 BKN036 29/24 A2998 RMK AO2 T02880236 K6R6 251653Z AUTO 28013G21KT 32/M01 A2987 RMK AO1 WSHFT 1607 SLP074 T03221011 TJPS 251650Z 14010G18KT 8SM FEW025 SCT050 32/22 A3000 RMK HZ ALQDS OEMA 251700Z 11006KT 9999 FEW045 39/M07 Q1012 NOSIG K8A0 251655Z AUTO 16008KT 10SM BKN020 OVC027 23/22 A3020 RMK AO2 K96D 251655Z AUTO 03005KT 10SM 24/05 A2980 RMK AO2 YPMQ 251600Z AUTO 00000KT 9999 // NCD 11/11 Q1028 SUAA 251600Z 30009KT 9999 SCT020 17/07 Q1021 YPOD 251600Z AUTO 34004KT 9999 // NCD 07/05 Q1028 ZGNN 251700Z VRB01MPS 9999 SCT009 27/27 Q1006 NOSIG UARR 251700Z 14003MPS CAVOK 22/13 Q1017 R22/CLRD70 NOSIG RMK QFE759/1012 TJSJ 251656Z 06017G24KT 10SM FEW017 SCT034 31/23 A3005 RMK AO2 SLP175 T03060233 UASK 251700Z 19003MPS 9999 -SHRA BKN016CB OVC033 13/12 Q1009 R12/290250 NOSIG RMK QFE732/0976 YPPD 251700Z AUTO 13008KT 9999 // BKN037 BKN069 OVC088 19/14 Q1016 YPPF 251600Z AUTO 02007KT 9999 // OVC099 15/10 Q1026 UATE 251700Z 03004MPS CAVOK 20/04 Q1014 R30/0///70 NOSIG RMK QFE759/1012 K7L2 251655Z AUTO 09007KT 9SM FEW018 BKN038 OVC070 15/15 A2985 RMK AO2 YPPH 251700Z 24005KT CAVOK 09/08 Q1022 NOSIG UATG 251700Z 34002MPS CAVOK 23/06 Q1017 R14/CLRD70 NOSIG RMK QFE765/1020 UASP 251700Z 31003MPS CAVOK 09/04 Q1013 R21/0///70 NOSIG RMK QFE748/0998 SUCA 251700Z 24008KT CAVOK 18/02 Q1018 UASS 251700Z 30005MPS 9999 FEW011 OVC070 12/11 Q1011 R26/1///60 NOSIG RMK QFE740/0987 OEPA 251600Z 33004KT 9999 BKN035 37/11 Q1010 NOSIG ZGOW 251700Z 05003MPS 2200 -SHRA BR SCT003 SCT007 FEW026TCU OVC030 22/22 Q1010 NOSIG ZHHH 251700Z VRB01MPS 1600 -RA BR NSC 21/20 Q1009 NOSIG K8D3 251656Z AUTO 03020G27KT 14/13 A2973 RMK AO1 PK WND 02028/1620 SLP063 T01440133 UATT 251700Z 25003MPS CAVOK 18/13 Q1018 R31/CLRD70 NOSIG RMK QFE744/0992 K7N0 251655Z AUTO 18009G15KT 140V200 A3007 RMK AO1 CMGB 251700Z AUTO 22005KT 21/12 RMK AO1 SLP202 T02100120 58002 UAUU 251700Z 00000MPS CAVOK 14/09 Q1017 R33/CLRD70 NOSIG RMK QFE747/0996 OERF 251600Z 01007KT CAVOK 37/02 Q1010 SUDU 251700Z 00000KT CAVOK 19/04 Q1019 OERK 251700Z 00000KT 8000 FEW040 BKN080 33/05 Q1013 NOSIG OERR 251600Z 33005KT CAVOK 35/11 Q1012 NOSIG OETB 251600Z 33010KT CAVOK 34/M03 Q1014 NOSIG OESK 251600Z 00000KT CAVOK 35/M02 Q1014 NOSIG YPTN 251700Z AUTO 14004KT 9999 // NCD 19/15 Q1017 UCFM 251700Z 13007MPS 9999 FEW066CB BKN130 17/06 Q1019 R08/CLRD70 NOSIG UCFO 251700Z 16001MPS 6000 NSC 13/09 Q1022 R12/CLRD70 NOSIG OETF 251700Z 18004KT 9999 FEW025CB SCT030 20/14 Q1021 NOSIG ZGSZ 251700Z 15003MPS 9999 SCT011 BKN030 28/26 Q1007 NOSIG OERY 251200Z 35008KT 8000 SCT040 BKN080 35/10 Q1015 TKPK 251700Z 05014KT 9999 FEW024 30/21 Q1017 TKPN 251600Z 08015KT 9999 FEW024 31/21 Q1017 OETR 251600Z 30018KT 5000 BLSA BKN040 31/04 Q1015 K9A5 251655Z AUTO 19006KT 5SM BKN030 BKN036 26/13 A3025 RMK AO2 T02550132 SVAC 251600Z 270//KT 9999 BKN020 ///// Q1015 YREN 251600Z AUTO 00000KT //// // ////// 10/08 Q1027 OEWD 251438Z 01024KT 0600 DS VV//// 38/22 Q1009 NOSIG YPWR 251700Z AUTO 07006KT 9999 // SCT078 BKN097 14/08 Q1025 OEWJ 251600Z 31021KT CAVOK 31/21 Q1006 NOSIG YPXM 251700Z AUTO 00000KT 9000 // NCD 22/21 Q1015 SVBC 251700Z /////KT 9999 FEW010 34/25 Q1014 SVBI 251500Z 05004KT 9999 SCT017 BKN070 28/27 Q1018 SVBM 251700Z 09007KT 9999 FEW016 SCT080 28/19 Q1017 MYGF 251700Z 11010KT 9999 BKN018 30/25 A3017 SVBS 251400Z 16005KT 5000 FU FEW013 SCT070 28/22 Q1017 HTAR 251500Z 09010KT 9999 FEW024 BKN090 20/18 Q1020 K9D7 251655Z AUTO 07008KT 10SM CLR 24/05 A2982 RMK AO2 SVCN 251700Z 00000KT 9999 SCT030 ///// Q1019 OEYN 251600Z 27006KT CAVOK 35/16 Q1004 NOSIG K7W4 251655Z AUTO 21006KT 10SM CLR 26/15 A3028 RMK AO1 T02590146 SVCR 251700Z 09015KT 9999 SCT016 36/27 Q1014 SULS 251700Z 25014KT CAVOK 17/06 Q1020 SVCU 251600Z 07016KT 9999 FEW013 33/17 Q1013 HTDA 251600Z 15006KT 9999 FEW026 SCT080 26/23 Q1015 NOSIG HTBU 251600Z 00000KT 9999 FEW020 FEW022CB 24/20 Q1015 SUMU 251700Z 28009KT 9999 FEW023 BKN200 18/06 Q1019 NOSIG HTDO 251600Z 08010KT 9999 FEW024 24/14 Q1018 NOSIG YSBK 251600Z AUTO 35003KT 9999 // NCD 07/05 Q1029 YSCB 251700Z AUTO 17004KT 9999 // NCD M02/M03 Q1029 TLPC 251700Z 12012KT 9999 FEW026 BKN300 30/20 Q1016 NOSIG SVGD 251600Z 02006KT 9999 SCT017 SCT070 29/21 Q//// SVGI 251600Z /////KT 9999 SCT010 BKN300 30/21 YRMD 251600Z AUTO 09008KT //// // ////// 20/11 Q1021 TLPL 251700Z 09015KT 9999 SCT028 BKN280 30/21 Q1016 NOSIG YSCO 251600Z AUTO 27001KT //// // ////// 06/05 Q1029 YSCR 251600Z AUTO 25004KT 180V260 //// // ////// 10/08 Q1021 SVGU 251600Z /////KT 9999 BKN017 28/20 Q1016 MZBZ 251700Z 10009KT 9999 SCT022 31/25 A2999 Q1015 NOSIG YSDU 251700Z AUTO 16010KT 9999 // NCD 07/07 Q1029 HRYR 251700Z 15004KT 9999 FEW023 SCT025 24/17 Q1019 NOSIG SVJC 251400Z 09016KT 9999 SCT013 00/00 Q1014 YROM 251600Z AUTO 00000KT 9999 // NCD 10/07 Q1027 YSGE 251600Z AUTO 12004KT //// // ////// 12/09 Q1027 SVJM 251600Z /////KT 9999 SCT020 31/22 Q1015 SUSO 251700Z 18007KT 9999 FEW030 BKN200 20/12 Q1018 MYNN 251700Z 10011KT 9999 FEW013 BKN017 30/22 A3018 TCU/NE E W K9L2 251655Z AUTO 00000KT 10SM CLR 22/07 A2992 RMK AO2 SLP120 T02220067 TSNO $ TNCA 251700Z 08020KT 9999 FEW025 31/23 Q1013 A2994 NOSIG HTIR 251600Z 00000KT 9999 SCT018 21/13 Q1021 TNCB 251600Z AUTO 08018KT 050V120 //// ////// 30/23 Q1015 NOSIG HTKA 251500Z 22005KT 9999 FEW023 FEW024CB BKN230 27/20 Q1017 TNCC 251600Z 10014KT 070V130 9999 FEW018 30/21 Q1015 NOSIG TNCE 251600Z AUTO 07014KT //// ////// ///// Q1018 SVLF 251700Z 00000KT 9999 OVC020 XX/XX Q1014 DFFD 251700Z 10006KT 070V160 9999 SCT026 FEW033TCU BKN260 40/15 Q1009 NOSIG YSHK 251600Z AUTO 16012KT //// // ////// 18/11 Q1019 ZJHK 251700Z 15002MPS CAVOK 26/24 Q1006 NOSIG SVMC 251500Z /////KT 9999 BKN016 32/23 Q1015 HTKJ 251600Z 03005KT 9999 FEW024 BKN080 23/17 Q1017 NOSIG HSSS 251700Z 36005KT CAVOK 40/04 Q1006 NOSIG SVMD 251700Z 22008KT 4000 VCBR SCT005 OVC030 XX/XX Q1022 TNCM 251600Z 10011KT 070V130 9999 SCT023 29/22 Q1018 A3006 NOSIG K8W2 251655Z AUTO 22016G24KT 10SM CLR 26/13 A3022 RMK AO1 T02620126 SVMG 251700Z /////KT 9999 FEW010 SCT080 29/19 Q1014 NOSIG SVMI 251700Z 02006KT 9999 FEW016 SCT100 29/24 Q1013 NOSIG YSHT 251600Z AUTO 00000KT 9999 // NCD 02/02 Q1029 YSHW 251600Z AUTO 23007KT 9999 // NCD 08/05 Q1029 HTMB 251400Z 10010KT 9999 SCT023 23/13 Q///// SVMN 251200Z 09004KT 9999 SCT013 BKN100 26/// Q1012 UEEE 251700Z 32001MPS CAVOK 05/M01 Q1001 R23L/09//60 NOSIG RMK QFE742 HTMG 251600Z 00000KT 9999 FEW025 24/20 Q1017 SVMT 251600Z 07011KT 9999 BKN013 33/14 Q1013 OIAA 251700Z 00000KT CAVOK 35/12 Q1007 OIAD 251700Z 00000KT CAVOK 33/12 Q1007 A2974 K9MN 251653Z AUTO 24010G15KT 200V270 10SM SCT016 OVC025 18/17 A2975 RMK AO1 T01840166 YTAR 251600Z AUTO 06004KT //// // ////// 14/07 Q1025 YRTI 251600Z AUTO 22010KT //// // ////// 18/11 Q1022 OIAG 251700Z 33006KT CAVOK 34/M09 Q1007 OIAH 241859Z 28004KT CAVOK 32/M01 Q1012 OIAI 241852Z 32004KT 9999 FEW040 33/05 Q1008 SVPA 251000Z /////KT 9999 SCT013 24/24 Q1011 OIBA 251500Z 28012KT 5000 BR NSC 31/28 Q1002 SVPC 251600Z 10018KT 9999 BKN020 31/XX Q1016 OIBB 251700Z 29017KT CAVOK 30/21 Q1006 A2971 DGAA 251700Z 19010KT 9999 FEW015CB 29/25 Q1010 NOSIG HTMT 251600Z 16010KT 9999 FEW022 24/22 Q1015 HTMU 251600Z 00000KT 9999 FEW024CB SCT090 25/19 Q1017 OIAM 251700Z 29010KT CAVOK 34/04 Q1007 HUEN 251600Z 19009KT 9999 FEW020 FEW022CB SCT220 23/19 Q1016 HTMW 251600Z 33005KT 9999 SCT024 FEW025CB 25/19 Q1015 NOSIG OIBJ 251500Z 31017KT CAVOK 36/M05 Q1010 OIBK 251700Z 28012KT 5000 HZ NSC 32/25 Q1003 SVPM 251700Z 00000KT 7000 HZ OVC050 XX/XX Q1017 OIBL 251700Z 26014KT 4000 SA NSC 30/25 Q1003 OICC 251700Z 30010KT CAVOK 24/02 Q1017 A3004 OIAW 251700Z 33002KT CAVOK 35/10 Q1006 YSMH 251600Z AUTO 17009KT 9999 // SCT012 SCT033 OVC063 19/16 Q1024 YSMI 251600Z AUTO 20001KT //// // ////// 05/05 Q1028 OIBP 251700Z 29016KT CAVOK 33/21 Q1003 A2964 SVPR 251700Z 00000KT 8000 OVC020 ///// Q1016 OIBQ 251500Z 27006KT CAVOK 32/21 Q1006 OICI 251700Z 25008KT CAVOK 24/00 Q1018 A3007 OIBS 251500Z 27016KT CAVOK 32/27 Q1004 OICK 251400Z 25006KT CAVOK 30/M02 Q1015 YTEE 251600Z AUTO 03003KT 9999 // NCD 18/09 Q1022 KMG 251600Z AUTO 01011KT 9999 // NCD 06/04 Q1029 YSNF 251700Z AUTO 18011KT 9999 // SCT037 OVC049 18/09 Q1025 YTEF 251700Z AUTO 14012KT //// // ////// 15/11 Q1019 OIBV 251400Z 32008KT CAVOK 36/20 Q1002 SVSA 251700Z /////KT 8000 VCFG BKN020 27/22 Q1016 REDZ OICS 251500Z 24008KT 9999 FEW040 26/01 Q1016 YTEM 251600Z AUTO 18005KT //// // ////// 02/01 Q1030 SVSE 251700Z 00000KT 9999 FEW055 ///// Q//// CPBT 251600Z AUTO 16012KT 19/05 RMK AO1 PK WND 17017/1548 T01880047 UDSG 251700Z VRB01MPS 9999 SCT040CB OVC100 12/08 Q1017 R02/CLRD70 NOSIG YSNW 251600Z AUTO 30009KT 9999 // SCT028 08/05 Q1029 SVST 251700Z 09015KT 9999 BKN030 ///// Q1017 HUJI 251200Z 16010KT 9999 SCT022 FEW024CB 28/18 CPEH 251600Z AUTO 14005KT 20/04 RMK AO1 T02030043 YTGM 251600Z AUTO 07007KT //// // ////// 18/07 Q1025 OIFK 241900Z 00000KT CAVOK 31/05 Q1013 HUKA 251200Z 18007KT 9/9 SCT025 FEW027CB BKN150 25/17 883.2 HTTB 251600Z 18003KT 9999 SCT024 FEW026CB BKN080 26/15 Q1019 OIFM 251700Z 24012KT CAVOK 25/M10 Q1015 A2998 SVSZ 251600Z 00000KT 7000 HZ BKN012 XX/XX Q1012 HTSO 251600Z 00000KT 9999 FEW022 21/14 Q1022 OIGG 251530Z VRB02KT 9999 FEW030CB FEW100 23/15 Q1010 YTIB 251600Z AUTO 07006KT //// // ////// 16/// Q1025 SVVA 251600Z 11004KT 9999 FEW013 32/21 Q1017 OIFS 251600Z 24004KT 9999 FEW040 SCT200 19/M03 Q1020 CPFI 251700Z AUTO 16009KT 22/04 RMK AO1 T02210035 K9V9 251655Z AUTO 01006KT 10SM SCT013 OVC020 16/13 A2976 RMK AO2 T01570133 HTSU 251600Z 05004KT 9999 BKN018 19/13 Q1024 SVVG 251500Z 29004KT 9999 SCT013 SCT100 30/25 Q1012 YSRI 251700Z AUTO 00000KT 0900 // OVC001 06/05 Q1029 OIHH 251000Z 15004KT 9999 FEW040 25/M00 Q1019 DFOO 251700Z 14008KT 9999 FEW020 FEW033CB BKN260 37/19 Q1010 HULI 250900Z 25004KT 9999 SCT020 FEW022CB 26/XX SVVL 251500Z 05004KT 9999 FEW027 BKN100 25/20 Q1018 REDZ YSRN 251600Z AUTO 30006KT 9999 // SCT014 BKN047 OVC077 12/12 Q1027 OIHM 241900Z 12006KT CAVOK 20/00 Q1019 OIIE 251700Z 33006KT 9999 FEW040 28/M02 Q1011 OIII 251700Z 31004KT 9999 FEW040 28/M03 Q1012 A2991 NOSIG OIIK 251700Z 00000KT 9999 FEW040 BKN080 23/06 Q1014 PAAD 251655Z AUTO 09017KT 7SM OVC003 00/00 A3008 RMK AO2 YSTH 251600Z AUTO 33006KT 9999 // NCD 06/05 Q1026 OIIP 251700Z 33008KT 9999 FEW040 26/02 Q1013 OJAI 251700Z 28006KT 7000 NSC 27/05 Q1017 NOSIG OIIS 250100Z 23002KT CAVOK 24/M06 Q1014 OIKB 251630Z 16006KT 4000 HZ NSC 32/27 Q1002 A2960 PAAK 251656Z 09012KT 1 3/4SM 06/04 A2967 RMK AO1 OJAM 251700Z 34004KT 5000 HZ NSC 29/05 Q1016 NOSIG YSSY 251700Z 33006KT CAVOK 09/05 Q1028 NOSIG ZJSY 251700Z 13003MPS 100V160 9999 SCT011 30/27 Q1008 NOSIG PABE 251653Z 10004KT 10SM OVC036 07/06 A3004 RMK AO2 SLP172 T00720061 PAAP 251655Z 36005KT 10SM FEW040 FEW070 SCT150 11/08 A3010 RMK NO SPECI PAAQ 251653Z VRB03KT 10SM FEW055 SCT070 13/04 A3008 RMK AO2 SLP188 ACSL SE-SW T01330039 OJAQ 251700Z 35008KT 9999 FEW035 39/04 Q1008 NOSIG PABI 251653Z 30007KT 10SM FEW075 BKN100 BKN120 BKN150 12/06 A3003 RMK AO2 SLP173 PRESNT WX VCSH N-NE T01170056 CPIR 251600Z AUTO 15003KT 18/06 RMK AO1 T01780062 OIKK 251700Z 30004KT 9999 FEW040 24/M07 Q1017 A3005 YSTW 251700Z AUTO 19004KT 9999 // SCT098 06/05 Q1029 PABL 251656Z AUTO 00000KT 10SM CLR 10/03 A3005 RMK AO1 OIKM 241900Z 29010KT 9999 FEW045 30/03 Q1008 PACD 251653Z 15003KT 10SM BKN042 BKN060 07/04 A3003 RMK AO2 SLPNO T00670039 $ OIKQ 251700Z 22018KT 3500 BR NSC 29/27 Q1002 OIKR 251000Z 32010KT 9999 SCT040 33/M04 Q1016 A3001 PABR 251653Z 07005KT 10SM OVC009 01/M01 A3010 RMK SLP193 T00061011 VIA AUTODIAL HTZA 251600Z 14010KT 9999 SCT018 BKN080 28/24 Q1014 NOSIG OIMB 251700Z 07014KT 9999 FEW040 24/M08 Q1016 PABT 251653Z 00000KT 10SM SCT075 BKN110 OVC140 10/05 A2998 RMK AO2 SLP160 T01000050 OIMC 251700Z 10010KT CAVOK 26/M02 Q1015 YTMO 251600Z AUTO 05004KT //// // ////// 18/10 Q1022 OIMD 251700Z 01016KT CAVOK 25/M11 Q1010 PABV 251656Z AUTO 00000KT 10SM FEW060 10/09 A3010 RMK AO1 PACM 251656Z AUTO 18010KT 10SM CLR 05/04 A3002 RMK AO2 TSNO T00500038 SLP163 $ YTNG 251600Z AUTO 11001KT 9999 // OVC072 15/10 Q1027 YSWG 251700Z AUTO 11005KT 9999 // NCD 04/03 Q1029 PADE 251653Z AUTO 00000KT 10SM CLR 09/04 A3001 RMK AO2 SLP163 T00940039 TSNO YSWH 251600Z AUTO 14005KT //// // NCD 05/03 Q1028 PADG 251650Z 03006KT 15SM SCT040 BKN060 11/04 A3004 UDYZ 251700Z 00000MPS 9999 SCT040CB BKN100 19/16 Q1015 R09/290060 NOSIG YTNK 251700Z AUTO 11007KT 9999 // NCD 18/01 Q1020 OINB 241900Z 00000KT CAVOK 21/16 Q1011 PADK 251656Z 19014G25KT 2 1/2SM FEW008 BKN013 OVC018 08/05 A2953 RMK AO1 PAEC 251653Z 00000KT 2SM BR OVC016 09/07 A3005 RMK NOSPECI PADL 251656Z 00000KT 10SM FEW009 BKN015 OVC049 07/07 A3004 RMK AO1 PAED 251658Z AUTO 00000KT 10SM OVC006 11/10 A3010 RMK AO2 SLP189 T01090103 $ OIMM 251700Z 18006KT CAVOK 21/M12 Q1018 A3007 PACV 251653Z 00000KT 10SM SCT006 BKN014 OVC025 10/08 A3016 RMK AO2 SLP215 T01000083 PADM 251656Z AUTO 00000KT 10SM OVC024 08/07 A3006 RMK AO2 TSNO T00830066 SLP168 $ OINE 251700Z 00000KT 9999 SCT040 BKN100 22/16 Q1011 OIMN 251700Z 00000KT 9999 FEW040CB SCT045 SCT090 24/09 Q1016 UERP 251700Z 02004MPS 1100 R35/2000 BR VV003 00/00 Q0998 R35/290645 NOSIG RMK QBB110 QFE704 OING 251700Z 23008KT 9999 SCT030CB SCT090 23/14 Q1012 PAEG 251653Z AUTO VRB04KT 10SM CLR 19/09 A2991 RMK AO2 SLP126 T01890089 TSNO UERR 251700Z 26007G10MPS 9999 BKN020CB 04/01 Q1000 R25/290350 NOSIG RMK QFE719 OIMQ 251700Z 10008KT CAVOK 25/M10 Q1015 PACZ 251555Z AUTO 14009KT 10SM CLR 04/02 A2996 RMK AO2 SLP151 T00370020 PADQ 251653Z 19004KT 10SM FEW012 SCT040 OVC060 08/04 A3007 RMK AO2 SLP183 T00780044 PAEH 251655Z AUTO 19012KT 10SM CLR 06/03 A3002 RMK AO2 SLP170 T00600029 PAEI 251703Z AUTO 11004KT 10SM FEW004 10/08 A3001 RMK AO2 RAE03 NSFA 251600Z 09003KT 9999 FEW020 BKN040 OVC130 25/25 Q1013- PAFA 251653Z 00000KT 10SM FEW008 BKN055 BKN085 12/08 A3001 RMK AO2 RAB17E25 SLP164 SHRA DSNT NE-E P0000 T01170078 $ OIMT 251200Z 33010KT 9999 FEW040 39/02 Q1006 PAFB 251356Z AUTO 27005KT 10SM -RA OVC055 12/08 A2999 RMK RAB13 SLP158 P0002 T01220083 $ VIA AUTODIAL PAEL 251650Z VRB04KT 20SM SCT017 BKN170 10/08 A3012 RMK MIN 7.2 NOSPECI PADU 251656Z 18004KT 10SM CLR 06/01 A2999 RMK AO2 SLP161 MH T00610011 PAEM 251656Z AUTO 00000KT 10SM FEW035 SCT080 OVC090 08/04 A3000 RMK AO1 OINN 251700Z 00000KT CAVOK 21/15 Q1010 PAEN 251653Z 00000KT 10SM -RA OVC042 07/06 A3012 RMK AO2 RAB01 SLP201 P0001 T00720056 PAFE 251656Z AUTO 20003KT 10SM BKN095 09/08 A3013 RMK AO1 OINR 251700Z 00000KT CAVOK 22/15 Q1009 PAGA 251658Z AUTO 25006KT 10SM -RA FEW055 BKN080 BKN095 11/07 A3002 RMK AO2 RAB39 SLP173 T01060072 PNO $ HUSO 251200Z 06004KT 9999 BKN020 FEW022CB 28/14 Q1015 OINZ 251700Z VRB02KT CAVOK 22/15 Q1010 PAGH 251657Z AUTO 34003KT 10SM BKN100 10/06 A3003 RMK AO2 SLP198 T01000056 SYCJ 251700Z 04012KT 9999 BKN020 30/22 Q1013 NOSIG PAFR 251652Z AUTO 00000KT 10SM BKN006 OVC020 12/10 A3009 RMK AO1 PAFS 251656Z AUTO 22006KT 10SM BKN085 11/06 A3003 RMK AO2 TSNO T01110055 SLP178 $ PAGK 251707Z AUTO 17004KT 10SM BKN005 09/06 A3010 RMK AO2 CIG 003V010 T00890061 TSNO $ YTRE 251700Z AUTO 24010KT 9999 // NCD 10/10 Q1028 PAGL 251656Z AUTO 29007KT 10SM CLR 06/03 A3004 RMK AO1 PAHC 251656Z AUTO 00000KT 10SM -RA CLR 09/04 A3003 RMK AO2 TSNO T00940044 P0000 SLP171 $ PAGM 251656Z AUTO 13015KT 5SM OVC004 03/01 A2992 RMK AO1 P0008 PAGN 251656Z AUTO 00000KT 10SM CLR 11/07 A3010 RMK AO2 TSNO T01050072 SLP195 $ PAGS 251656Z AUTO 00000KT 10SM BKN040 OVC048 10/07 A3012 RMK AO1 PNO PAHL 251656Z AUTO 25003KT 10SM SCT120 12/05 A3000 RMK AO1 PAHN 251654Z AUTO 15003KT 10SM OVC050 13/08 A3010 RMK AO2 SLP194 T01330078 TSNO PAHO 251653Z 05005KT 10SM FEW050 SCT075 BKN100 12/04 A3011 RMK SLP195 T01170044 VIA AUTODIAL PAGY 251653Z AUTO 23004KT 10SM SCT050 13/08 A3009 RMK AO2 SLP188 T01280083 TSNO $ PAHP 251656Z AUTO 13013KT 10SM CLR 06/03 A2999 RMK AO1 PAIG 251658Z AUTO 00000KT 10SM SCT009 BKN015 OVC031 07/06 A3006 RMK AO2 TSNO $ PAII 251656Z AUTO 17009KT 10SM FEW026 OVC065 07/05 A3007 RMK AO1 OISA 241855Z 26006KT CAVOK 21/M07 Q1022 NTAA 251700Z VRB03KT 9999 FEW023 24/21 Q1016 NOSIG PAIK 251701Z AUTO 01005KT 10SM BKN110 11/06 A3005 RMK AO2 SLP215 T01110056 PAIL 251653Z 08009KT 10SM -RA OVC034 06/04 A3007 RMK AO2 SLP185 P0002 T00610039 PAJC 251656Z AUTO 00000KT 10SM BKN048 OVC060 06/02 A3005 RMK AO1 PAIM 251614Z VRB01KT 10SM BKN100 12/04 A2999 RMK AO2A SLP153 PAIN 251656Z AUTO 14004KT 10SM CLR 12/04 A3003 RMK AO1 OISF 241850Z 32006KT CAVOK 27/00 Q1012 PAHX 251656Z AUTO 15006KT 10SM BKN033 BKN050 10/06 A3003 RMK AO2 SLP171 T01000056 YTTI 251600Z AUTO 09010KT //// // ////// 26/20 Q1016 YTST 251600Z AUTO 10004KT 9999 // NCD 23/05 Q1015 OISL 251700Z 27008KT CAVOK 35/04 Q1009 PAJN 251653Z 24008KT 10SM CLR 14/07 A3010 RMK AO2 SLP192 T01390072 $ PAIW 251658Z AUTO 16009KT 10SM FEW110 09/04 A3003 RMK AO2 SLP169 T00890039 DIAD 251600Z 16004KT 9999 SCT013 31/26 Q1009 NOSIG PAKF 251701Z AUTO 00000KT 10SM OVC018 06/04 A3005 RMK AO2 SLP270 T00560039 $ CPRO 251600Z AUTO 16002KT 20/08 RMK AO1 T01980076 OISR 250600Z 31004KT CAVOK 39/11 Q1008 PAKI 251656Z AUTO 13009KT 10SM CLR 06/04 A3001 RMK AO2 TSNO T00610038 SLP162 $ ZLLL 251700Z 30002MPS 250V360 CAVOK 11/07 Q1015 NOSIG OISS 251700Z 30006KT 9999 FEW040 BKN200 26/M09 Q1017 A3003 OKBK 251700Z 16006KT CAVOK 36/06 Q1008 NOSIG OITK 251000Z 17002KT 9999 TS FEW035TCU SCT040CB 21/10 Q1015 PAKK 251656Z AUTO 00000KT 10SM BKN070 BKN080 09/01 A3000 RMK AO1 OITL 251400Z 34010KT 9999 FEW035TCU SCT040CB FEW070 SCT170 19/12 Q1016 OITM 251700Z 27014KT 9999 SCT035CB FEW036 SCT190 19/07 Q1018 SYGO 251700Z 02012KT 9999 FEW024 SCT300 30/22 Q1014 NOSIG PAKN 251654Z 18007KT 10SM SCT020 BKN060 BKN200 07/04 A3003 RMK AO2 SLP168 T00720044 OISY 251700Z 12004KT 9999 FEW040 SCT080 19/M02 Q1021 PAKP 251656Z AUTO RMK AO1 PALG 251656Z AUTO 00000KT 10SM FEW090 08/04 A3003 RMK AO2 TSNO T00830044 SLP172 $ PALH 251653Z 21009G15KT 10SM FEW018 OVC075 11/08 A3011 RMK AO2 SLP196 T01110078 YTWB 251600Z AUTO 11009KT 9999 // NCD 10/08 Q1030 CPRY 251600Z AUTO 15009KT 19/04 RMK AO1 T01930042 OITR 251700Z 29006KT 9999 FEW030CB SCT035 18/07 Q1017 DIAP 251700Z 21010KT 9999 FEW012 30/25 Q1010 NOSIG PALJ 251450Z 00000KT 30SM BKN070 07/05 A3000 RMK FIRST EST PASS OPN NOSPECI OITT 251700Z 06004KT 8000 VCSH FEW035 SCT040CB SCT180 17/09 Q1019 A3009 PAKT 251653Z 35010KT 10SM FEW015 BKN040 14/09 A3007 RMK AO2 SLP185 T01390094 PAMB 251656Z AUTO 00000KT 10SM FEW008 OVC024 06/06 A3000 RMK AO2 TSNO T00610055 RAB15E27 P0000 SLP161 $ OITU 241850Z 21004KT 9999 BKN035 14/09 Q1017 PAKU 251655Z 09009KT 3/4SM R06/2600FT BR OVC003 01/01 A3006 PAMC 251653Z 24005KT 10SM SCT070 BKN130 BKN250 11/04 A3004 RMK AO2 SLP176 T01060044 DIBK 251600Z 18004KT 9999 BKN015 32/23 Q1013 NOSIG CPST 251700Z AUTO 17012KT 20/03 RMK AO1 PK WND 17018/1653 T02030029 PAKV 251653Z AUTO 13003KT 10SM -RA OVC060 08/05 A3006 RMK AO2 RAB04 SLP180 P0001 T00780050 TSNO $ PAMD 251656Z AUTO 00000KT 10SM OVC021 08/03 A3017 RMK AO1 PAKW 251653Z AUTO VRB04KT 10SM OVC007 11/08 A3010 RMK AO2 SLP195 T01060083 TSNO CPSV 251700Z AUTO 04003KT 22/04 RMK AO1 T02200038 PALP 251646Z 12006KT 03SM BR OVC010 01/M00 A3006 OITZ 251500Z 27014KT 9999 SCT035 25/M00 Q1015 PAMH 251656Z AUTO 00000KT 10SM BKN060 OVC080 10/02 A3001 RMK AO1 PANA 251656Z AUTO 16003KT 10SM OVC041 07/06 A3002 RMK AO2 SLP167 T00720056 PAMK 251656Z AUTO 00000KT 10SM OVC048 07/04 A3001 RMK AO2 TSNO T00720044 SLP166 $ PALU 251655Z AUTO 09001KT 10SM BKN120 03/02 A3008 RMK AO2 SLP184 T00310021 PANC 251653Z 18009G14KT 10SM FEW005 SCT011 BKN060 11/07 A3009 RMK AO2 SLP192 T01110067 DIBU 251600Z 00000KT 9999 SCT015 32/22 Q1012 NOSIG PAMO 251656Z AUTO 00000KT 10SM OVC043 07/06 A3004 RMK AO2 TSNO T00660055 SLP059 $ PAMR 251653Z 00000KT 10SM SCT005 BKN045 OVC065 11/08 A3010 RMK AO2 SLP194 T01110083 PANI 251656Z AUTO 14008KT 10SM CLR 09/04 A3004 RMK AO1 UHBB 251700Z 00000MPS CAVOK 04/02 Q1010 R36/090060 NOSIG RMK QFE740/0987 DIDK 251600Z ///// 9999 BKN015 35/24 Q//// NOSIG DIDL 251600Z ///// 9999 SCT015 33/23 Q1011 NOSIG PANN 251653Z AUTO 00000KT 10SM CLR 12/07 A2999 RMK AO2 SLP162 T01220072 TSNO PAMY 251656Z AUTO 13013KT 4SM FEW003 BKN025 03/M01 A2996 RMK AO1 PAOH 251656Z AUTO VRB03KT 10SM CLR 14/08 A3012 RMK AO2 TSNO T01380083 SLP201 $ PANT 250053Z VRB04KT 10SM FEW020 FEW100 FEW200 15/10 A3013 RMK SLP202 T01500100 PAPB 251653Z AUTO 16013KT 10SM BKN030 05/03 A2988 RMK AO2 SLP105 T00500028 TSNO PAOM 251653Z 00000KT 10SM BKN049 BKN065 06/04 A3001 RMK SLP163 T00610044 VIA AUTODIAL PANV 251656Z AUTO 15004KT 10SM SCT033 OVC039 08/04 A3001 RMK AO1 PANW 251656Z AUTO 00000KT 10SM SCT004 BKN008 OVC075 06/06 A3006 RMK AO2 TSNO T00610061 CIG 006V012 SLP158 $ UGKO 251700Z 26012KT CAVOK 22/13 Q1010 R07/09//70 NOSIG PAOO 251656Z AUTO 11010KT 7SM FEW006 05/04 A3000 RMK AO2 TSNO T00500038 SLP161 $ PAPG 251656Z 06003KT 10SM BKN008 OVC018 12/08 A3008 RMK AO1 PAPH 251656Z AUTO 12005KT 10SM OVC036 06/01 A3007 RMK AO1 PAOR 251653Z AUTO VRB06KT 10SM SCT100 13/05 A3000 RMK AO2 SLP157 T01280050 TSNO OIZB 251700Z 33008KT CAVOK 28/02 Q1010 PAOT 251653Z 29003KT 10SM FEW070 08/04 A3002 RMK AO2 SLP167 T00780039 $ DIGA 251600Z 14002KT 9999 SCT013 33/24 Q1008 NOSIG OIZC 251600Z 21010KT 4000 HZ SKC 33/27 Q1002 A2960 PAOU 251656Z AUTO 00000KT 10SM CLR 07/07 A3006 RMK AO2 TSNO T00660066 SLP182 $ PAPM 242247Z 10017G20KT 10SM FEW024 SCT036 BKN049 08/04 A2991 CPXL 251700Z AUTO 14004KT 23/02 RMK AO1 T02270016 PAPN 250956Z AUTO 00000KT 10SM FEW036 OVC055 06/02 A3000 RMK AO2 PWINO TSNO T00550022 SLP159 $ PAPO 251656Z AUTO 04006KT 10SM OVC110 03/M22 A3006 RMK AO1 OIZH 251700Z 01008KT 9999 FEW040 27/M07 Q1016 A3001 PAQH 251656Z AUTO 09003KT 10SM CLR 07/03 A3003 RMK AO2 SLP170 T00720033 OIZI 251700Z 28004KT CAVOK 38/02 Q1006 OIZJ 251700Z 31010KT 4000 HZ NSC 35/24 Q1001 PARC 250129Z 13008KT 10SM CLR 24/04 A2988 RMK VIA PHONE OIYY 251700Z 02004KT 9999 SCT040 BKN200 32/M04 Q1013 PASA 251451Z AUTO 14015KT 10SM SCT070 03/01 A2992 RMK VIA PHONE PAQT 251653Z AUTO 28003KT 7SM OVC005 02/01 A3007 RMK SLP184 T00170011 TSNO VIA AUTODIAL PASC 251653Z 08009KT 1/2SM FG VV002 02/01 A3005 RMK AO2 SLP176 VIS 1/4 V 1/2 T00170006 RVRNO PASD 251649Z AUTO 29003KT 10SM FEW017 SCT023 BKN040 07/05 A3004 RMK WEA YWCA 251600Z AUTO 06007KT //// // ////// 13/09 Q1026 PASH 251457Z AUTO 00000KT 10SM CLR 02/M01 A3005 RMK VIA PHONE PASI 251653Z 29010KT 10SM SCT030 BKN100 13/08 A3010 RMK AO2 SLP193 T01330083 YWBL 251600Z AUTO 36006KT 9999 // NCD 05/05 Q1028 OLBA 251700Z 27002KT CAVOK 25/19 Q1012 NOSIG PATA 251652Z 00000KT 10SM SCT060 BKN085 OVC130 12/09 A3000 RMK AO2 SLP160 T01170089 PARS 251656Z AUTO 02003KT 10SM SCT043 08/06 A3002 RMK AO2 TSNO T00830055 SLP171 $ PASK 251656Z AUTO 23004KT 10SM FEW110 08/05 A3004 RMK AO1 PATC 251555Z AUTO 12003KT 10SM FEW080 06/02 A3000 RMK AO2 SLP163 T00640023 PASM 251656Z AUTO 00000KT 10SM OVC038 07/ A3002 RMK AO1 PASN 251653Z 16010KT 9SM BKN026 BKN110 05/03 A2986 RMK AO2 SLP111 T00500033 $ PATE 251658Z AUTO 10006KT 10SM CLR 08/03 A3002 RMK AO2 SLP178 T00780028 PASO 251653Z AUTO VRB06KT 10SM BKN075 OVC085 09/04 A3009 RMK SLP191 T00890044 TSNO VIA AUTODIAL YWBR 251600Z AUTO 00000KT //// // ////// 14/14 Q1024 PATG 251656Z AUTO 00000KT 10SM BKN031 OVC085 06/04 A3004 RMK AO1 PARY 251656Z AUTO 00000KT 10SM CLR 12/04 A2999 RMK AO2 TSNO T01160044 SLP161 $ PATK 251653Z 02003KT 10SM BKN060 BKN070 OVC090 11/10 A3010 RMK AO2 SLP195 T01110100 $ PATL 251655Z AUTO 25006KT 10SM -RA OVC045 09/05 A3007 RMK AO2 RAB1649 SLP182 P0000 T00850048 PASV 251655Z AUTO 00000KT 10SM OVC045 07/05 A3003 RMK AO2 SHRAB1545E1557 SLP174 T00690048 MUI 251600Z AUTO 11005KT 9999 // NCD 10/07 Q1029 PASW 251649Z 09003KT 15SM SCT020 OVC045 11/08 A3010 RMK MNM 07 NOSPECI PATO 251653Z AUTO 14007KT 10SM SCT020 OVC026 10/08 A3014 RMK AO2 RAE28 SLP205 P0000 T01000078 TSNO PASX 251656Z AUTO 00000KT 10SM OVC042 07/04 A3010 RMK AO1 UHHH 251700Z METAR 33002MPS CAVOK 06/05 Q1009 R05R/CLRD60 NOSIG PASY 251656Z AUTO 21024G29KT BKN021 OVC027 04/ A2900 RMK AO2 PK WND 21037/1559 RAB04E21B37E46 SLP820 T0039 TSNO $ PATQ 251656Z AUTO 08004KT 10SM OVC007 02/01 A3008 RMK AO2 TSNO T00160011 SLP192 $ PAVA 251657Z AUTO 15007KT 10SM CLR 06/04 A3005 RMK AO2 SLP177 T00560044 PNO $ PAVC 251656Z AUTO 00000KT OVC060 06/03 A3005 RMK AO2 TSNO T00550027 SLP178 $ NSTU 251651Z VRB03KT 10SM SCT018TCU BKN040 BKN100 26/25 A2993 RMK SHRAE30 TCU NW-N-NE SLP135 T02560245 PAVD 251656Z 00000KT 10SM FEW010 BKN020 BKN100 09/07 A3016 RMK AO1 1647Z WEA PAUN 251656Z AUTO 11006KT 10SM OVC002 08/03 A3002 RMK AO1 DIKO 251600Z 06002KT 9999 FEW015 33/21 Q1011 NOSIG UIAA 251700Z 17002MPS 9999 NSC 08/02 Q1008 R29/CLRD70 NOSIG RMK QFE698 UGSB 251700Z 21008KT 170V230 9999 FEW020CB 20/19 Q1013 R13/CLRD70 NOSIG PAUT 251655Z AUTO 17010KT 7SM OVC032 06/04 A3000 RMK AO2 T00550038 PAVL 251653Z AUTO 00000KT 10SM BKN060 OVC085 08/04 A3004 RMK AO2 SLP171 T00780044 TSNO $ PAWD 251653Z AUTO 17005KT 10SM -RA OVC012 08/07 A3014 RMK AO2 SLP206 P0001 T00830067 TSNO $ PAWG 251656Z 26005KT 10SM FEW010 BKN030 OVC050 11/07 A3011 RMK AO1 WEA PAWI 251653Z AUTO 09005KT 10SM OVC070 03/02 A3007 RMK SLP182 T00330022 TSNO VIA AUTODIAL UIBB 251700Z 26002MPS P5000 NSC 06/05 Q1013 R30/150060 NOSIG RMK QFE717/0956 UGTB 251700Z 05006KT 9999 SCT049CB 21/15 Q1014 R13R/CLRD80 NOSIG PAWM 251658Z AUTO 00000KT 10SM CLR 09/04 A3002 RMK AO2 SLP178 T00940044 PAWN 251656Z AUTO 35006KT 10SM FEW120 09/04 A2996 RMK AO1 YWHA 251700Z AUTO 25002KT 9999 // SCT067 OVC100 12/11 Q1024 PAYA 251701Z 00000KT 10SM BKN014 OVC055 12/09 A3013 RMK AO2 T01220089 PAWS 251656Z AUTO 00000KT 10SM SCT075 11/07 A3008 RMK AO1 ZLXY 251700Z VRB01MPS CAVOK 20/15 Q1009 NOSIG UHMA 251700Z 10008G13MPS 4000 -RA BR BKN008 OVC080 01/M00 Q1007 RMK QBB240 QFE751/1002 YWGT 251700Z AUTO 20004KT //// // ////// 02/01 Q1030 YVRD 251600Z AUTO 30004KT //// // ////// 17/05 Q1017 UHMD 250430Z 36005MPS 9999 -RA BKN014 OVC070 03/03 Q1009 NOSIG RMK QBB420 MT OBSC QFE756/1008 PAZK 251656Z AUTO 19003KT 10SM FEW018 OVC042 06/04 A3006 RMK AO1 UHMM 251700Z 06001MPS 9999 FEW200 M01/M06 Q1004 RMK QFE738 YWIS 251600Z AUTO 19006KT //// // ////// 17/16 Q1024 OMAA 251700Z 31006KT CAVOK 32/25 Q1005 A2968 NOSIG OMAD 251700Z 33006KT CAVOK 34/18 Q1005 A2968 NOSIG ZMUB 251700Z 24004MPS 9999 -SHRA SCT030CB SCT033 12/07 Q1013 NOSIG RMK QFE653.0 72 NT OMAL 251700Z 32010KT CAVOK 36/09 Q1007 A2975 NOSIG YWLG 251600Z AUTO 00000KT 9999 // NCD 10/07 Q1028 TQPF 251600Z 10013KT 9999 FEW020 30/22 Q1019 YWLM 251700Z AUTO 30003KT 7000 // NCD 09/09 Q1028 DITB 251600Z 20004KT 9999 SCT013 SCT100 30/25 Q1010 NOSIG UHPP 251700Z 32001MPS 9999 NSC 01/M02 Q0995 R34R/CLRD70 NOSIG RMK QFE743/0991 EBBE 251655Z AUTO 31010KT 9999 FEW038/// BKN045/// BKN055/// 15/05 Q1016 BLU DISP 251600Z 18010KT 9999 SCT013 SCT100 29/25 Q1010 NOSIG OMDB 251700Z 21004KT 140V230 CAVOK 34/20 Q1005 NOSIG DISS 251600Z ///// 9999 FEW016CB SCT260 30/26 Q1010 NOSIG EBBL 251655Z AUTO 34008KT 9999 FEW039/// BKN055/// 14/06 Q1016 BLU EBAW 251650Z 31015KT 290V350 9999 FEW035 14/04 Q1017 NOSIG UIII 251700Z VRB01MPS 4000 BR NSC 06/06 Q1015 R30/CLRD60 NOSIG RMK QFE717/0956 EBBR 251650Z 32013KT 300V360 9999 FEW032 14/06 Q1017 NOSIG EBCI 251650Z 32008KT 290V350 9999 FEW030 14/06 Q1016 NOSIG VAAH 251640Z 21006KT 4000 FU NSC 35/25 Q1005 NOSIG YWOL 251600Z AUTO 27004KT 9999 // NCD 05/05 Q1029 VABB 251640Z 25009KT 5000 HZ SCT020 SCT025 31/26 Q1009 NOSIG KA08 251655Z AUTO 16004KT 10SM SCT075 OVC100 24/23 A3016 RMK AO2 T02380225 PWINO OMDW 251700Z 27004KT CAVOK 32/25 Q1006 NOSIG EBCV 251655Z AUTO 34012KT 9999 BKN045/// 13/06 Q1017 BLU UHSS 251700Z VRB01MPS 9999 SCT013 05/04 Q1011 R01/CLRD70 NOSIG RMK MT OBSC QFE757/1009 OMFJ 251700Z 30014KT 7000 NSC 40/05 Q1004 A2965 EBDT 251655Z AUTO 34013KT 9999 OVC056/// 14/06 Q1016 BLU EBFN 251655Z 35006KT 9999 FEW024 BKN050 12/07 Q1019 BLU EBFS 251655Z 32010KT 9999 FEW030 SCT050 BKN130 14/06 Q1016 BLU DIYO 251600Z 22004KT 9999 SCT015 34/23 Q1010 NOSIG YWUD 251600Z AUTO 00000KT //// // ////// 11/09 Q1025 YWTN 251600Z AUTO 09011KT //// // ////// 19/11 Q1023 UHWW 251700Z 31002MPS 9999 NSC 11/09 Q1008 R07R/0///70 NOSIG RMK QFE755 TRPG 251700Z 11012KT 9999 HZ FEW025 28/20 Q1017 EBLB 251655Z AUTO 33008KT 9999 FEW036/// BKN050/// 11/07 Q1015 BLU EBLG 251650Z 32010KT 290V360 9999 FEW036 14/07 Q1015 NOSIG YWWL 251600Z AUTO 24003KT //// // ////// 03/03 Q1029 UKBB 251700Z 02006MPS CAVOK 23/16 Q1011 88CLRD95 NOSIG YWYM 251600Z AUTO 13004KT //// // ////// 20/05 Q1016 CTNK 251600Z AUTO 14002KT 14/13 RMK AO1 6PAST HR 6015 SLP179 P0022 T01430127 50147 UKDD 251700Z 08003MPS CAVOK 23/14 Q1009 08090070 NOSIG UKDE 251700Z 14003MPS CAVOK 24/12 Q1009 20CLRD70 NOSIG TTCP 251700Z 09016KT 9999 FEW024 30/20 Q1015 NOSIG UIUU 251700Z VRB01MPS 9999 FEW040CB 08/07 Q1013 R26/290195 NOSIG RMK QFE716/0954 EBOS 251650Z 35008KT 9999 FEW022 BKN048 12/07 Q1019 NOSIG UKDR 251700Z 00000MPS CAVOK 26/07 Q1008 3609//70 NOSIG OMRK 251700Z 11003KT CAVOK 33/21 Q1005 A2969 CTRA 251500Z AUTO 05003KT 20/05 RMK AO1 SLP071 T02040046 58005 VANP 251640Z 32005KT 4000 HZ NSC 36/12 Q1004 NOSIG OMSJ 251700Z 23006KT CAVOK 34/18 Q1005 EDAH 251650Z 36006KT 310V050 CAVOK 14/09 Q1011 EDBC 251650Z 31012KT 9999 BKN018 13/10 Q1013 UKHH 251700Z 11003MPS CAVOK 23/08 Q1011 070///65 NOSIG PFCL 251656Z AUTO 19003KT 10SM -RA OVC018 06/05 A3004 RMK AO2 SLP176 P0000 T00610050 YYNG 251600Z AUTO 20004KT //// // ////// M00/M00 Q1029 ULAA 251700Z 33001MPS 9999 SCT030 BKN/// 12/03 Q1011 R26/CLRD70 NOSIG RMK QFE757/1009 EDDB 251650Z 32010KT CAVOK 20/08 Q1010 NOSIG EDDC 251650Z 27007KT 230V310 CAVOK 17/11 Q1011 NOSIG EDDE 251650Z 30007KT 9999 -RA FEW023 BKN040 OVC130 14/10 Q1012 NOSIG EDDF 251650Z 29006KT 240V310 9999 VCSH FEW017 FEW027TCU SCT045 BKN060 15/12 Q1013 NOSIG EDDG 251650Z 32007KT 9999 FEW030 BKN060 15/05 Q1014 NOSIG EDDH 251650Z 30008KT 270V330 9999 FEW030 BKN060 13/06 Q1013 NOSIG KAAA 251655Z AUTO 24009G16KT 190V260 10SM SCT026 BKN034 24/17 A2997 RMK AO2 T02400167 KC09 251655Z AUTO 25021G24KT 10SM SCT011 SCT017 BKN024 22/19 A2991 RMK AO2 T02210188 PFEL 251658Z AUTO 05004KT 10SM SCT050 11/04 A3003 RMK AO2 SLP175 T01110044 EDDK 251650Z 34007KT 9999 FEW025 BKN060 15/07 Q1014 NOSIG EDDL 251650Z 33009KT 9999 FEW025 BKN060 15/07 Q1015 NOSIG EDDM 251650Z VRB02KT 9999 FEW043CB BKN110 17/12 Q1012 TEMPO SHRA EDDN 251650Z VRB01KT 9999 -RA FEW010 SCT045 BKN060 13/11 Q1013 NOSIG KAAF 251653Z AUTO 14013G18KT 10SM FEW018 SCT032 31/23 A3018 RMK AO2 SLP221 T03060228 VCBI 251610Z 21011KT 9999 FEW012 BKN016 29/25 Q1011 NOSIG EDDP 251650Z 31009KT 9999 -RA FEW023 BKN056 OVC100 16/10 Q1012 NOSIG UKKK 251700Z 03005MPS CAVOK 24/15 Q1011 08CLRD70 NOSIG EDDR 251650Z 29004KT 230V320 9999 SCT016 FEW020CB SCT060 15/11 Q1014 TEMPO 32015G25KT SHRA SCT015CB EDDS 251650Z 31006KT 270V340 4500 -SHRA FEW012 BKN032CB 12/11 Q1014 RERA BECMG NSW UKKM 251700Z AUTO 03003MPS 9999 NCD 23/16 Q1011 EDDT 251650Z 32009KT CAVOK 18/09 Q1011 NOSIG ZPPP 251700Z 22006MPS CAVOK 19/12 Q1017 NOSIG KABE 251651Z 22008G18KT 10SM CLR 29/14 A3020 RMK AO2 SLP224 T02890139 EDDV 251650Z 33009KT 300V360 9999 FEW025 BKN060 14/05 Q1013 NOSIG EDFE 251650Z 23004KT 9999 VCSH FEW018 SCT035 BKN090 14/12 Q1013 EDDW 251650Z 33010KT 9999 FEW044 BKN060 14/02 Q1014 NOSIG KAAO 251654Z AUTO 17021G27KT 10SM BKN016 BKN023 23/19 A2983 RMK AO2 PK WND 17028/1623 SLP092 T02330194 UKLI 251700Z 32002MPS 250V010 9999 VCTS BKN023CB BKN030 19/16 Q1008 NOSIG KABI 251652Z 34006KT 10SM -RA BKN010 OVC013 16/15 A2994 RMK AO2 PK WND 31037/1559 WSHFT 1540 RAB1554 TSE17 SLP123 P0069 T01560150 $ EDFH 251650Z 32004KT 290V350 9999 -SHRA FEW040 BKN065TCU 12/09 Q1014 UKLL 251700Z 00000MPS 9999 VCTS SCT033CB BKN100 20/17 Q1008 13210365 TEMPO -TSRAGR BKN020CB KACB 251654Z AUTO 17008KT 10SM BKN026 BKN034 OVC050 22/18 A2980 RMK AO2 T02230179 KAAT 251703Z AUTO 30005KT 10SM BKN029 BKN055 17/10 A3000 RMK AO2 T01720100 $ KC29 251655Z AUTO 23012G17KT 210V270 10SM BKN014 BKN090 22/18 A2981 RMK AO1 P0001 T02230176 UKLN 251500Z 12006MPS 090V170 CAVOK 27/11 Q1008 1509//70 NOSIG EDFM 251650Z 32010KT 9999 -SHRA FEW033 SCT050TCU BKN061 14/11 Q1014 KC35 251655Z AUTO 23012G15KT 10SM BKN013 BKN020 OVC044 20/18 A2977 RMK AO2 T02030177 UKLR 251500Z 10007MPS CAVOK 25/14 Q1010 12190060 NOSIG KABQ 251652Z VRB03KT 10SM SCT045 SCT250 16/06 A3000 RMK AO2 SLP108 MTN TOP OBSC NE T01610061 KABR 251653Z AUTO 04013KT 10SM OVC070 17/13 A2979 RMK AO2 RAE17 SLP086 P0000 T01670133 KACJ 251655Z AUTO 13003KT 10SM SCT024 OVC080 27/20 A3025 RMK AO2 UKLU 251700Z 12005MPS 9999 -TSRA SCT033 BKN033CB 19/13 Q1008 10090070 NOSIG KACK 251653Z 21011KT 10SM CLR 17/12 A3031 RMK AO2 SLP262 T01720122 KADC 251653Z AUTO 02008G14KT 10SM RA BKN009 OVC012 13/13 A2968 RMK AO2 P0005 KADF 251705Z AUTO 16006KT 10SM FEW016 SCT025 26/22 A3002 RMK AO2 $ KABY 251653Z 14006KT 10SM SCT038 SCT075 OVC100 30/19 A3023 RMK AO2 SLP235 T03000194 KADG 251653Z AUTO 23020G33KT 10SM SCT036 SCT043 BKN055 26/17 A2999 RMK AO2 PK WND 23033/1649 SLP153 T02560167 TSNO KACP 251655Z AUTO 21004KT 10SM SCT028 BKN035 BKN048 29/23 A3003 RMK AO2 T02940227 KACQ 251654Z AUTO 23014G19KT 10SM SCT017 BKN024 OVC032 18/15 A2976 RMK AO2 KADH 251655Z AUTO 17011G15KT 10SM SCT024 BKN043 24/19 A2993 RMK AO2 EDGS 251650Z 35008KT 320V020 9999 SCT025 12/09 Q//// KACT 251651Z 17016KT 10SM -RA BKN021 BKN029 OVC044 25/21 A2991 RMK AO2 LTG DSNT SW SLP123 P0000 T02500211 EDHK 251550Z 30004KT 9999 FEW025 BKN065 12/06 Q1013 EDHL 251620Z VRB02KT 9999 FEW028 BKN053 12/07 Q1013 RMK ATIS ZUL KACV 251653Z AUTO 31006KT 10SM OVC006 11/10 A2997 RMK AO2 SLP154 T01060100 KADM 251655Z 15010KT 10SM SCT027 SCT033 0BKN039 26/21 A2991 RMK RWY 13 / ATIS P KACY 251654Z 20016G23KT 10SM CLR 28/14 A3026 RMK AO2 SLP247 T02830139 KAEG 251648Z 28007KT 10SM SCT050 SCT200 15/06 A3002 KAEJ 251655Z AUTO 00000KT 10SM SCT070 12/M02 A3001 RMK AO2 T01191019 KADS 251647Z 14012G16KT 13SM OVC013 24/22 A2991 DNAA 251700Z 23005KT 9999 FEW012 FEW020CB 31/21 Q1011 TEMPO TS EDJA 251650Z 31011KT 9999 BKN060 OVC096 14/08 Q1013 KAEL 251652Z AUTO 23008G17KT 200V260 10SM SCT016 SCT022 SCT032 21/17 A2975 RMK AO2 UKON 251700Z 00000MPS CAVOK 28/11 Q1007 NOSIG KADU 251655Z AUTO 20012G18KT 10SM CLR 23/17 A2982 RMK AO2 UKOO 251700Z 21002MPS CAVOK 23/12 Q1007 16090060 NOSIG KADW 251658Z AUTO 20016G20KT 10SM CLR 27/16 A3025 RMK AO2 SLP249 T02710160 VISNO RWY01R $ CWAE 251700Z 00000KT 15SM FEW016 OVC040 13/11 A2996 RMK SC2SC6 WND ESTD SLP144 DENSITY ALT 2300FT KAFF 251558Z AUTO 19003KT 10SM FEW055 SCT210 13/01 A2994 RMK AO2 SLP090 T01340014 CWAF 251700Z AUTO 13/07 RMK AO1 T01250071 KAFJ 251655Z AUTO 23007G16KT 10SM CLR 27/15 A3021 RMK AO1 CWAJ 251700Z AUTO 18008KT 16/12 RMK AO1 SLP168 T01560118 56007 CWBA 251700Z AUTO 17003KT 13/13 RMK AO1 6PAST HR M P0006 T01290129 50088 KAFK 251655Z AUTO 21011G14KT 10SM SCT032 BKN075 BKN080 22/14 A2982 RMK AO2 T02180138 KAGC 251653Z 22008G15KT 10SM FEW120 27/12 A3018 RMK AO2 SLP214 T02720122 TTPP 251700Z 12012KT 9999 FEW028 32/19 Q1014 NOSIG KAFN 251652Z AUTO 24009KT 190V260 10SM BKN110 24/09 A3023 RMK AO2 SLP238 T02390089 DNBE 242100Z 00000KT 9999 FEW010 26/24 Q1016 CWBE 251700Z AUTO 09012KT 11/10 RMK AO1 PK WND 10017/1604 SLP142 T01130104 56024 KAEX 251653Z VRB06KT 10SM SCT027 BKN034 BKN041 28/22 A3002 RMK AO2 SLP168 T02830222 KAFO 251655Z AUTO 00000KT 10SM BKN110 12/05 A2999 RMK AO2 KC75 251655Z AUTO 22010KT 10SM SCT024 SCT034 BKN050 22/17 A2993 RMK AO2 T02230170 KAFP 251655Z AUTO 12007KT 10SM CLR 28/12 A3031 RMK AO2 T02750122 CWAQ 251700Z AUTO 08008KT 24/02 RMK AO1 SLP109 T02350015 57005 CWAR 251700Z AUTO 21015G20KT 08/06 RMK AO1 PK WND 20022/1609 SLP219 T00840060 55002 PFKT 251658Z AUTO 11006KT 10SM 08/03 A3004 RMK AO2 SLP174 T00780033 $ DNCA 251100Z 14002KT 9999 BKN012 31/25 Q1013 CWCA 251700Z 22010KT 210V270 15SM SCT020 BKN070 11/M01 A2980 RMK SC4AC2 SLP092 CWBK 251700Z AUTO 11002KT 18/08 RMK AO1 SLP185 T01840080 58009 PFKW 251656Z AUTO 00000KT 10SM OVC035 07/06 A3002 RMK AO2 SLP168 T00720056 $ CWAV 251700Z AUTO 16012KT 20/02 RMK AO1 PK WND 15025/1646 SLP112 T01950020 KAFW 251653Z 16013KT 10SM BKN020 OVC035 25/21 A2987 RMK AO2 SLP104 T02500211 CWCF 251700Z AUTO 26007KT 18/08 RMK AO1 SLP094 T01820079 58010 CWBO 251600Z AUTO 17005KT 21/04 RMK AO1 SLP118 T02070035 50000 CWCI 251600Z AUTO 09019KT 09/09 RMK AO1 PK WND 09022/1513 SLP097 T00910089 58025 KAGS 251653Z 14006KT 10SM SCT037 BKN044 28/18 A3028 RMK AO2 SLP253 T02780178 KAIA 251653Z AUTO 34007KT 1 3/4SM -RA BR FEW005 OVC019 11/11 A2981 RMK AO2 SLP081 P0011 T01110106 EDMA 251650Z 35005KT 330V030 CAVOK 14/09 Q1013 RMK ATIS LIM CWDA 251600Z AUTO 27020G26KT 13/01 RMK AO1 PK WND 26030/1530 SLP143 T01310010 50001 CWCJ 251600Z AUTO 03001KT 15/11 RMK AO1 SOG 01 6011 SLP115 T01480111 CWBS 251700Z AUTO 22013KT 18/12 RMK AO1 PK WND 22017/1608 T01760120 KAIB 251655Z AUTO 00000KT 10SM CLR 13/06 A3004 RMK AO2 CWBT 251700Z AUTO 26007G16KT 15/02 RMK AO1 5012 SLP120 T01490015 50012 CWBU 251700Z AUTO 25005KT 26/M01 RMK AO1 SLP090 T02561008 56012 CWDC 251700Z AUTO 20003KT 19/05 RMK AO1 SLP069 T01930047 53002 CWBV 251700Z AUTO 22015KT 07/05 RMK AO1 SLP211 T00730051 58006 KAHN 251651Z VRB06KT 10SM FEW026 OVC060 27/18 A3029 RMK AO2 SLP251 T02720183 EDLN 251650Z 35009KT 330V030 9999 SCT040 BKN068 15/07 Q1015 RMK ATIS W CWCO 251600Z AUTO 18007KT 20/17 RMK AO1 1PAST HR 6018 SLP141 P0008 T02010173 50024 KAIG 251650Z AUTO 20005KT 10SM OVC003 15/15 A2972 RMK AO2 P0004 T01510151 CWBY 251700Z AUTO 19007KT 17/M00 RMK AO1 SLP117 T01681002 55017 EDLP 251650Z 27004KT 210V320 CAVOK 12/07 Q1014 RMK ATIS SIE KAHQ 251655Z AUTO 20008KT 10SM SCT080 OVC090 21/14 A2979 RMK AO2 T02130139 CWBZ 251700Z AUTO 27006KT 19/16 RMK AO1 SLP200 T01900156 57008 UMBB 251330Z 09002MPS 9999 FEW043 SCT200 18/12 Q1013 R11/CLRD// NOSIG KD07 251656Z AUTO 06014KT 13/12 A2984 RMK AO1 SLP106 P0004 T01280117 $ OOMS 251550Z AUTO 09006KT 9999 39/16 Q1004 CWDJ 251700Z AUTO 28004KT 26/02 RMK AO1 SLP103 T02590016 58009 KAIK 251655Z AUTO 16005KT 10SM BKN042 OVC050 26/15 A3034 RMK AO2 KBAB 251558Z AUTO 20008KT 10SM CLR 16/10 A2991 RMK AO2 SLP131 T01630101 $ CWEB 251600Z AUTO 23003KT 11/10 RMK AO1 SLP161 T01100098 53001 CWCT 251700Z AUTO 18005KT 23/M01 RMK AO1 SLP118 T02331012 58007 CWDK 251700Z AUTO 16012KT 18/06 RMK AO1 PK WND 18017/1644 SLP121 T01780062 58004 KBAC 251655Z AUTO 00000KT 10SM SCT015 17/16 A2981 RMK AO2 KBAD 251658Z AUTO 16011G19KT 10SM SCT020 27/21 A3000 RMK AO2 SLP160 T02700213 CWDM 251700Z AUTO 20009KT 05/04 RMK AO1 SLP139 T00540036 58007 EDLV 251650Z VRB05KT CAVOK 15/06 Q1015 PFNO 251658Z AUTO 04007KT 10SM BKN110 12/07 A3004 RMK AO2 SLP174 T01170067 CWEE 251600Z AUTO RMK AO1 56003 KBAF 251653Z 16007KT 10SM FEW110 23/14 A3021 RMK AO2 SLP228 T02280139 EDLW 251650Z 34006KT 9999 BKN049 14/06 Q1014 RMK ATIS B KAIO 251655Z AUTO 23014KT 10SM BKN034 22/15 A2981 RMK AO2 EDMO 251420Z 27004KT 200V340 SCT051 SCT100 18/08 Q1013 RMK CTR CLSD UFN / ATIS U/S CWEF 251600Z AUTO 17008KT 08/05 RMK AO1 PK WND 17017/1541 SLP184 T00830049 58007 KAJG 251655Z AUTO 21012KT 10SM SCT019 BKN024 OVC035 25/18 A3009 RMK AO2 CWEH 251700Z AUTO 11006KT 21/02 RMK AO1 SLP117 T02130016 58003 CWDQ 251700Z AUTO 23006KT 25/08 RMK AO1 SLP165 T02480076 58005 EEEI 251650Z 20008KT 160V230 CAVOK 17/02 Q1012 NOSIG KBAK 251645Z 21014G24KT 10SM SCT018 BKN030 22/18 A3012 KAIT 251653Z AUTO 10006KT 4SM DZ OVC012 14/11 A2966 RMK AO2 P0005 KBBB 251654Z AUTO 29010KT 10SM SCT016 BKN029 OVC040 17/13 A2969 RMK AO2 CWEK 251600Z AUTO 16002KT 11/10 RMK AO1 T01140101 CWDT 251600Z AUTO 28013KT 20/03 RMK AO1 24 5005 SLP144 T02030031 CWEL 251700Z AUTO 33015KT 14/10 RMK AO1 PK WND 33018/1621 SLP151 T01390102 53004 NWWW 251700Z AUTO 00000KT 9999 OVC064 16/12 Q1022 KBBD 251655Z AUTO 16015KT 10SM CLR 23/17 A2985 RMK CWDV 251700Z AUTO 16006KT 18/11 RMK AO1 SLP098 T01790112 58006 CWFD 251700Z AUTO 19020KT 1/4SM CLR M06/ A2946 RMK ICG SLP039 KBAN 251652Z AUTO VRB03KT 10SM CLR 14/06 A3005 RMK AO2 SLP105 T01390056 $ KAJO 251656Z AUTO 00000KT 10SM BKN023 17/12 A3001 RMK AO2 T01720116 SLP157 $ CWFF 251700Z AUTO 34004KT 25/01 RMK AO1 SLP104 T02480010 58006 ULLI 251700Z 28002MPS 250V010 CAVOK 17/03 Q1013 R28R/090070 NOSIG KD25 251655Z AUTO 18004KT 2 1/2SM -RA OVC003 16/16 A2968 RMK AO2 P0003 T01550155 KBBG 251645Z 15011G16KT 10SM FEW018 SCT024 BKN034 24/19 A3001 CWEP 251700Z AUTO 21013KT 17/09 RMK AO1 PK WND 22018/1642 SLP174 T01650088 58013 KAKH 251654Z AUTO 10SM CLR 26/12 A3032 RMK AO2 SLP262 T02610122 KAIZ 251655Z AUTO 00000KT 10SM FEW032 SCT041 24/18 A2998 RMK AO1 CWEQ 251700Z AUTO 10003KT 24/05 RMK AO1 SLP095 T02440046 58010 CWDZ 251600Z AUTO 14004KT 19/05 RMK AO1 T01910052 KAJR 251655Z AUTO 12007KT 090V160 7SM SCT020 SCT026 BKN036 23/17 A3033 RMK AO2 T02320168 CWER 251700Z AUTO 25018G25KT RMK AO1 PK WND 24025/1650 CWFJ 251700Z AUTO 14010G15KT 18/06 RMK AO1 PK WND 14018/1643 T01820061 KALB 251651Z 17010G16KT 10SM SCT085 BKN130 BKN170 24/10 A3017 RMK AO2 SLP214 T02440100 KBCB 251655Z AUTO 17007G15KT 10SM SCT036 22/13 A3036 RMK AO2 T02220133 CWGB 251700Z AUTO 28012KT 15/10 RMK AO1 SLP149 T01460103 52004 CWEU 251700Z 27011KT 15SM FEW220 M06/M13 A2985 RMK CI1 SLP110 CWGD 251600Z AUTO 20015G21KT 22/14 RMK AO1 PK WND 21022/1503 SLP143 T02200144 57008 KBCE 251653Z AUTO 29009KT 10SM FEW039 13/03 A3008 RMK AO2 SLP100 T01280028 $ CWEW 251700Z AUTO 24007KT 21/14 RMK AO1 PK WND 20018/1607 SLP203 T02100135 50000 KAKO 251702Z AUTO 31018KT 10SM SCT025 BKN038 14/08 A2989 RMK AO2 T01440078 $ KBAX 251653Z AUTO 21012G20KT 10SM SCT075 BKN120 25/16 A2992 RMK AO2 T02460164 KBBP 251655Z AUTO 00000KT 10SM CLR 28/ A3031 RMK AO2 KBAZ 251658Z 18021G29KT 10SM BKN026 BKN034 OVC055 28/22 A2986 RMK AO2 PK WND 17029/1655 T02830222 EDOP 251650Z 34004KT 300V010 9999 BKN036 OVC048 12/08 Q1012 RMK ATIS A KAKQ 251654Z AUTO 20008G18KT 160V240 10SM CLR 27/14 A3032 RMK AO2 SLP266 T02720144 TSNO KAJZ 251655Z AUTO 10SM SCT027 SCT065 SCT120 15/07 A3002 RMK AO2 T01450071 EDNY 251650Z 26006KT 9999 -SHRA FEW020 BKN071 13/09 Q1014 RERA RMK ATIS S CWFQ 251700Z AUTO 21006KT 19/11 RMK AO1 SLP207 T01910109 58004 CWEZ 251700Z AUTO 21010KT 12/09 RMK AO1 SLP156 T01160091 53006 KALI 251653Z AUTO 16013G31KT 130V200 10SM -RA FEW020 BKN026 OVC060 29/24 A2985 RMK AO2 PK WND 12031/1649 SLP106 P0000 T02940239 $ KAKR 251654Z AUTO 21015G22KT 10SM CLR 27/15 A3012 RMK AO2 PK WND 21026/1639 SLP191 T02720150 KAMA 251653Z 19018G24KT 10SM CLR 18/08 A2992 RMK AO2 SLP094 T01780083 ULMM 251700Z 28004MPS 9999 BKN022CB 05/00 Q1009 R31/090070 NOSIG RMK QFE750 KD39 251655Z AUTO 00000KT 10SM BKN009 OVC016 15/14 A2967 RMK AO2 T01510137 KALK 251656Z AUTO 03007KT 10SM CLR 21/01 A3008 RMK AO2 SLP112 T02110011 KBCK 251655Z AUTO 23010G14KT 10SM BKN018 BKN027 BKN033 21/16 A2973 RMK AO2 T02050163 CWGL 251600Z AUTO 17008KT 18/13 RMK AO1 SLP154 T01790130 58024 KALM 251655Z AUTO 07004KT 10SM CLR 21/01 A2997 RMK AO2 CWGM 251700Z AUTO 03005KT 18/02 RMK AO1 T01840024 KBBW 251653Z AUTO VRB05KT 10SM BKN031 20/13 A2977 RMK AO2 SLP067 T02000128 KBDE 251653Z AUTO 00000KT 10SM FEW120 17/11 A2977 RMK AO2 SLP083 T01670111 TSNO KALN 251645Z 19010KT 10SM SCT027 BKN200 25/18 A3002 KALO 251654Z 23014G23KT 10SM BKN020 BKN028 OVC034 22/17 A2980 RMK AO2 SLP086 T02170172 DNGO 251400Z 27011KT 9999 FEW016 36/20 Q1010 KAMG 251653Z AUTO 11010KT 10SM FEW040 SCT048 SCT065 30/22 A3023 RMK AO2 SLP235 T03000217 KBDG 251655Z AUTO 00000KT 10SM SCT024 BKN031 OVC100 14/08 A3009 RMK AO1 T01420081 KBDH 251655Z AUTO 25011KT 10SM SCT021 17/15 A2971 RMK AO2 OOSA 251650Z 16007KT 9999 SCT020 31/25 Q1010 NOSIG NZAA 251700Z AUTO 24022KT 9999 FEW037/// BKN065/// 12/07 Q1013 TEMPO 6000 SHRA FEW020TCU CWHI 251600Z AUTO 14007KT 20/02 RMK AO1 T02010015 CWGR 251700Z AUTO 22010KT 17/09 RMK AO1 SLP164 T01690088 58011 ZSAM 251700Z 01002MPS 3500 -RA BR SCT006 BKN023 OVC050 22/22 Q1011 NOSIG KALS 251652Z AUTO 14004KT 10SM CLR 12/00 A3003 RMK AO2 SLP118 T01220000 KBEA 251655Z AUTO 14012G16KT 10SM SCT017 BKN050 OVC060 27/26 A2989 RMK AO2 LTG DSNT W AND NW T02660260 KBCT 251647Z 11011G19KT 10SM SCT019 BKN024 31/24 A3018 KANB 251653Z AUTO 15009G19KT 10SM SCT028 27/19 A3021 RMK AO2 SLP222 T02670194 KD50 251655Z AUTO 22003KT 10SM CLR 23/04 A2987 RMK AO2 DNIB 251700Z 10009KT 9999 SCT014 32/24 Q1010 CWGT 251700Z AUTO 31010KT 15/10 RMK AO1 SLP153 T01450095 53005 KBDL 251651Z 17007KT 10SM FEW045 BKN110 BKN200 25/14 A3021 RMK AO2 SLP227 T02500144 CWHL 251700Z AUTO 28001KT 11/09 RMK AO1 SLP176 T01090091 55002 KAND 251656Z AUTO VRB03KT 10SM BKN032 OVC043 25/17 A3031 RMK AO2 SLP256 T02500167 KBED 251656Z VRB04KT 10SM OVC100 24/11 A3020 RMK AO2 SLP239 T02390111 $ CWHM 251700Z AUTO 21014KT 20/14 RMK AO1 PK WND 23021/1618 T01950135 KBDN 251655Z AUTO 35006KT 10SM CLR 13/02 A2999 RMK AO2 KALW 251653Z 21012KT 10SM OVC050 17/07 A2992 RMK AO2 SLP128 T01670067 KAMN 251653Z AUTO 20013G19KT 5SM -RA SCT011 BKN049 OVC060 20/19 A2990 RMK AO2 T02010189 KANE 251647Z 21011G15KT 10SM BKN010 OVC020 18/16 A2969 CWGW 251700Z AUTO 20002KT 15/03 RMK AO1 SLP115 T01480034 56011 CWHN 251700Z AUTO 27006KT 160V290 1 3/4SM FEW048 FEW094 20/09 A2984 RMK SLP108 KALX 251655Z AUTO 15004KT 10SM BKN022 BKN026 25/19 A3022 RMK AO2 LTG DSNT W T02500193 CWHO 252300Z AUTO 24001KT 05/02 RMK AO1 SLP021 T00530019 53003 CWGX 251700Z AUTO 02005KT 13/M00 RMK AO1 SLP107 T01261001 57023 KD55 251655Z AUTO 06012KT 10SM CLR 24/06 A2982 RMK AO2 PFSH 251658Z AUTO 00000KT 10SM CLR 08/05 A3003 RMK AO2 SLP185 T00830050 CWHP 251600Z AUTO 18006KT 06/03 RMK AO1 SLP150 T00560033 58009 CWIG 251700Z AUTO 23015G22KT RMK AO1 PK WND 25022/1658 CWGY 251700Z AUTO 25003KT 25/M02 RMK AO1 SLP117 T02481016 58007 KBEH 251653Z AUTO 25014KT 10SM SCT029 BKN043 OVC100 21/18 A2991 RMK AO2 PK WND 22027/1605 RAB19E48 SLP125 P0004 T02110183 $ CWHQ 251700Z AUTO 25005KT 17/10 RMK AO1 T01740104 KBDR 251652Z 11007KT 10SM SCT110 21/14 A3024 RMK AO2 SLP240 T02060139 KD57 251655Z AUTO 08014KT 10SM SCT022 BKN029 OVC035 17/12 A2988 RMK AO2 CWII 251700Z AUTO 29002KT 19/07 RMK AO1 T01850072 KANJ 251706Z AUTO 11010KT 1 3/4SM +RA BR OVC004 13/12 A2983 RMK AO2 P0007 T01330122 CWIJ 251600Z AUTO 01009KT M00/M05 RMK AO1 SLP211 T10041054 51011 KD60 251635Z AUTO 10008KT 10SM CLR 22/07 A2990 RMK AO2 KANK 251655Z AUTO 24005KT 10SM SCT040 SCT055 OVC070 12/02 A3008 RMK AO1 T01240019 OPKC 251655Z 23012KT 6000 SCT020 30/25 Q1005 NOSIG CWHT 251700Z AUTO 28003KT 14/02 RMK AO1 SOG 01 3006 SLP173 T01350017 50002 CWIK 251700Z AUTO 26006KT 24/06 RMK AO1 SLP106 T02440055 57007 CWJB 251700Z AUTO 24008G15KT 22/09 RMK AO1 PK WND 26017/1619 T02210093 EDSB 251650Z VRB01KT 9999 VCSH SCT023 BKN050 15/11 Q1014 KBDU 251658Z AUTO 03006KT 10SM CLR 13/06 A2991 RMK AO2 CWJC 251600Z AUTO 01016KT 04/M03 RMK AO1 PK WND 01022/1528 SLP136 T00391029 53005 ULOO 251700Z 20002MPS P6000 NSC 19/04 Q1013 R19/090070 RMK QFE756 CWIL 251700Z AUTO 33023KT M08/ A2997 RMK SLP160 KBFD 251653Z AUTO 21008G18KT 10SM SCT045 25/12 A3017 RMK AO2 SLP205 T02500122 DNIM 251400Z 18004KT 9999 BKN014 34/24 Q1010 CWJD 251700Z AUTO 08004KT 18/04 RMK AO1 SLP104 T01820041 57005 CWHV 251700Z AUTO 23005KT 20/08 RMK AO1 PK WND 23017/1606 SLP191 T02010081 55000 UMGG 251700Z 07003MPS CAVOK 23/13 Q1013 R10/CLRD// NOSIG KAMW 251653Z AUTO 21016KT 10SM FEW024 23/18 A2981 RMK AO2 SLP086 T02330178 NZAP 251621Z 22022G33KT 20KM SHRA FEW025TCU SCT040 13/07 Q1013 RMK NZAA VATSIM U KBFF 251653Z AUTO 28010KT 6SM -RA BR FEW010 BKN050 OVC060 12/11 A2986 RMK AO2 SLP094 P0009 T01170106 CXAF 251600Z AUTO 24005KT 20/04 RMK AO1 T01970038 50009 TUPJ 251700Z 10010KT 9999 SCT020 31/22 Q1018 RMK A3007 CXAG 251600Z AUTO 16006KT 23/04 RMK AO1 T02300035 CWIP 251700Z AUTO 13005KT 14/ RMK AO1 T0138 50002 KANQ 251735Z AUTO 22015KT 10SM FEW016 BKN022 OVC090 22/19 A2999 RMK KAOH 251701Z AUTO 21015G28KT 10SM BKN030 BKN050 OVC090 23/17 A3007 RMK AO2 PK WND 20028/1656 T02330172 OPLA 251655Z 28006KT 5000 HZ NSC 35/12 Q0998 NOSIG CWJH 251700Z AUTO 14003KT 25/02 RMK AO1 SLP078 T02450024 58017 KBFI 251653Z 20008KT 10SM OVC021 14/08 A3002 RMK AO2 SLP165 T01440083 CWJI 251700Z AUTO 27003KT 25/M00 RMK AO1 SLP112 T02491002 58007 KAPA 251653Z VRB04KT 10SM SCT011 SCT110 BKN220 14/03 A2992 RMK AO2 SLP100 T01440028 $ PHBK 251656Z AUTO 03004KT 10SM SCT065 A3000 RMK AO2 SLP162 $ CXBA 251600Z AUTO 30005KT 23/03 RMK AO1 T02310028 CXAJ 251600Z AUTO 23005KT 21/04 RMK AO1 T02050043 CWIS 251700Z AUTO 22008G15KT 19/09 RMK AO1 SLP173 T01940086 50000 EEKA 251550Z 23007KT 180V280 9999 FEW040 17/04 Q1012 CXAK 251600Z AUTO 14004KT 22/01 RMK AO1 T02220011 KAPC 251654Z 21010KT 10SM OVC008 12/09 A2997 RMK AO2 SLP140 T01220094 KBFL 251654Z VRB03KT 10SM CLR 22/10 A2992 RMK AO2 SLP126 T02220100 KBGD 251651Z AUTO 22010G19KT 10SM CLR 19/09 A2988 RMK AO2 SLP086 T01940094 KBFM 251653Z 15013KT 10SM VCTS BKN017 BKN024 OVC080 27/23 A3014 RMK AO2 LTG DSNT W-N RAB34E46 SLP205 P0000 T02670233 CWKD 251600Z AUTO 26020KT 14/M02 RMK AO1 1PAST HR M29 2011 SLP140 P0000 T01431022 50003 KANW 251655Z AUTO 05010KT 10SM SCT033 SCT047 OVC055 15/15 A2976 RMK AO2 P0013 T01470147 KBGE 251655Z AUTO 00000KT 10SM -RA SCT027 SCT033 BKN055 30/23 A3020 RMK AO2 LTG DSNT S CWIW 251700Z AUTO 33006KT 25/M00 RMK AO1 SLP106 T02511004 58005 EEKE 251650Z AUTO 25005KT 200V280 9999NDV NCD 13/06 Q1012 KAOO 251653Z AUTO 24009KT 10SM CLR 28/12 A3021 RMK AO2 SLP221 T02830117 KAPF 251653Z 12009KT 10SM FEW043 FEW050 SCT070 32/22 A3013 RMK AO2 SLP202 T03170217 KBGF 251655Z AUTO 16009KT 10SM OVC024 23/18 A3022 RMK DNJO 251400Z 27015KT 9999 TS BKN010 FEW019CB 26/20 Q1017 CWIX 251600Z AUTO 24006KT 21/07 RMK AO1 T02070073 CWJO 251700Z AUTO 30009KT 24/05 RMK AO1 SLP158 T02380051 58010 NZCH 251708Z 22010KT 30KM NSC 03/M06 Q1008 RMK VATSIM USE ONLY NZCI 251709Z 03003KT 25KM FEW020 04/01 Q1008 RMK NZWN VATSIM USE ONLY CWIY 251600Z AUTO 26012G19KT 24/06 RMK AO1 PK WND 25019/1559 SLP167 T02400064 58010 CWKG 251700Z AUTO 21010G20KT 25/06 RMK AO1 PK WND 18020/1650 SLP216 T02490059 57001 CWKH 251700Z AUTO 11/10 RMK AO1 SLP144 T01070095 53005 CWIZ 251700Z AUTO 19011KT 20/14 RMK AO1 T01960138 CWJR 251700Z AUTO 30004KT 13/11 RMK AO1 SLP139 T01260109 51005 CXBI 251700Z AUTO 20006KT 19/15 RMK AO1 2PAST HR 6018 SLP157 P0009 T01860151 50026 CXCA 251700Z AUTO 17004KT 12/07 RMK AO1 SLP104 T01220072 58008 KBHB 251655Z 19009KT 10SM CLR 24/09 A3013 RMK AO1 NZCM 251155Z 00000KT 9999 FEW015 M26/M30 A2933 RMK SLP940 CWKK 251600Z AUTO 26001KT 10/05 RMK AO1 SLP107 T01020052 57006 CXAT 251600Z AUTO 24002KT M06/M10 RMK AO1 SLP064 T10641101 52005 CWJT 251700Z AUTO 21003KT 17/14 RMK AO1 SLP200 T01660143 51004 CWLB 251700Z AUTO 24004KT 25/02 RMK AO1 SLP101 T02480023 56006 CXBK 251700Z AUTO 23004KT 26/M02 RMK AO1 SLP096 T02591023 58007 KBHC 251655Z AUTO 07008KT 10SM SCT034 SCT040 BKN085 30/22 A3024 RMK AO2 EDTL 251450Z 36009KT 9999 FEW028 BKN082 17/11 Q1014 CWJU 251600Z AUTO 29007KT 09/08 RMK AO1 SLP202 T00910075 55002 CWLC 251600Z AUTO 05001KT 11/10 RMK AO1 T01060095 KBGM 251653Z 23010G21KT 10SM CLR 26/13 A3017 RMK AO2 SLP208 T02560128 $ CXCD 251600Z AUTO 09003KT 17/09 RMK AO1 T01730086 CWJV 251700Z AUTO 26002KT 15/11 RMK AO1 SLP132 T01510114 58001 CWKM 251700Z AUTO 10016KT 02/ A3010 RMK SLP199 KAPN 251654Z AUTO 14005KT 10SM OVC100 19/16 A2986 RMK AO2 RAE09 SLP112 P0000 T01890161 CWJW 251700Z AUTO 28002KT 16/04 RMK AO1 SLP123 T01570035 57013 DNKN 250800Z 23014KT CAVOK 31/20 Q1014 NOSIG CWLE 251700Z AUTO 27004KT 25/M02 RMK AO1 SLP110 T02531020 58007 VCRI 251610Z 24012KT 9999 FEW018 28/24 Q1010 NOSIG CWJX 251700Z AUTO 17008KT 26/M02 RMK AO1 SLP107 T02621019 58008 CWKO 251700Z AUTO 06005KT 23/03 RMK AO1 SLP120 T02270034 57005 CXBO 251700Z AUTO 24012G19KT RMK AO1 PK WND 22021/1640 UMII 251700Z 07002MPS P6000 FEW040 19/06 Q1015 R23/CLRD// NOSIG UNAA 251700Z 10004MPS CAVOK 15/04 Q1010 R02/090065 NOSIG RMK QFE735 CWKP 251700Z AUTO 07005KT 00/ A3015 RMK SLP242 CXCH 251700Z AUTO 22/07 RMK AO1 T02160066 KBGR 251653Z 24011G16KT 10SM FEW120 OVC250 26/07 A3012 RMK AO2 SLP195 T02610072 CXBR 251600Z AUTO 12004KT 15/05 RMK AO1 T01510052 CWLI 251700Z AUTO 07015KT 03/ A3018 RMK SLP232 KARA 251653Z AUTO 18014G18KT 10SM FEW024 30/24 A3005 RMK AO2 LTG DSNT E SLP174 T03000239 KBHK 251651Z AUTO 06011KT 10SM BKN015 OVC040 14/11 A2991 RMK AO2 SLP124 T01390106 KARB 251653Z 22014G29KT 10SM SCT036 BKN048 OVC060 25/17 A2998 RMK AO2 PK WND 25029/1648 SLP147 T02500172 DNKT 251400Z 33011KT 9999 SCT014 40/14 Q1011 CXCK 251700Z AUTO 13006KT 18/M00 RMK AO1 SLP151 T01791001 50002 CXDB 251600Z AUTO 08014KT 16/05 RMK AO1 PK WND 08019/1556 T01590049 NZDN 251708Z 22010KT 30KM NSC 03/M06 Q1008 RMK NZCH VATSIM USE ONLY KBHM 251653Z 16009G18KT 10SM BKN023 BKN029 OVC034 26/21 A3020 RMK AO2 SLP220 T02560206 $ KBID 251655Z AUTO 22013G18KT 10SM CLR 18/12 A3029 RMK AO1 CWLM 251700Z AUTO 23009KT 10/09 RMK AO1 SLP157 T01030090 51006 KBIE 251655Z AUTO 19010KT 10SM SCT050 OVC060 22/16 A2982 RMK AO2 T02160160 EDVE 251550Z 26006KT 240V300 9999 FEW014 SCT028 OVC049 14/12 Q1013 CXBW 251600Z AUTO 12005KT 19/05 RMK AO1 T01900054 CXDE 251600Z AUTO 17005KT 04/M01 RMK AO1 SLP207 T00401011 53009 CWME 251600Z AUTO 26008KT 12/10 RMK AO1 SLP159 T01210101 56001 CWKW 251700Z AUTO ///// M03/ A2962 RMK SLP066 KAQO 251655Z AUTO 00000KT 3SM TSBR SCT002 BKN026 BKN039 22/22 A2992 RMK AO2 LTG DSNT ALQDS P0004 KBIF 251658Z AUTO 28011G17KT 10SM CLR 23/M01 A2997 RMK AO2 SLP089 T02301012 $ CWKX 251700Z AUTO 21004KT 13/07 RMK AO1 SOG 00 8007 SLP181 T01250066 KD95 251653Z AUTO 21010G20KT 10SM SCT034 BKN042 OVC050 25/16 A2995 RMK AO2 T02470161 KAQP 251654Z AUTO 29007KT 10SM -RA SCT015 BKN024 OVC031 18/14 A2969 RMK AO2 KARG 251655Z AUTO 17010KT 10SM FEW023 BKN034 BKN040 24/19 A3005 RMK AO1 OPNH 251700Z 18007KT 4000M HZ NSC 36/20 Q.0999 KAPY 251655Z AUTO 16011G15KT 7SM BKN025 BKN035 BKN050 29/23 A2984 RMK AO2 T02960231 EDTY 251320Z 22013KT 190V250 8000 2000E SHRA FEW024 BKN033 12/10 Q1014 CXCP 251700Z AUTO 14011KT 20/04 RMK AO1 PK WND 15017/1637 T01990044 CWLP 251700Z AUTO 30010KT 10/09 RMK AO1 SLP171 T01030092 55000 KBIH 251656Z AUTO VRB03KT 10SM CLR 22/07 A2996 RMK AO2 SLP103 T02170067 UNBB 251700Z 04004MPS 9000 -RA OVC002 10/09 Q1007 R24/290150 NOSIG RMK QBB070 QFE733 KAQR 251655Z AUTO 16007KT 117V177 10SM -RA SCT008 BKN012 OVC019 23/22 A2996 RMK AO2 CXDI 251600Z AUTO 23011G21KT 25/13 RMK AO1 PK WND 22022/1545 SLP168 T02470130 58009 KBIJ 251655Z AUTO 12004KT 10SM SCT022 BKN030 BKN065 29/22 A3021 RMK AO2 LTG DSNT W OPMT 251353Z 18004KTS 5000 HZ NSC 40/13 Q0995 NOSIG CXCS 251600Z AUTO 14004KT 22/04 RMK AO1 T02160043 CWMJ 251700Z AUTO 20005KT 15/14 RMK AO1 0PAST HR 0004 SLP193 P0008 T01450135 50020 CWLS 251600Z AUTO 22011G18KT 22/16 RMK AO1 2PAST HR 6014 PK WND 19018/1542 SLP158 P0001 T02180155 50002 CXEA 251600Z AUTO 02002KT 21/05 RMK AO1 SLP094 T02100050 57009 CWNB 251600Z AUTO RMK AO1 58009 KBJC 251647Z 10003KT 40SM SCT060 BKN110 14/05 A2992 CXDK 251600Z AUTO 24002KT 15/08 RMK AO1 SLP150 T01450080 51009 EDVK 251650Z 29008KT 9999 FEW020 SCT064 13/08 Q1014 RMK ATIS A KBIL 251653Z 00000KT 10SM OVC065 14/08 A2994 RMK AO2 SLP126 T01440083 KE11 251655Z AUTO 08005KT 10SM CLR 21/11 A2996 RMK AO2 T02060107 CWNC 251700Z AUTO 10005KT 13/08 RMK AO1 SLP165 T01340079 56026 CXEC 251700Z AUTO 20002KT 24/01 RMK AO1 SLP108 T02380010 58004 KASD 251700Z AUTO 14010G18KT 10SM BKN021 BKN026 BKN060 28/24 A3007 RMK AO2 LTG DSNT ALQDS T02830244 KCAD 251655Z AUTO 18013G17KT 10SM SCT019 BKN035 OVC046 21/18 A2984 RMK AO2 T02150181 KAQV 251656Z AUTO 18009G17KT 10SM SCT026 SCT035 30/22 A3001 RMK AO2 SLP158 T03000222 $ KARM 251655Z AUTO 14019G23KT 10SM SCT024 BKN029 BKN038 28/23 A2994 RMK AO2 LTG DSNT W T02840228 CWND 242119Z M01/M01 RMK T10131008 DNMM 251700Z 18007KT 150V220 9999 FEW013 30/24 Q1010 NOSIG CWMM 251700Z AUTO 17002KT 12/11 RMK AO1 3PAST HR 1008 SLP159 P0001 T01230110 50052 KAQW 251552Z AUTO 10006KT 10SM SCT110 20/12 A3022 RMK AO2 SLP234 T02000117 KASE 251653Z 34003KT 7SM -RA BKN028 OVC034 06/02 A3006 RMK AO2 RAB1558 SLP128 P0001 T00560017 KCAE 251656Z 12009KT 10SM OVC046 28/16 A3029 RMK AO2 SLP254 T02780156 CWNE 251700Z AUTO 23011G17KT 18/10 RMK AO1 PK WND 24018/1612 SLP153 T01780096 58014 KAQX 251655Z AUTO VRB05KT 10SM FEW028 SCT034 BKN040 27/20 A3029 RMK AO2 KASG 251648Z 17013KT 10SM BKN027 BKN031 25/19 A2999 CWLX 251700Z AUTO 14024KT M02/ A2948 RMK SLP999 KCAG 251653Z AUTO 23007KT 10SM FEW025 OVC033 10/04 A3002 RMK AO2 RAB04E23 SLP140 P0000 T01000044 $ CXDP 251600Z AUTO 22002KT 20/03 RMK AO1 T01980034 CXEG 251600Z AUTO 23/05 RMK AO1 T02250049 CWLY 251700Z AUTO 19005KT 160V230 9SM OVC095 17/09 A2993 RMK SLP135 DENSITY ALT 1100FT KASH 251651Z VRB04KT 10SM SCT095 25/12 A3021 RMK AO2 T02500122 SLP475 $ KE16 251655Z AUTO 10003KT 10SM OVC013 14/11 A3001 RMK AO2 UMKK 251700Z 13002MPS CAVOK 17/11 Q1011 R24/CLRD70 NOSIG RMK QFE757/1010 CWMQ 251700Z AUTO 08003KT 23/02 RMK AO1 SLP116 T02340023 58009 CWNH 251700Z AUTO 23007KT 20/09 RMK AO1 SLP151 T01960091 58012 ZSHC 251700Z 10002MPS 6000 NSC 21/14 Q1010 NOSIG KARR 251702Z 22015KT 10SM FEW017 BKN024 OVC049 22/17 A2990 RMK AO2 T02220172 KBJI 251653Z AUTO 36006KT 10SM -RA SCT080 14/13 A2976 RMK AO2 P0003 T01400125 PFWS 251656Z AUTO 17005KT 10SM BKN055 OVC090 07/04 A3006 RMK AO2 SLP187 T00670044 KBIS 251652Z VRB03KT 10SM FEW025 BKN090 18/13 A2986 RMK AO2 RAE1554 SLP111 P0000 T01780128 $ VECC 251650Z 14004KT 3200 HZ SCT020 FEW030CB 28/25 Q1003 NOSIG KBJJ 251656Z AUTO 21016G25KT 10SM CLR 28/14 A3012 RMK AO2 PK WND 23026/1646 SLP191 T02780144 TSNO KASJ 251655Z AUTO 15008KT 10SM CLR 26/15 A3033 RMK AO2 T02580145 KBKB 251654Z AUTO 15007KT 110V180 10SM SCT028 BKN038 31/22 A3000 RMK AO2 SLP185 T03060222 KCAK 251651Z 24014G24KT 10SM SCT065 BKN140 BKN250 26/14 A3013 RMK AO2 PK WND 20028/1623 SLP195 T02610144 KART 251656Z AUTO 20012G17KT 10SM FEW080 26/11 A3005 RMK AO2 SLP173 T02610111 CWNK 251700Z AUTO 03006KT 24/05 RMK AO1 T02350050 CWMT 251600Z AUTO 06009KT 12/M02 RMK AO1 SLP160 T01191018 51016 CWOB 251700Z AUTO 23007KT M04/ A2960 RMK SLP068 KASL 251655Z AUTO 17007KT 10SM BKN031 BKN037 BKN110 28/22 A3001 RMK AO1 T02800217 CWNL 251600Z AUTO 10009KT 09/ RMK AO1 SLP127 T0094 56018 CWOC 251700Z AUTO 20004KT 19/01 RMK AO1 SLP145 T01860013 57012 KBIV 251653Z AUTO 23020G38KT 10SM FEW030 SCT050 BKN065 22/18 A2990 RMK AO2 PK WND 23038/1647 SLP121 T02220178 $ KBKD 251655Z AUTO 29028G43KT 10SM SCT027 SCT033 BKN040 21/13 A2990 RMK AO2 LTG DSNT ALQS T02110132 KARV 251655Z AUTO 00000KT 4SM RA OVC005 17/16 A2969 RMK AO2 P0007 T01660158 CWOD 251700Z AUTO 29012G20KT 25/03 RMK AO1 PK WND 27020/1659 SLP125 T02480027 58012 CWNM 251700Z AUTO 04003KT 15/11 RMK AO1 SLP130 T01510113 51006 ZSFZ 251700Z 02001MPS 9999 OVC040 21/17 Q1011 NOSIG KCBE 251650Z AUTO 16006KT 10SM CLR 28/12 A3023 RMK AO1 KARW 251655Z AUTO 10008KT 10SM SCT029 BKN038 OVC046 26/20 A3029 RMK AO2 KBKE 251653Z AUTO 30007KT 10SM CLR 16/07 A2993 RMK AO2 SLP123 T01560067 KASN 251655Z AUTO 17010KT 10SM BKN027 OVC033 27/21 A3021 RMK AO2 LTG DSNT SW T02720206 CWOE 251700Z AUTO 16004KT 21/M00 RMK AO1 SLP116 T02081002 58006 CXDW 251700Z AUTO 03007KT 25/06 RMK AO1 T02460055 KBIX 251658Z AUTO 19005KT 10SM CLR 26/23 A3011 RMK AO2 LTG DSNT SW RAE16 SLP199 P0001 T02580232 KCAO 251655Z AUTO 07009KT 10SM CLR 19/05 A2991 RMK AO2 SLP084 T01890050 KCBF 251655Z AUTO 22010KT 190V250 10SM FEW031 22/16 A2980 RMK AO2 KBKF 251558Z 00000KT 10SM SCT060 SCT110 BKN220 13/04 A2993 RMK AO2A SLP095 T01300040 KCBG 251655Z AUTO 22004KT 7SM -RA OVC006 17/13 A2965 RMK AO2 CWNP 251700Z AUTO 30003KT 13/12 RMK AO1 1005 SLP133 T01320115 50002 CWMZ 251600Z AUTO 10011KT 14/12 RMK AO1 PK WND 16021/1506 SLP144 T01360118 56014 CWNQ 251700Z AUTO 24008KT 18/13 RMK AO1 SLP188 T01780126 51002 KCAR 251654Z AUTO 25014G20KT 10SM CLR 25/07 A3000 RMK AO2 SLP162 T02500072 KCCA 251655Z AUTO 17005KT 7SM SCT032 25/20 A3003 RMK AO2 KAST 251655Z AUTO 27006KT 10SM BKN013 OVC024 13/10 A3004 RMK AO2 SLP173 T01280100 KCBK 251655Z AUTO 30009G15KT 10SM CLR 19/12 A2984 RMK AO2 CXET 251700Z AUTO 18009KT 21/14 RMK AO1 SLP148 T02130141 56023 EFET 251650Z AUTO 36007KT 310V040 9999 BKN048 08/M02 Q1010 KATL 251652Z 16008KT 10SM BKN024 BKN033 26/18 A3027 RMK AO2 SLP240 T02560183 KBKL 251653Z 20014G27KT 10SM FEW110 BKN250 27/15 A3005 RMK AO2 PK WND 19028/1633 SLP171 T02720150 CWPC 251600Z AUTO 24016KT 17/11 RMK AO1 PK WND 24019/1559 SLP186 T01670107 56011 KCBM 251658Z AUTO VRB05KT 10SM OVC014 24/24 A3014 RMK AO2 OVC V BKN SLP208 T02360236 $ KCAV 251655Z AUTO 23016G22KT 10SM SCT016 BKN023 OVC041 21/M37 A2979 RMK AO2 VEDG 250930Z 16008KT 4000 HZ SCT020 SCT100 38/27 Q0999 NOSIG CXFM 251600Z AUTO 14006KT 20/03 RMK AO1 T02010026 CWPD 251700Z AUTO 21009G17KT 20/06 RMK AO1 SLP146 T02020056 58005 UMMG 251500Z 10001MPS 9999 SCT033 BKN066 20/12 Q1012 NOSIG KASW 251655Z AUTO 21010G22KT 177V237 10SM BKN024 OVC032 23/18 A2998 RMK AO2 CWPE 251700Z AUTO 15004KT 11/07 RMK AO1 SLP200 T01080071 58007 KBLF 251652Z AUTO VRB06KT 10SM CLR 26/11 A3032 RMK AO2 SLP231 T02610106 KASX 251653Z AUTO 34008KT 1/2SM FG VV002 09/09 A2969 RMK AO2 RAE03 SLP057 P0000 T00940094 KAUG 251653Z AUTO 25007KT 10SM OVC120 24/08 A3015 RMK AO2 SLP209 T02440083 CWPF 251700Z AUTO 16004KT 12/09 RMK AO1 SLP153 T01160088 51005 KATP 251655Z AUTO 14015KT 8SM FEW018 29/25 A3008 RMK A01 KBLH 251652Z AUTO 17010KT 10SM CLR 28/11 A2988 RMK AO2 SLP110 T02830106 PHHI 251658Z AUTO 32004KT 10SM CLR 17/15 A2999 RMK AO2 SLP150 T01680147 $ KAUH 251655Z AUTO 20011G16KT 10SM SCT045 BKN060 21/11 A2979 RMK AO2 T02080114 NZGS 251621Z 22022G33KT 20KM SHRA FEW025TCU SCT040 13/07 Q1013 RMK NZAA VATSIM U CWNZ 251700Z AUTO 14005KT 20/08 RMK AO1 SLP117 T01980083 57012 CXGH 251700Z AUTO 04002KT 16/10 RMK AO1 T01620102 KBLI 251653Z 17007KT 10SM OVC004 11/11 A2999 RMK AO2 RAB02E36 SLP164 P0003 T01110106 OPPS 251600Z 31030KT 4000 HZ FEW040 31/13 Q1001 NZHK 251708Z 22010KT 30KM NSC 03/M06 Q1008 RMK NZCH VATSIM USE ONLY CXFR 251600Z AUTO 32006KT 20/07 RMK AO1 6PAST HR M P0002 T01990071 50006 ULWC 251700Z 20003MPS CAVOK 17/06 Q1016 R21/010060 NOSIG RMK QFE752/1003 KATS 251655Z AUTO 14007KT 10SM CLR 25/02 A2992 RMK AO2 KCDA 251655Z AUTO 20009G15KT 10SM SCT070 SCT080 22/08 A3020 RMK AO2 T02240076 KBKS 251655Z AUTO 15015G21KT 10SM SCT025 SCT032 BKN050 31/24 A2985 RMK AO1 T03050241 KE38 251655Z AUTO 27010G23KT 240V300 10SM CLR 24/M06 A3008 RMK AO2 T02371057 CXHA 251600Z AUTO 22010G17KT 24/15 RMK AO1 PK WND 22021/1539 SLP150 T02350153 58009 UMMM 251700Z 13002MPS CAVOK 19/12 Q1014 R12/CLRD60 NOSIG RMK QFE740 EFHA 251650Z AUTO 20011KT 160V240 CAVOK 16/01 Q1010 KATT 251651Z AUTO 16007KT 10SM SCT018 BKN028 OVC080 26/23 A2991 RMK AO2 SLP116 T02610228 PFYU 251656Z 26007KT 220V280 10SM BKN080 14/07 A2994 RMK AO1 KBKT 251655Z AUTO 19008KT 10SM SCT044 SCT060 27/16 A3031 RMK AO2 UNEE 251700Z 07002MPS CAVOK 10/07 Q1010 R23/CLRD60 NOSIG RMK QFE735 CWPK 251700Z AUTO 20006KT 23/08 RMK AO1 SLP163 T02260081 58006 KCDC 251653Z AUTO 23005KT 10SM CLR 16/06 A3003 RMK AO2 SLP125 T01560056 KAVC 251656Z AUTO 20009G16KT 10SM SCT046 26/14 A3037 RMK AO2 T02570142 KBMC 251655Z AUTO 21007KT 10SM BKN026 16/09 A2998 RMK AO1 T01570088 NZHN 251621Z 22022G33KT 20KM SHRA FEW025TCU SCT040 13/07 Q1013 RMK NZAA VATSIM U KCDD 251645Z AUTO 00000KT 10SM -DZ SCT080 17/12 A2978 RMK AO2 KBKV 251653Z VRB06KT 10SM FEW042 32/20 A3019 RMK AO2 SLP220 T03170200 KBLM 251655Z AUTO 20011G19KT 10SM CLR 29/14 A3024 RMK AO1 KAUM 251656Z AUTO 23013G21KT 10SM BKN018 BKN033 OVC041 19/16 A2976 RMK AO2 CXHD 251600Z AUTO 06001KT 23/02 RMK AO1 T02280019 KBKW 251651Z AUTO VRB05KT 10SM CLR 25/11 A3030 RMK AO2 SLP230 T02500106 KAUN 251655Z AUTO 22005KT 10SM CLR 19/11 A2994 RMK AO1 KATW 251645Z 23015G23KT 10SM SCT004 BKN012 BKN030 20/18 A2975 EDXW 251650Z 29013KT 9999 FEW014 SCT032 BKN086 11/07 Q1013 RMK ATIS VIC KAUO 251655Z AUTO 16006KT 10SM OVC020 24/18 A3024 RMK AO1 KBKX 251655Z AUTO 26009KT 10SM FEW015 SCT023 OVC036 17/14 A2976 RMK AO1 KCCO 251655Z AUTO 17006KT 10SM SCT023 OVC031 26/21 A3025 RMK AO2 T02620210 DNPO 251700Z 17009KT 9999 SCT014 FEW022CB 32/24 Q1009 NOSIG CWPO 251700Z AUTO 03009KT 24/03 RMK AO1 SLP101 T02440028 58009 EFHF 251650Z 13006KT CAVOK 13/07 Q1012 KBMG 251653Z 21011G19KT 10SM -RA OVC022 22/18 A3010 RMK AO2 RAB39 SLP186 P0000 T02170178 KATY 251701Z AUTO 36012KT 10SM BKN009 OVC016 16/13 A2974 RMK AO2 CIG 007V012 T01560128 TSNO CWOY 251700Z AUTO 32005KT 24/04 RMK AO1 SLP105 T02390035 57006 UMMS 251700Z 15002MPS CAVOK 19/09 Q1014 R13/CLRD// NOSIG KCDH 251655Z AUTO 00000KT 10SM OVC023 25/19 A3003 RMK AO2 NZHS 251709Z 03003KT 25KM FEW020 04/01 Q1008 RMK NZWN VATSIM USE ONLY CWQH 251700Z AUTO 23011G17KT 21/11 RMK AO1 PK WND 25017/1651 T02080114 KCCR 251653Z 21016KT 10SM BKN013 15/09 A2997 RMK AO2 SLP133 T01500094 KBMI 251656Z 23017G24KT 10SM BKN021 22/18 A2999 RMK AO2 T02220177 RAE12 P0000 PK WND 24027/1631 SLP145 NZHT 251708Z 22010KT 30KM NSC 03/M06 Q1008 RMK NZCH VATSIM USE ONLY CWPR 251700Z AUTO 03002KT 14/05 RMK AO1 SLP131 T01390052 58008 KBNA 251653Z 12005KT 7SM -RA FEW028 BKN080 OVC110 21/19 A3018 RMK AO2 SLP213 P0003 T02060189 $ KAUS 251653Z 15013G18KT 10SM SCT019 BKN028 BKN048 27/23 A2991 RMK AO2 SLP159 T02670228 KCDJ 251652Z AUTO 15010G15KT 23/17 A2990 RMK AO1 SLP117 T02330172 $ CWPS 251600Z AUTO 19/12 RMK AO1 SLP172 T01850119 58009 CWRA 251600Z AUTO 22014KT 07/03 RMK AO1 PK WND 21018/1531 SLP250 T00680034 58001 CWQK 251700Z AUTO 23012KT 10/ RMK AO1 SLP155 T0104 51005 CXIB 251600Z AUTO 25006G15KT 23/04 RMK AO1 SLP178 T02250039 58006 KBML 251652Z AUTO 21005KT 10SM SCT080 24/08 A3017 RMK AO2 SLP218 T02390083 $ KBLU 251652Z AUTO 24004KT 10SM CLR 14/08 A3006 RMK AO2 SLP121 T01440083 EFHK 251650Z 18009KT 150V210 9999 FEW027 14/07 Q1012 NOSIG KCCU 251655Z AUTO 29016G20KT 10SM OVC009 01/M01 A3015 RMK AO2 P0003 LTG DSNT W KAVL 251654Z 16011G16KT 10SM SCT043 23/12 A3034 RMK AO2 SLP253 T02330117 $ KCEC 251705Z AUTO 19005KT 10SM OVC005 11/10 A2997 RMK AO2 T01060100 EEPU 251250Z 20008KT 140V230 CAVOK 15/03 Q1014 OPRN 251700Z 05025KT 5000 VCTS FEW030TCU SCT040 BKN100 23/15 1004.7/29.67 KBLV 251658Z AUTO 19011G16KT 10SM FEW033 SCT041 SCT110 BKN130 BKN180 BKN210 27/19 A3000 RMK AO2 SLP159 T02660189 $ CXHM 251700Z AUTO 23007G15KT 27/15 RMK AO1 SLP147 T02650148 56023 PGRO 250950Z 12006KT 7SM FEW015 26/23 A2993 RMK LAST KCDN 251655Z AUTO 00000G10KT 9SM FEW045 FEW050 SCT060 27/14 A3031 RMK AO2 TSNO KAUW 251654Z AUTO 24009G18KT 8SM -RA SCT008 BKN012 OVC026 18/17 A2970 RMK AO2 RAB23 SLP061 P0004 T01780167 KCEF 251658Z 17007KT 10SM FEW045 SCT120 BKN150 23/14 A3020 RMK AO2A SLP232 T02250137 PHJH 251645Z 06010KT 15SM FEW035 19/15 A2999 CWQO 251700Z AUTO 21017KT 13/07 RMK AO1 PK WND 23026/1622 T01280073 CWPX 251700Z AUTO 32011KT M05/ A3008 RMK SLP208 CWRF 251700Z AUTO ///// M07/ A2958 RMK SLP056 KAVP 251654Z 24011KT 10SM FEW110 29/12 A3018 RMK AO2 SLP212 T02940122 KCCY 251655Z AUTO 23015KT 10SM BKN017 BKN025 OVC031 20/19 A2980 RMK AO2 KAWG 251655Z AUTO 20017G23KT 10SM BKN023 23/18 A2988 RMK AO2 CXHP 251600Z AUTO 30004KT 19/07 RMK AO1 T01910072 50004 KBMQ 251700Z AUTO 12005KT 7SM SCT010 BKN019 OVC050 22/21 A2992 RMK AO2 LTG DSNT ALQDS T02220211 KAVQ 251655Z AUTO 00000KT 5SM CLR 25/03 A2997 RMK AO2 T02540029 CWPZ 251700Z AUTO 29006KT 16/10 RMK AO1 SOG 00 7005 SLP142 T01600095 CWRH 251700Z AUTO ///// M03/ A2968 RMK SLP083 KCDR 251653Z AUTO 03003KT 10SM FEW015 BKN022 OVC035 13/11 A2983 RMK AO2 RAE28 SLP100 P0001 T01330106 CXHR 251600Z AUTO 14008KT 19/02 RMK AO1 T01870024 CWQR 251700Z AUTO 31005KT 08/ RMK AO1 T0076 OPSK 251700Z 23004KT 4000 HZ NSC 35/20 Q998 RH42 PC KCDS 251653Z AUTO 23018KT 7SM TSRA OVC080 16/13 A3001 RMK AO2 PK WND 24027/1600 LTG DSNT ALQDS TSB24E39B50 SLP146 P0008 T01560128 KAXA 251655Z AUTO 23016KT 10SM SCT019 BKN026 OVC038 21/17 A2978 RMK AO2 CWQS 251600Z AUTO 03007KT 10/10 RMK AO1 SLP198 T00990096 56005 CWRJ 251700Z AUTO 20004KT 25/M03 RMK AO1 SLP101 T02481030 56008 CWSA 251700Z AUTO 23013KT 6SM HZ CLR 11/07 A3024 RMK SLP239 EGAA 251650Z 34008KT 9999 SCT019 BKN025 12/08 Q1022 KBMT 251655Z AUTO 15012G17KT 10SM BKN024 OVC033 29/23 A3000 RMK AO2 T02850234 CYAB 251700Z VRB02KT 25SM FEW020 M05/M09 A2971 RMK SC1 SLP064 CWRK 251700Z AUTO 15003KT 16/15 RMK AO1 8020 SLP172 T01570147 50038 KBNL 251655Z AUTO 12007KT 10SM FEW001 SCT038 BKN044 28/16 A3030 RMK AO2 UMOO 251700Z 00000MPS CAVOK 20/10 Q1014 R31/CLRD// NOSIG KAWM 251653Z AUTO 19010KT 10SM SCT017 OVC025 24/22 A3007 RMK AO2 SLP177 T02390217 PGSN 251654Z 18006KT 10SM CLR 26/22 A2993 RMK AO2 SLP157 T02560222 $ EGAC 251650Z 33011KT 9999 FEW025 BKN030 13/06 Q1021 KCFD 251655Z AUTO 15013G17KT 10SM BKN023 BKN032 OVC090 27/23 A2994 RMK AO2 LTG DSNT W AND NW T02740232 CYAD 251700Z 33006KT 15SM FEW030 05/M02 A2998 RMK SC1 SLP167 CWSD 251700Z AUTO 19013KT 23/11 RMK AO1 PK WND 18020/1622 SLP163 T02340107 57025 CWQV 251700Z AUTO 28014G20KT 21/08 RMK AO1 PK WND 27020/1657 T02110082 CWRM 251700Z AUTO 15010G16KT 19/05 RMK AO1 SLP112 T01900054 58005 KCDW 251653Z 20008KT 170V250 10SM CLR 28/12 A3021 RMK AO2 SLP234 T02830122 KCFE 251655Z AUTO 21008KT 10SM SCT015 OVC020 17/14 A2970 RMK AO2 T01670135 EGAE 251550Z 29009KT 9999 SCT023 BKN034 13/09 Q1022 CWRN 251700Z AUTO 21019G25KT 17/ RMK AO1 PK WND 22028/1638 T0171 KAVX 251651Z AUTO 10006KT 10SM OVC010 14/11 A3001 RMK AO2 CIG 007V013 SLP157 T01390106 KBNO 251653Z AUTO 18005KT 10SM SCT060 17/03 A2996 RMK AO2 SLP119 T01670028 KAWO 251655Z AUTO 19004KT 10SM OVC014 13/08 A3002 RMK AO1 CWRO 251700Z AUTO 29015KT 12/10 RMK AO1 PK WND 28019/1645 SLP188 T01170100 55000 CWSF 251700Z AUTO 36002KT 13/M00 RMK AO1 SLP119 T01341003 58018 NZKI 251708Z 22010KT 30KM NSC 03/M06 Q1008 RMK NZCH VATSIM USE ONLY CWSG 251700Z AUTO 26020KT 13/08 RMK AO1 PK WND 25024/1632 SLP122 T01320079 58009 PHJR 251653Z VRB05KT 10SM CLR 21/14 A3000 RMK AO2 SLP165 T02060144 ORBI 251700Z 36005KT CAVOK 32/08 Q1009 NOSIG CYAH 251700Z AUTO 33004KT 250V050 9SM BKN028 04/M04 A2996 RMK SLP163 KBOI 251653Z 26004KT 10SM CLR 21/08 A2989 RMK AO2 SLP103 T02060083 PGUA 251658Z AUTO 07005KT 10SM CLR 25/23 A2993 RMK AO2 SLP126 T02480227 VISNO RWY24L CHINO RWY24L $ NZKK 251621Z 22022G33KT 20KM SHRA FEW025TCU SCT040 13/07 Q1013 RMK NZAA VATSIM U OPST 251700Z 13006KT 4000 VCTS FEW030CB SCT040 30/11 Q0998 TEMPO 36015G25KT 2000 -RA RH31 KCFJ 251655Z AUTO 20020G25KT 10SM BKN022 OVC027 23/15 A3004 RMK AO2 T02280149 CXKA 251700Z AUTO 18006KT 22/10 RMK AO1 SOG 05 8015 SLP108 T02200100 KBOK 251656Z AUTO VRB04KT 5SM BR OVC002 12/12 A2997 RMK AO2 T01220122 SLP149 CYBB 251700Z 36019KT 15SM DRSN FEW012 SCT030 BKN080 M03/M06 A2966 RMK SC1SC3AC2 SLP046 CWSK 251700Z AUTO 16002KT 14/13 RMK AO1 SOG 08 3005 SLP146 T01380126 50041 CWRT 251700Z AUTO 15003KT 17/03 RMK AO1 T01650033 EGBB 251650Z 31008KT 9999 BKN027 BKN031 14/07 Q1019 KCEU 251654Z AUTO 00000KT 10SM FEW033 FEW065 27/15 A3032 RMK AO2 SLP258 T02720150 KCGC 251655Z AUTO 09006KT 10SM BKN046 BKN050 32/20 A3019 RMK AO2 CWRU 251600Z AUTO 35024KT 10/09 RMK AO1 PK WND 35027/1533 SLP156 T01040089 58002 CWSL 251700Z AUTO 34003KT 14/11 RMK AO1 2004 SLP141 T01430109 50008 CYBC 251700Z AUTO 24028G35KT 9SM SCT110 SCT130 17/08 A2988 RMK SLP120 DENSITY ALT 400FT CYBD 251700Z 26004KT 180V310 15SM FEW030TCU SCT070 BKN260 17/11 A2999 RMK TCU2AC2CI2 SLP156 DENSITY ALT 200FT CYAM 251700Z 10009G15KT 4SM -RA BR OVC005 13/13 A2984 RMK ST8 CIG VRB 3-7 SLP106 VDPP 251700Z 20002KT 9000 FEW017 28/25 Q1009 EFIV 251650Z AUTO 34008KT 310V010 9999 OVC045 08/M01 Q1010 KCGE 251648Z AUTO 22008G15KT 10SM CLR 26/14 A3029 RMK AO1 KAXN 251701Z AUTO 02004KT 5SM BR SCT006 BKN012 OVC018 15/14 A2968 RMK AO2 RAE1658 P0000 T01500139 KCEW 251701Z AUTO 17012G20KT 10SM FEW029 FEW065 SCT080 31/22 A3016 RMK AO2 LTG DSNT ALQDS T03060222 PHKO 251653Z 00000KT 10SM SCT045 23/16 A2995 RMK AO2 SLP141 T02330161 $ KBNW 251655Z AUTO 21012G20KT 10SM 22/17 A2980 RMK AO2 KCGF 251645Z 19012G20KT 15SM FEW070 SCT160 28/17 A3007 EGBE 251650Z 32009KT 280V060 9999 SCT028 BKN034 14/08 Q1020 CXKE 251700Z AUTO 12002KT 17/15 RMK AO1 3PAST HR 8018 SLP190 P0001 T01680152 50040 EFKE 251650Z AUTO 21004KT CAVOK 09/01 Q1010 DNSO 251700Z 35005KT 9999 FEW015 FEW026CB 41/17 Q1008 CWRX 251700Z AUTO 08021KT M02/ A2947 EFJO 251650Z 16005KT 130V190 CAVOK 15/01 Q1011 KBPG 251655Z AUTO 03013KT 10SM CLR 19/11 A2995 RMK AO2 LTG DSNT N AND SE T01910113 KCEY 251655Z AUTO 17008KT 10SM OVC012 21/21 A3012 RMK AO1 CWSP 251700Z AUTO 30012KT 10/09 RMK AO1 SLP156 T01030091 51004 CWRY 251600Z AUTO 17008KT 19/05 RMK AO1 SLP123 T01870048 58003 CWTG 251700Z AUTO 27021KT 11/06 RMK AO1 PK WND 27026/1624 SLP122 T01140063 56011 CYBG 251700Z 28009KT 25SM FEW040 BKN240 24/08 A2997 RMK CU1CI2 SLP152 ZSNB 251700Z 14002MPS 7000 NSC 17/15 Q1011 NOSIG KCEZ 251653Z AUTO 20010KT 10SM BKN028 OVC036 11/08 A3004 RMK AO2 SLP138 T01060083 PHLI 251653Z 31006KT 10SM OVC055 19/17 A3002 RMK AO2 SLP164 T01900167 $ CWRZ 251700Z AUTO 23006KT 10/04 RMK AO1 PK WND 19019/1624 SLP131 T01040038 58020 KBPI 251705Z AUTO 00000KT 10SM SCT025 BKN041 11/04 A3001 RMK AO2 T01110039 KCGI 251653Z 17008KT 10SM FEW017 BKN021 OVC034 23/21 A3007 RMK AO2 SLP178 T02280206 $ CXKI 251700Z AUTO 18/10 RMK AO1 SLP151 T01810101 58007 CWSR 251700Z AUTO 34008KT 24/04 RMK AO1 SLP098 T02370035 57008 EFKI 251650Z AUTO 07003KT 9999 -RA OVC042 09/07 Q1011 KCHA 251653Z 13012KT 10SM SCT034 BKN055 BKN250 26/17 A3023 RMK AO2 SLP229 T02560172 KCFS 251654Z AUTO 20015G20KT 10SM SCT035 BKN041 OVC090 24/18 A2992 RMK AO2 T02430177 KBOS 251654Z 25006KT 10SM BKN100 OVC180 26/10 A3021 RMK AO2 SLP231 T02560100 KAXS 251655Z AUTO 25016G21KT 10SM -TSRA SCT005 BKN012 BKN018 21/18 A2990 RMK AO2 LTG DSNT ALQS P0001 T02070178 NZMC 251708Z 22010KT 30KM NSC 03/M06 Q1008 RMK NZCH VATSIM USE ONLY CYAS 242100Z 25005KT 15SM FEW015 SCT020 BKN220 00/M02 A2949 RMK SC2SC2CI1 LAST OBS/NEXT 251200UTC SLP998 EGBJ 251650Z 00000KT 9999 FEW025 SCT034 16/09 Q1019 CWSS 251700Z AUTO 23011G17KT 26/07 RMK AO1 PK WND 23018/1626 SLP182 T02550074 58009 KBPK 251701Z AUTO 14007KT 9SM SCT022 BKN029 OVC039 24/19 A3000 RMK AO2 T02390194 $ KE80 251655Z AUTO 31006KT 10SM CLR 19/06 A2999 RMK AO2 T01850058 CXLB 251700Z AUTO 23011G16KT 15/ RMK AO1 PK WND 21019/1610 SLP208 T0153 56006 CWST 251700Z AUTO 22020G29KT 24/08 RMK AO1 PK WND 23029/1658 SLP153 T02390078 58006 CYAT 251700Z AUTO 07007KT 9SM CLR 07/01 A3000 RMK SLP158 CYCB 251700Z 34010KT 15SM BKN011 M04/M08 A3009 RMK SC7 SLP192 CYBK 251700Z 32020G25KT 10SM -SN BKN009 BKN030 M06/M10 A2993 RMK SC7SC1 SC TR SLP135 PGUM 251654Z 08004KT 10SM CLR 26/24 A2992 RMK AO2 SLP125 T02610239 EFKK 251650Z 19001KT 9999 -RA FEW025 BKN033 OVC040 11/09 Q1010 KAZC 251655Z AUTO 23003KT 10SM SCT034 17/08 A3006 RMK AO2 T01660083 CYBL 251600Z 30006KT 20SM BKN038 BKN110 13/09 A2999 RMK SC6AC1 SLP155 KCHD 251647Z VRB04KT 40SM FEW160 26/07 A2993 EGCC 251650Z 30011KT 9999 FEW021 SCT028 14/08 Q1020 NOSIG KCFV 251652Z AUTO 19013KT 10SM OVC049 23/20 A2992 RMK AO2 SLP127 T02330200 KAXV 251652Z AUTO 21017G21KT 10SM -DZ BKN028 BKN034 23/17 A3009 RMK AO2 NZMF 251708Z 22010KT 30KM NSC 03/M06 Q1008 RMK NZCH VATSIM USE ONLY CYCD 251700Z 03006KT 360V080 12SM SCT020 BKN040 OVC070 16/11 A2998 RMK SC3SC4AC1 SLP153 DENSITY ALT 100FT CXKM 251600Z AUTO 03003KT 22/M00 RMK AO1 T02231004 50018 KBOW 251647Z 10006KT 10SM BKN042 31/20 A3019 KAZE 251655Z AUTO 15004KT 10SM SCT033 SCT038 BKN045 30/22 A3023 RMK AO2 T02950215 CWSW 251700Z 19005KT 150V270 20SM FEW055 SCT120 BKN230 15/04 A2989 RMK SC2AC2CI3 SLP116 DENSITY ALT 4700FT CYAW 251700Z 17009KT 15SM FEW035 FEW120 FEW260 21/12 A3015 RMK CU1AC1CI1 DA847FT SLP212 CWTN 251700Z AUTO 24009KT 23/10 RMK AO1 SLP164 T02320098 58005 EETN 251650Z 24007KT CAVOK 18/05 Q1012 NOSIG CYBN 251700Z AUTO 15008KT 9SM FEW041 FEW081 FEW088 FEW096 21/17 A2997 RMK PCPN 0.5MM PAST HR SLP149 KAXX 251655Z AUTO 26019G28KT 10SM CLR 10/01 A3003 RMK AO2 T00990010 ZSNJ 251700Z 11004MPS 7000 NSC 22/15 Q1010 NOSIG CYCG 251700Z 35007KT 15SM FEW005 SCT030 BKN070 BKN120 15/11 A2990 RMK SF1SC3AC2AC1 SLP128 DENSITY ALT 2000FT CYAY 251700Z AUTO 24015G21KT 9SM CLR 12/M00 A2993 RMK SLP136 EFJY 251650Z AUTO 23005KT 150V300 CAVOK 17/01 Q1009 CYAZ 251700Z 16006KT 5SM BR BKN006 BKN012 OVC020 11/11 A3001 RMK CF5SC2SC1 SLP161 CYBQ 251700Z AUTO 36004KT 320V030 9SM -RA BKN040 OVC046 04/03 A2984 RMK PCPN 0.8MM PAST HR SLP123 CYBR 251700Z 33009KT 320V030 15SM FEW070 FEW110 OVC250 27/06 A2981 RMK CU1AC1CI8 CU TR AC TR SLP097 DENSITY ALT 3100FT KCGS 251645Z AUTO 16009G16KT 130V230 10SM CLR 27/15 A3024 RMK AO1 PHMK 251654Z 01005KT 10SM FEW040 21/15 A2999 RMK AO2 SLP159 T02110150 KAYS 251655Z AUTO 14006KT 10SM BKN034 BKN043 BKN050 29/23 A3023 RMK AO2 T02910226 CYDA 251700Z 24003KT 190V280 20SM FEW030 FEW040 BKN210 16/08 A2990 RMK ST1SC1CI5 SLP130 DENSITY ALT 1600FT EFKS 251650Z AUTO 27006KT 230V310 CAVOK 12/M01 Q1009 EFMA 251650Z 18013KT 9999 BKN045 OVC083 10/08 Q1009 KBPT 251700Z 14013G20KT 10SM FEW027 31/24 A2999 RMK AO2 T03060239 $ KCHK 251655Z AUTO 18008KT 10SM CLR 25/20 A2989 RMK AO2 KBQK 251655Z AUTO 11008KT 10SM 26/22 A3027 RMK AO1 CXKT 251700Z AUTO 26010G16KT 27/04 RMK AO1 PK WND 26023/1621 SLP192 T02650043 56008 CWTT 251700Z AUTO 25014G22KT 20/11 RMK AO1 PK WND 25022/1659 T01970106 CYCK 251700Z AUTO 21021G27KT 9SM CLR 26/14 A3002 RMK SLP163 DENSITY ALT 1800FT CYDB 251700Z 09004KT 25SM FEW100 SCT250 BKN270 11/02 A3000 RMK AC1CS3CI2 SLP175 DENSITY ALT 2700FT ZSOF 251700Z 09002MPS 5000 HZ NSC 23/18 Q1009 NOSIG EFKT 251650Z AUTO 02001KT CAVOK 11/M03 Q1009 KCIC 251650Z VRB05KT 40SM SKC 18/10 A2993 CYDC 251700Z VRB02KT 25SM SCT055TCU SCT140 BKN260 14/05 A2994 RMK TCU3AC1CC1 SLP138 DENSITY ALT 2600FT CXLL 251600Z AUTO 36002KT 16/07 RMK AO1 1018 SLP153 T01570072 50002 CWTU 251700Z AUTO 22019KT 01/ A2970 RMK SLP083 CYBU 251700Z AUTO 20005KT 180V270 9SM CLR 26/02 A2979 RMK SLP092 DENSITY ALT 2900FT EETU 251650Z AUTO 33004KT 9999 NCD 19/03 Q1013 KCID 251652Z 23013KT 10SM BKN013 BKN020 OVC110 22/18 A2984 RMK AO2 SLP098 T02220178 EFKU 251650Z AUTO VRB03KT 040V120 CAVOK 14/03 Q1010 KBRD 251653Z AUTO VRB06KT 1 1/4SM RA BR SCT007 OVC016 14/13 A2968 RMK AO2 SLP051 P0005 T01390133 CYBV 251700Z 27006KT 15SM SCT220 18/08 A2980 RMK CS3 SLP095 DENSITY ALT 1400FT CXMD 251700Z AUTO 03006KT 24/04 RMK AO1 SOG 01 7009 SLP089 T02410043 CWVD 251700Z AUTO 17007KT M06/ A2952 RMK SLP050 CYBW 251700Z AUTO 15015G23KT 9SM BKN190 BKN210 18/04 A2989 RMK SLP123 DENSITY ALT 5200FT EGCN 251650Z 26011KT 9999 FEW037 15/08 Q1019 KAZO 251653Z 21022G32KT 10SM FEW021 FEW028 SCT070 25/18 A2992 RMK AO2 PK WND 20032/1651 RAB14E46 SLP127 P0000 T02500183 KCHO 251653Z 20016G23KT 10SM SCT047 27/15 A3027 RMK AO2 SLP243 T02720150 PHNG 251657Z AUTO 02008KT FEW036 23/14 A2997 RMK AO2 SLP144 T02280139 PWINO $ CWVF 251700Z AUTO 15011KT 12/10 RMK AO1 T01220099 CYDF 251700Z 21017G22KT 15SM BKN100 BKN210 19/M00 A3001 RMK AC5CI2 SLP162 DENSITY ALT 400FT CYBX 251700Z 24010KT 15SM BKN030 06/03 A2993 RMK SC6 SLP138 CYCO 251700Z VRB02KT 15SM VCSH FEW011 BKN030 BKN080 02/M03 A3020 RMK SC1SC6AC1 AC TR SLP228 KF05 251655Z AUTO 29023G31KT 4SM VCTS BKN017 BKN031 OVC060 22/17 A2994 RMK AO1 LTG DSNT ALQS P0005 T02160170 KBQP 251655Z AUTO 19005KT 10SM SCT019 27/22 A3005 RMK AO2 T02700216 CYCP 251700Z CCA VRB03KT 6SM BR FEW002 FEW015 SCT030 BKN045 BKN110 14/10 A2994 RMK SF1SF1SC2CU2AC1 VIS VLY N 15 SLP142 DENSITY ALT 2600FT CXMG 251600Z AUTO 36007KT 22/06 RMK AO1 T02160058 CWTY 251700Z AUTO 22016G21KT 18/11 RMK AO1 PK WND 21021/1637 SLP182 T01820109 51001 CWUP 251700Z AUTO ///// M08/ A2956 RMK SLP044 EFLP 251650Z AUTO 22007KT 150V260 CAVOK 16/01 Q1012 KCGZ 251655Z AUTO 00000KT 10SM CLR 26/07 A2993 RMK AO1 CYCQ 251700Z 26003KT 230V300 35SM FEW110 FEW210 17/07 A2990 RMK AC1CI1 AC TR DIST FU S-W EQPT ON RWY SLP131 DENSITY ALT 2600FT CWVH 251700Z AUTO 08015KT 04/ A3011 RMK SLP214 CWVI 251700Z AUTO 10002KT 24/M01 RMK AO1 SLP101 T02431007 58005 CXMI 251700Z AUTO 21013KT 19/09 RMK AO1 SLP205 T01860086 57007 ZSPD 251700Z 15002MPS CAVOK 17/14 Q1012 NOSIG EFMI 251650Z AUTO 22007KT 160V260 CAVOK 17/04 Q1011 KCHS 251656Z 12008KT 10SM BKN035 26/18 A3031 RMK AO2 SLP262 T02610178 KDAA 251658Z AUTO 17008KT 100V210 10SM CLR 28/16 A3025 RMK AO2 SLP246 T02750156 CYCS 251700Z 33024G31KT 15SM OVC035 M08/M14 A2977 RMK SC8 SLP082 CWWA 251700Z AUTO 11001KT 12/10 RMK AO1 1PAST HR 3007 SLP155 P0000 T01160104 50003 CWUS 251600Z AUTO 11003KT 15/10 RMK AO1 SLP132 T01540102 58005 KDAB 251653Z 11009KT 10SM SCT026TCU SCT250 29/21 A3022 RMK AO2 SLP234 TCU NE DSNT S T02940211 PHNL 251653Z 31005KT 10SM FEW032 SCT040 SCT050 21/16 A2999 RMK AO2 SLP154 T02060161 CWWB 251700Z AUTO 02006KT 10/08 RMK AO1 SLP157 T00990080 58022 KBRL 251653Z AUTO 22014G23KT 10SM BKN028 OVC034 22/17 A2992 RMK AO2 PK WND 22026/1627 SLP127 T02220172 EGEC 251620Z 28014KT 9999 BKN032 11/08 Q1021 CYDL 251700Z AUTO 20006KT 160V240 9SM CLR 13/07 A3002 RMK SLP167 DENSITY ALT 2900FT CXMM 251600Z AUTO 32003KT 21/08 RMK AO1 SLP062 T02120076 57004 EGDM 251650Z AUTO 33008KT 9999 OVC048/// 15/09 Q1019 CYED 251700Z 23003KT 15SM SCT260 24/04 A2986 RMK CI2 DA3943FT SLP108 KCIN 251655Z AUTO 22012G19KT 10SM CLR 22/17 A2979 RMK AO2 NZNP 251621Z 22022G33KT 20KM SHRA FEW025TCU SCT040 13/07 Q1013 RMK NZAA VATSIM U CWWE 251700Z AUTO 21013KT 10/06 RMK AO1 PK WND 20017/1653 SLP222 T00950059 58004 CWVN 251600Z AUTO 25002KT 20/05 RMK AO1 SLP124 T02020051 58003 CYDN 251700Z AUTO 02006KT 330V100 9SM CLR 24/09 A2980 RMK SLP091 DENSITY ALT 2300FT CWUW 251700Z AUTO 10025KT 1SM BKN013 M06/ A2948 RMK SLP030 KBRO 251702Z 15019G32KT 10SM SCT024 SCT028 32/24 A2987 RMK AO2 PK WND 15032/1654 T03170244 PHOG 251654Z 00000KT 10SM FEW033 SCT045 21/17 A2999 RMK AO2 SLP159 T02110172 $ KBQX 251655Z AUTO 14008G14KT 120V180 8SM CLR 28/24 A2995 RMK A01 NZOH 251709Z 03003KT 25KM FEW020 04/01 Q1008 RMK NZWN VATSIM USE ONLY CXMO 251600Z AUTO 18006KT 21/02 RMK AO1 T02110023 CWWF 251700Z AUTO 27003KT 25/04 RMK AO1 SLP111 T02490035 56006 CWUX 251700Z AUTO 28010KT 25/07 RMK AO1 PK WND 28017/1646 SLP147 T02520072 58012 CYCX 251700Z 24009G17KT 15SM FEW055 FEW095 OVC250 28/06 A3003 RMK CU1AC1CS5 DA1674FT HALO SLP168 VDSR 251700Z 17004KT 9999 SCT015 29/26 Q1008 KDAG 251650Z AUTO 30011KT 10SM CLR 25/07 A2991 RMK AO2 SLP106 T02500067 NZNR 251709Z 03003KT 25KM FEW020 04/01 Q1008 RMK NZWN VATSIM USE ONLY CYDP 251700Z 13005KT 15SM OVC022 06/M02 A2972 RMK SC8 SLP064 ORER 251700Z 06005KT 9000 NSC 27/06 Q1012 NOSIG CWVP 251700Z AUTO 13003KT 18/M00 RMK AO1 SLP122 T01811002 57005 CYCY 251700Z 11012KT 3SM -SN SCT007 OVC026 M02/M04 A2970 RMK SF3SC5 SLP061 CYEG 251700Z VRB02KT 15SM FEW085 FEW280 23/02 A2986 RMK CF1CI2 CF TR SLP112 DENSITY ALT 3900FT NZNS 251709Z 03003KT 25KM FEW020 04/01 Q1008 RMK NZWN VATSIM USE ONLY CWVQ 251700Z AUTO 22006KT 18/15 RMK AO1 PK WND 21017/1602 SLP201 T01830151 57002 CYDQ 251700Z AUTO 28005KT 230V320 9SM CLR 19/08 A2988 RMK SLP126 DENSITY ALT 3100FT KCIR 251655Z AUTO 16008KT 10SM BKN015 OVC024 23/21 A3008 RMK AO2 T02310206 KF17 251655Z AUTO 17010KT 10SM SCT030 BKN035 OVC041 27/22 A2999 RMK AO2 T02740218 UNKL 251700Z 00000MPS 9999 SCT043 06/05 Q1013 R29/CLRD65 NOSIG RMK QFE734 ZSQD 251700Z 17003MPS CAVOK 16/11 Q1012 NOSIG PGWT 250950Z 06004KT 7SM FEW015 FEW160 26/23 A2991 RMK LAST EGDR 251650Z 34009KT 9999 HZ SCT008 BKN010 BKN016 13/11 Q1022 GRN TEMPO SCT006 YL01 KBTA 251655Z AUTO 20011G18KT 10SM SCT036 23/13 A2979 RMK AO2 T02250129 TVSV 251700Z 11013KT 9999 FEW018 SCT038 30/22 Q1016 -HZ CWXA 251700Z AUTO 07002KT 16/02 RMK AO1 SLP101 T01630021 58005 KCKB 251653Z 23006KT 10SM CLR 27/14 A3021 RMK AO2 SLP217 T02720139 NZNV 251708Z 22010KT 30KM NSC 03/M06 Q1008 RMK NZCH VATSIM USE ONLY CWVT 251700Z AUTO 24003KT 24/06 RMK AO1 6011 SLP094 T02400057 50004 CWWK 251600Z AUTO 15004KT 12/10 RMK AO1 2PAST HR 3009 SLP161 P0001 T01160097 50004 CYEK 251700Z 36019G26KT 12SM FEW020 SCT280 M02/M06 A2989 RMK SF2CI1 SLP122 CYFB 251700Z 25006KT 30SM BKN040 M00/M07 A2967 RMK SC7 INTMT -SN SLP048 KDAL 251653Z 16014G19KT 10SM SCT016 BKN022 OVC028 26/21 A2989 RMK AO2 SLP115 T02560211 KCIU 251655Z AUTO 12011KT 5SM OVC004 13/13 A2983 RMK AO1 KCKC 251653Z AUTO 04010KT 5SM RA BKN009 OVC015 13/11 A2975 RMK AO2 P0007 CWWL 251600Z AUTO 33019KT 09/08 RMK AO1 PK WND 34024/1502 SLP175 T00920083 51001 CWXC 251600Z AUTO 30009G18KT 21/02 RMK AO1 PK WND 27018/1528 SLP144 T02130019 56005 CWVU 251700Z AUTO 15013G18KT 10/07 RMK AO1 PK WND 14018/1659 SLP235 T01020071 58003 CYFC 251700Z AUTO 26013G23KT 220V290 9SM CLR 28/04 A3002 RMK SLP166 DENSITY ALT 1400FT CXNM 251700Z AUTO 26014G23KT 20/06 RMK AO1 SOG 28 PK WND 25025/1620 T01980056 KDAN 251653Z AUTO 22011G15KT 10SM CLR 27/12 A3031 RMK AO2 SLP255 T02670117 CYEN 251700Z VRB03KT 15SM FEW140 BKN250 24/04 A2986 RMK AC1CI6 AC TR SLP113 DENSITY ALT 3400FT PHNY 251658Z AUTO 04009KT 10SM CLR 19/16 A3002 RMK AO2 SLP150 T01890156 KCKF 251655Z AUTO 13007KT 10SM BKN036 OVC042 30/20 A3024 RMK AO2 T03020204 EGEO 251450Z 29014KT 9999 FEW026 OVC036 11/05 Q1020 EGDX 251650Z AUTO 28012KT 9999 OVC039/// 13/10 Q1020 EGFF 251650Z 27011KT 9999 FEW013 BKN040 13/11 Q1020 CXMY 251600Z AUTO 21/10 RMK AO1 T02120101 EGDY 251650Z AUTO 32011KT 9999 OVC050/// 15/10 Q1020 CXNP 251700Z AUTO 24010KT 23/12 RMK AO1 SLP183 T02250117 58013 KCKI 251655Z AUTO 14005KT 10SM SCT044 SCT055 OVC075 28/20 A3031 RMK AO2 KCJR 251655Z AUTO 21011G18KT 10SM CLR 27/15 A3026 RMK AO2 T02660148 PWINO CWXI 251600Z AUTO 07/03 RMK AO1 SLP131 T00650028 58007 KDCA 251652Z 17014KT 10SM SCT045 BKN250 28/17 A3025 RMK AO2 SLP243 T02780172 $ CYER 251700Z AUTO VRB03KT 9SM CLR 05/M04 A2992 RMK SLP132 CWWS 251600Z AUTO 33005KT 11/05 RMK AO1 SLP106 T01090053 58004 CXPA 251600Z AUTO 34004KT 20/04 RMK AO1 T02030044 NZPM 251709Z 03003KT 25KM FEW020 04/01 Q1008 RMK NZWN VATSIM USE ONLY CYET 251700Z AUTO 05005KT 360V080 9SM CLR 19/05 A2988 RMK SLP117 DENSITY ALT 4200FT KBTL 251653Z 22018G28KT 10SM -RA FEW032 BKN060 OVC110 23/19 A2994 RMK AO2 PK WND 23032/1638 RAB39 SLP131 P0000 T02330189 CXOL 251600Z AUTO 13009KT 18/05 RMK AO1 T01780048 CXPC 251700Z AUTO 16/15 RMK AO1 9PAST HR 6019 SLP139 P0004 T01600148 50133 CWXL 251600Z AUTO 14005KT 20/06 RMK AO1 T02040056 KBTM 251653Z AUTO 00000KT 10SM CLR 14/03 A2996 RMK AO2 SLP113 T01390028 KCKM 251655Z AUTO 00000KT OVC018 25/23 A3008 RMK AO1 CYEV 251700Z 08008KT 15SM FEW220 14/M02 A3007 RMK CI2 SLP185 EGGD 251650Z 28011KT 9999 FEW029 BKN030 13/10 Q1020 KDAW 251651Z AUTO VRB04KT 10SM SCT110 27/09 A3019 RMK AO2 SLP218 T02670094 KCLE 251651Z 21018G25KT 10SM FEW120 SCT150 OVC250 27/16 A3008 RMK AO2 PK WND 21028/1625 SLP181 T02670156 KCKN 251654Z AUTO 29005KT 10SM CLR 19/12 A2977 RMK AO2 KDBN 251655Z AUTO 17005KT 10SM BKN032 BKN041 OVC070 30/22 A3028 RMK AO2 NZPP 251709Z 03003KT 25KM FEW020 04/01 Q1008 RMK NZWN VATSIM USE ONLY CYGE 251700Z 31005KT 290V050 20SM FEW050 BKN085 BKN110 17/06 A2988 RMK CU1AC4AS1 SLP117 DENSITY ALT 3300FT KBUF 251654Z 25016G31KT 8SM -RA SCT050TCU SCT055 BKN075 OVC140 21/16 A3008 RMK AO2 PK WND 26034/1644 RAB43 SLP184 TCU E-S-W P0000 T02110161 CYFO 251600Z 17005KT 130V190 15SM FEW280 24/05 A2978 RMK CI1 SLP088 DENSITY ALT 2300FT CWWX 251600Z AUTO 16005KT 07/ RMK AO1 SLP130 T0074 58014 KBTP 251655Z AUTO 25008G16KT 220V280 10SM BKN060 BKN065 27/14 A3019 RMK AO1 KDAY 251656Z 21017G28KT 10SM OVC018 22/18 A3013 RMK AO2 PK WND 21028/1628 RAE53 SLP196 P0000 T02220178 KCKP 251655Z AUTO 23012G15KT 10SM SCT016 BKN021 BKN027 20/18 A2977 RMK AO2 T02020179 KDBQ 251653Z 23015G24KT 10SM BKN016 OVC024 20/17 A2984 RMK AO2 PK WND 24026/1603 SLP101 T02000172 CYGH 251700Z 06004KT 020V090 15SM FEW240 14/00 A3004 RMK CI1 SLP177 CWWZ 251700Z AUTO 21008KT 25/13 RMK AO1 SLP162 T02540128 56018 KBTR 251653Z 19009KT 10SM FEW030 30/23 A3005 RMK AO2 SLP175 T03000233 KCLI 251655Z AUTO 24009KT 5SM -RA BKN008 OVC013 19/18 A2971 RMK AO2 P0002 CYFR 251700Z 04014G19KT 15SM FEW120 FEW280 15/06 A2984 RMK AC1CI1 AC TR SLP111 DENSITY ALT 700FT CWXR 251700Z AUTO 32008KT 01/ A3019 RMK SLP234 KCMA 251655Z 29006KT 10SM BKN022 18/11 A2999 RMK AO2 SLP162 T01830111 NZRC 251708Z 22010KT 30KM NSC 03/M06 Q1008 RMK NZCH VATSIM USE ONLY DNZA 250600Z 24007KT CAVOK 24/21 Q1015 CYHA 251700Z 28011KT 15SM FEW018 FEW025 OVC250 01/M05 A2973 RMK SC1SC1CS2 SLP071 CWZA 251700Z AUTO 21004KT 13/12 RMK AO1 2006 SLP156 T01320123 50079 CWYJ 251700Z AUTO 23003KT 13/10 RMK AO1 SLP154 T01340096 51003 CYFS 251700Z 32010KT 15SM SCT060 17/04 A2998 RMK SC3 SLP156 DENSITY ALT 800FT KCLK 251655Z AUTO 17012G16KT 10SM OVC011 21/18 A2989 RMK AO2 LTG DSNT SW CYGK 251700Z 16006KT 15SM FEW080 SCT160 OVC220 19/15 A3006 RMK AC1AC2CI5 SLP181 DENSITY ALT 600FT CYFT 251700Z 28010G18KT 15SM BKN025 09/M01 A2974 RMK CU6 SLP074 CWYK 251700Z AUTO ///// M02/ A2959 RMK SLP063 KDDC 251700Z AUTO VRB03KT 10SM SCT015 19/14 A2984 RMK AO2 T01940144 KCLL 251653Z 16013KT 10SM SCT023 BKN033 BKN045 28/22 A2992 RMK AO2 SLP128 T02830222 NZQN 251708Z 22010KT 30KM NSC 03/M06 Q1008 RMK NZCH VATSIM USE ONLY CXPL 251600Z AUTO 16004KT 21/04 RMK AO1 T02110036 CWYL 251600Z AUTO 24007KT 13/02 RMK AO1 SLP106 T01290015 58005 CYGL 251700Z VRB04KT 15SM SCT030 06/M03 A2998 RMK SC3 SLP163 KCKV 251652Z AUTO 15007KT 7SM -RA BKN007 BKN038 OVC045 20/19 A3016 RMK AO2 SLP207 P0021 T02000194 EFOU 251650Z AUTO 14007KT 9999 OVC035/// 11/03 Q1010 KCLM 251653Z AUTO 00000KT 10SM BKN009 12/09 A2999 RMK AO2 SLP158 T01220089 KDCM 251655Z AUTO 20004KT 10SM OVC044 27/12 A3033 RMK AO2 KBTV 251654Z 16006KT 10SM -RA FEW070 OVC095 18/12 A3016 RMK AO2 SLP213 P0001 T01830122 KCMD 251655Z AUTO 16006KT 10SM -RA BKN017 23/20 A3022 RMK AO2 T02250196 CWYM 251700Z AUTO ///// M03/ A2955 RMK SLP052 CYHD 251700Z AUTO 07005KT 040V100 9SM BKN170 BKN190 22/06 A2978 RMK SLP085 DENSITY ALT 2600FT KBVE 251651Z AUTO 15021G29KT 10SM -RA FEW038 BKN049 OVC060 24/20 A3012 RMK AO2 PK WND 15029/1648 RAB34 SLP199 P0000 T02440200 EGHE 251650Z 31012KT 4000 BR BKN003 13/13 Q1023 CYHE 251700Z AUTO 25007KT 230V320 9SM OVC017 14/12 A2998 RMK SLP151 KF44 251655Z AUTO 18010KT 10SM OVC023 25/21 A2995 RMK AO2 CXOX 251700Z AUTO 23003KT 24/02 RMK AO1 SLP088 T02380017 58009 EFPO 251650Z AUTO 19008KT CAVOK 14/04 Q1009 CXOY 251600Z AUTO 12004KT 24/01 RMK AO1 T02380005 CWZG 251600Z AUTO 26002KT 13/02 RMK AO1 SLP108 T01310015 58008 CYGP 251700Z 24017G22KT 15SM SCT035 SCT160 BKN220 24/M01 A2987 RMK CU3AC1CI2 SLP115 DENSITY ALT 1200FT EGGP 251650Z 30012KT 9999 FEW027 BKN037 13/09 Q1020 KCMH 251651Z 22017G24KT 10SM FEW047 BKN080 BKN200 27/16 A3012 RMK AO2 SLP193 T02670156 KDDH 251654Z AUTO 00000KT 10SM BKN120 23/12 A3019 RMK AO2 SLP221 T02280122 KF46 251655Z AUTO 16008G16KT 10SM -RA OVC015 24/22 A2991 RMK AO2 T02410218 CYHH 251600Z 32002KT 15SM FEW020 08/M01 A3001 RMK CF1 SLP170 CYGQ 251700Z 17005KT 090V190 15SM FEW020 OVC110 17/10 A2985 RMK ST1AC7 SLP113 DENSITY ALT 1700FT KBUR 251653Z 14004KT 10SM BKN017 OVC023 16/11 A2999 RMK AO2 SLP147 T01610111 EGHH 251650Z 34006KT 300V040 9999 FEW034 BKN047 15/09 Q1019 KCMI 251653Z 24022G28KT 10SM BKN044 26/14 A3000 RMK AO2 PK WND 22034/1609 SLP152 T02610144 CYHI 251700Z 33011KT 15SM FEW015 SCT025 SCT210 02/M02 A3019 RMK SF2SC2CS1 CS TR SLP227 CYGR 251700Z 22012KT 20SM FEW160 FEW240 18/09 A3002 RMK AC1CI1 AC TR SLP166 DENSITY ALT 200FT EGHI 251650Z 33007KT 300V030 9999 FEW035 15/07 Q1019 KCLS 251655Z AUTO 22005G10KT 6SM HZ OVC021 14/10 A3003 RMK AO2 KCLT 251652Z 27005KT 10SM SCT045 SCT250 27/11 A3033 RMK AO2 SLP261 T02720111 $ KCNB 251654Z AUTO 29011KT 10SM BKN020 BKN028 OVC033 17/14 A2973 RMK AO2 T01700139 CYGT 251700Z 05017G22KT 1 1/2SM -SN DRSN OVC005 M02/M03 A2952 RMK SN2ST6 SLP001 CXRB 251600Z AUTO 32010KT M09/M12 RMK AO1 SLP102 T10931122 58004 CYHK 251700Z 35021G26KT 5SM BLSN SKC M07/M08 A2984 RMK SLP110 KDCU 251653Z AUTO 16007KT 6SM -RA BR OVC022 22/20 A3019 RMK AO2 RAB34 SLP218 P0000 T02220200 KDEC 251654Z 24013KT 10SM FEW031 24/16 A3001 RMK AO2 PK WND 22029/1559 SLP157 T02390161 KBUU 251655Z AUTO 23017G21KT 10SM SCT025 BKN031 OVC055 21/16 A2984 RMK AO2 T02050162 KCNC 251655Z AUTO 20015KT 10SM FEW090 23/17 A2985 RMK AO2 CWZL 251600Z AUTO 02007KT 13/10 RMK AO1 SLP193 T01260097 50001 KDED 251655Z AUTO 11011KT 31/19 A3022 RMK AO1 KBWD 251655Z AUTO 25020G29KT 200V260 9SM -RA BKN120 23/20 A2989 RMK AO2 NZRO 251621Z 22022G33KT 20KM SHRA FEW025TCU SCT040 13/07 Q1013 RMK NZAA VATSIM U CYHM 251700Z 23018G26KT 15SM FEW062 SCT140 BKN220 26/16 A3002 RMK SC1AC2CI2 SLP163 DENSITY ALT 2100FT CYGV 251700Z AUTO 22006KT 170V240 9SM CLR 14/03 A2987 RMK SLP117 PHSF 251656Z AUTO 29005G16KT 9SM CLR 14/02 A3024 RMK AO2 SLP130 T01380019 $ KCLW 251655Z AUTO 15008KT 10SM SCT037 30/21 A3017 RMK AO2 KBVN 251655Z AUTO 21011G16KT 10SM CLR 22/12 A2977 RMK AO2 T02150123 CWZN 251600Z AUTO 00023KT 07/03 RMK AO1 SLP209 T00680033 55004 EGGW 251650Z 32012KT 9999 SCT031 SCT038 OVC046 14/07 Q1019 CYGW 251700Z AUTO 28006KT 9SM OVC024 00/M04 A3002 RMK SLP166 KBVO 251653Z AUTO 15009KT 10SM FEW020 FEW040 SCT055 24/22 A2992 RMK AO2 SLP124 T02390222 CWZO 251700Z AUTO 13007KT RMK AO1 CYGX 251700Z 02005KT 15SM SKC 13/M01 A2983 RMK SLP108 ZSSS 251700Z 12003MPS CAVOK 20/11 Q1011 NOSIG KBWG 251653Z AUTO 20011KT 10SM -RA FEW045 OVC110 22/18 A3019 RMK AO2 SLP217 P0001 T02170183 KBUY 251654Z AUTO VRB05KT 10SM FEW045 26/14 A3032 RMK AO2 SLP262 T02610139 KDCY 251655Z AUTO 21008KT 10SM BKN024 BKN029 OVC035 23/18 A3010 RMK AO2 T02270182 CWYY 251700Z AUTO 31005KT 19/09 RMK AO1 SLP120 T01890093 58008 KDEH 251655Z AUTO 24007G18KT 200V260 10SM SCT018 SCT022 BKN027 21/17 A2978 RMK AO2 EGHQ 251650Z 31010KT 9999 FEW010 SCT013 13/10 Q1022 CXRH 251600Z AUTO 27002KT 15/M02 RMK AO1 T01501016 50003 UNNT 251700Z 06002MPS 2500 -SHRA OVC027CB 11/10 Q1009 R25/290160 R34/290160 NOSIG RMK QFE747/0996 CWZQ 251700Z AUTO 18011G16KT 20/09 RMK AO1 PK WND 17019/1625 SLP178 T01970093 58009 KBWI 251654Z 21011G18KT 10SM FEW060 BKN180 BKN250 28/14 A3023 RMK AO2 SLP236 T02780144 KCMR 251655Z AUTO 29008G15KT 10SM SCT032 BKN044 OVC060 13/06 A3018 RMK AO2 KCNI 251655Z AUTO 12006KT 10SM SCT027 BKN035 26/13 A3029 RMK AO2 KBXA 251655Z AUTO 17006KT 10SM 29/24 A3010 RMK AO2 LTG DSNT E AND SE T02880235 KBVS 251655Z AUTO 00000KT 9SM OVC008 12/11 A3001 RMK A01 EGJA 251650Z 26005KT 9999 BKN040 13/11 Q1020 CWZS 251700Z AUTO 29013G23KT 23/03 RMK AO1 PK WND 26025/1635 SLP137 T02330027 58006 EFSA 251650Z AUTO 16006KT 100V230 CAVOK 16/01 Q1011 KCNK 251655Z AUTO 17017KT 10SM BKN017 OVC038 20/17 A2983 RMK AO2 SLP093 T02000167 $ EGJB 251650Z 29011KT 9999 FEW010 BKN040 13/11 Q1021 KBVU 251655Z AUTO 00000KT 10SM CLR 22/12 A2995 RMK AO2 CXSC 251600Z AUTO 07002KT 22/01 RMK AO1 T02190008 50004 UNOO 251700Z 31003MPS CAVOK 10/03 Q1015 R07/CLRD60 NOSIG RMK QFE753 CXRL 251700Z AUTO 23/06 RMK AO1 T02340062 CYHU 251700Z AUTO 24012G17KT 9SM -RA FEW038 BKN055 BKN068 OVC090 19/15 A3012 RMK SLP200 DENSITY ALT 300FT KCNM 251653Z AUTO 10008KT 10SM CLR 26/04 A2990 RMK AO2 SLP079 T02610039 KCOD 251655Z AUTO 35003KT 10SM FEW023 OVC065 12/07 A2996 RMK AO1 CWZV 251600Z AUTO 31014KT 10/09 RMK AO1 PK WND 31021/1501 SLP185 T00960090 53004 KDEN 251653Z 08005KT 10SM FEW035 SCT080 BKN220 15/06 A2992 RMK AO2 SLP088 T01500056 KCOE 251655Z AUTO 01010KT 10SM OVC060 14/11 A2990 RMK AO1 NZTG 251621Z 22022G33KT 20KM SHRA FEW025TCU SCT040 13/07 Q1013 RMK NZAA VATSIM U NZSP 251150Z 13014KT 9999 SKC M65/ A2810 RMK CLN AIR 12015KT ALL WNDS GRID CXSE 251600Z AUTO 28015KT M06/M07 RMK AO1 PK WND 28019/1555 SLP142 T10551074 58011 CWZW 251600Z AUTO 26005KT 13/06 RMK AO1 SOG 11 1007 SLP169 T01280056 CYIN 251700Z AUTO 00000KT 9SM BKN013 OVC021 10/08 A2995 RMK SLP147 DENSITY ALT 3900FT KCNO 251653Z 00000KT 5SM HZ OVC016 17/12 A3001 RMK AO2 SLP160 T01720122 $ KCMX 251653Z AUTO 09012KT 3/4SM RA BR VV002 09/09 A2971 RMK AO2 SLP063 P0021 T00940089 KBVX 251655Z AUTO 15006KT 10SM SCT021 26/21 A3003 RMK AO1 KCOF 251658Z AUTO 09012KT 10SM FEW080 30/23 A3021 RMK AO2 SLP234 T02990232 CYJF 251700Z 05009KT 10SM BKN090 17/10 A2995 RMK AC6 FU/ACC ASOCTD N-NE SLP144 DENSITY ALT 1100FT CYIO 251700Z 13004KT 100V200 30SM FEW030 FEW220 M01/M08 A2967 RMK SC1CI1 SC TR SC CI TR SLP053 KCMY 251655Z AUTO 23008G16KT 10SM BKN024 BKN034 OVC046 21/15 A2975 RMK AO2 P0001 T02120154 KBVY 251653Z 25007KT 10SM OVC100 26/11 A3020 RMK AO2 SLP222 T02560111 EFRO 251650Z AUTO 22007KT 190V270 CAVOK 11/01 Q1009 KBWP 251650Z AUTO 03017G23KT 10SM OVC060 14/11 A2974 RMK AO1 P0002 CYHY 251700Z 01009G15KT 320V060 15SM FEW090 FEW150 SCT210 BKN240 08/01 A2993 RMK AC1AS1CI2CS2 AC TR SLP142 ZUCK 251700Z 01003MPS 9999 -SHRA SCT026 20/15 Q1008 NOSIG KDEQ 251653Z AUTO 15008KT 10SM BKN024 OVC031 25/21 A2997 RMK AO2 SLP145 T02500206 $ CXSH 251700Z AUTO 22007KT 17/11 RMK AO1 SLP181 T01740106 50001 CYHZ 251700Z 21016G26KT 15SM FEW050 SCT290 26/08 A3013 RMK CU1CI2 SLP203 DENSITY ALT 1500FT KDFI 251653Z AUTO 22016G29KT 200V260 10SM SCT036 BKN049 BKN065 26/17 A3001 RMK AO2 PK WND 22031/1642 SLP157 T02560167 CWZZ 251700Z AUTO 22007KT M01/ A2964 RMK SLP069 EFSI 251650Z AUTO 36003KT 9999 FEW024 13/08 Q1009 EGKA 251650Z 35005KT 9999 BKN035 15/09 Q1019 CYKA 251700Z 10005KT 40SM FEW040 BKN064 BKN095 13/09 A2995 RMK CU2SC3AC2 SLP148 EGJJ 251650Z 30010KT 9999 FEW008 BKN035 13/10 Q1021 NOSIG KDET 251653Z 23015G24KT 10SM OVC040 25/17 A2999 RMK AO2 PK WND 24026/1634 SLP154 T02500167 KBXK 251655Z AUTO 26004KT 10SM CLR 26/07 A2993 RMK AO1 KF70 251655Z AUTO 22003KT 10SM OVC011 14/11 A3002 RMK AO1 EGKB 251650Z 36004KT 9999 BKN035 13/06 Q1019 KCNU 251652Z AUTO 19015G20KT 10SM SCT020 SCT028 OVC039 24/19 A2991 RMK AO2 SLP120 T02390194 EHAK 251655Z AUTO 32017KT 9999 FEW011/// 09/06 Q1015 KCPC 251655Z AUTO 15007KT 10SM CLR 27/13 A3033 RMK AO2 T02660126 CXSL 252200Z AUTO 12006KT 25/01 RMK AO1 T02470010 KCOM 251655Z AUTO 31015G31KT 4SM -TSRA SCT017 BKN046 OVC055 16/15 A2994 RMK AO2 LTG DSNT ALQS T01570147 CYKD 251700Z 34003KT 290V360 15SM SKC 11/01 A3008 RMK AC TR SLP186 KCNW 251555Z 16010G16KT 10SM BKN015 OVC024 26/22 A2991 CXTD 251700Z AUTO 02008KT 22/10 RMK AO1 SLP201 T02240095 58004 CYIV 251700Z 29004KT 240V310 15SM FEW250 19/03 A2982 RMK CI1 CI TR SLP102 DENSITY ALT 1500FT EHAM 251655Z 31011KT 9999 FEW023 SCT035 BKN046 11/06 Q1017 NOSIG KCON 251651Z AUTO 21005KT 10SM OVC095 25/10 A3020 RMK AO2 SLP224 T02500100 KDEW 251653Z AUTO 05003KT 10SM BKN011 OVC016 14/11 A2991 RMK AO2 SLP124 T01390111 PHTO 251653Z 24003KT 10SM FEW020 BKN060 21/16 A2997 RMK AO2 SLP148 T02060161 $ CZBF 251700Z 26014G23KT 230V300 15SM FEW050TCU BKN120 BKN220 25/05 A2995 RMK TCU1AC4CC2 SLP143 DENSITY ALT 1300FT CYKF 251700Z AUTO 21015G21KT 9SM SCT060 26/15 A3001 RMK SLP158 DENSITY ALT 2400FT KBYG 251653Z AUTO 36007KT 10SM -RA BKN009 BKN041 OVC060 10/08 A2995 RMK AO2 RAB05 SLP126 P0000 T01000083 KCNY 251653Z AUTO 00000KT 10SM CLR 16/07 A2995 RMK AO2 SLP108 T01610067 CYKG 251700Z 28010KT 15SM FEW025 BKN200 M03/M05 A2969 RMK SC1CS6 SLP067 CXSP 251600Z AUTO 19006KT 19/04 RMK AO1 T01850035 KCOQ 251655Z AUTO 08012G19KT 10SM -RA OVC003 12/11 A2968 RMK AO2 CXTH 251600Z AUTO 20006KT 20/03 RMK AO1 T01980026 KBYI 251653Z AUTO 23005KT 10SM CLR 18/08 A2993 RMK AO2 SLP111 T01780078 VEPT 251450Z 10016KT 5000 HZ NSC 33/25 Q1000 NOSIG CXSR 251600Z AUTO 34005KT 17/05 RMK AO1 3001 SLP122 T01720049 50002 KCOS 251654Z 18009KT 10SM SCT070 SCT120 BKN220 14/04 A2995 RMK AO2 SLP099 T01390044 $ NZTU 251708Z 22010KT 30KM NSC 03/M06 Q1008 RMK NZCH VATSIM USE ONLY CYLA 251700Z 31009KT 15SM OVC030 02/M01 A2977 RMK SC7 SLP085 CYKJ 251700Z AUTO 25011G18KT 9SM CLR 26/M02 A2971 RMK SLP067 DENSITY ALT 3500FT KCOT 251653Z AUTO 16009KT 10SM SCT020 BKN026 OVC050 28/23 A2986 RMK AO2 SLP102 T02780233 $ KCPK 251655Z AUTO 17007G14KT 10SM SCT048 28/16 A3034 RMK AO2 KCQB 251655Z AUTO 21011G19KT 10SM SCT023 SCT031 BKN037 26/22 A2992 RMK AO2 CYJT 251700Z 26010KT 15SM FEW030 BKN090 BKN220 13/05 A3005 RMK SC2AC3CI2 SLP175 KCQC 251653Z AUTO 30025G36KT 10SM CLR 16/02 A2997 RMK AO2 PK WND 31036/1651 SLP078 T01560017 EHBK 251655Z AUTO 35009KT 310V030 9999 OVC037 15/07 Q1015 NOSIG EGKK 251650Z 31008KT 9999 SCT041 15/08 Q1019 KCOU 251654Z 16011KT 10SM FEW023 23/18 A2997 RMK AO2 SLP142 T02330178 CYLC 251700Z 28014KT 10SM -SHSN FEW015 SCT030 BKN060 BKN080 M03/M07 A2969 RMK CU2SC1SC2AC1 SLP058 EGLC 251650Z 34007KT 300V010 9999 BKN035 16/07 Q1019 CYKL 251700Z AUTO 30013G22KT 250V310 9SM BKN035 OVC046 03/M05 A2981 RMK SLP122 CYLD 251700Z 09006KT 15SM -RA OVC015 15/14 A2991 RMK SC8 SLP136 DENSITY ALT 1800FT KDFW 251653Z 16014G19KT 10SM SCT018 BKN023 OVC031 24/21 A2988 RMK AO2 SLP113 T02390211 KCQF 251655Z AUTO 16011G16KT 10SM SCT095 26/22 A3013 RMK AO2 CYKO 251600Z 21013KT 8SM -SN OVC015 M05/M06 A2981 RMK SC8 SLP096 EGLF 251650Z 33008KT 300V010 9999 FEW034 SCT042 15/08 Q1019 CXTO 251600Z AUTO 23/10 RMK AO1 SLP166 T02260095 58020 CXTP 251600Z AUTO 22006KT 16/07 RMK AO1 SLP188 T01600069 58005 CYKP 251700Z AUTO 12005KT 060V150 9SM CLR 18/07 A2987 RMK SLP121 DENSITY ALT 1100FT EFTP 251650Z AUTO 18008KT 140V220 CAVOK 15/04 Q1010 OSDI 251700Z 24011KT CAVOK 29/06 Q1014 CYKQ 251700Z 28007KT 15SM FEW250 08/03 A3000 RMK CS2 SLP161 KCPR 251653Z 35009KT 10SM BKN017 OVC025 11/07 A2994 RMK AO2 RAB36E47 SLP114 P0000 T01060067 NZWB 251709Z 03003KT 25KM FEW020 04/01 Q1008 RMK NZWN VATSIM USE ONLY KCPS 251653Z 10SM SCT034 26/17 A3001 RMK AO2 SLP157 T02610172 KBYS 251655Z AUTO 14005G11KT 10SM CLR 23/05 A2993 RMK AO2 SLP102 T02310047 $ CYLJ 251700Z VRB03KT 15SM BKN180 OVC250 23/07 A2983 RMK AC7CI1 SLP105 DENSITY ALT 2900FT CYMA 251700Z VRB02KT 20SM FEW090 SCT240 18/06 A2992 RMK AC1CI3 AC TR FU SLP135 DENSITY ALT 2400FT EFVA 251650Z AUTO VRB02KT 9999 -RA FEW013/// OVC055/// 11/09 Q1009 KCPT 251655Z AUTO 15014G20KT 9SM SCT012 BKN016 BKN032 24/23 A2989 RMK AO2 TSNO CYLK 251700Z 05018G23KT 15SM FEW040 SCT240 07/M00 A2998 RMK CF1CI2 PRESRR SLP161 CZDB 251600Z AUTO 27010KT 23/09 RMK AO1 SLP200 T02320088 58011 ORMM 251700Z 31008KT CAVOK 35/08 Q1008 NOSIG CYLL 251700Z VRB02KT 15SM SCT120 BKN250 24/M01 A2986 RMK AC4CI2 SLP111 DENSITY ALT 3800FT EGMC 251650Z 35007KT 300V010 9999 FEW033 BKN038 14/07 Q1019 EGLL 251650Z 32008KT 300V360 9999 FEW037 SCT045 16/07 Q1019 NOSIG EFTU 251650Z AUTO 22006KT 180V260 CAVOK 11/06 Q1011 KCQM 251655Z AUTO 06004KT 7SM -RA SCT011 SCT023 SCT029 14/14 A2976 RMK AO2 EGMD 251650Z 33007KT 9999 SCT046 15/09 Q1019 CXTV 251600Z AUTO 05009KT 05/M00 RMK AO1 SLP196 T00531002 53004 KDGW 251653Z AUTO 28011KT 10SM SCT014 BKN025 OVC075 12/09 A2991 RMK AO2 RAE19 SLP110 P0000 T01170094 $ KDHN 251653Z 14008KT 10SM BKN029 BKN038 28/21 A3022 RMK AO2 SLP227 T02830211 $ KCRE 251653Z 14007KT 100V180 10SM CLR 25/17 A3034 RMK AO1 SLP275 T02500167 KBZN 251656Z 34003KT 10SM FEW022 13/07 A2995 RMK AO2 SLP130 T01280072 KCRG 251653Z 12009G18KT 10SM FEW028 BKN034 29/22 A3023 RMK AO2 SLP237 T02940217 $ KBYY 251655Z AUTO 15017G22KT 10SM BKN020 BKN029 BKN035 30/25 A2994 RMK AO2 T02960253 ORNI 251700Z 36006KT CAVOK 36/04 Q1008 NOSIG CZCP 251700Z AUTO 09008KT 9SM CLR 01/ A3023 RMK SLP246 CYKY 251600Z 18008KT 15SM FEW050 SCT090 BKN250 24/M00 A2988 RMK SC2AC1CI3 SLP109 DENSITY ALT 3800FT KCRH 251655Z AUTO 14014KT 9SM BKN017 BKN022 27/25 A3002 RMK A01 CYKZ 251700Z 18009KT 15SM FEW052 SCT085 BKN120 BKN220 23/14 A3000 RMK SC1AC2AS3CI1 SLP158 DENSITY ALT 1600FT CYMH 251700Z AUTO 22011KT 9SM SCT070 13/M02 A2987 RMK SLP115 NZWK 251621Z 22022G33KT 20KM SHRA FEW025TCU SCT040 13/07 Q1013 RMK NZAA VATSIM U CZCR 251700Z AUTO 29010G20KT 24/06 RMK AO1 PK WND 31020/1653 SLP136 T02360064 58022 KDIJ 251656Z AUTO 33003KT 10SM FEW023 SCT075 13/06 A3000 RMK AO2 T01330061 SLP100 CYMJ 251700Z 26007KT 15SM FEW080 SCT110 BKN350 25/05 A2986 RMK CU1ACC2CI2 VIRGA NW SLP113 CYNA 251700Z AUTO 17010G16KT 150V230 9SM BKN090 14/02 A2990 RMK SLP124 KCQT 251647Z AUTO 00000KT 8SM OVC021 17/12 A2999 RMK AO2 SLP154 T01670117 KDHT 251653Z AUTO 21006KT 10SM CLR 20/07 A2989 RMK AO2 SLP080 T02000067 KDIK 251656Z AUTO 05006KT 10SM SCT010 OVC070 14/12 A2988 RMK AO2 SLP113 T01440122 CYLT 251700Z 31004KT 7SM -SN SCT010 OVC060 M13/M15 A2999 RMK ST3SC4 PCPN VRY LGT SLP159 CXWB 251600Z AUTO M08/M12 RMK AO1 T10811123 EFUT 251650Z AUTO 20007KT 170V230 CAVOK 16/02 Q1012 CYLU 251700Z 29010G15KT 15SM BKN020 BKN025 OVC030 04/01 A2972 RMK SC5SC2SC1 SLP069 EGNC 251550Z 30011KT 230V340 9999 SCT028 SCT038 15/06 Q1018 NZWN 251709Z 03003KT 25KM FEW020 04/01 Q1008 RMK VATSIM USE ONLY TXKF 251655Z 06016KT 040V100 9999 SCT021 BKN045 BKN300 23/16 Q1027  EHDL 251655Z AUTO 31009KT 9999 FEW047 BKN065 13/06 Q1015 BLU CYND 251700Z VRB02KT 3SM -RA BR SCT007 OVC012 17/16 A3011 RMK SF4SF4 SLP196 CXVM 251600Z AUTO 11003KT 22/04 RMK AO1 T02240041 CYMM 251700Z AUTO 30005KT 270V010 9SM FEW150 24/05 A2976 RMK SLP082 DENSITY ALT 2700FT KCQW 251655Z AUTO 17003KT 10SM CLR 27/12 A3031 RMK AO2 NZWP 251621Z 22022G33KT 20KM SHRA FEW025TCU SCT040 13/07 Q1013 RMK NZAA VATSIM U CXVN 251500Z AUTO 21012G17KT 26/11 RMK AO1 PK WND 23021/1437 SLP159 T02600108 58021 CYLW 251700Z AUTO VRB04KT 9SM FEW055 BKN073 17/08 A2992 RMK SLP132 DENSITY ALT 1900FT CYNE 251700Z AUTO VRB05KT 9SM CLR 24/02 A2980 RMK SLP095 DENSITY ALT 2000FT KCQX 251652Z AUTO 22011G19KT 10SM CLR 17/13 A3030 RMK AO2 SLP260 T01720133 $ CYMO 251700Z AUTO 08011G16KT 9SM CLR 07/03 A3000 RMK SLP158 KCSG 251651Z 15011KT 10SM FEW070 SCT090 BKN110 27/19 A3022 RMK AO2 SLP229 T02720189 KCRP 251651Z 15017G24KT 10SM -RA FEW017 BKN034 BKN040 BKN150 OVC250 28/24 A2988 RMK AO2 PK WND 14029/1554 RAE1559B46 SLP117 P0000 T02780244 NZWR 251621Z 22022G33KT 20KM SHRA FEW025TCU SCT040 13/07 Q1013 RMK NZAA VATSIM U KCRQ 251653Z 24004KT 9SM BKN016 OVC021 16/12 A3000 RMK AO2 SLP158 T01610122 NZWS 251708Z 22010KT 30KM NSC 03/M06 Q1008 RMK NZCH VATSIM USE ONLY EGNH 251650Z 28013KT 9999 SCT025 12/09 Q1020 EHEH 251655Z AUTO 32011KT 9999 OVC057 14/06 Q1016 BLU 34009KT 9999 SCT035 BKN045 EFVR 251650Z AUTO 20006KT 130V270 CAVOK 18/03 Q1010 KCRS 251653Z AUTO 17011KT 10SM FEW018 BKN024 OVC032 26/21 A2995 RMK AO2 SLP135 T02560211 KEBA 251655Z AUTO 11005KT 10SM OVC033 28/20 A3032 RMK AO2 T02830197 NZWU 251709Z 03003KT 25KM FEW020 04/01 Q1008 RMK NZWN VATSIM USE ONLY CZFA 251700Z 08003KT 020V130 30SM FEW080 FEW120 SCT240 17/05 A2995 RMK AC1AC1CI2 AC TR FU SLP149 DENSITY ALT 3000FT CYOA 251700Z 05006KT 15SM OVC024 03/M03 A3006 RMK SC8 SLP206 EGNJ 251650Z 27009KT 9999 FEW026 15/09 Q1018 KCTB 251656Z AUTO 15010KT 10SM CLR 17/06 A2990 RMK AO2 SLP111 T01670056 KDKB 251655Z AUTO 24013G23KT 10SM SCT021 BKN028 BKN035 21/17 A2989 RMK AO2 T02100165 CYMT 251700Z 30007G20KT 230V330 15SM FEW030 SCT100 23/03 A2995 RMK CU2AS1 SLP151 DENSITY ALT 2400FT CYMU 251500Z 30005KT 15SM OVC013 M02/M03 A2997 RMK SC7 LASTOBS/NEXT 26 1200Z SLP154 CYOC 251700Z 07011KT 35SM FEW024CB SCT038 SCT200 16/05 A2995 RMK CB1SC3CI1 CB TR CB-S-SW SLP148 DENSITY ALT 1100FT CZEL 251700Z AUTO 22016G21KT 24/14 RMK AO1 PK WND 23022/1647 SLP157 T02410140 56018 KCSM 251653Z AUTO 19017G24KT 10SM FEW028 SCT120 21/18 A2989 RMK AO2 SLP104 T02110183 CZEM 251600Z 30006KT 280V350 15SM FEW100 FEW240 03/M01 A3004 RMK AC1CI1 AC TR SLP173 CXWM 251600Z AUTO 14006KT 19/03 RMK AO1 T01940031 CYNM 251700Z AUTO 25005KT 190V280 9SM CLR 22/03 A2994 RMK SLP144 DENSITY ALT 1900FT CYOD 251700Z 32004KT 15SM FEW130 BKN250 23/06 A2984 RMK AC2CI3 SLP108 EGNM 251650Z 28013KT 250V320 9999 SCT045 13/08 Q1018 KCRW 251654Z 25008KT 10SM SCT060 SCT300 29/13 A3020 RMK AO2 SLP218 T02890133 EHDV 251655Z AUTO 31014KT 9999 FEW013/// SCT020/// 11/07 Q1017 EHFD 251655Z AUTO 31014KT 9999 FEW012/// 10/07 Q1015 CXVW 251600Z AUTO 20004KT 20/06 RMK AO1 T01990055 CXWN 251700Z AUTO 09001KT 24/05 RMK AO1 SLP083 T02420047 58010 KCRX 251655Z AUTO 13009KT 9SM SCT006 SCT035 BKN060 21/20 A3013 RMK AO2 CYMX 251700Z 23004KT 160V290 10SM -SHRA FEW020 BKN040 OVC080 18/15 A3013 RMK SC1SC4AC3 SLP205 DENSITY ALT 400FT KEBG 251655Z AUTO 16014G20KT 10SM SCT025 SCT033 BKN042 31/23 A2985 RMK AO2 T03080232 KCSQ 251655Z AUTO 20014KT 10SM CLR 22/17 A2984 RMK AO2 UNTT 251700Z 07002MPS 9999 FEW040 07/06 Q1010 R03/////// NOSIG RMK QFE742 KEAR 251655Z AUTO 19011KT 10SM SCT034 21/12 A2979 RMK AO1 EGNR 251550Z 33012KT 9999 FEW021 SCT040 14/08 Q1021 CYPA 251700Z 24005KT 10SM FEW120 OVC250 25/07 A2981 RMK AC1CI8 AC TR FU SLP100 DENSITY ALT 2900FT CYOJ 251700Z 35010KT 290V020 15SM SCT150 22/09 A2982 RMK AC3 HZ SLP103 DENSITY ALT 2300FT EGNS 251650Z 33014KT 290V010 9999 SCT021 SCT040 12/06 Q1021 NOSIG EGPA 251650Z 32015KT 9999 FEW022 SCT034 11/05 Q1016 KDKK 251653Z AUTO 19005KT 10SM FEW046 BKN055 OVC080 23/19 A3008 RMK AO2 RAE36 SLP182 P0003 T02280189 $ KCUB 251653Z AUTO VRB04KT 10SM SCT055 OVC070 28/16 A3031 RMK AO2 SLP261 T02780156 KEAT 251655Z AUTO 27008KT 10SM FEW080 20/04 A2988 RMK AO2 SLP113 T02000044 EGPB 251650Z 30010KT 9999 FEW014 11/07 Q1014 NOSIG EGNT 251650Z 09006KT 050V140 9999 SCT044 14/05 Q1017 KEAU 251656Z 23010KT 10SM SCT015 BKN022 OVC028 19/16 A2969 RMK AO2 SLP054 T01890156 $ CYPC 251700Z 07007KT 15SM BKN027 03/M00 A3021 RMK SC7 SLP229 ZUGY 251700Z VRB01MPS 9999 BKN016 21/19 Q1011 NOSIG KCSV 251653Z AUTO 17008G17KT 10SM OVC060 23/16 A3027 RMK AO2 SLP230 T02280156 EGPC 251650Z 32015KT 9999 VCSH FEW024 SCT040 09/06 Q1017 CZFM 251700Z 36003KT 290V050 35SM FEW040 FEW140 12/03 A3006 RMK SC1CS1 SLP180 CZEV 251600Z AUTO 08009KT 13/M03 RMK AO1 SLP188 T01281030 53007 EGOM 251650Z AUTO 26014KT 9999 BKN039/// BKN050/// 14/05 Q1017 CYPD 251700Z AUTO 30010KT 9SM FEW120 26/07 A3010 RMK SLP194 DENSITY ALT 1400FT EGPD 251650Z 33017KT 9999 SHRA SCT019 BKN034 10/07 Q1017 BECMG NOSIG EGNV 251650Z 29012KT 9999 BKN046 16/05 Q1017 CZFN 251700Z 06007G15KT 030V110 30SM FEW250 13/M02 A3006 RMK CI1 SLP184 KDLF 251638Z AUTO 16015KT 10SM SCT017 BKN024 27/26 A2984 RMK AO2 CIG 016V024 CIG 016 RWY31 CYPE 251700Z 03005KT 320V050 12SM SCT120 BKN210 22/08 A2985 RMK AC3CI2 SLP110 DENSITY ALT 3200FT EGPE 251650Z 33010KT 9999 FEW015 SCT032 BKN043 11/05 Q1019 CYOO 251700Z AUTO 14004KT 110V180 9SM -RA FEW036 SCT050 BKN070 BKN093 20/12 A3002 RMK SLP165 DENSITY ALT 1000FT EGNX 251650Z 31009KT 280V340 9999 BKN024 13/07 Q1019 EGPF 251650Z 30012KT 9999 FEW042 14/06 Q1019 KECG 251654Z 16007KT 10SM CLR 26/16 A3035 RMK AO2 SLP277 T02560161 CYPG 251700Z 25003KT 15SM FEW100 OVC230 25/09 A2980 RMK AC1CS4 DA2541FT SLP092 EGOP 251650Z AUTO 34010KT 9999 // OVC044/// 16/09 Q1021 EHGG 251655Z AUTO 32009KT 9999 FEW044 SCT049 12/07 Q1015 NOSIG KDLH 251655Z 07015G25KT 3SM -RA BR OVC003 13/12 A2969 RMK AO2 PK WND 07026/1558 SLP057 VIS NE-SE 3/4 P0001 T01280117 KCUH 251655Z AUTO 19014G17KT SCT027 OVC038 24/21 A2991 RMK AO2 PWINO CYPH 251709Z AUTO 23014KT 9SM FEW013 SCT019 OVC025 M01/M03 A2988 RMK SLP121 EGPH 251650Z 31008KT 280V350 9999 SCT047 16/06 Q1017 KEBS 251655Z AUTO 23016G21KT 10SM SCT020 BKN024 OVC030 21/18 A2978 RMK AO2 EGPI 251650Z 32015KT 300V360 9999 FEW021 SCT030 12/06 Q1021 KDMA 251658Z AUTO 34004KT 10SM FEW190 23/04 A2998 RMK AO2 SLP117 T02320044 $ CZFS 251600Z AUTO 32013KT 16/05 RMK AO1 SLP153 T01560050 51021 EGOS 251650Z AUTO 33011KT 9999 OVC030/// 13/07 Q1020 CYQA 251700Z AUTO 16005KT 8SM -RA OVC035 18/15 A3000 RMK SLP159 DENSITY ALT 1300FT EHFS 251655Z AUTO 32012KT 290V360 9999 FEW038/// 13/04 Q1018 KCVB 251655Z AUTO 16010G14KT 7SM -DZ OVC016 25/23 A2989 RMK AO2 LTG DSNT N T02460233 CYQB 251700Z 23020KT 30SM SCT150 OVC270 22/11 A3005 RMK AC4CS4 SLP175 DENSITY ALT 900FT EGPK 251650Z 31017KT 9999 FEW040 13/05 Q1020 KEDC 251655Z AUTO 15008KT 10SM SCT019 BKN026 OVC048 25/23 A2991 RMK AO2 KCVC 251655Z AUTO 15003KT 10SM BKN033 OVC042 27/18 A3027 RMK AO2 KDLL 251655Z AUTO 23008KT 10SM OVC013 20/17 A2978 RMK AO2 P0001 T01950173 KCUL 251657Z AUTO 19012KT 10SM SCT023 BKN030 25/17 A3008 RMK AO2 CYPL 251700Z VRB02KT 15SM SCT090 BKN240 23/00 A2982 RMK AS3CS4 HALO SLP102 DENSITY ALT 2600FT EGPL 251650Z AUTO 26011KT 9999 BKN027/// 11/06 Q1021 CXZC 251700Z AUTO 07008KT 07/03 RMK AO1 SLP158 T00720031 58011 EGOV 251650Z AUTO 22007KT 9999 SCT038/// BKN050/// 13/10 Q1021 CYQD 251700Z 16005KT 110V190 15SM FEW200 26/M02 A2978 RMK CS1 CS TR SLP087 DENSITY ALT 2500FT EGPM 251650Z 20006KT 9999 -SHRA SCT015 08/06 Q1014 TEMPO SHRA BKN014 VGEG 251550Z 14005KT 5000 SCT100 29/24 Q1004 NOSIG KDLN 251653Z AUTO VRB03KT 10SM CLR 14/06 A2994 RMK AO2 SLP107 T01440056 KEDE 251655Z AUTO 19008KT 10SM CLR 26/16 A3035 RMK AO2 T02620162 EGPN 251650Z 32008KT 260V050 CAVOK 16/04 Q1017 CYOW 251700Z 12005KT 110V180 6SM -RA BR SCT005 OVC040 16/15 A3010 RMK SC3SC5 PRESFR SLP194 DENSITY ALT 400FT CYQF 251700Z 15014G19KT 15SM BKN150 BKN250 21/02 A2988 RMK AC5CI1 SLP120 DENSITY ALT 4400FT KCTY 251653Z AUTO VRB06KT 32/17 A3019 RMK AO1 SLP224 T03220172 KCVG 251652Z 21011G17KT 10SM SCT033 BKN090 OVC150 21/17 A3015 RMK AO2 SLP201 T02110172 $ EGPO 251650Z 28014KT 9999 FEW022 BKN032 11/03 Q1019 CYPO 251700Z AUTO VRB03KT 9SM CLR 06/M03 A2993 RMK SLP139 KECP 251653Z 15014G19KT 10SM SCT030 31/23 A3016 RMK AO2 RAB1557E46 SLP223 P0000 T03060228 KDLP 251655Z AUTO 12014KT 10SM FEW017 SCT022 BKN038 28/21 A3009 RMK A01 CYOY 251700Z AUTO 23011G18KT 9SM FEW070 FEW091 21/10 A3005 RMK SLP178 CYQG 251700Z 22015G21KT 15SM BKN038 BKN100 26/18 A2999 RMK CU6AC1 SLP153 DENSITY ALT 1900FT KCVH 251650Z AUTO 27006KT 10SM OVC011 14/12 A3000 RMK AO1 KDMH 251654Z AUTO 28/14 A3023 RMK AO1 SLP237 T02830139 KCTZ 251655Z AUTO 17005KT 10SM CLR 27/15 A3033 RMK AO2 T02680153 CYPQ 251700Z AUTO 19010KT 9SM BKN120 BKN160 BKN180 22/13 A3001 RMK SLP163 DENSITY ALT 1400FT CYQH 251700Z 00000KT 5SM FU FEW035 SCT050 BKN110 14/06 A2997 RMK CU1SC3AC1 VIS RDCD BY FU SLP157 DENSITY ALT 2600FT EHFZ 251655Z AUTO 31013KT 9999 NSC 11/07 Q1016 CYQI 251700Z 20008KT 190V250 10SM OVC230 14/10 A3024 RMK CS8 HAZY SLP239 CYPR 251700Z AUTO 24003KT 230V310 9SM OVC009 12/10 A3007 RMK SLP182 EHGR 251655Z AUTO 31013KT 9999 BKN053 BKN058 14/05 Q1016 BLU KDLS 251653Z AUTO 33020G25KT 10SM CLR 18/08 A2992 RMK AO2 SLP132 T01830078 KEDJ 251645Z AUTO 21021G26KT 10SM BKN018 20/17 A3012 RMK AO1 KCWA 251445Z 14003KT 3SM -RA OVC003 17/17 A2972 KECS 251655Z AUTO 33011G15KT 10SM SCT034 SCT047 OVC070 14/07 A2986 RMK AO2 CYRA 251700Z 02008KT 15SM FEW220 09/M02 A3008 RMK CC2 SLP196 KCUT 251653Z AUTO VRB06KT 10SM FEW022 BKN042 OVC060 13/06 A2987 RMK AO2 SLP079 T01280061 EGQK 251650Z AUTO 30013KT 9999 OVC042/// 11/06 Q1018 CYRB 251700Z 32009KT 15SM FEW250 M09/M12 A2984 RMK CI1 SLP113 CYQK 251700Z 36005KT 15SM OVC180 25/08 A2978 RMK CS8 WND ESTD SLP083 DENSITY ALT 2900FT KCWC 251655Z AUTO 15004KT 10SM BKN025 24/20 A2987 RMK AO2 LTG DSNT W AND NW T02440199 KECU 251655Z AUTO 17009KT 5SM BR FEW007 BKN015 BKN049 22/21 A2994 RMK AO2 LTG DSNT N-E CYQL 251700Z 17015G22KT 40SM FEW060 BKN270 20/04 A2987 RMK CU2CI5 SLP116 DENSITY ALT 4400FT EGPU 251650Z AUTO 30010KT 9999 FEW024/// SCT031/// 11/06 Q1021 EGQL 251650Z 06009KT CAVOK 14/05 Q1017 BLU KEED 251656Z AUTO 00000KT 10SM CLR 27/10 A2989 RMK AO2 SLP091 T02720100 CYQM 251700Z 24021G28KT 15SM FEW050 FEW130 SCT260 28/06 A3002 RMK SC1AC1CI2 SC TR SLP164 DENSITY ALT 1600FT KDMN 251653Z AUTO 24009G17KT 10SM CLR 22/00 A3001 RMK AO2 SLP097 T02220000 KCVN 251655Z AUTO 15012KT 10SM CLR 17/08 A2993 RMK AO1 EGQM 251650Z AUTO 16006KT 9999 BKN050/// 12/// Q1017 KEDN 251655Z AUTO 15008KT 10SM SCT023 BKN033 28/22 A3017 RMK AO2 LTG DSNT N AND E CYPW 251700Z 29007KT 30SM BKN025 BKN120 BKN270 14/10 A2999 RMK SC6AC1CI1 CI TR SLP156 KDMO 251653Z AUTO 16013KT 10SM BKN011 BKN015 22/18 A2996 RMK AO2 CIG 009V012 SLP140 T02170183 TSNO KCVO 251655Z 00000KT 10SM OVC013 13/09 A3006 RMK AO1 KCWF 251650Z 15010G20KT 10SM BKN030 BKN037 30/23 A3002 CYPX 251700Z AUTO 23012KT 9SM OVC019 M05/M08 A2983 RMK SLP102 CYPY 251700Z AUTO 35005KT 290V020 9SM SCT140 26/07 A2969 RMK SLP059 DENSITY ALT 2400FT KDLZ 251700Z AUTO 22022G26KT 10SM SCT031 SCT038 SCT110 24/14 A3012 RMK AO2 CYQQ 251700Z 01010KT 20SM BKN040 BKN120 15/10 A2999 RMK SC5AC1 SLP155 KCWI 251655Z AUTO 23017G25KT 10SM BKN021 BKN028 BKN033 23/18 A2989 RMK AO1 CYQR 251700Z VRB03KT 15SM FEW090 SCT280 25/03 A2984 RMK CU1CI3 SLP108 DENSITY ALT 3600FT KCVS 251658Z AUTO 17004KT 10SM FEW180 19/07 A2995 RMK AO2 SLP099 T01910074 $ CYRJ 251700Z 10004KT 030V140 40SM SCT045 BKN130 18/10 A2997 RMK SC4AS1 SLP153 DENSITY ALT 1000FT EGQS 251650Z 29013KT 9999 FEW030 BKN045 11/06 Q1018 BLU NOSIG EHJA 251655Z AUTO 30015KT 9999 FEW015/// 10/07 Q1017 OTBD 250930Z 34016KT CAVOK 40/16 Q1007 NOSIG CYQT 251700Z 07005KT 10SM -RA BKN013 OVC080 10/09 A2981 RMK ST5AC3 SLP100 CYSB 251600Z 12009KT 2 1/2SM -RA BR BKN002 OVC015 12/12 A2999 RMK SF7SC1 SLP161 KDNL 251653Z AUTO 15009KT 10SM BKN037 28/17 A3030 RMK AO2 SLP256 T02830167 KEDU 251655Z AUTO 28003KT 10SM CLR 18/10 A2993 RMK AO1 CYRL 251700Z 30004KT 270V060 15SM SCT240 OVC260 23/M03 A2979 RMK CI3CS5 HALO SLP092 DENSITY ALT 2600FT EGSC 251650Z VRB02KT 9999 FEW035 BKN045 13/08 Q1019 UOOO 251700Z 20006MPS CAVOK 01/M01 Q1012 R01/29//51 NOSIG RMK QFE745 CXZU 251700Z AUTO 00000KT 22/06 RMK AO1 SLP108 T02190061 57003 CYSC 251700Z AUTO 23010KT 9SM CLR 21/10 A3013 RMK SLP206 DENSITY ALT 1400FT CYQU 251700Z 27004KT 250V020 15SM FEW120 SCT170 BKN240 20/08 A2987 RMK ACC2AC2CI3 FU SLP119 DENSITY ALT 3300FT KEFD 251650Z 14015KT 10SM BKN015 29/24 A2998 CXZV 251700Z AUTO 15005KT 11/02 RMK AO1 SLP114 T01110019 56009 CYQV 251700Z AUTO VRB03KT 9SM CLR 25/06 A2982 RMK SLP099 DENSITY ALT 3200FT KDMW 251650Z AUTO 20013G19KT 10SM CLR 28/15 A3023 RMK AO2 KEEN 251655Z AUTO 27003KT 10SM SCT095 20/13 A3022 RMK AO1 KCVW 251655Z AUTO 14012KT 10SM CLR 28/24 A3005 RMK A01 KCWN 251556Z AUTO 11012G14KT 10SM BKN070 12/04 A2965 RMK AO2 SLP995 T01160040 $ KCXE 251655Z AUTO 16009G14KT 10SM CLR 27/15 A3031 RMK AO1 T02740154 KDNN 251655Z AUTO 13012G17KT 10SM BKN034 OVC042 25/17 A3025 RMK AO2 KEDW 251558Z AUTO 22006KT 10SM CLR 20/08 A2993 RMK AO2 SLP119 T02030082 CYQW 251700Z AUTO 31007KT 280V350 9SM CLR 24/04 A2987 RMK SLP120 DENSITY ALT 3200FT KEEO 251653Z AUTO 00000KT 10SM SCT041 OVC100 11/04 A3002 RMK AO2 SLP127 T01060044 KCVX 251654Z AUTO 18008G15KT 10SM OVC050 22/19 A2981 RMK AO2 T02190191 CYSF 251700Z AUTO 07015G20KT 9SM SCT110 SCT140 16/02 A2974 RMK SLP079 DENSITY ALT 1200FT CYQX 251700Z 24012G18KT 20SM SCT110 SCT150 BKN210 OVC240 17/03 A3007 RMK AC3AC1CS2CI2 SUN DMLY VISBL SC TR SLP186 DENSITY ALT 600FT CZHY 251600Z AUTO 04012G17KT 07/02 RMK AO1 PK WND 03017/1549 SLP126 T00650016 51040 CYQY 251700Z 26018G25KT 15SM SCT060TCU BKN180 26/08 A3008 RMK TCU3AC2 SLP185 DENSITY ALT 1300FT CYRQ 251700Z AUTO 22011KT 9SM SCT060 BKN072 BKN087 BKN120 19/12 A3008 RMK SLP188 DENSITY ALT 400FT CYQZ 251700Z AUTO 16003KT 120V200 9SM FEW007 BKN012 OVC019 13/11 A2995 RMK SLP150 DENSITY ALT 1900FT EGSH 251650Z VRB03KT 9999 SCT036 13/07 Q1018 NOSIG KDPA 251652Z 22013KT 10SM FEW015 SCT044 OVC110 21/18 A2988 RMK AO2 RAE06B24E37 SLP113 P0001 T02110183 KDNS 251655Z AUTO 21011KT 10SM CLR 22/18 A2977 RMK AO2 CYSJ 251700Z 20014KT 15SM FEW030 BKN260 16/07 A3012 RMK CU1CI6 SLP203 KEET 251653Z AUTO 17009KT 10SM BKN023 OVC030 26/21 A3019 RMK AO2 SLP215 T02610211 ORSU 251700Z 32007KT 8000 SCT045 25/07 Q1015 OSKL 251700Z 30003KT CAVOK 25/08 Q1009 KEFK 251655Z AUTO 24009KT 10SM CLR 20/11 A3017 RMK AO2 T01990108 CYSK 251700Z 24010G16KT 15SM FEW012 BKN030 02/M03 A2996 RMK SC2SC5 SLP147 CYRT 251700Z 33028KT 10SM -SN DRSN BKN015 M08/M13 A2982 RMK SC7 PRESRR SLP103 EGTC 250820Z 32009KT 290V360 9999 FEW020 BKN028 11/07 Q1019 KCWV 251655Z AUTO 15006G15KT 10SM SCT026 BKN031 BKN039 25/22 A3027 RMK AO2 LTG DSNT SE KDNV 251655Z AUTO 22016G19KT 10SM SCT026 SCT033 BKN055 24/18 A2997 RMK AO2 T02410182 CYSM 251700Z 33010G17KT 290V360 15SM FEW050 FEW230 22/06 A2972 RMK CF1CI2 CF TR SLP068 DENSITY ALT 1800FT CYRV 250813Z AUTO VRB02KT 9SM -RA SCT010 OVC070 12/11 A2994 RMK PCPN 0.5MM PAST HR SLP139 EHKD 251655Z AUTO 31009KT 9999 SCT016 BKN020 BKN028 11/07 Q1016 WHT 30010KT 9999 SCT020 BKN060 KEGE 251650Z 25005KT 10SM SCT060 12/02 A3003 CYSN 251700Z 22021G28KT 15SM FEW060 BKN160 OVC200 27/16 A3002 RMK SC2AC4CI2 SLP165 DENSITY ALT 1700FT CYTE 251700Z 25013G18KT 15SM -SN DRSN BKN020 M08/M12 A2957 RMK SC7 SLP018 EGTE 251650Z 31014KT 9999 FEW030 SCT040 16/10 Q1020 KCXO 251653Z 16015KT 10SM SCT033 BKN042 29/22 A2996 RMK AO2 SLP140 T02940217 KCXP 251655Z AUTO 00000KT 10SM SCT100 18/07 A3001 RMK AO2 CYSP 251700Z 09004KT 080V140 12SM FEW008 SCT020 OVC075 16/13 A2985 RMK SC2SC2AS4 SLP115 DENSITY ALT 1400FT CYTH 251700Z 15003KT 080V240 15SM SKC 19/05 A2979 RMK SLP094 DENSITY ALT 1500FT KEGI 251658Z AUTO 16014KT 10SM FEW023 SCT160 SCT200 29/23 A3014 RMK AO2 LTG DSNT N SLP207 T02930227 $ EHJR 251655Z AUTO 30015G17KT //// ///////// 10/07 Q1018 W11/H10 OSLK 251700Z 24004KT CAVOK 23/16 Q1011 KEHA 251648Z AUTO 07004KT 20/08 RMK AO1 PK WND 07 000 T02000084 CYUA 251700Z AUTO 36003KT 9SM CLR 03/ A3011 RMK SLP200 EGSS 251650Z 35004KT 9999 FEW027 BKN038 13/08 Q1019 KEFT 251655Z AUTO 23019G24KT 10SM OVC015 20/17 A2984 RMK AO2 EGTK 251650Z 34009KT 9999 FEW038 BKN042 14/09 Q1019 EGUB 251650Z AUTO 34005KT 9999 // SCT031/// BKN039/// BKN050/// 15/09 Q1019 CYUB 251700Z 08013KT 15SM FEW080 BKN220 03/M01 A3016 RMK AS2CI0 SLP213 KEHC 251655Z AUTO 11017KT 10SM CLR 30/25 A3001 RMK A01 KCXU 251655Z AUTO 16005KT 10SM SCT033 SCT060 BKN100 30/21 A3021 RMK AO2 T03010209 KDPL 251655Z AUTO 16005KT 10SM CLR 27/13 A3034 RMK AO2 T02650134 CYTL 251700Z AUTO 16003KT 110V200 9SM CLR 15/03 A2986 RMK SLP118 DENSITY ALT 900FT KDOV 251658Z AUTO 21012KT 10SM FEW050 29/17 A3025 RMK AO2 SLP247 T02850169 VISNO RWY19 CHINO RWY19 $ KCXY 251656Z 17007G18KT 10SM CLR 28/13 A3020 RMK AO2 SLP224 T02780133 CYSY 251700Z 33011KT 10SM BKN007 M02/M03 A3025 RMK SC6 SLP250 KDQH 251655Z AUTO 15003KT 7SM +RA SCT040 SCT047 OVC055 28/21 A3025 RMK AO2 VGHS 251650Z 18010KT 4000 HZ SCT015 BKN100 30/25 Q1003 NOSIG CYTQ 251700Z 26016G21KT 15SM OVC015 02/M03 A2981 RMK SC8 SLP099 KDRA 251652Z AUTO 11006KT 10SM CLR 21/09 A2996 RMK AO2 SLP109 T02110089 CYTR 251700Z 18006KT 12SM BKN047 OVC120 24/14 A3002 RMK SC5AC2 SLP167 KCYS 251653Z 33012KT 10SM SCT027 SCT040 OVC070 11/05 A2993 RMK AO2 RAB08E24 SLP095 P0000 T01060050 CYTS 251700Z 17011KT 15SM SCT150 OVC240 20/12 A2992 RMK AC3CS5 SLP134 DENSITY ALT 1700FT EHMA 251655Z AUTO 30015KT 9999 FEW016/// 11/07 Q1015 EGVA 251658Z AUTO 33008KT 9999 SCT033 OVC055 16/09 A3009 RMK AO2 SLP193 T01580088 $ KCZL 251655Z AUTO 14006KT 10SM BKN034 27/14 A3024 RMK AO2 T02690143 EICK 251700Z 33015KT 9999 BKN015 13/09 Q1023 NOSIG CYUL 251700Z 22011KT 15SM -SHRA SCT045 OVC085 18/15 A3013 RMK SC3AS5 SLP202 DENSITY ALT 200FT CYVC 251700Z 24006KT 140V270 15SM FEW080 BKN250 24/04 A2978 RMK CU1CI6 SLP091 DENSITY ALT 2700FT EGUL 251658Z AUTO 31004KT 9999 BKN038 OVC050 13/07 A3007 RMK AO2 SLP186 T01270071 KEGV 251650Z AUTO 15004KT 7SM -RA OVC004 15/15 A2969 RMK AO2 T01500148 CZMD 251700Z AUTO VRB02KT 9SM CLR 21/04 A2982 RMK SLP102 DENSITY ALT 1900FT EHKV 251655Z AUTO 32014KT 270V350 9999 FEW011/// SCT015/// 10/07 Q1017 EGUN 251658Z AUTO 36005KT 9999 BKN034 BKN043 OVC050 13/08 A3008 RMK AO2 SLP189 T01310075 KEHO 251655Z AUTO 21006KT 10SM SCT044 24/14 A3032 RMK AO2 T02440137 EHMG 251655Z AUTO 33017KT 9999 SCT012/// BKN015/// BKN025/// 11/07 Q1016 CYTZ 251700Z AUTO 07008KT 9SM FEW110 SCT130 BKN200 15/10 A3001 RMK SLP162 KEHR 251655Z AUTO 19014G18KT 10SM BKN021 OVC031 23/18 A3010 RMK AO1 KDRI 251655Z AUTO 13009KT 10SM SCT012 SCT027 BKN035 29/22 A3004 RMK AO2 T02890220 CZMJ 251600Z AUTO 31008KT 24/04 RMK AO1 8007 SLP117 T02370041 50006 CYWA 251700Z 09004KT 1 1/4SM -RA BR OVC008 14/14 A3006 RMK SF8 DA444FT VIS VRB 1/4-2 SLP182 KEIK 251654Z AUTO 10003KT 10SM CLR 15/05 A2992 RMK AO2 T01490053 KCZT 251655Z AUTO 17012G18KT 10SM BKN020 BKN027 28/23 A2984 RMK AO2 CYUS 251700Z AUTO 32016KT 9SM CLR M05/ A2977 RMK SLP088 CYUT 251700Z 33015G22KT 1/2SM -SN DRSN OVC050 M08/M10 A2950 RMK SN3SC5 SUN DIMLY VISBL SLP992 EIDL 251630Z 30007KT 9999 BKN034 12/09 Q1024 KDRM 251655Z AUTO 13008KT 5SM RA OVC006 13/13 A2986 RMK AO2 T01300126 CYVM 251700Z 29002KT 15SM BKN018 BKN220 M03/M07 A2967 RMK SC5CI2 SLP047 EGUW 251650Z AUTO 33006KT 9999 BKN024/// BKN030/// 12/07 Q1018 CYWE 251700Z AUTO 07012G17KT 9SM BKN020 04/M02 A3006 RMK SLP200 EHLW 251655Z AUTO 31011KT 9999 FEW022 OVC055 11/06 Q1015 BLU KDRO 251653Z AUTO 20005KT 10SM FEW023 BKN030 OVC090 11/07 A3004 RMK AO2 SLP138 T01110067 EGVN 251650Z 32007KT 9999 FEW034 BKN045 15/08 Q1019 NOSIG KFAF 251658Z AUTO 18009KT 10SM FEW210 27/16 A3030 RMK AO2 SLP264 T02660164 $ EGVO 251650Z 32007KT 9999 OVC037 14/08 Q1019 BLU CYVO 251700Z 20011KT 170V230 15SM SCT150 OVC260 20/10 A2999 RMK AC3CS5 SLP162 DENSITY ALT 1900FT CYUX 251700Z 07018KT 4SM BR BKN008 OVC016 M01/M02 A2948 RMK SF5SC3 SLP983 KEHY 251655Z AUTO 27012KT 7SM BKN009 OVC015 06/05 A2996 RMK AO2 P0002 CYVP 251700Z CCA 32019KT 15SM -SHRASN FEW012 BKN032 BKN220 05/M02 A2978 RMK SC1SC7CI1 SC TR CI TR CVCTV CLD EMBD SLP088 EGVP 251650Z AUTO 32008KT 9999 // OVC050/// 15/07 Q1019 CYUY 251700Z 22012KT 180V250 15SM FEW080 FEW140 OVC200 21/10 A2997 RMK AC1AC1CS6 SLP152 DENSITY ALT 1800FT CYWG 251700Z 08004KT 030V120 15SM OVC270 25/07 A2979 RMK CI8 SLP087 DENSITY ALT 2200FT KCZZ 250552Z AUTO 00000KT 07/06 A2996 RMK AO1 SLP133 T00720061 10167 20072 53007 CYWH 251700Z 19003KT 160V230 15SM FEW007 OVC014 11/09 A2999 RMK ST1SC7 SLP156 CYVQ 251700Z 13011KT 30SM FEW090 FEW290 15/M02 A3004 RMK AC1CI1 AC TR CI TR SLP177 KEIR 251655Z AUTO 15008KT 7SM FEW120 28/25 A3007 RMK A01 CYVR 251700Z 13005KT 12SM SCT011 BKN022 OVC027 13/10 A2999 RMK CF4SC3SC1 SLP155 KDTA 251655Z AUTO 19007KT 10SM SCT090 16/07 A3001 RMK AO1 T01570070 CYWJ 251700Z 20005KT 150V220 40SM FEW210 06/M01 A3010 RMK CI1 SLP204 KDRT 251404Z AUTO 12011KT 7SM BKN013 BKN021 24/22 A2982 RMK AO2 T02440222 $ CZMT 251700Z 33009KT 15SM BKN006 OVC008 11/09 A3011 RMK ST5SC3 SLP196 CYVT 251700Z 25005KT 180V270 12SM SCT120 BKN250 24/07 A2976 RMK AC3CI2 FU SLP082 DENSITY ALT 2900FT CYWK 251700Z 30013G21KT 15SM BKN038 06/M03 A2986 RMK SC6 SLP136 CZMU 251600Z AUTO 20001KT 21/04 RMK AO1 T02130037 50004 CYXC 251700Z 34003KT 300V050 20SM SCT060 BKN090 BKN200 16/07 A2989 RMK SC3AC3CI1 SLP115 DENSITY ALT 3900FT CYWL 251700Z 26003KT 230V320 7SM OVC005 10/09 A2995 RMK SC8 SLP156 DENSITY ALT 3100FT KFAM 251655Z AUTO 22008KT 10SM BKN027 BKN034 25/19 A3007 RMK AO1 KDSM 251654Z 22012KT 10SM FEW030 FEW110 FEW160 24/16 A2982 RMK AO2 SLP092 T02390156 EGXC 251650Z 29010KT 9999 FEW030 BKN050 14/07 Q1018 BLU EGXD 251650Z AUTO 33011KT 9999 // FEW042/// BKN050/// 16/06 Q1018 CYVV 251709Z 21013KT 8SM -SHRA BKN020TCU OVC100 22/17 A2994 RMK TCU6AC2 SLP138 DENSITY ALT 1600FT EGXE 251650Z AUTO 32009KT 9999 BKN050/// 15/06 Q1017 CYXE 251700Z 26010KT 240V320 15SM FEW090 FEW140 SCT300 26/01 A2985 RMK CU1ACC1CI2 SLP108 DENSITY ALT 3300FT EIDW 251700Z 30013KT 9999 FEW016 SCT022 BKN035 15/10 Q1021 NOSIG KFBG 251658Z AUTO 17008KT 140V210 10SM CLR 27/12 A3031 RMK AO2 SLP265 T02710117 $ CYXH 251700Z 02005KT 250V060 30SM FEW080 OVC290 23/05 A2987 RMK CU1CI7 SLP114 DENSITY ALT 3800FT KFAR 251653Z 03008KT 10SM -RA OVC080 17/14 A2978 RMK AO2 SLP083 P0001 T01720139 KDUA 251655Z AUTO 16010G15KT 10SM SCT009 BKN014 OVC041 23/21 A2994 RMK AO2 P0002 KELA 251655Z AUTO 17013G25KT 10SM SCT025 SCT030 BKN050 29/24 A2993 RMK AO2 LTG DSNT W T02910236 CYXJ 251700Z 22006KT 200V260 15SM SCT110 18/11 A2989 RMK AC4 SLP127 DENSITY ALT 3100FT KFAT 251653Z 29004KT 10SM CLR 22/11 A2992 RMK AO2 SLP128 MTNS OBSC HZ DSNT N-E-S T02170106 KDUB 251655Z AUTO 14004KT 10SM BKN065 OVC070 09/02 A2999 RMK AO2 CYYB 251700Z 08009KT 2SM -RA BR BKN003 OVC020 13/13 A3000 RMK SF6SC2 SLP163 KFBL 251654Z AUTO 22012G16KT 10SM SCT019 OVC030 20/16 A2973 RMK AO2 KDTL 251655Z AUTO 03009G15KT 5SM RA BKN009 OVC013 13/12 A2977 RMK AO2 P0009 KDUC 251655Z AUTO 17013G18KT 10SM SCT022 SCT027 SCT035 25/21 A2988 RMK AO2 KEKM 251650Z 21018G30KT 10SM SCT032 SCT039 BKN050 25/17 A2994 RMK AO2 CZOL 251600Z AUTO 21002KT 22/04 RMK AO1 T02200042 EGWU 251650Z 35007KT 9999 SCT040 OVC050 16/07 Q1019 NOSIG CZPC 251700Z AUTO 12004KT 060V210 9SM BKN190 BKN210 16/06 A2989 RMK SLP120 DENSITY ALT 4900FT CYXL 251700Z VRB02KT 15SM FEW070 SCT170 OVC200 21/08 A2978 RMK AC1AC4CI4 AC TR SLP091 DENSITY ALT 2400FT CYYC 251700Z 18015G20KT 30SM FEW060 OVC260 19/04 A2990 RMK CU1CI8 CU TR SLP123 DENSITY ALT 4900FT KELD 251653Z AUTO 21007KT 10SM BKN021 BKN025 OVC031 26/21 A3003 RMK AO2 SLP166 T02610206 KDSV 251654Z AUTO 25007G17KT 200V290 10SM CLR 28/12 A3009 RMK AO2 SLP194 T02830122 EGYD 251650Z AUTO 30008KT 9999 // FEW032/// BKN048/// 13/07 Q1019 CYYD 251700Z 35007KT 310V030 25SM FEW025 FEW230 17/09 A2998 RMK SC1CI2 SC TR SLP153 DENSITY ALT 2200FT KEKN 251651Z AUTO 19005KT 10SM CLR 27/11 A3025 RMK AO2 SLP238 T02670106 TSNO KDTN 251700Z 16011KT 10SM BKN021 27/21 A3000 RMK AO2 T02670211 CYXN 251700Z 34022G31KT 15SM BKN020 M08/M12 A2986 RMK SC5 SLP114 CYYE 251700Z 30004KT 260V350 10SM SCT050 BKN110 22/09 A2991 RMK SC4AC2 SLP130 DENSITY ALT 2300FT KDTO 251701Z 15017KT 10SM SCT025 BKN029 BKN036 25/21 A2988 RMK AO2 T02500211 KEKO 251656Z AUTO VRB03KT 10SM CLR 15/08 A3001 RMK AO2 SLP134 T01500083 OTHH 251000Z AUTO 01011KT CAVOK 37/20 Q1006 NOSIG CYYF 251600Z 03004KT 300V050 15SM FEW060 FEW170 SCT230 16/10 A2991 RMK CU1AC1CI1 SLP131 DENSITY ALT 1500FT KFAY 251653Z AUTO 14012KT 10SM CLR 28/12 A3031 RMK AO2 SLP259 T02780117 KDUG 251656Z AUTO 20004KT 10SM CLR 21/01 A3005 RMK AO2 SLP124 T02110006 CYWY 251700Z 24003KT 210V300 15SM SKC 15/02 A3001 RMK SLP168 DENSITY ALT 500FT CYXP 251700Z 26007KT 8SM -SN BKN015 OVC025 M01/M03 A2966 RMK SC5SC3 SLP046 EGXP 251650Z AUTO 29011KT 9999 // FEW031/// BKN050/// 14/08 Q1018 CYYG 251700Z 22010G17KT 180V240 30SM SCT100 BKN220 23/10 A3004 RMK AC4CI3 PRESFR SLP173 DENSITY ALT 900FT KDUH 251654Z AUTO 21008G14KT 200V260 10SM SCT041 BKN048 BKN060 27/16 A3000 RMK AO2 KEKQ 251656Z AUTO 17009KT 10SM BKN045 25/18 A3024 RMK AO2 PWINO T02500177 SLP234 EHPG 251655Z AUTO 31010KT 260V040 9999 FEW015/// SCT018/// 11/07 Q1018 CYXQ 251700Z CCA 28005KT 230V310 30SM HZ SCT050 BKN090 BKN220 14/04 A3001 RMK SC3AC2CI1 SLP171 DENSITY ALT 2300FT CYYH 251700Z 36011KT 15SM FEW012 FEW080 FEW100 FEW210 M03/M07 A2981 RMK CU1AC1AS1CI1 CU TR AS TR CI TR SLP097 KFBR 251655Z AUTO 00000KT 10SM SCT010 BKN018 OVC044 09/08 A3006 RMK AO2 T00900082 CYXR 251700Z AUTO 17010KT 9SM -RA SCT065 BKN078 BKN098 17/13 A2999 RMK SLP157 DENSITY ALT 1000FT KDTS 251653Z AUTO 14012G19KT 10SM FEW013 BKN022 OVC055 29/24 A3015 RMK AO2 SLP209 T02940244 TSNO KDUJ 251653Z AUTO 24011G20KT 10SM FEW055 27/12 A3018 RMK AO2 SLP207 T02670122 EGXS 251650Z AUTO 10006KT 9999 // BKN045/// 12/05 Q1018 CYYJ 251700Z 10004KT 8SM FEW007 OVC013 12/10 A2999 RMK SF1SC8 SF TR SLP157 CYXS 251700Z AUTO VRB02KT 9SM BKN015 14/11 A2994 RMK SLP149 DENSITY ALT 2600FT KELK 251655Z AUTO 19014G21KT 10SM SCT006 BKN015 BKN027 19/18 A2993 RMK AO2 LTG DSNT SW EGXT 251150Z AUTO 28007KT 9999 FEW023/// BKN027/// 12/07 Q1019 CYXT 251700Z 00000KT 20SM FEW040 FEW120 FEW180 BKN220 15/09 A3002 RMK SC1AC1AC1CI6 SC TR AC TR SLP170 EGXU 251650Z AUTO 29005KT 9999 // SCT041/// BKN050/// 15/08 Q1017 CYXU 251700Z 19015KT 15SM SCT130 BKN260 24/16 A3002 RMK AC3CI4 OCNL -SHRA SLP163 DENSITY ALT 2000FT CYYL 251700Z AUTO 11003KT 070V250 9SM CLR 23/03 A2974 RMK SLP077 DENSITY ALT 2500FT KELM 251653Z 20010G19KT 10SM BKN095 28/13 A3011 RMK AO2 SLP192 T02830133 $ KFCM 251706Z 23011G19KT 10SM SCT014 BKN021 OVC026 17/14 A2970 RMK AO2 T01720139 EGYM 251650Z AUTO 30005KT 9999 BKN039/// BKN045/// 12/08 Q1018 KDTW 251653Z 19020G26KT 10SM SCT040 BKN060 OVC130 28/17 A2999 RMK AO2 PK WND 19026/1652 SLP152 T02780172 KELN 251653Z AUTO 32010KT 10SM CLR 20/06 A2990 RMK AO2 SLP118 T02000061 EGXV 251650Z AUTO 08005KT 9999 FEW031/// BKN050/// 13/07 Q1017 CYZE 251700Z AUTO 13007KT 9SM -RA SCT025 BKN030 OVC037 14/14 A2989 RMK SLP124 DENSITY ALT 700FT CYYN 251700Z AUTO 10006KT 360V160 9SM CLR 23/02 A2988 RMK SLP108 DENSITY ALT 4200FT KELO 251653Z AUTO 04005KT 10SM -RA BKN012 BKN019 BKN070 14/13 A2975 RMK AO2 P0002 EGXW 251650Z 29009KT 9999 FEW028 BKN050 13/07 Q1018 BLU EHQE 251655Z AUTO 32016KT 9999 ///////// 10/07 Q1017 CYZF 251700Z 05014KT 15SM SCT230 13/M03 A2995 RMK CI4 SLP152 CYXX 251700Z 22007KT 5SM -RA BR SCT003 BKN006 OVC012 12/11 A3000 RMK SF3SF4SC1 SLP161 KELP 251651Z 25016KT 10SM CLR 23/00 A2997 RMK AO2 SLP081 T02330000 CYZG 251700Z 24015G25KT 4SM -SN DRSN OVC017 M08/M10 A2967 RMK SC8 SLP071 CYXY 251700Z 13004KT 080V180 40SM FEW240 14/05 A3002 RMK CI1 SLP176 DENSITY ALT 2600FT EGYP 251650Z 25017G32KT 1400 SHGS SCT007 OVC020CB 00/M02 Q0990 AMB TEMPO 9999 NSW FEW020CB BLU CYXZ 251700Z 06006KT 030V100 12SM -RA FEW015 OVC070 16/15 A2985 RMK SF2AS6 PRESFR SLP114 DENSITY ALT 1300FT CYYQ 251700Z 30004KT 240V330 15SM SCT070 BKN190 07/M02 A2986 RMK AC3CI3 SLP113 CYZH 251700Z AUTO 31004KT 2 1/4SM HZ BKN140 15/12 A2984 RMK SLP113 DENSITY ALT 2400FT CYYR 251700Z 26013KT 15SM SCT035 BKN090 OVC170 10/01 A2980 RMK SC3AC2AS2 SLP093 KFCS 251558Z 16005KT 10SM SCT065 SCT200 13/04 A2994 RMK AO2A SLP124 T01260044 $ CZPS 251600Z AUTO 17008KT 20/02 RMK AO1 T01990023 KFDK 251547Z 22009KT 10SM SKC 26/17 A3027 KDVK 251655Z AUTO 22009KT 10SM BKN045 BKN065 OVC085 26/16 A3022 RMK AO2 KEMK 251655Z AUTO 14023KT CLR 28/25 A2997 RMK A01 CYYT 251700Z 22024G31KT 15SM FEW150 BKN220 18/07 A3015 RMK AC1CS6 SLP212 DENSITY ALT 700FT KDVL 251655Z AUTO 36005KT 10SM CLR 22/09 A2979 RMK AO1 CYYU 251700Z 22006KT 15SM FEW100 OVC240 22/10 A2988 RMK AS2CS6 HALO SLP123 DENSITY ALT 1700FT KEND 251658Z AUTO 18018G23KT 10SM FEW022 SCT200 24/20 A2985 RMK AO2 PK WND 17027/13 SLP100 T02440203 TSNO $ KEMM 251655Z AUTO 26008KT 10SM -RA SCT012 BKN036 OVC050 08/05 A3003 RMK AO2 KDVN 251652Z AUTO 21013G22KT 10SM SCT024 22/17 A2989 RMK AO2 SLP116 T02220172 $ EHRD 251655Z AUTO 31009KT 270V010 9999 FEW031 SCT040 OVC046 13/06 Q1017 NOSIG KDVO 251655Z AUTO 00000KT 10SM OVC010 13/10 A2998 RMK AO2 KDUX 251655Z AUTO 23006KT 10SM CLR 19/09 A2987 RMK AO2 T01930094 KDVP 251653Z AUTO 23015KT 10SM SCT017 SCT026 OVC035 18/15 A2977 RMK AO2 T01790148 KELY 251653Z AUTO VRB04KT 10SM CLR 16/03 A3006 RMK AO2 SLP115 T01560028 $ KEMP 251653Z AUTO 17019G25KT 10SM BKN020 OVC026 23/18 A2986 RMK AO2 PK WND 17027/1631 SLP106 T02280183 CYYY 251700Z 25019G27KT 30SM FEW040 BKN240 23/06 A2993 RMK CU2CI3 SLP135 DENSITY ALT 1100FT CYZP 251700Z AUTO /////KT 9SM CLR 15/10 A3008 RMK SLP187 KDWH 251653Z 16011G21KT 10SM FEW033 SCT042 BKN050 30/22 A2994 RMK AO2 SLP137 T03000222 KELZ 251656Z AUTO 23011G19KT 200V260 10SM FEW050 26/12 A3018 RMK AO2 SLP206 T02610122 CYYZ 251700Z 15007KT 15SM FEW090 SCT140 BKN220 BKN270 22/13 A3000 RMK AC1AC2CC2CI2 SLP159 DENSITY ALT 1300FT KFDR 251653Z AUTO 19004KT 10SM -RA FEW027 SCT035 BKN046 22/20 A2985 RMK AO2 LTG DSNT SW-N RAB29E40B47 SLP094 P0000 T02220200 CYZR 251700Z AUTO 21022G32KT 9SM FEW110 25/16 A2997 RMK SLP146 DENSITY ALT 1800FT KFFA 251655Z AUTO 15007KT CLR 26/14 A3035 RMK AO2 T02550136 PWINO KEMT 251645Z 21003KT 8SM OVC016 17/16/12 A3002 EHSA 251655Z AUTO ///// //// ///////// ///// Q//// W///H/// CYZS 251700Z 13006KT 15SM -SN FEW015 BKN070 OVC210 M07/M11 A2951 RMK SC1AC5CI2 SLP001 KDVT 251653Z VRB06KT 10SM CLR 24/07 A2993 RMK AO2 SLP114 T02440067 CYZT 251700Z 30009KT 8SM BKN014 OVC022 12/09 A3005 RMK SC7SC1 SLP177 KFFC 251653Z AUTO 14009KT 10SM BKN028 OVC034 26/19 A3026 RMK AO2 SLP241 T02610189 KENL 251655Z AUTO 19014G17KT 10SM SCT023 SCT029 26/18 A3004 RMK AO2 T02640184 CYZU 251700Z 00000KT 15SM FEW055 FEW240 20/06 A2987 RMK CU1CI1 CU TR SLP113 DENSITY ALT 3700FT EHSC 251655Z AUTO 34015G17KT 9999 ///////// 11/07 Q1017 W13/H8 KEMV 251655Z AUTO 14010KT 10SM CLR 26/14 A3033 RMK AO2 CYZV 251700Z 16005KT 120V190 30SM FEW060 FEW130 14/01 A2987 RMK CU1AC1 CU TR AC TR SLP117 KFDW 251715Z AUTO 00000KT 10SM SCT044 27/15 A3031 RMK AO1 KEOE 251655Z AUTO 16003KT 10SM OVC043 25/15 A3034 RMK AO2 CYZW 251700Z 19004KT 170V230 30SM FU FEW080 14/07 A3001 RMK AC2 SLP170 DENSITY ALT 2600FT CYZX 251700Z 24021G29KT 15SM FEW080 BKN250 27/04 A3012 RMK AC1CI4 WNDY HILL 22010G18KT AC TR SLP201 KFDY 251653Z AUTO 22019G26KT 10SM -RA SCT036 BKN110 24/17 A3005 RMK AO2 PK WND 21031/1621 RAB50 SLP167 P0000 T02440167 KFEP 251655Z AUTO 24014G20KT 10SM BKN015 BKN032 OVC070 21/17 A2989 RMK AO2 T02080174 CZRP 251600Z AUTO 30017KT M05/M07 RMK AO1 PK WND 30020/1550 SLP134 T10491066 56011 CYZY 251700Z AUTO 00000KT 7SM CLR 16/09 A2993 RMK SLP141 DENSITY ALT 2900FT CZSJ 251700Z AUTO VRB05KT 7SM CLR 23/M00 A2981 RMK SLP098 DENSITY ALT 2200FT KDYB 251655Z AUTO 12006KT 10SM BKN035 OVC043 27/19 A3031 RMK AO1 KFET 251655Z AUTO 20010G17KT 10SM SCT090 23/13 A2979 RMK AO2 T02300127 KEOK 251655Z AUTO 21011G18KT 10SM SCT025 BKN033 23/17 A2992 RMK AO2 CZTB 251700Z AUTO 08006KT 10/08 RMK AO1 9PAST HR 8014 SLP098 P0004 T00950083 50036 KDWU 251655Z AUTO 27008G16KT 10SM SCT095 28/17 A3016 RMK AO1 KFFL 251655Z AUTO 20016G21KT 10SM BKN021 22/17 A2989 RMK AO2 KFFM 251654Z AUTO 03015G22KT 7SM -RA OVC039 14/13 A2972 RMK AO2 P0009 KENV 251655Z AUTO 06003KT 10SM CLR 17/08 A2998 RMK AO1 CZSM 251600Z AUTO 29006KT 21/05 RMK AO1 SLP061 T02080052 53003 KENW 251653Z 25014G22KT 10SM BKN055 23/19 A2984 RMK AO2 SLP102 T02330189 $ KFEW 251556Z AUTO 33014G22KT 10SM SCT024 BKN055 10/05 A2988 RMK AO2 SLP088 T00990048 $ KFFO 251658Z 21020G25KT 10SM BKN020 BKN110 BKN200 22/18 A3013 RMK AO2A PK WND 20028/26 SLP202 P0000 T02170177 20028 KDWX 251655Z AUTO 26004KT 10SM SCT018 SCT025 OVC034 10/05 A3004 RMK AO2 T00970054 VHHH 251700Z 22006KT 9999 FEW012 SCT025 30/26 Q1007 NOSIG PLCH 251600Z 00000KT 9999 FEW018TCU SCT040 BKN100 27/24 Q1011 CZSP 251700Z AUTO 19013KT 23/09 RMK AO1 PK WND 18018/1625 SLP175 T02270091 58022 KEPH 251653Z AUTO 36008KT 10SM FEW080 21/06 A2987 RMK AO2 SLP109 T02110056 ZUUU 251700Z 07002MPS 9999 SCT030 21/17 Q1010 NOSIG KDXR 251653Z 20010KT 10SM SCT110 26/13 A3023 RMK AO2 SLP234 T02610128 KH78 251040Z 16010KT 12SM BKN010 OVC100 27/23 A3007 RMK SEAS 3-5 KEQA 251655Z AUTO 19017G26KT 10SM BKN020 OVC024 25/20 A2986 RMK AO2 KFFT 251653Z AUTO 21016G23KT 10SM BKN090 24/16 A3017 RMK AO2 PK WND 21026/1629 RAB1556E05 SLP208 P0000 T02440161 KDZB 251655Z AUTO 09004KT 7SM -VCTSDZ SCT015 BKN026 OVC060 23/22 A2989 RMK AO2 LTG DSNT ALQS P0001 T02270218 KFHB 251655Z AUTO 13012G15KT 10SM CLR 31/23 A3024 RMK AO1 CZST 251700Z VRB02KT 15SM FEW025 BKN040 OVC060 14/11 A3005 RMK SF1SC6SC1 SLP176 KDYL 251654Z AUTO 16010G15KT 140V220 10SM CLR 27/13 A3022 RMK AO2 SLP228 T02720133 FABL 251700Z VRB02KT CAVOK 15/02 Q1021 NOSIG FABM 250736Z 25003KT CAVOK 14/05 Q1024 KFGN 251654Z AUTO 00000KT 10SM CLR 18/08 A2976 RMK AO2 KDXX 251641Z AUTO 26008KT 10SM SCT016 OVC022 17/14 A2971 RMK AO2 KFFX 251653Z AUTO 22021G33KT 10SM BKN026 BKN034 OVC045 23/18 A2985 RMK AO2 T02340178 EIKN 251700Z 31010KT 9999 BKN013 BKN020 11/09 Q1023 NOSIG KFFZ 251647Z 27005KT 40SM FEW200 23/05 A2994 RMK WIND EST KDYR 251655Z 00000KT 10SM BKN016 OVC021 22/14 A3010 RMK AO1 PKMJ 250856Z 15012KT 15SM SCT015 BKN050 BKN300 27/25 A2989 KDYS 251658Z 03011KT 9SM -TSRA BKN014 15/12 A2990 RMK AO2A TSE56 SLP098 P0018 T01480120 $ KDZJ 251655Z AUTO 15011G15KT 10SM 24/01 A3031 RMK AO2 T02400010 KDYT 251654Z AUTO 08011KT 10SM RA OVC002 09/08 A2971 RMK AO2 CZUM 251700Z AUTO 32014G22KT 9SM BKN040 OVC048 05/M03 A2980 RMK SLP112 KFGX 251655Z AUTO 23015G24KT 10SM BKN046 BKN060 27/16 A3019 RMK AO2 T02650161 EIME 251700Z 28010KT 9999 FEW023 BKN038 15/10 Q1021 KFIG 251654Z AUTO 21011G15KT 10SM CLR 28/12 A3019 RMK AO2 SLP215 T02780122 EIKY 251700Z 32008KT 290V360 9999 BKN014 12/09 Q1025 PKMR 251655Z 06005KT 15SM FEW015 SCT050 BKN300 28/24 A2985 RMK SLP110 T02770243 KERI 251651Z 19016G21KT 10SM FEW055 SCT075 BKN090 28/15 A3007 RMK AO2 SLP178 T02830150 KFHR 251653Z AUTO VRB03KT 10SM OVC008 11/09 A3001 RMK AO2 SLP163 T01110089 FACT 251700Z 31013KT 9999 FEW010 BKN040 17/12 Q1017 NOSIG EHVK 251655Z AUTO 31007KT 9999 SCT034 BKN044 OVC057 14/06 Q1015 BLU KESC 251655Z AUTO 12008KT 1 1/4SM OVC003 11/09 A2971 RMK AO1 KFHU 251558Z AUTO VRB02KT 8SM CLR 19/01 A3008 RMK AO2 SLP136 T01870007 $ CZVL 251700Z AUTO 24004KT 150V270 9SM FEW230 23/01 A2986 RMK SLP108 DENSITY ALT 3800FT EHVL 251659Z AUTO 33017KT 9999 SCT014 BKN017 BKN020 12/08 Q1016 GRN KGAD 251655Z 15007KT 10SM FEW026 SCT032 BKN040 A3019 RMK AO1 KFIN 251650Z 11011KT 7SM BKN022 29/23 A3022 KGAF 251655Z AUTO 36010KT 9SM CLR 21/09 A2977 RMK AO2 KESF 251653Z AUTO 22006KT 10SM FEW024 SCT031 BKN085 29/22 A3005 RMK AO2 SLP172 T02940222 VIAR 251700Z VRB02KT 4500 DU FEW040 33/09 Q0999 KEQY 251653Z AUTO 19003KT 10SM CLR 27/13 A3031 RMK AO2 SLP265 T02670133 KGAG 251653Z AUTO 20017G23KT 10SM CLR 22/14 A2985 RMK AO2 SLP089 T02170144 KI16 251655Z AUTO 10SM CLR 28/14 A3031 RMK AO2 T02770141 KGAI 251655Z AUTO 19010G19KT 160V230 10SM CLR 27/15 A3028 RMK AO1 KFKA 251655Z AUTO 23018G24KT 10SM SCT021 BKN029 20/15 A2977 RMK AO2 T01970150 KFIT 251652Z AUTO 16010KT 10SM OVC100 24/12 A3022 RMK AO2 SLP233 T02390122 KETB 251655Z AUTO 23012G20KT 10SM BKN029 BKN037 OVC047 22/16 A2979 RMK AO2 VIBN 251530Z 06004KT 4000 HZ NSC 36/24 Q0999 KETC 251655Z AUTO 19004G14KT 10SM CLR 28/14 A3034 RMK AO2 T02750140 FAEL 251700Z 25010KT 9999 BKN039 16/13 Q1017 KGBD 251655Z AUTO 27005KT 10SM SCT012 BKN018 OVC028 19/16 A2982 RMK AO1 P0006 KERV 251655Z AUTO 19016G26KT 7SM -TSRA OVC010 22/21 A2988 RMK AO2 LTG DSNT ALQS P0002 T02200208 KESN 251650Z 22015G25KT 10SM FEW050 27/16 A3032 KGAO 251655Z AUTO 10SM VCTS SCT020 SCT026 BKN038 31/24 A3008 RMK AO2 LTG DSNT NW THRU E T03070238 EINN 251700Z 27014KT 9999 FEW018 BKN025 14/10 Q1024 NOSIG FAEO 250656Z 26009KT CAVOK 12/05 Q1026 EHWO 251655Z AUTO 31012KT 9999 NCD 14/03 Q1017 BLU KERY 251655Z AUTO 13007G16KT 100V170 2 1/2SM -RA OVC003 14/13 A2978 RMK AO2 P0011 T01350132 KGBG 251655Z AUTO 22014G17KT 10SM BKN022 BKN029 BKN034 22/17 A2993 RMK AO2 T02170170 FADY 250843Z 31008KT CAVOK 19/02 Q1020 KETH 251655Z AUTO 35014G19KT 10SM -DZ BKN013 OVC018 13/12 A2973 RMK AO2 KEST 251652Z AUTO 24015KT 10SM FEW024 OVC031 19/16 A2976 RMK AO2 SLP075 T01940156 KGBK 251655Z AUTO 08007G14KT 10SM CLR 28/25 A3002 RMK A01 KGCC 251653Z AUTO 01012KT 9SM SCT007 BKN013 OVC025 11/10 A2991 RMK AO2 RAB26E51 SLP111 P0004 T01110100 $ KFKL 251655Z AUTO 25010G14KT 10SM FEW037 SCT070 BKN110 24/14 A3018 RMK AO1 FAGC 251700Z AUTO 29001KT //// // ////// 18/01 Q1024 KFLD 251653Z AUTO 23014G21KT 10SM FEW022 SCT045 BKN060 22/17 A2976 RMK AO2 RAB24E37 SLP077 P0000 T02170167 KGCD 251655Z AUTO 26008KT 10SM CLR 15/00 A2997 RMK AO2 T01511003 KFKN 251655Z AUTO 15011G17KT 10SM SCT048 27/14 A3033 RMK AO2 T02710144 KEUF 251658Z AUTO 13006KT 10SM OVC023 28/21 A3020 RMK AO2 SLP223 T02780211 $ KEUG 251654Z 36004KT 9SM OVC007 12/09 A3005 RMK AO2 SLP175 T01220094 KI35 251655Z AUTO 00000KT 10SM CLR 27/12 A3025 RMK AO1 KFLG 251657Z 25011G15KT 10SM SCT035 BKN045 13/05 A3011 RMK AO2 SLP132 T01280050 FAGG 251700Z 04003KT CAVOK 14/10 Q1016 KFKR 251655Z AUTO 18019G28KT 10SM BKN023 BKN030 25/18 A3004 RMK AO2 T02540181 KFKS 251654Z AUTO 19015G23KT 7SM BKN020 OVC025 21/17 A2978 RMK AO2 T02100166 KEVB 251647Z 12008KT 10SM SCT022 29/23 A3024 KGCK 251654Z AUTO 36007KT 10SM CLR 19/12 A2985 RMK AO2 SLP089 T01890122 KGDB 251652Z AUTO 25014G17KT 10SM OVC021 18/14 A2973 RMK AO2 T01750141 KI39 251655Z AUTO 21012G17KT 10SM SCT049 SCT065 SCT080 26/15 A3020 RMK AO2 KEUL 251655Z AUTO 26005KT 10SM CLR 19/08 A2990 RMK AO1 KFLL 251653Z 12015KT 10SM FEW025 FEW060 SCT250 30/23 A3017 RMK AO2 SLP217 T03000233 KGCM 251655Z AUTO 17012KT 10SM 23/20 A2995 RMK AO2 VIDP 251700Z 22005KT 2200 DU NSC 39/03 Q0999 NOSIG KFME 251648Z AUTO 20012G18KT 10SM CLR 27/15 A3026 RMK AO1 KGCN 251701Z 25008KT 10SM BKN018 BKN060 11/07 A3011 RMK AO2 T01110072 KFLO 251653Z 12005KT 10SM CLR 28/15 A3031 RMK AO2 SLP259 T02830150 KFLP 251655Z AUTO 14004KT 10SM FEW020 BKN038 OVC045 26/21 A2999 RMK AO1 KFMH 251655Z AUTO 23013KT 10SM CLR 21/13 A3028 RMK AO2 KGDJ 251655Z AUTO 13010G17KT 10SM BKN015 BKN023 OVC030 25/21 A2988 RMK AO2 LTG DSNT S T02460210 CZZJ 251600Z AUTO 10003KT 16/03 RMK AO1 SLP114 T01610026 57002 KEWB 251653Z 22009G17KT 10SM FEW110 23/13 A3025 RMK AO2 SLP244 T02330133 KFNB 251653Z AUTO 19013G24KT 10SM CLR 25/16 A2982 RMK AO2 PK WND 20026/1558 SLP092 T02500161 URFF 251700Z 24003MPS CAVOK 18/15 Q1009 19010095 NOSIG KEVM 251654Z AUTO 05010G17KT 5SM RA OVC009 14/13 A2971 RMK AO2 KGED 251654Z AUTO 25011G19KT 10SM FEW048 27/14 A3030 RMK AO2 SLP259 T02670144 KFMM 251655Z AUTO 29008KT 10SM -DZ SCT047 BKN050 BKN065 13/08 A2991 RMK AO2 T01260082 KFMN 251653Z 28005KT 10SM FEW034 BKN100 15/06 A3001 RMK AO2 SLP130 T01500056 KGDP 251651Z AUTO 26012G23KT 10SM CLR 22/01 A3004 RMK AO2 PK WND 26028/1600 SLP100 T02170006 KGEG 251653Z 14008KT 10SM FEW002 BKN026 OVC045 14/09 A2990 RMK AO2 SLP116 T01390089 $ KFLY 251654Z AUTO 34003KT 10SM BKN050 13/00 A2998 RMK AO2 T01331001 KFOA 251655Z AUTO 21014G18KT 10SM CLR 24/20 A3007 RMK AO2 T02400195 KGFA 251656Z AUTO 18001KT 10SM CLR 16/08 A2991 RMK AO2 SLP135 T01610079 TSNO $ KEWK 251655Z AUTO 18014KT 10SM SCT016 SCT023 OVC030 22/18 A2985 RMK AO1 FAJB 251700Z AUTO 00000KT //// // ////// 14/00 Q1024 KFNL 251655Z AUTO 19006KT 10SM CLR 13/06 A2992 RMK AO1 KFOD 251655Z AUTO 22010G15KT 10SM BKN022 BKN028 OVC032 20/17 A2980 RMK AO1 KEVV 251654Z 20011G20KT 10SM BKN024 BKN033 BKN041 24/19 A3011 RMK AO2 SLP191 T02440189 KGDV 251655Z AUTO 10006KT 10SM FEW018 SCT049 OVC055 17/12 A2991 RMK AO1 DRRM 251700Z 04004KT 9999 FEW040 BKN300 41/07 Q1008 KEWN 251654Z 09007G17KT 10SM CLR 27/14 A3036 RMK AO2 SLP280 T02670139 KEVW 251653Z AUTO VRB05KT 10SM SCT013 BKN020 OVC039 09/06 A3003 RMK AO2 SLP123 T00940061 KFOE 251707Z 17012KT 10SM BKN025 OVC039 23/17 A2986 RMK AO2 T02330172 DRRN 251700Z VRB02KT 9999 FEW046 42/07 Q1007 NOSIG KFMY 251653Z 12009KT 10SM FEW043 32/22 A3013 RMK AO2 SLP205 T03220217 EISG 251600Z 30009KT 9999 OVC017 11/10 Q1023 KEWR 251659Z 16010G21KT 10SM FEW050 SCT140 SCT250 29/14 A3021 RMK AO2 WSHFT 1642 $ EKAH 251650Z AUTO 28008KT 9999NDV BKN076/// 11/04 Q1012 KI67 251655Z AUTO 22011G16KT 10SM BKN024 BKN042 OVC120 22/17 A3013 RMK AO1 FAIR 250543Z 15003KT CAVOK 10/05 Q1025 KI69 251657Z AUTO 22015G21KT 10SM SCT039 25/15 A3015 RMK AO1 KGFK 251653Z 33005KT 10SM FEW140 OVC200 19/10 A2976 RMK AO2 SLP079 T01890100 KFNT 251653Z 20014G19KT 10SM BKN037 BKN046 BKN060 27/18 A2993 RMK AO2 SLP132 T02670178 KFOK 251653Z 22009KT 10SM CLR 20/14 A3029 RMK AO2 SLP256 T02000139 DRRT 251500Z 20012KT 9999 FEW040TCU FEW050CB BKN300 42/18 Q1009 KGEU 251647Z 23005KT 20SM FEW200 26/08 A2993 KGFL 251653Z AUTO 19004KT 10SM FEW120 20/12 A3017 RMK AO2 SLP216 T02000117 KGEV 251655Z AUTO 15007KT 090V190 10SM CLR 21/12 A3036 RMK AO2 T02140117 KGGE 251715Z AUTO 11010G14KT 10SM OVC065 26/20 A3033 RMK AO2 KEYE 251653Z AUTO 20010G17KT 10SM -RA BKN015 BKN023 OVC032 21/19 A3007 RMK AO2 RAB1557E28B53 SLP176 P0001 T02110189 KEYF 251655Z AUTO 14007KT 10SM CLR 27/13 A3033 RMK AO2 T02700131 KGEY 251653Z AUTO 29003KT 10SM SCT023 OVC080 14/08 A2992 RMK AO2 SLP119 T01440083 KGGG 251653Z 17010KT 10SM BKN029 OVC041 27/21 A2997 RMK AO2 SLP144 T02720211 $ KI75 251655Z AUTO 20010KT 10SM CLR 24/17 A2985 RMK AO2 T02350170 KGEZ 251653Z AUTO 20019G23KT 10SM BKN018 OVC026 23/18 A3009 RMK AO2 PK WND 20026/1642 SLP185 T02280183 KGGI 251655Z AUTO 22012KT 10SM SCT019 22/17 A2985 RMK AO2 T02190170 EKBI 251650Z AUTO 27011KT 240V320 9999NDV SCT020/// SCT024/// BKN051/// BKN087/// 11/06 Q1012 FALA 251700Z 00000KT CAVOK 19/03 Q1024 NOSIG KFPK 251655Z AUTO 21015G22KT 10SM SCT044 SCT070 SCT090 25/17 A2991 RMK AO2 T02470168 KGHB 251655Z AUTO VRB03G11KT 7SM CLR 28/25 A3003 RMK A01 KFOT 251655Z AUTO 29003KT 10SM OVC006 10/10 A2998 RMK AO1 KFQD 251655Z AUTO 17010G16KT 10SM SCT036 25/15 A3033 RMK AO2 T02470145 FAKM 251700Z 28005KT CAVOK 18/02 Q1020 FALE 251700Z 22004KT CAVOK 18/10 Q1014 NOSIG FAKN 251700Z 02004KT CAVOK 20/07 Q1019 NOSIG KEXX 251655Z AUTO 19004KT 10SM CLR 24/13 A3033 RMK AO2 T02440127 KEZF 251655Z AUTO 23012G20KT 10SM CLR 28/15 A3026 RMK AO2 T02810153 KGGP 251655Z AUTO 20027G31KT 10SM SCT030 BKN037 BKN047 25/16 A3001 RMK AO2 KGHG 251655Z AUTO 23006G19KT 10SM SCT100 27/12 A3024 RMK AO2 WAAA 251630Z 18005KT 140V200 8000 FEW020 25/25 Q1012 NOSIG KFOZ 251653Z AUTO 03004KT 10SM -RA CLR 16/13 A2976 RMK AO2 EKCH 251650Z 01005KT 9999 FEW020 BKN070 12/06 Q1011 NOSIG KFPR 251653Z 11014G20KT 10SM BKN021 30/24 A3019 RMK AO2 SLP222 T03000239 PKWA 251700Z AUTO 06009KT 7SM RA SCT045 OVC055 25/24 A2989 RMK AO2 T02470237 KGIC 251655Z AUTO 01005KT 10SM SCT015 SCT020 15/09 A2996 RMK AO1 T01490091 KEZM 251655Z AUTO 08003KT 10SM SCT028 BKN060 OVC075 29/22 A3027 RMK AO2 T02900217 FALM 251100Z 29010KT CAVOK 28/// Q1020 KGGW 251653Z AUTO VRB03KT 10SM CLR 22/07 A2986 RMK AO2 SLP108 T02170067 KEYW 251653Z 13012KT 10SM FEW050 29/24 A3013 RMK AO2 RAB25E35 SLP204 P0000 T02940239 KGIF 251653Z AUTO 09008G17KT 060V150 10SM SCT046 33/21 A3020 RMK AO2 LTG DSNT E SLP222 T03330206 KFRG 251653Z 18007KT 10SM CLR 23/16 A3025 RMK AO2 SLP244 T02280156 URKA 251700Z 19001MPS CAVOK 19/14 Q1008 R22/010070 NOSIG RMK QFE751/1002 WABB 251500Z 00000KT 9000 FEW020 26/24 Q1012 NOSIG KFRI 251658Z AUTO 17011G19KT 10SM FEW026 SCT033 BKN055 22/17 A2985 RMK AO2 SLP100 T02230172 $ KEZS 251655Z AUTO 25005KT 5SM BR BKN014 BKN019 OVC029 18/17 A2971 RMK AO2 P0002 T01800173 EKEB 251650Z AUTO 27009KT 9999NDV FEW021/// BKN082/// 11/07 Q1013 KFRM 251655Z AUTO 24009KT 10SM BKN019 OVC027 18/13 A2976 RMK AO1 KFSD 251656Z 22005KT 10SM SCT021 OVC029 18/14 A2976 RMK AO2 SLP076 T01830144 VIJP 251630Z 26009KT 4000 DU NSC 38/10 Q1003 NOSIG KGHW 251641Z AUTO 28003KT 10SM SCT009 BKN015 BKN022 16/14 A2968 RMK AO2 FAMM 251700Z 02002KT CAVOK 20/M00 Q1022 NOSIG KFSE 251653Z AUTO 03003KT 10SM RA SCT034 SCT050 16/12 A2980 RMK AO2 P0001 KHAE 251655Z AUTO 18008KT 10SM BKN024 25/16 A2996 RMK AO2 FALW 251600Z AUTO 01006KT //// // ////// 16/09 Q1018 PMDY 251656Z AUTO 00000KT 10SM OVC041 A3025 RMK AO2 PWINO TSNO SLPNO $ EIWF 251700Z 01011KT 320V040 9999 BKN029 16/09 Q1022 URKK 251700Z 05004MPS CAVOK 24/16 Q1008 R23C/CLRD70 TEMPO 2000 TSRA SCT007 BKN020CB RMK QFE752 KHAI 251655Z AUTO 22022G28KT 10SM SCT031 SCT037 SCT046 25/18 A2994 RMK AO2 T02470181 KFRR 251655Z AUTO 23006G15KT 10SM CLR 27/14 A3021 RMK AO1 KFSI 251658Z AUTO 17010KT 10SM FEW020 SCT026 BKN180 23/20 A2986 RMK AO2 SLP105 T02340201 USCC 251700Z 19003MPS 9999 FEW040CB 18/08 Q1015 R27/000060 NOSIG RMK QFE741 FAOB 251700Z AUTO 34009KT //// // ////// 18/08 Q1015 KFSM 251700Z 12009KT 10SM FEW022 BKN041 OVC050 27/20 A2995 RMK AO2 T02670200 KHAO 251653Z AUTO 21007G18KT 190V250 10SM SCT026 BKN110 22/18 A3014 RMK AO2 SLP202 T02220178 KFSO 251655Z AUTO 19005KT 10SM -RA SCT031 BKN070 OVC080 18/13 A3016 RMK AO2 T01820131 KFTG 251135Z AUTO 23003KT 10SM SCT100 06/04 A2989 RMK AO2 KHBG 251653Z AUTO 17008KT 10SM CLR 26/21 A3012 RMK AO2 LTG DSNT SE SLP195 T02560211 VILK 251630Z 00000KT 4000 HZ NSC 34/25 Q0999 KHBI 251655Z AUTO 16004KT 10SM SCT043 SCT070 SCT110 25/13 A3035 RMK AO2 T02450132 KGKJ 251653Z AUTO 21013G20KT 10SM FEW044 SCT055 BKN085 24/15 A3013 RMK AO2 SLP196 T02440150 TSNO WADD 251630Z 10006KT 9999 FEW017 26/24 Q1013 NOSIG USDD 251700Z 15005MPS CAVOK 13/01 Q1003 NOSIG RMK QFE748/0997 USCM 251700Z 28002MPS 8000 SCT033 18/07 Q1017 R01/090065 NOSIG RMK QFE724 KFST 251653Z AUTO 28011G21KT 10SM CLR 27/M01 A2993 RMK AO2 SLP090 T02671006 KGJT 251653Z 00000KT 10SM FEW023 FEW065 OVC085 13/07 A2999 RMK AO2 SLP123 T01330072 KFTK 251658Z AUTO 19014G18KT 9SM -RA OVC011 20/19 A3016 RMK AO2 SLP211 P0069 T01980185 KHCD 251652Z AUTO 23008KT 10SM BKN018 OVC023 17/15 A2972 RMK AO2 T01670145 KGLD 251653Z AUTO 30012KT 10SM CLR 18/11 A2984 RMK AO2 SLP081 T01780106 $ KFTN 251655Z AUTO 16015KT 10SM 29/23 A2984 RMK A01 KGLE 251655Z AUTO 13012KT 10SM SCT021 BKN030 BKN038 25/20 A2991 RMK AO2 T02530202 KFSW 251655Z AUTO 19009G17KT 10SM BKN027 OVC033 22/18 A2992 RMK AO2 FAPE 251700Z 23007KT CAVOK 14/11 Q1016 NOSIG KGLH 251653Z AUTO 20010KT 10SM SCT022 BKN030 27/22 A3005 RMK AO2 SLP182 T02720222 KHBR 251653Z AUTO 23020KT 10SM -RA SCT018 BKN024 BKN038 21/19 A2987 RMK AO2 LTG DSNT S RAB35 SLP102 P0000 T02110194 URML 251700Z 16002MPS 9999 SCT040CB OVC100 17/13 Q1011 TEMPO -TSRA SCT030CB RMK QFE758/1011 R14/01//70 FAOR 251700Z 21004KT CAVOK 16/M02 Q1025 NOSIG WADL 251600Z 00000KT 5000 HZ SCT016 24/24 Q1014 NOSIG DRZA 251700Z 12012KT CAVOK 42/M03 Q1010 URMM 251700Z 33002MPS 9999 NSC 20/15 Q1010 R12/000070 NOSIG RMK QFE730/0973 KGKT 251655Z AUTO VRB03KT 10SM 28/14 A3023 RMK FBFT 251700Z 19003KT CAVOK 17/03 Q1020 URMN 251700Z 22002MPS 9999 SCT036CB 19/15 Q1011 R24/110060 NOSIG RMK QFE722 KFUL 251653Z 00000KT 10SM OVC019 18/12 A2999 RMK AO2 SLP156 T01780117 KHDC 251655Z AUTO 12005KT 10SM SCT015 SCT030 BKN090 28/22 A3009 RMK AO2 LTG DSNT ALQS URMO 251500Z 13002MPS 9999 -TSRA BKN026CB BKN100 20/16 Q1011 R10/210350 NOSIG RMK QFE715/0953 KHBV 251655Z AUTO 15015G21KT 10SM 29/23 A2987 RMK AO2 T02850231 ZWSH 251700Z AUTO 06004MPS 8000 17/05 Q1017 KFVE 251653Z AUTO 27014G21KT 10SM CLR 24/07 A3000 RMK AO2 SLP156 T02390072 KFTW 251653Z AUTO 15016G22KT 10SM BKN018 BKN023 OVC049 26/22 A2986 RMK AO2 SLP104 T02610217 KHDE 251655Z AUTO 20008KT 10SM SCT027 SCT032 19/12 A2979 RMK AO2 T01930122 FAPN 251700Z AUTO 35003KT //// // ////// 18/00 Q1021 KHCO 251654Z AUTO 01006KT 10SM CLR 21/09 A2977 RMK AO2 KFTY 251653Z 14007KT 090V200 10SM FEW027 BKN036 26/19 A3026 RMK AO2 SLP236 T02610189 KGKY 251653Z 14013G20KT 10SM BKN018 OVC025 26/21 A2989 RMK AO2 SLP112 T02560206 $ FAPP 251700Z 14002KT CAVOK 18/04 Q1021 NOSIG URMT 251700Z 14003MPS 9999 -SHRA SCT033CB 19/16 Q1011 R07/010070 NOSIG RMK QFE718 KGLR 251653Z AUTO 19007KT 6SM -RA BR BKN019 OVC026 19/18 A2984 RMK AO2 RAB31 SLP104 P0000 T01940183 FAPR 250648Z 25003KT CAVOK 16/05 Q1024 KGLS 251652Z 14016KT 10SM SCT016 BKN022 BKN028 29/26 A2999 RMK AO2 SLP156 T02890261 KFWA 251654Z 20022G30KT 10SM BKN034 OVC046 23/18 A3003 RMK AO2 PK WND 21036/1624 SLP163 T02330178 KGNA 251656Z AUTO 05013G20KT 15/13 A2971 RMK AO1 SLP060 P0006 T01500133 KGMJ 251655Z AUTO 19010G18KT 10SM SCT032 BKN037 26/20 A2995 RMK AO2 KFWB 251655Z AUTO 15007KT 10SM BKN020 BKN025 OVC032 23/19 A2999 RMK AO2 KFWC 251655Z AUTO 19012G17KT 10SM OVC021 24/19 A3007 RMK AO1 T02350191 KGNC 251655Z AUTO 10006KT 10SM CLR 22/10 A2996 RMK AO2 T02150100 KHDN 251655Z AUTO 33004KT 10SM SCT021 OVC032 09/03 A3002 RMK AO1 KGLW 251650Z AUTO 20004KT 10SM RA BKN033 OVC042 20/18 A3020 RMK AO2 T02040183 KHDO 251655Z AUTO 17007KT 3SM RA BR SCT009 BKN015 OVC021 24/23 A2990 RMK AO2 P0001 T02390228 KHEF 251645Z 21011G19KT 10SM CLR 27/16 A3025 KGLY 251655Z AUTO 12008KT 8SM OVC004 21/21 A2994 RMK AO2 ZYCC 251700Z VRB02MPS 9999 -RA FEW026 18/09 Q1007 NOSIG KHEI 251653Z AUTO 06013KT 5SM -RA BR SCT006 BKN010 OVC016 13/12 A2988 RMK AO2 CIG 009V013 SLP116 P0000 T01330117 DRZR 251700Z 04004KT CAVOK 40/05 Q1009 FASB 250945Z 03002KT 9999 FEW020 15/05 Q1021 KGMU 251653Z VRB03KT 10SM BKN037 BKN048 OVC060 25/16 A3033 RMK AO2 SLP261 T02500161 KHFD 251653Z 18007G19KT 10SM SCT120 27/15 A3021 RMK AO2 SLP229 T02720150 KFXE 251705Z 10012KT 10SM SCT017 BKN023 BKN080 27/25 A3017 RMK AO2 T02720250 KFWN 251653Z AUTO 25007KT 210V290 10SM CLR 28/14 A3021 RMK AO2 SLP226 T02830144 KHFF 251656Z AUTO 10006G13KT 10SM CLR 27/13 A3035 RMK AO2 SLP277 T02670128 TSNO $ KFVX 251655Z AUTO 20011G22KT 10SM SCT047 27/14 A3029 RMK AO2 T02660139 KGNR 251656Z AUTO 21/08 A3012 RMK AO1 SLP200 T02110078 FASI 251700Z AUTO /////KT //// // ////// 13/M00 Q1024 KFWS 251656Z 16009KT 10SM BKN019 OVC028 25/21 A2990 KHFJ 251655Z AUTO 18008G15KT 10SM BKN023 OVC031 23/18 A2996 RMK AO2 DTKA 251700Z 29006KT 9999 SCT020 SCT200 19/14 Q1012 NOSIG EKKA 251650Z AUTO 27011KT 9999NDV BKN028/// BKN093/// 12/06 Q1011 KGOK 251653Z AUTO 19014G21KT 10SM FEW024 SCT030 26/19 A2988 RMK AO2 SLP111 T02560194 KGNT 251655Z AUTO 27008G15KT 10SM BKN049 BKN070 17/03 A3006 RMK AO2 T01710027 FCBB 251600Z 26005KT 220V300 8000 FEW019 30/23 Q1011 NOSIG KGNV 251653Z 10007G16KT 10SM CLR 32/18 A3020 RMK AO2 SLP224 T03170178 KGON 251656Z 18008KT 10SM CLR 18/13 A3027 RMK AO2 SLP248 T01830133 USHH 251700Z 16003MPS CAVOK 12/04 Q1012 R06/010060 NOSIG RMK QFE755 FBKE 251700Z 13005KT CAVOK 18/05 Q1020 KGOO 251655Z AUTO 22005KT 10SM CLR 20/05 A2998 RMK AO1 KFYG 251615Z AUTO 00000KT 10SM CLR 24/16 A2999 RMK AO2 KHEY 251653Z AUTO 16007KT 10SM SCT025 28/22 A3017 RMK AO2 SLP104 T02830222 $ KGOP 251655Z AUTO 18013G27KT 3SM VCTS -RA CLR 23/22 A2991 RMK AO2 LTG DSNT E-SW KGPH 251715Z AUTO 14007G14KT 10SM CLR 22/16 A2988 RMK AO2 KHEZ 251655Z AUTO 19007KT 10SM FEW030 29/22 A3007 RMK AO1 KFWZ 251655Z AUTO 00000KT 10SM BKN010 OVC018 06/03 A2998 RMK AO2 KGPI 251655Z 30004KT 10SM SCT065 BKN080 OVC090 17/06 A2989 RMK AO2 SLP119 T01720056 KFYJ 251655Z AUTO 17011G15KT 10SM SCT046 29/13 A3032 RMK AO2 T02860129 KGOV 251702Z AUTO 19006KT 10SM BKN025 OVC030 22/18 A2984 RMK AO2 KFYM 251655Z AUTO 10SM OVC020 A3020 RMK KGPM 251650Z 14012G20KT 10SM BKN020 24/22 A2990 WAHQ 250500Z 36006KT 8000 SCT015 31/23 Q1011 NSG KHHF 251655Z AUTO 22015G19KT 10SM CLR 21/14 A2986 RMK AO2 LTG DSNT SE AND S T02110138 KFZG 251655Z AUTO 19003KT 10SM SCT034 BKN042 OVC070 29/19 A3026 RMK AO2 T02930187 KHHG 251655Z AUTO 21012G18KT 190V250 10SM BKN029 OVC039 23/18 A3002 RMK AO2 T02270175 KFXY 251655Z AUTO 25011KT 10SM SCT019 BKN028 OVC040 19/16 A2978 RMK AO2 WAHS 251500Z 13006KT 7000 FEW020 29/24 Q1013 NOSIG UTAA 251700Z 10005MPS 9999 SCT100 BKN230 25/00 Q1013 NOSIG KHGR 251653Z 20009G16KT 10SM CLR 28/14 A3021 RMK AO2 SLP234 T02780139 KHIB 251653Z AUTO 06007KT 8SM -RA FEW049 BKN060 OVC070 15/12 A2971 RMK AO2 SLP063 P0005 T01500122 KGPT 251653Z 15006KT 10SM FEW090 FEW110 25/21 A3010 RMK AO2 RAE39 SLP192 P0001 T02500211 $ KGRB 251653Z 24013G21KT 8SM -RA BKN018 BKN030 OVC055 21/18 A2972 RMK AO2 RAE10B50 SLP065 P0000 T02060183 DTMB 251700Z 06011KT CAVOK 20/15 Q1011 NOSIG KFYV 251653Z 18011G19KT 10SM BKN027 24/19 A2997 RMK AO2 SLP136 T02390194 KGRD 251656Z AUTO VRB05KT 10SM FEW034 OVC045 26/16 A3032 RMK AO2 SLP262 T02610161 KHIE 251652Z AUTO 21009KT 10SM CLR 24/09 A3018 RMK AO2 SLP219 T02390094 TSNO KHIF 251658Z AUTO VRB03KT 10SM SCT029 OVC060 15/08 A2999 RMK AO2 CIG 050 RWY32 SLP123 KGRF 251558Z AUTO VRB06KT 10SM OVC014 12/09 A3002 RMK AO2 OVC V BKN SLP170 T01200094 URRR 251700Z 05003MPS CAVOK 23/12 Q1009 R04/CLRD70 NOSIG RMK QFE750/1001 FAUP 251700Z 22005KT CAVOK 17/04 Q1019 NOSIG KGPZ 251655Z AUTO 04005KT 010V080 5SM FEW019 SCT036 OVC043 14/12 A2971 RMK AO1 P0006 WAJJ 251000Z 30006KT 9999 VCTS FEW014CB FEW015 28/24 Q1011 RMK CB TO SW UTAK 251700Z 33003MPS CAVOK 21/02 Q1011 NOSIG KHHR 251653Z VRB03KT 10SM OVC019 17/12 A3000 RMK AO2 SLP158 T01720117 KGRI 251653Z 19007KT 10SM BKN045 BKN055 21/12 A2979 RMK AO2 SLP082 T02110117 KHII 251655Z AUTO 29004KT 10SM CLR 27/06 A2988 RMK AO2 UTAM 251700Z 36005MPS 6000 SKC 21/05 Q1016 NOSIG ZWWW 251700Z VRB01MPS CAVOK 19/06 Q1016 NOSIG KIAB 251658Z AUTO 16017G24KT 10SM BKN016 OVC022 24/20 A2984 RMK AO2 PK WND 18027/57 BKN V OVC SLP098 T02360198 KGRK 251701Z 18005KT 7SM -TSRA FEW015 BKN029 22/22 A2994 RMK AO2A KGSB 251658Z AUTO 18005KT 10SM CLR 27/15 A3030 RMK AO2 SLP263 T02710150 $ FAUT 251700Z /////KT 9999 BKN030 17/14 Q1018 FAWB 251700Z AUTO 14002KT //// // ////// 13/06 Q1022 KIAD 251652Z 21014G21KT 10SM FEW055 SCT250 28/15 A3023 RMK AO2 SLP235 T02780150 KHHV 251655Z AUTO 14017G26KT 6SM HZ CLR 28/25 A2996 RMK A01 KHHW 251655Z AUTO 17009KT 5SM -DZ BKN008 OVC012 23/21 A2997 RMK AO2 T02260211 FBMN 251700Z VRB02KT CAVOK 22/09 Q1020 KHIO 251653Z 00000KT 10SM OVC026 13/08 A3004 RMK AO2 SLP173 T01280078 KFZY 251654Z AUTO 18008KT 10SM CLR 27/14 A3008 RMK AO2 SLP184 T02670139 KIAG 251657Z 23016G25KT 10SM FEW055 SCT080 BKN180 BKN250 24/16 A3005 RMK AO2 RAE57 P0000 T02440156 URSS 251700Z 20001MPS 9999 NSC 20/16 Q1008 R02/090070 R06/090070 NOSIG RMK R06/24002MPS QFE755 ZYHB 251700Z 04003MPS CAVOK 13/09 Q1007 NOSIG KIAH 251653Z 17008KT 10SM -RA BKN030TCU BKN250 29/23 A2996 RMK AO2 RAB44 SLP143 TCU ALQDS MOVG NE P0000 T02890228 KGSH 251653Z AUTO 20026G35KT 10SM FEW028 SCT034 BKN042 24/18 A2996 RMK AO2 PK WND 20035/1646 SLP139 T02440178 TSNO KHJH 251655Z AUTO 19008KT 10SM SCT042 BKN047 OVC055 20/14 A2982 RMK AO2 T02030135 UTAT 251700Z 04003MPS CAVOK 26/06 Q1017 NOSIG KGRR 251653Z 21019G29KT 10SM SCT023 BKN045 BKN150 24/18 A2989 RMK AO2 PK WND 20031/1640 SLP116 T02440183 KHKA 251702Z AUTO 17008KT 10SM SCT014 OVC030 23/21 A3008 RMK AO2 T02330211 $ UTAV 251700Z 11001MPS 7000 FEW200 21/11 Q1017 NOSIG KGTB 251658Z AUTO 14009KT 10SM FEW150 BKN200 22/15 A3007 RMK AO2 SLP181 T02230146 $ FAWK 251700Z AUTO 35003KT //// // ////// 15/03 Q1024 EKOD 251550Z 35002KT 9999 SCT035 BKN060 12/09 Q1012 FAVV 251700Z AUTO /////KT //// // ////// 12/01 Q1024 KHJO 251653Z AUTO 35005KT 10SM CLR 22/11 A2992 RMK AO2 SLP132 T02220111 KGTF 251653Z 07005KT 10SM CLR 18/08 A2991 RMK AO2 SLP117 T01780078 KGSO 251654Z 22009KT 10SM SCT042 SCT250 24/13 A3032 RMK AO2 SLP258 T02440128 KGSP 251653Z 15007KT 10SM FEW035 BKN047 25/16 A3031 RMK AO2 SLP254 T02500161 KGRY 251655Z AUTO 16011KT 6SM HZ FEW018 28/25 A3007 RMK A01 WALL 251600Z 21004KT 170V240 9000 FEW018 28/25 Q1011 NOSIG UTDD 251700Z VRB01MPS 9999 FEW066 14/07 Q1022 R09/CLRD// NOSIG RMK QFE697/0930 KHLC 251653Z AUTO 17007KT 10SM FEW030 21/13 A2982 RMK AO2 SLP086 T02060128 $ KGUC 251655Z AUTO 00000KT 10SM SCT022 SCT026 BKN035 08/01 A3008 RMK AO1 KIBM 251655Z AUTO RMK AO2 PWINO PNO TSNO KHLG 251553Z 21012G17KT 10SM FEW060 SCT075 BKN110 25/14 A3019 URWA 251700Z 07004MPS 9999 SCT050CB BKN130 22/08 Q1015 R09/010070 NOSIG UTDK 251700Z 02003MPS 9999 SKC 13/08 Q1022 01CLRD70 RMK QFE708/0945 KGTR 251650Z 19012KT 8SM BKN014 BKN019 OVC025 25/21 A3013 UTDL 251700Z 25002MPS 9999 FEW050 16/10 Q1020 NOSIG RMK QFE727/0969 88CLRD70 KHKS 251653Z 18008KT 10SM SCT024 SCT035 27/22 A3009 RMK AO2 SLP183 T02720222 KIDA 251653Z 22007KT 10SM FEW010 SCT060 SCT100TCU 16/08 A2996 RMK AO2 SLP119 TCU DSNT NE-E T01560083 WAMM 251600Z 00000KT 9000 FEW021 23/22 Q1012 NOSIG KGTU 251650Z 15004KT 10SM BKN016 OVC046 24/22 A2992 KGUL 251655Z AUTO 16018KT 6SM HZ CLR 28/24 A2999 RMK A01 KICL 251655Z AUTO 21018G24KT 10SM FEW041 24/17 A2983 RMK AO2 KHLN 251653Z 04005KT 10SM CLR 16/08 A2992 RMK AO2 SLP130 T01610083 KGVE 251655Z AUTO 20015G23KT 10SM SCT045 27/15 A3027 RMK AO1 T02650153 URWI 251700Z 11006MPS CAVOK 21/06 Q1013 NOSIG KHKY 251653Z 21006KT 10SM FEW042 24/13 A3033 RMK AO2 SLP250 T02440128 KGUP 251653Z AUTO 22012KT 10SM BKN047 OVC055 13/04 A3007 RMK AO2 SLP104 T01280039 UTFA 251600Z 10003KT 9999 NSC 17/09 Q1021 R88/09//70 KHLR 251658Z AUTO 18009KT 6SM -TSRA BR CLR 22/22 A2993 RMK AO2 LTG DSNT SE-NE RAB05 TSB41 SLP126 P0001 T02240217 UTDT 251700Z 08003MPS 9999 FEW100 16/09 Q1020 35CLRD70 RMK QFE725/0967 KICR 251653Z AUTO 05008KT 10SM OVC016 17/13 A2977 RMK AO2 SLP076 T01670128 KIDI 251655Z AUTO 27009G15KT 10SM CLR 27/14 A3023 RMK A01 KGUR 251655Z AUTO 31011G19KT 10SM 15/13 A2990 RMK AO2 T01470129 PWINO KGUS 251658Z AUTO 21020G27KT 10SM SCT024 SCT031 BKN180 25/18 A3000 RMK AO2 PK WND 22034/44 SLP157 T02480183 KICT 251653Z 18022G29KT 10SM SCT018 BKN024 BKN028 24/19 A2982 RMK AO2 PK WND 16029/1617 SLP089 T02440194 $ KHNB 251655Z AUTO 20011G17KT 10SM SCT023 BKN035 OVC043 23/18 A3013 RMK AO1 KGWB 251655Z AUTO 21015G21KT 10SM SCT030 BKN034 BKN044 24/16 A3001 RMK AO2 USNN 251700Z 00000MPS CAVOK 10/02 Q1014 R03/0///65 NOSIG RMK QFE757 KGVL 251653Z AUTO 08008KT 070V140 10SM FEW023 SCT036 BKN046 25/18 A3032 RMK AO2 SLP252 T02500178 UTFF 251600Z 11004KT 9999 NSC 19/10 Q1021 R18/CLRD70 KHND 251656Z VRB05KT 10SM CLR 22/12 A2998 RMK AO2 SLP134 T02170117 KHMN 251558Z AUTO 29005KT 10SM FEW220 21/03 A2996 RMK AO2 SLP085 T02080025 $ KHLX 251655Z AUTO 20010G15KT 10SM SCT026 20/14 A3036 RMK AO2 T02040140 KGUY 251653Z AUTO 00000KT 10SM CLR 21/09 A2985 RMK AO2 SLP076 T02110094 KIDP 251655Z AUTO 17013KT 10SM BKN014 BKN022 BKN048 23/20 A2991 RMK AO2 WBGB 251700Z 00000KT 9999 FEW016 SCT150 BKN300 26/25 Q1011 KIFA 251655Z AUTO 23016KT 10SM SCT015 OVC025 22/17 A2982 RMK AO2 T02160174 KGXA 251655Z AUTO VRB05KT 10SM CLR 21/05 A2995 RMK AO2 SLP116 T02140050 PWINO TSNO $ KHOB 251650Z 09005KT 10SM SKC 20/08 A2997 KGVT 251655Z AUTO 15011G20KT 10SM SCT015 SCT026 BKN046 26/21 A2994 RMK AO2 EKSB 251650Z 29009KT 9999 SCT040 BKN060 13/06 Q1012 URWW 251700Z 09004MPS CAVOK 21/03 Q1014 R11/010070 NOSIG EKRK 251650Z AUTO 28004KT 250V330 9999NDV BKN075/// 12/06 Q1011 WAOO 251200Z 13003KT 9000 FEW020 29/25 Q1010 NOSIG WBGG 251700Z 28002KT 9999 FEW020 BKN300 27/25 Q1011 NOSIG KIEN 251652Z AUTO 03008KT 10SM SCT014 OVC022 13/10 A2983 RMK AO2 SLP089 T01330100 KHOE 251655Z AUTO 14005KT 10SM SCT040 SCT048 BKN060 32/21 A3022 RMK AO2 KGXF 251658Z AUTO VRB05KT 10SM CLR 27/07 A2991 RMK AO2 SLP118 T02740071 EKRN 251650Z AUTO 27004KT 9999NDV FEW098/// BKN120/// 12/09 Q1011 KGWO 251705Z AUTO 17009KT 10SM FEW024 SCT029 SCT033 27/21 A3008 RMK AO2 T02670211 $ KHMZ 251655Z AUTO 14007KT 10SM CLR 27/13 A3019 RMK AO2 T02650131 KHNR 251655Z AUTO 21012G20KT 10SM FEW026 SCT031 BKN040 22/18 A2984 RMK AO2 DTTA 251700Z 03011KT 9999 FEW026 21/13 Q1011 NOSIG KGYB 251655Z AUTO 17006G15KT 10SM SCT023 SCT028 BKN035 28/23 A2995 RMK AO2 T02770225 DTTB 251700Z 03010KT 360V060 9999 FEW020 21/13 Q1012 FBSK 251700Z 10005KT CAVOK 19/03 Q1021 NOSIG DTTD 251700Z 06014KT 4000 SA NSC 24/13 Q1006 USPP 251700Z 28002MPS CAVOK 14/04 Q1016 R21/090060 NOSIG RMK QFE751 KHON 251655Z AUTO 00000KT 10SM SCT015 BKN022 OVC034 17/13 A2976 RMK AO2 SLP076 T01670133 $ KGWW 251655Z AUTO 20006G14KT 10SM CLR 27/13 A3033 RMK AO2 T02710132 DTTF 251700Z 08021KT 7000 NSC 26/04 Q1006 NOSIG WBGR 251700Z 23002KT 9999 FEW014 SCT150 BKN300 28/25 Q1010 KIFP 251655Z AUTO 30003KT 10SM CLR 26/10 A2989 RMK AO2 KHOP 251703Z AUTO 15007KT 5SM -RA BR FEW002 OVC021 20/19 A3015 RMK AO2 FBSP 251700Z 00000KT CAVOK 21/11 Q1020 WBGS 251700Z 15003KT 9999 SCT018 BKN150 26/24 Q1011 DTTG 251700Z 07019G29KT 5000 NSC 21/13 Q1008 NOSIG EKSP 251650Z 28014KT 9999 SCT022 BKN090 11/07 Q1013 KGYH 251647Z 18004KT 10SM BKN035 23/13 A3032 KHNZ 251655Z AUTO 18012G16KT 10SM CLR 26/11 A3032 RMK AO2 T02610112 KGYI 251655Z AUTO 17011G16KT 10SM SCT020 SCT026 BKN043 26/22 A2993 RMK AO2 T02600219 DTTJ 251700Z 07020KT 8000 NSC 22/15 Q1007 NOSIG KHOT 251653Z AUTO 19007KT 10SM OVC016 23/19 A3002 RMK AO2 SLP160 T02280194 DTTK 251700Z 03004KT 9999 FEW023 23/12 Q1011 KHOU 251653Z 16014G22KT 10SM SCT025 SCT150 30/23 A2996 RMK AO2 SLP151 T03000228 KGYL 251655Z AUTO 22008KT 10SM SCT012 BKN018 OVC026 17/16 A2970 RMK AO2 T01740155 DTTL 251100Z VRB05KT 9999 FEW020 22/16 Q1015 KIGM 251651Z AUTO 23011KT CLR 22/04 A2999 RMK AO2 SLP093 T02170044 $ WBGY 251700Z 00000KT 9999 SCT022 SCT150 BKN300 26/25 Q1011 KHPN 251656Z 14009G16KT 10SM CLR 27/14 A3022 RMK AO2 SLP228 T02720144 DTTN 251700Z 02012KT 9999 FEW020 25/16 Q1009 KGXY 251655Z 28003KT 10SM CLR 13/07 A2992 RMK AO1 KGZH 251659Z AUTO 00000KT 3SM TSRA BR SCT055 BKN070 OVC120 22/21 RMK AO2 LTG DSNT ALQDS P0000 T02170206 $ KIGQ 251655Z AUTO 23020G29KT 10SM BKN024 BKN037 BKN050 23/17 A2991 RMK AO2 T02330170 KGYR 251647Z 26008KT 10SM FEW100 FEW200 26/07 A2994 KHQI 251655Z AUTO 13017G24KT 5SM HZ FEW017 28/25 A3000 RMK A01 DTTR 251700Z 23021KT 6000 NSC 37/M26 Q1004 RMK SIROCCO KIIB 251655Z AUTO 23013G18KT 10SM SCT017 BKN021 BKN029 21/17 A2982 RMK AO2 KGZL 251655Z AUTO 18010G17KT 10SM FEW031 BKN043 27/18 A2995 RMK AO2 KHQM 251704Z AUTO 21007KT 1 3/4SM BR SCT009 BKN014 OVC027 12/11 A3003 RMK AO2 T01220111 EKVD 251650Z AUTO 28012KT //// ///////// 12/06 Q1012 KIGX 251656Z AUTO 14008KT 100V210 10SM CLR 26/12 A3032 RMK AO2 SLP263 T02610122 TSNO WARR 251630Z 10012KT 7000 FEW018CB 28/24 Q1012 USRR 251700Z 00000MPS 7000 NSC 08/03 Q1014 R07/CLRD60 NOSIG RMK QFE755 DTTX 251700Z 02016KT 290V060 CAVOK 22/13 Q1009 NOSIG KGYY 251645Z 24020G33KT 15SM BKN065 24/18 A2990 EKVG 251650Z 27015KT 9999 FEW007 BKN015 BKN030 09/05 Q1013 DTTZ 251700Z 07023KT 1500 SA NSC 27/07 Q1005 NOSIG KHRI 251653Z AUTO 26009KT 10SM FEW060 17/08 A2992 RMK AO2 SLP128 T01720083 KHSA 251650Z 16010KTS 5SM TSRA BKN025 24/19 A3011 RMK LTG VCY KHRJ 251655Z AUTO 15004KT 10SM CLR 26/11 A3033 RMK AO2 T02640113 EKVJ 251150Z 27010KT 9999 SCT025 13/06 Q1014 KHSB 251655Z AUTO 21009KT 10SM OVC021 23/20 A3010 RMK AO2 T02300196 KHRL 251652Z 16023KT 10SM SCT024 BKN040 OVC049 30/24 A2985 RMK AO2 PK WND 15029/1556 SLP108 T03000244 PNO $ KJAC 251647Z 16004KT 10SM FEW025 OVC070 11/05 A2999 KHQU 251655Z AUTO 10003KT 10SM SCT033 SCT042 BKN055 28/20 A3033 RMK AO1 T02780202 KIJD 251652Z AUTO 20010KT 10SM FEW120 27/13 A3024 RMK AO2 SLP237 T02720133 KHSE 251651Z AUTO 17006KT 10SM CLR 26/14 A3037 RMK AO2 SLP284 T02560139 TSNO KHRO 251653Z AUTO 17007G16KT 10SM BKN026 OVC033 24/19 A3001 RMK AO2 SLP148 T02390189 ELLX 251650Z 00000KT 9999 FEW040 BKN080 13/11 Q1014 NOSIG USSS 251700Z 27005MPS 9999 BKN036CB OVC067 16/13 Q1015 R26R/010060 TEMPO 28012MPS RMK QFE741 KHQZ 251647Z 14012G15KT 10SM BKN013 BKN031 OVC085 25/22 A2992 WBKK 251700Z 09003KT 9999 FEW014 FEW016CB SCT140 BKN270 27/25 Q1011 NOSIG KHSI 251653Z AUTO 19007KT 10SM SCT033 OVC050 19/12 A2980 RMK AO2 SLP081 T01940117 WBKL 251700Z 21001KT 9999 FEW008 SCT010 BKN290 26/25 Q1011 KL18 251655Z AUTO 13003KT 10SM OVC015 15/11 A3002 RMK AO2 KHRT 251703Z AUTO 15015G21KT 10SM BKN012 BKN130 29/24 A3014 RMK AO2 CIG 012V180 BKN012 V SCT $ UUBP 251700Z 09003MPS CAVOK 22/14 Q1013 R34/CLRD70 NOSIG RMK QFE742/0990 KJAN 251654Z 15012KT 10SM SCT018 BKN027 OVC035 27/22 A3009 RMK AO2 SLP185 T02720222 KHRX 251655Z AUTO 10SM CLR 18/10 A2994 RMK AO2 LTG DSNT SE T01770101 USTR 251700Z 17004MPS CAVOK 16/04 Q1014 R12/CLRD65 NOSIG RMK QFE752/1002 KIIY 251655Z AUTO 14006KT 10SM SCT028 SCT033 SCT050 27/21 A3030 RMK AO2 KHSP 251655Z AUTO 15006KT 130V230 10SM BKN024 20/13 A3037 RMK AO2 T01960126 WBKS 251700Z 27001KT 9999 FEW015 FEW017CB BKN290 28/25 Q1010 WATT 251500Z 11006KT 8000 FEW020 25/22 Q1015 NOSIG WBKT 251700Z 17004KT 9999 FEW014 SCT033 BKN270 26/25 Q1011 KHUA 251658Z AUTO 16008KT 7SM OVC021 23/20 A3018 RMK AO2 RAE50 SLP216 P0000 T02320203 $ KJAS 251655Z AUTO 15007G16KT 120V200 10SM SCT028 SCT034 SCT040 30/24 A3001 RMK AO2 T02970237 UUDD 251700Z 08002MPS 010V110 CAVOK 19/09 Q1017 R88/010095 NOSIG KHST 251658Z AUTO 08013G18KT 10SM FEW170 30/23 A3015 RMK AO2 SLP213 T02990228 KIKK 251655Z AUTO 22021G28KT 10SM SCT035 BKN044 OVC090 24/17 A2994 RMK AO2 T02390171 UUBW 251700Z VRB01MPS CAVOK 20/07 Q1017 R30/////60 NOSIG WBKW 251700Z 32004KT 9999 FEW017 BKN300 24/23 Q1010 KHTL 251653Z AUTO 18008KT 4SM -RA SCT026 OVC032 21/18 A2986 RMK AO2 RAB40 SLP110 P0000 T02060178 KHSV 251653Z 15007KT 10SM -RA OVC021 24/20 A3018 RMK AO2 SLP215 CB DSNT W-NW P0000 T02390200 KILE 251655Z AUTO 16008KT 8SM VCTS FEW014 SCT040 SCT110 23/20 A2993 RMK AO1 LTG DSNT SW TSB21E36B40 P0001 KHTO 251625Z 21010KT 10SM SKC 19/ A3029 KJAX 251656Z 13011KT 10SM BKN032 BKN250 29/21 A3022 RMK AO2 SLP235 T02940211 KHUF 251653Z 20014G20KT 10SM SCT021 BKN026 BKN032 24/19 A3006 RMK AO2 PK WND 21026/1624 SLP174 T02390194 $ KIJX 251655Z AUTO 20010G14KT 10SM SCT024 SCT030 24/18 A2999 RMK AO2 T02410181 KILG 251651Z AUTO 22012G20KT 10SM CLR 28/15 A3025 RMK AO2 SLP243 T02780150 KL35 251655Z AUTO 26006KT 10SM CLR 15/00 A3011 RMK AO2 KJBR 251653Z AUTO 18010KT 10SM SCT022 OVC028 24/21 A3006 RMK AO2 SLP175 T02440206 UUDL 251700Z 00000MPS CAVOK 17/06 Q1018 R23/000060 NOSIG RMK QFE755 KHTS 251651Z 21008KT 10SM BKN085 27/15 A3019 RMK AO2 SLP214 T02720150 KL38 251655Z AUTO 21007G15KT 10SM -TSRA SCT027 BKN034 BKN046 28/24 A3005 RMK AO2 LTG DSNT ALQS T02830235 KIKT 251655Z AUTO 15010G16KT 10SM CLR 28/24 A3011 RMK A01 UUEE 251700Z 10004MPS CAVOK 18/07 Q1017 R07L/000062 R07R/000062 NOSIG KHUL 251653Z AUTO 22012G25KT 10SM CLR 27/07 A3003 RMK AO2 SLP167 T02670067 KILM 251653Z 13008KT 10SM SCT040 25/16 A3035 RMK AO2 SLP275 T02500156 KJDD 251655Z AUTO 16009KT 020V030 9SM BKN025 BKN032 27/22 A2998 RMK AO2 KHUM 251647Z 15011KT 7SM SCT030 SCT043 28/26 A3007 RMK ATIS A VA RY18......DV KIKV 251655Z AUTO 21010G15KT 10SM CLR 23/16 A2982 RMK AO2 KIKW 251652Z AUTO 20012G15KT 10SM -RA BKN033 BKN043 OVC050 25/17 A2987 RMK AO2 T02480172 KILN 251654Z AUTO 22022G30KT 10SM FEW038 24/14 A3013 RMK AO2 PK WND 22033/1609 SLP195 T02440144 KHVE 251655Z AUTO 33003KT 10SM CLR 18/06 A2998 RMK AO2 FCPP 251600Z 18009KT 8000 FEW010 BKN023 27/24 Q1011 NOSIG KHUT 251652Z 17012KT 10SM FEW010 BKN017 OVC029 24/19 A2982 RMK AO2 SLP079 T02390189 $ KJCT 251651Z AUTO 20011G17KT 170V230 9SM BKN015 BKN023 OVC040 24/20 A2988 RMK AO2 LTG DSNT NE SLP086 T02390200 UTNN 251630Z 07004KT CAVOK 24/04 Q1018 R33/CLRD60 NOSIG EKYT 251650Z 29010KT 9999 FEW025 SCT035 BKN100 12/08 Q1010 KIML 251653Z AUTO 31014G20KT 10SM SCT027 BKN047 OVC060 16/10 A2982 RMK AO2 SLP085 T01610100 $ KIMM 251655Z AUTO 11009KT FEW049 A3015 RMK A01 P000 KHWD 251654Z 26006KT 10SM FEW010 OVC018 13/09 A2998 RMK AO2 SLP163 T01330094 $ KIND 251654Z 22013G19KT 10SM BKN019 BKN024 OVC036 22/19 A3006 RMK AO2 RAB07E54 SLP176 P0001 T02170189 KJDN 251648Z AUTO 00000KT 19/08 A2988 RMK AO1 SLP117 T01890078 KHVN 251653Z 16005KT 10SM SCT250 24/14 A3024 RMK AO2 SLP241 T02440144 KJEF 251653Z 12004KT 10SM BKN027 OVC048 22/17 A2998 RMK AO2 SLP140 T02220167 $ KINF 251655Z AUTO 12006KT 10SM SCT041 32/22 A3019 RMK AO2 ZYTL 251700Z VRB01MPS CAVOK 20/05 Q1009 NOSIG KHVR 251653Z AUTO 09004KT 10SM CLR 22/06 A2988 RMK AO2 SLP112 T02170061 UTNU 251630Z 02003KT 6000 NSC 21/12 Q1017 R13/CLRD70 NOSIG KIMS 251654Z AUTO 20008G18KT 10SM OVC016 20/17 A3018 RMK AO1 KHVS 251655Z AUTO 12003KT 10SM CLR 28/13 A3031 RMK AO2 KINJ 251655Z AUTO 14011G17KT 10SM SCT019 OVC026 25/21 A2990 RMK AO2 LTG DSNT SW T02500208 KIMT 251701Z AUTO 14003KT 2 1/2SM -RA BR OVC004 14/13 A2969 RMK AO2 CIG 003V007 P0000 T01440133 TSNO KINK 251653Z AUTO 11012KT 10SM CLR 24/09 A2992 RMK AO2 SLP093 T02390094 KIOB 251655Z AUTO 23009G17KT 210V270 10SM BKN044 BKN050 25/16 A3022 RMK AO2 KINL 251655Z AUTO 22003KT 10SM OVC100 18/11 A2978 RMK AO2 SLP084 T01830111 KHXD 251650Z 06005KT 10SM SCT050 BKN120 27/22 A3030 KHWO 251653Z 12012KT 10SM SCT030 BKN040 31/22 A3018 RMK AO2 LTG DSNT N SLP219 T03110217 KJER 251653Z AUTO VRB03KT 10SM FEW110 16/08 A2995 RMK AO2 SLP123 T01610083 KINS 251658Z AUTO 07004KT 10SM CLR 21/09 A2997 RMK AO2 SLP112 T02090085 $ KHYA 251656Z 21014KT 10SM SCT120 20/13 A3026 RMK AO2 SLP249 T02000133 KJES 251655Z AUTO 15006G15KT 100V170 10SM SCT030 SCT036 31/23 A3025 RMK AO2 KJFK 251651Z 17008KT 10SM FEW055 SCT095 SCT150 SCT250 24/14 A3025 RMK AO2 SLP244 T02390144 $ KINT 251654Z 16007KT 130V190 10SM CLR 25/12 A3034 RMK AO2 SLP263 T02500117 ZYTX 251700Z 17002MPS CAVOK 22/10 Q1006 NOSIG ENAL 251650Z 26009KT 9999 SCT013TCU BKN041 09/07 Q1011 KHWV 251656Z AUTO 19010KT 10SM CLR 22/14 A3027 RMK AO2 SLP249 T02170139 TSNO KINW 251656Z AUTO 04006KT 10SM OVC060 14/10 A3006 RMK AO2 RAB00E41 SLP138 P0000 T01390100 ENAN 251650Z 04017KT 9999 FEW020 SCT040 06/01 Q1012 KHWY 251655Z AUTO 21013G19KT 10SM CLR 28/17 A3025 RMK AO2 T02750169 KJGG 251655Z AUTO 19010G15KT 10SM CLR 29/16 A3032 RMK AO1 KHYI 251650Z 16014KT 10SM FEW023 SCT031 BKN065 28/23 A2989 FDJR 251700Z AUTO 28001KT //// // ////// 21/04 Q1018 KIPJ 251655Z AUTO 22005KT 10SM BKN044 25/12 A3033 RMK AO2 T02470117 FDLB 251700Z AUTO 01005KT //// // ////// 26/07 Q1017 KIPL 251653Z AUTO VRB03KT 10SM CLR 26/13 A2987 RMK AO2 SLP114 T02610128 ENAT 251650Z 01006KT 9999 FEW023 BKN039 05/M01 Q1012 RMK WIND 700FT 01009KT ENBL 251650Z 31006KT 9999 FEW012 SCT016 FEW016TCU BKN031 07/04 Q1010 KIOW 251652Z AUTO 22014G20KT 10SM SCT022 SCT029 23/18 A2987 RMK AO2 SLP112 T02330178 KHZE 251655Z AUTO 06006KT 10SM CLR 19/10 A2987 RMK AO2 KIPN 251655Z AUTO 14014KT 10SM CLR 28/23 A3012 RMK A01 ENBN 251650Z 35008KT 9999 FEW010 BKN050 08/07 Q1009 KJFX 251655Z AUTO 5SM -RA SCT016 23/22 A3018 RMK A02 P-128 ENBO 251650Z 01009KT 9999 FEW040 11/01 Q1009 NOSIG UTSA 251630Z 11007KT 9999 NSC 20/04 Q1018 R07/CLRD70 NOSIG KJFZ 251655Z AUTO 17006KT 10SM CLR 24/13 A3031 RMK AO2 T02420128 UTSB 251630Z 33004KT CAVOK 21/07 Q1018 R19/CLRD70 NOSIG WBSB 251700Z 17003KT 9999 FEW005 BKN140 27/26 Q1011 RERA NOSIG KHYR 251653Z AUTO 21007KT 6SM -RA BR OVC008 16/14 A2968 RMK AO2 RAE27B52 CIG 006V011 SLP051 P0000 T01610139 ENBR 251650Z 35006KT 300V020 9999 VCSH FEW015 SCT025TCU SCT040 10/05 Q1010 TEMPO SHRA RMK WIND 1200FT 34010KT KHYS 251655Z 20008KT 10SM OVC011 18/13 A2984 RMK AO1 ENBS 251550Z 31020KT 9999 -SHRA SCT013 SCT024 03/M03 Q1064 KIPT 251654Z 14011G14KT 10SM CLR 28/14 A3015 RMK AO2 SLP208 T02830144 KHZL 251700Z AUTO 21006KT 10SM CLR 27/12 A3025 RMK AO2 ENBV 250650Z 31024KT 8000 -RA BKN009 04/02 Q1002 KHYW 251655Z AUTO 18005KT 7SM BKN040 26/16 A3033 RMK AO2 KJHN 251655Z AUTO 05005KT 10SM 18/11 A2987 RMK AO2 T01840113 ENCN 251650Z 27009KT 230V310 9999 VCSH FEW030 SCT098 13/05 Q1008 KHYX 251655Z AUTO 19013KT 10SM BKN038 BKN044 OVC065 25/17 A2990 RMK AO2 UTSK 251630Z 14002KT 100V190 CAVOK 23/04 Q1018 R16/CLRD70 KHZR 251655Z AUTO 17008KT 10SM CLR 30/23 A3005 RMK AO2 LTG DSNT E AND SE T02960232 KIRK 251655Z AUTO 18015G20KT 10SM FEW020 22/17 A2993 RMK AO2 SLP134 T02170172 FDND 251700Z AUTO /////KT //// // ////// 24/06 Q1014 KJHW 251655Z 21014G19KT 10SM CLR 25/14 A3014 RMK AO1 KHZX 251654Z AUTO 10008KT 7SM BKN007 OVC012 13/13 A2968 RMK AO2 P0001 KHZY 251653Z AUTO 20014G19KT 10SM CLR 26/16 A3010 RMK AO2 SLP186 T02560156 UTSS 251630Z 09006KT 9999 NSC 15/07 Q1020 R88/CLRD70 NOSIG UTST 251630Z 08008KT CAVOK 20/M00 Q1019 R88/CLRD70 NOSIG ENDR 251650Z AUTO 28010KT 11/06 Q1010 KIRS 251654Z AUTO 20022G28KT 10SM BKN026 OVC034 24/19 A2996 RMK AO2 KJKA 251655Z AUTO 15008G16KT 10SM -DZ CLR 27/23 A3013 RMK AO2 LTG DSNT W AND NW T02650230 FDMS 251500Z 09005KT CAVOK 25/09 Q1015 NOSIG KM19 251656Z AUTO 18008KT 10SM FEW017 OVC029 26/21 A3006 RMK AO2 T02550205 SLP176 ENEK 251650Z 29022KT 9999 FEW015TCU BKN070 09/06 Q1014 W09/S3 KISM 251650Z 11014KT 10SM VCSH BKN040 30/23 A3020 ENDU 251650Z 34005KT 310V040 9999 FEW030 BKN040 07/M01 Q1011 FDMV 251500Z AUTO 07004KT //// // ////// 27/09 Q1020 KISN 251652Z AUTO 00000KT 10SM SCT110 22/08 A2987 RMK AO2 SLP112 T02220078 KISO 251656Z 19008G15KT 10SM CLR 28/14 A3034 RMK AO2 FEFF 251600Z 13018KT 7000 -TSRA BKN010 FEW040CB OVC140 23/20 Q1010 KM25 251655Z AUTO 18006KT 10SM OVC017 22/20 A3012 RMK AO2 KISP 251656Z 17009KT 10SM FEW070 SCT150 SCT250 22/14 A3024 RMK AO2 SLP240 T02220144 LBBG 251700Z 10011KT 9999 BKN009 18/16 Q1008 NOSIG ENFG 251450Z 36005KT 320V090 9999 -SHRA FEW022 SCT032 BKN045 06/M00 Q1005 KISQ 251655Z AUTO 11006KT 1 1/2SM BR OVC003 13/12 A2976 RMK AO2 P0003 T01280123 KITH 251656Z 26013KT 10SM SCT085 29/12 A3014 RMK AO2 T02880122 SLP200 UTTT 251630Z 21003KT 130V260 CAVOK 21/10 Q1020 R88/CLRD70 NOSIG KJKJ 251651Z AUTO 03013G17KT 10SM -RA SCT007 SCT016 SCT027 16/13 A2978 RMK AO2 KM30 251655Z AUTO 17005KT 10SM SCT020 SCT024 BKN060 24/22 A3009 RMK AO2 T02360216 KJKL 251653Z AUTO 10SM CLR 26/15 A3023 RMK AO2 SLP223 T02610150 ENGC 251650Z 01014KT 9999 FEW015 SCT050 09/05 Q1012 W07/S4 ENFL 251650Z 30013KT 9999 FEW020 SCT025TCU 10/05 Q1011 ENEV 251650Z 34009KT CAVOK 09/M00 Q1011 RMK WIND 1400FT 01013KT KISW 251654Z AUTO 25009G20KT 10SM SCT015 BKN037 OVC048 19/16 A2975 RMK AO2 RAE14B35E52 SLP073 P0000 T01940161 FDNY 251700Z AUTO 19001KT //// // ////// 20/08 Q1025 KITR 251653Z AUTO 32013KT 10SM CLR 17/09 A2986 RMK AO2 SLP081 T01670089 FDOT 251200Z AUTO /////KT //// // ////// 31/M00 Q1014 UUMO 251700Z 11002MPS CAVOK 17/08 Q1017 R08/090060 NOSIG RMK QFE748/0998 ENGM 251650Z 22009KT 170V250 9999 -SHRA FEW018 FEW025CB BKN030 08/05 Q1006 TEMPO SHRA ENHD 251650Z 33010KT 9999 FEW020 SCT130 10/06 Q1010 KJLN 251653Z 19010KT 10SM FEW021 24/20 A2995 RMK AO2 RAB14E23 SLP134 P0000 T02440200 ENHE 251650Z 06010KT 9999 SCT020 BKN050 07/07 Q1009 W///S4 ENHF 251650Z VRB05KT 9999 FEW014 BKN036 03/M00 Q1011 RMK WIND 1254FT 32013KT FDPP 251200Z AUTO 34004KT //// // ////// ///// Q1021 UUOB 251700Z 10004MPS CAVOK 24/06 Q1012 R11/090060 NOSIG KIWA 251647Z VRB04KT 45SM FEW250 24/07 A2995 ENHK 251420Z 33008KT 9999 FEW021 OVC036 04/00 Q1012 KIWD 251655Z AUTO 00000KT 10SM OVC006 16/16 A2964 RMK AO1